METAR Data
IDs: Format: Raw Decoded Include TAF

Data at: 0645 UTC 07 Dec 2022

Region: TOP
KATL 070552Z 15003KT 1/4SM R09R/P6000FT BR OVC003 12/12 A3024 RMK AO2 SFC VIS 3 SLP241 60000 T01220117 10122 20117 51005 PNO $
KATL 070452Z 12006KT 1/4SM R09R/P6000FT BR OVC003 12/12 A3024 RMK AO2 SFC VIS 2 RAE23 SLP241 P0000 T01220117 401280089 PNO $
KATL 070352Z 10005KT 1/4SM R09R/P6000FT -RA BR OVC003 12/11 A3023 RMK AO2 SFC VIS 1 1/2 RAB50 SLP238 P0000 T01170111 PNO $
KATL 070252Z 09007KT 1/4SM R09R/P6000FT BR OVC002 12/12 A3023 RMK AO2 SFC VIS 3/4 SLP236 T01220117 53010 PNO $
KATL 070152Z 12005KT 1/4SM R09R/2200V3000FT FG VV002 12/12 A3021 RMK AO2 SLP230 T01220117 PNO $
KATL 070117Z 11005KT 1/4SM R09R/2000V2600FT FG VV002 12/12 A3021 RMK AO2 T01220117 PNO $
KATL 070052Z 11006KT 1/4SM R09R/1600V2200FT FG VV002 12/12 A3020 RMK AO2 SLP228 T01220117 PNO $
KATL 070029Z 10006KT 1/4SM R09R/1600V2000FT FG VV002 12/12 A3020 RMK AO2 T01220117 PNO $
KATL 062352Z COR 10006KT 1/4SM R09R/2000V3000FT FG VV002 12/11 A3020 RMK AO2 SLP226 60000 T01170111 10128 20106 53009 PNO $
KATL 062252Z 11007KT 1/2SM R09R/2600V4000FT FG OVC002 12/12 A3019 RMK AO2 SLP223 T01220117 PNO $
KATL 062152Z 08007KT 1/2SM R09R/2800V5000FT FG OVC002 12/12 A3017 RMK AO2 SLP219 CIG 001V003 T01220117 PNO $
KATL 062052Z 11007KT 1/2SM R09R/2200V5000FT FG OVC002 12/12 A3017 RMK AO2 SLP217 CIG 001V003 T01220117 55004 PNO $
KATL 061952Z COR 08006KT 1/2SM R09R/P6000FT BR OVC003 12/11 A3017 RMK AO2 SFC VIS 1 1/4 SLP216 CIG 002V004 TWRINC T01220111 $
KATL 061852Z 11004KT 1/2SM R09R/P6000FT BR OVC002 12/11 A3017 RMK AO2 SFC VIS 2 1/2 VIS 2V3 SLP217 CIG 001V003 TWRINC T01220111 PNO $
KATL 061752Z COR 11006KT 1/2SM R09R/2400V4000FT FG OVC002 11/10 A3018 RMK AO2 DZE47 SLP222 CIG 001V003 P0000 60000 T01060100 10106 20094 58004 $
KATL 061652Z 12005KT 1/2SM R09R/2800V4500FT -DZ FG OVC002 10/09 A3020 RMK AO2 SLP229 CIG 001V003 P0000 T01000094
KATL 061552Z 11004KT 1/2SM R09R/P6000FT -DZ BR OVC003 10/09 A3021 RMK AO2 SFC VIS 2 1/2 SLP231 CIG 002V004 TWRINC P0000 T01000089
KATL 061452Z 10009KT 1/2SM R09R/P6000FT -DZ BR OVC003 09/09 A3019 RMK AO2 SFC VIS 2 RAB24E36 SLP226 CIG 002V004 TWRINC P0000 60000 T00940089 51020
KATL 061352Z 09007KT 1/2SM R09R/6000VP6000FT -DZ BR OVC003 09/09 A3018 RMK AO2 SFC VIS 1 DZE1256B18RAB1256E18 SLP221 TWRINC P0000 T00940089
KATL 061252Z 10007KT 050V120 1/2SM R09R/P6000FT -DZ BR OVC003 09/09 A3015 RMK AO2 SFC VIS 1 1/4 SLP213 RAB1159E08DZB08 CIG 002V004 TWRINC P0000 T00940089
KATL 061152Z 10007KT 1/2SM R09R/P6000FT BR OVC003 09/09 A3013 RMK AO2 SFC VIS 6 RAB07E33 SLP206 CIG 002V004 TWRINC P0013 60014 70097 T00940089 10100 20089 53010
KATL 061143Z 10006KT 1/2SM R09R/P6000FT BR OVC003 09/09 A3013 RMK AO2 SFC VIS 6 RAB07E33 TWRINC P0013 T00940089
KATL 061121Z 10008KT 1/2SM R09R/2400VP6000FT RA BR OVC003 09/09 A3012 RMK AO2 SFC VIS 1 1/2 RAB07 P0013 T00940089
KATL 061112Z 11008KT 1/2SM R09R/2000V2400FT -RA FG VV002 09/09 A3012 RMK AO2 RAB07 P0000 T00940089
KATL 061110Z 11009KT 1/4SM R09R/2000V2200FT -RA FG VV002 09/09 A3012 RMK AO2 TWR VIS 1/2 RAB07 P0000 T00940089
KATL 061059Z 10006KT 1/4SM R09R/2000V3000FT FG VV002 09/09 A3011 RMK AO2 TWR VIS 1/2 T00940089
KATL 061052Z 10007KT 1/4SM R09R/2000V2200FT FG VV002 09/09 A3011 RMK AO2 TWR VIS 1/2 SLP199 T00940089
KATL 060952Z 09007KT 1/4SM R09R/1800V2000FT FG VV002 10/09 A3010 RMK AO2 TWR VIS 1/2 SLP196 T01000094
KATL 060852Z 12005KT 1/4SM R09R/2000FT FG VV002 09/09 A3010 RMK AO2 TWR VIS 1/2 DZE23 SLP195 P0000 60001 T00940089 50002
KATL 060824Z VRB06KT 1/4SM R09R/2000V2200FT FG VV002 09/09 A3011 RMK AO2 TWR VIS 1/2 DZE23 P0000 T00940089
KATL 060817Z VRB04KT 1/4SM R09R/2000V2400FT -DZ FG VV002 09/09 A3011 RMK AO2 TWR VIS 1/2 P0000 T00940089
KATL 060713Z 14005KT 1/2SM R09R/2600V3000FT -RA FG VV002 09/08 A3010 RMK AO2 DZE13RAB13 P0001 T00890083
KATL 060652Z 14005KT 1/4SM R09R/2000V2400FT -DZ FG VV002 09/09 A3010 RMK AO2 TWR VIS 1/2 RAE43DZB43 SLP194 P0000 T00890089
KATL 060615Z 14005KT 1/2SM R09R/3000V3500FT -RA FG VV002 09/08 A3010 RMK AO2 P0000 T00890083
KATL 060552Z 13008KT 1/2SM R09R/P6000FT -RA BR OVC002 09/08 A3010 RMK AO2 SFC VIS 3 SLP193 TWRINC PCPN VRY LGT P0000 60008 T00890083 10089 20089 58004
KATL 060452Z 11007KT 1/2SM R09R/P6000FT -RA BR OVC003 09/08 A3011 RMK AO2 SFC VIS 4 SLP197 TWRINC P0002 T00890083 401110089
KATL 060352Z 13007KT 1/2SM R09R/P6000FT -RA BR OVC003 09/08 A3011 RMK AO2 SFC VIS 6 SLP196 TWRINC P0001 T00890078
KATL 060252Z 12008KT 1 1/4SM -RA OVC004 09/08 A3011 RMK AO2 SFC VIS 10 SLP197 CIG 003V006 PCPN VRY LGT P0000 60005 T00890078 50006
KATL 060152Z 11008KT 1 1/4SM -RA OVC005 09/08 A3012 RMK AO2 SFC VIS 8 RAE23B40 SLP200 CIG 003V007 P0004 T00890078
KATL 060052Z 08007KT 1 1/4SM -RA OVC005 09/08 A3011 RMK AO2 SFC VIS 10 SLP198 CIG 003V006 P0001 T00890078
KATL 052352Z 12008KT 1 1/4SM -RA OVC005 09/08 A3009 RMK AO2 SFC VIS 7 SLP190 CIG 003V007 P0001 60061 T00890078 10111 20089 53002
KATL 052252Z 12007KT 1 1/4SM -RA BR BKN005 OVC012 09/08 A3008 RMK AO2 SFC VIS 6 SLP188 P0006 T00890078
KATL 052152Z 12010KT 1 1/4SM RA BR BKN005 OVC012 09/08 A3008 RMK AO2 SFC VIS 4 SLP187 CIG 003V007 P0022 T00890083
KATL 052145Z 11009KT 1 1/4SM RA BR BKN005 OVC012 09/08 A3008 RMK AO2 SFC VIS 4 CIG 003V007 P0019 T00890078
KATL 052052Z 11008KT 1/2SM R09R/P6000FT RA BR BKN005 BKN016 OVC042 09/08 A3008 RMK AO2 SFC VIS 2 SLP187 CIG 003V007 TWRINC P0019 60032 T00940083 55003
KATL 052029Z 10012KT 1/2SM R09R/P6000FT +RA BR BKN005 BKN018 OVC036 09/08 A3008 RMK AO2 SFC VIS 1 1/2 CIG 003V007 TWRINC P0011 T00940083
KATL 051952Z 06013KT 1/2SM R09R/5500VP6000FT RA BR BKN004 OVC012 10/08 A3008 RMK AO2 SFC VIS 1 1/2 SLP186 CIG 003V006 TWRINC P0010 T01000083
KATL 051852Z 11010KT 1/2SM R09R/P6000FT -RA BR OVC003 11/09 A3006 RMK AO2 SFC VIS 1 3/4 SLP181 CIG 002V005 TWRINC P0003 T01060094
KATL 051808Z 13008KT 1/2SM R09R/P6000FT -RA BR OVC003 11/10 A3008 RMK AO2 SFC VIS 2 CIG 002V004 TWRINC P0001 T01110100
KATL 051752Z 14009KT 1SM R09R/P6000FT -RA BR OVC004 11/10 A3009 RMK AO2 SFC VIS 3 DZE26RAB26 SLP190 CIG 003V006 P0000 60014 T01110100 10111 20100 58019
KATL 051750Z 14008KT 1SM R09R/P6000FT -RA BR OVC004 11/10 A3009 RMK AO2 SFC VIS 3 DZE26RAB26 CIG 003V006 P0000
KATL 051652Z 13006KT 6SM -DZ BR OVC005 11/10 A3012 RMK AO2 RAE51DZB51 SLP200 CIG 003V007 P0003 T01110100
KATL 051552Z 14007KT 3SM -RA BR BKN005 BKN018 OVC050 11/09 A3015 RMK AO2 SLP209 CIG 004V007 P0010 T01060094
KATL 051534Z 12005KT 3SM RA BR SCT005 BKN020 OVC060 11/09 A3016 RMK AO2 P0008 T01060089
KATL 051522Z 10006KT 2 1/2SM RA BR SCT005 OVC020 10/09 A3016 RMK AO2 P0006 T01000089
KATL 051512Z 09006KT 2SM RA BR FEW005 OVC020 10/08 A3016 RMK AO2 P0003 T01000083
KATL 051507Z 09006KT 2 1/2SM RA BR OVC022 10/08 A3017 RMK AO2 P0002 T01000083
KATL 051452Z 10007KT 5SM -RA BR BKN024 OVC031 11/08 A3015 RMK AO2 RAE1355B12 SLP210 P0001 60001 T01060083 53014
KATL 051441Z 09006KT 7SM -RA BKN027 OVC032 11/08 A3015 RMK AO2 RAE1355B12 P0001 T01060078 $
KATL 051352Z 11007KT 8SM -RA FEW015 BKN034 OVC041 11/07 A3012 RMK AO2 RAE02B30 SLP202 P0000 T01060067
KATL 051252Z 12004KT 8SM -RA FEW020 OVC042 11/06 A3013 RMK AO2 RAB39 SLP202 P0000 T01060056
KATL 051152Z 09006KT 10SM BKN047 OVC070 11/04 A3011 RMK AO2 RAB1053E06 SLP196 VIRGA ALQDS P0000 60000 T01060044 10111 20106 53004
KATL 051052Z 11005KT 10SM BKN060 OVC070 11/04 A3010 RMK AO2 SLP194 T01060039
KATL 050952Z 00000KT 10SM OVC060 11/04 A3009 RMK AO2 SLP190 T01060039 $
KATL 050852Z 13004KT 10SM BKN049 OVC060 11/03 A3010 RMK AO2 SLP190 T01110033 56009 $
KATL 050752Z 04003KT 10SM OVC060 11/03 A3010 RMK AO2 SLP192 T01110028 $
KATL 050652Z 01004KT 10SM BKN060 OVC080 11/02 A3011 RMK AO2 SLP196 VIRGA ALQDS T01110017 $
KATL 050552Z 36004KT 10SM FEW060 OVC080 11/02 A3012 RMK AO2 SLP200 VIRGA SW 60000 T01110017 10122 20111 58001 $
KATL 050452Z 35008KT 10SM FEW060 OVC090 11/05 A3015 RMK AO2 SLP209 T01110050 401560072 $
KATL 050352Z 34007KT 10SM BKN065 OVC095 11/06 A3015 RMK AO2 SLP210 T01110061 $
KATL 050252Z 30004KT 10SM FEW080 OVC100 12/06 A3013 RMK AO2 SLP202 RAE04 P0000 60000 T01170061 55013 $
KATL 050152Z VRB03KT 10SM -RA SCT085 OVC110 12/06 A3012 RMK AO2 RAB51 SLP202 P0000 T01170061 $
KATL 050052Z 31003KT 10SM SCT110 OVC150 12/06 A3016 RMK AO2 SLP214 VIRGA DSNT W-NW T01170056 $
KATL 042352Z 34008KT 10SM FEW120 OVC190 12/07 A3016 RMK AO2 SLP216 VIRGA NE SW T01220067 10156 20122 55001 $
KATL 042252Z 33004KT 10SM FEW120 BKN170 13/08 A3016 RMK AO2 SLP212 VIRGA DSNT NW-N T01330083 $
KATL 042152Z 34006KT 10SM FEW023 SCT100 BKN180 14/09 A3017 RMK AO2 SLP215 T01440089 $
KATL 042052Z 36008KT 10SM SCT024 BKN110 BKN200 15/08 A3016 RMK AO2 SLP214 T01500083 56014 $
KATL 041952Z 31009KT 10SM SCT024 BKN090 BKN200 16/09 A3017 RMK AO2 SLP214 T01560089 $
KATL 041852Z 32007KT 10SM SCT023 BKN090 BKN200 15/08 A3018 RMK AO2 SLP219 T01500083 $
KATL 041841Z 30007KT 10SM SCT023 BKN090 BKN200 14/08 A3018 RMK AO2 T01440078 $
KATL 041752Z 32004KT 10SM OVC018 14/07 A3021 RMK AO2 SLP228 T01390067 10139 20072 58021 $
KATL 041652Z 34006KT 10SM OVC017 13/06 A3024 RMK AO2 SLP238 T01330056 $
KATL 041611Z COR 31005KT 10SM BKN020 BKN200 13/06 A3026 RMK AO2 T01330056 $
KATL 041552Z 34005KT 10SM FEW020 SCT200 BKN250 13/06 A3026 RMK AO2 SLP246 T01280061 $
KATL 041452Z 34005KT 10SM FEW017 SCT200 BKN250 11/06 A3027 RMK AO2 SLP249 T01060061 50010 $
KATL 041352Z 32009KT 10SM SCT016 BKN250 08/06 A3027 RMK AO2 SLP251 SCT016 V BKN T00830056 $
KATL 041252Z 29005KT 10SM FEW250 07/06 A3025 RMK AO2 SLP243 T00720056 $
KATL 041152Z 32005KT 10SM FEW015 FEW250 08/06 A3024 RMK AO2 SLP240 70004 T00780061 10133 20078 55002 $
KATL 041052Z 34005KT 10SM CLR 08/07 A3023 RMK AO2 SLP238 T00830072 $
KATL 040952Z 33006KT 10SM FEW005 09/08 A3024 RMK AO2 SLP239 T00940083 $
KATL 040852Z 32004KT 10SM FEW005 10/09 A3024 RMK AO2 SLP241 T01000089 56007 $
KATL 040810Z 32007KT 7SM SCT005 11/10 A3025 RMK AO2 T01110100 $
KATL 040752Z 34006KT 7SM BKN005 12/10 A3025 RMK AO2 SLP242 BKN005 V SCT T01170100 $
KATL 040652Z 34009KT 7SM BKN006 13/12 A3026 RMK AO2 SLP244 CIG 005V007 T01280117 $
KATL 040635Z 34007KT 7SM BKN008 13/12 A3026 RMK AO2 T01330117 $
KATL 040616Z 34009KT 7SM SCT008 SCT250 13/12 A3026 RMK AO2 T01330117 $
KATL 040552Z 34006KT 8SM FEW010 SCT250 13/12 A3027 RMK AO2 SLP247 60000 T01330122 10167 20133 58013 $
KATL 040452Z 32005KT 9SM FEW022 BKN250 14/13 A3028 RMK AO2 SLP253 T01390128 401830028 $
KATL 040352Z 02005KT 10SM FEW034 BKN250 16/14 A3030 RMK AO2 SLP257 T01560139 $
KATL 040252Z 33006KT 9SM FEW007 BKN033 BKN250 16/14 A3031 RMK AO2 SLP261 60000 T01610144 51004 $
KATL 040152Z 34006KT 7SM FEW006 SCT026 BKN044 16/15 A3031 RMK AO2 SLP261 T01610150 $
KATL 040142Z 33005KT 7SM SCT007 SCT024 BKN044 17/15 A3031 RMK AO2 T01670150 $
KATL 040052Z 31003KT 7SM BKN010 OVC047 17/15 A3030 RMK AO2 RAE03 SLP258 BINOVC P0000 T01670150 $
KATL 040036Z 28003KT 7SM BKN010 OVC047 17/15 A3030 RMK AO2 RAE03 BINOVC P0000 T01670150 $
KATL 040004Z 29003KT 7SM SCT011 SCT023 OVC043 17/15 A3030 RMK AO2 RAE03 BINOVC P0000 T01670150 $
KATL 032352Z 29005KT 6SM -RA BR BKN012 OVC032 17/15 A3030 RMK AO2 RAB50 SLP257 PCPN VRY LGT P0000 60000 T01670150 10183 20161 51008 $
KATL 032339Z 00000KT 10SM OVC013 17/16 A3029 RMK AO2 T01720156 $
KATL 032252Z 28003KT 7SM FEW011 OVC018 17/16 A3029 RMK AO2 DZB01E13 SLP254 P0000 T01670156 $
KATL 032239Z 00000KT 7SM SCT013 OVC018 17/16 A3029 RMK AO2 DZB01E13 P0000 T01670156 $
KATL 032213Z 29003KT 7SM SCT008 BKN013 OVC038 17/16 A3028 RMK AO2 DZB01E13 P0000 T01720156 $
KATL 032201Z 29006KT 3SM -DZ BR BKN008 OVC011 17/15 A3028 RMK AO2 DZB01 P0000 T01720150 $
KATL 032152Z COR 31005KT 7SM BKN011 OVC027 17/16 A3029 RMK AO2 SLP254 T01720156 $
KATL 032140Z 32007KT 7SM BKN011 BKN027 17/15 A3029 RMK AO2 T01720150 $
KATL 032052Z 26006KT 7SM BKN009 BKN024 18/16 A3027 RMK AO2 SLP249 60000 T01780156 56013
KATL 031952Z 27006KT 4SM BR OVC008 17/16 A3027 RMK AO2 CIG 007V011 SLP250 T01720156
KATL 031907Z 27006KT 4SM BR BKN010 BKN022 OVC030 17/15 A3028 RMK AO2 T01720150
KATL 031852Z 27007KT 4SM BR SCT007 BKN024 OVC033 17/15 A3029 RMK AO2 RAE19 SLP255 P0000 T01670150
KATL 031819Z 27009KT 3SM BR SCT007 BKN023 OVC044 16/14 A3030 RMK AO2 RAE19 P0000 T01610144
KATL 031752Z 26009KT 2 1/2SM -RA BR BKN021 BKN042 OVC050 16/14 A3031 RMK AO2 RAE22B38 SLP263 P0002 60004 T01610144 10172 20122 58007
KATL 031652Z 26008KT 3SM -RA BR SCT017 BKN027 OVC035 16/14 A3034 RMK AO2 WSHFT 1609 RAB18 SLP272 P0002 T01560139
KATL 031631Z 32011KT 2SM R09R/6000VP6000FT -RA BKN017 OVC028 16/13 A3035 RMK AO2 WSHFT 1609 RAB18 P0000 T01610133
KATL 031626Z 32011KT 4SM -RA SCT017 BKN028 BKN046 16/13 A3035 RMK AO2 WSHFT 1609 RAB18 P0000 T01610128
KATL 031615Z 33018G25KT 8SM SCT017 BKN028 BKN046 17/13 A3036 RMK AO2 PRESRR T01720133
KATL 031552Z 24010G20KT 8SM SCT013 SCT028 BKN046 17/13 A3032 RMK AO2 SLP266 T01720133
KATL 031452Z 23010G15KT 8SM SCT012 BKN035 BKN055 15/12 A3033 RMK AO2 SLP271 T01500122 58000
KATL 031352Z 21004KT 8SM FEW012 OVC038 13/12 A3034 RMK AO2 SLP274 T01330117 $
KATL 031252Z 15006KT 8SM FEW009 SCT030 OVC050 13/10 A3033 RMK AO2 SLP271 T01280100 $
KATL 031152Z 18005KT 10SM FEW009 BKN030 OVC055 12/09 A3033 RMK AO2 SLP271 T01220094 10122 20100 55005 $
KATL 031052Z 16004KT 10SM FEW030 BKN060 OVC130 12/09 A3032 RMK AO2 SLP269 T01170094 $
KATL 030952Z 17004KT 10SM FEW035 SCT060 BKN140 11/09 A3032 RMK AO2 SLP268 T01110089 $
KATL 030852Z 13004KT 10SM FEW036 BKN060 BKN140 BKN250 11/08 A3035 RMK AO2 SLP276 T01060083 58004 $
KATL 030752Z 08005KT 10SM FEW035 BKN140 BKN250 11/07 A3036 RMK AO2 SLP282 T01060072 $
KATL 030652Z 11003KT 10SM FEW035 BKN140 BKN250 11/08 A3037 RMK AO2 SLP283 T01060078 $
KATL 030552Z 13005KT 10SM FEW120 SCT150 SCT250 11/08 A3036 RMK AO2 SLP281 T01110078 10144 20111 58004
KATL 030452Z 13005KT 10SM SCT120 BKN150 12/07 A3037 RMK AO2 SLP287 T01170072 401610039
KATL 030352Z 12006KT 10SM SCT140 SCT200 12/07 A3038 RMK AO2 SLP288 T01170072
KATL 030252Z 13007KT 10SM BKN140 BKN200 13/07 A3037 RMK AO2 SLP287 T01280067 51004
KATL 030152Z 13009KT 10SM BKN140 BKN200 13/07 A3037 RMK AO2 SLP285 T01330067
KATL 030052Z 13008KT 10SM BKN140 BKN250 14/07 A3037 RMK AO2 SLP286 T01390072
KATL 022352Z 13007KT 10SM FEW038 BKN130 BKN250 14/07 A3036 RMK AO2 SLP283 T01440072 10161 20133 50005
KATL 022252Z 12007KT 10SM FEW038 BKN120 BKN250 14/07 A3036 RMK AO2 SLP285 VIRGA DSNT NW-N T01390072
KATL 022152Z 11004KT 10SM FEW150 SCT250 15/07 A3036 RMK AO2 SLP283 VIRGA DSNT W-NW T01500067
KATL 022052Z 14006KT 10SM FEW160 BKN250 16/06 A3034 RMK AO2 SLP277 ACC DSNT SE NW T01610056 56020
KATL 021952Z 14008KT 10SM SCT140 BKN160 16/05 A3035 RMK AO2 SLP278 ACC DSNT NW T01560050
KATL 021852Z 13007KT 10SM FEW032 FEW140 BKN170 14/04 A3037 RMK AO2 SLP286 VIRGA DSNT S-SW T01390044
KATL 021752Z 15006KT 10SM FEW037 SCT140 BKN170 13/03 A3041 RMK AO2 SLP299 T01330033 10133 20056 58024
KATL 021652Z 15009KT 10SM FEW038 BKN140 12/02 A3043 RMK AO2 SLP305 VIRGA N-E T01170017
KATL 021552Z 10007KT 10SM FEW026 BKN036 BKN140 11/M02 A3047 RMK AO2 SLP322 VIRGA W-N T01061017
KATL 021452Z 10008KT 10SM SCT036 BKN150 09/M03 A3048 RMK AO2 SLP324 T00941028 53006
KATL 021352Z 12008KT 10SM BKN035 BKN140 08/M03 A3047 RMK AO2 SLP322 VIRGA OHD-W-N T00781033
KATL 021252Z 12009KT 10SM FEW022 OVC036 06/M03 A3046 RMK AO2 SLP320 BINOVC T00611028
KATL 021152Z 09009KT 10SM OVC031 06/M03 A3046 RMK AO2 SLP319 BINOVC T00561028 10067 20039 53009
KATL 021113Z 08010KT 10SM OVC030 06/M03 A3045 RMK AO2 BINOVC T00561033
KATL 021052Z 08009KT 10SM OVC026 06/M03 A3044 RMK AO2 SLP311 BINOVC T00611028
KATL 021015Z 12007KT 10SM BKN023 BKN150 BKN200 BKN250 06/M03 A3043 RMK AO2 T00561033
KATL 020952Z 14007KT 10SM FEW026 FEW150 SCT200 BKN250 06/M04 A3043 RMK AO2 SLP307 T00561039 $
KATL 020852Z COR 14006KT 10SM SCT028 SCT200 SCT250 06/M03 A3043 RMK AO2 SLP307 T00561033 55001 $
KATL 020752Z 13006KT 10SM FEW200 SCT250 06/M03 A3042 RMK AO2 SLP304 T00561033 $
KATL 020652Z 09006KT 10SM FEW200 SCT250 04/M03 A3042 RMK AO2 SLP306 T00441028 $

KBOS 070642Z 09007KT 8SM -RA BKN027 OVC033 09/08 A3036 RMK AO2 P0005 T00940083
KBOS 070554Z 10009KT 6SM RA BR OVC039 09/08 A3036 RMK AO2 RAB26 SLP280 P0002 60010 T00940083 10100 20089 58014
KBOS 070454Z 12008KT 10SM OVC042 10/08 A3038 RMK AO2 RAE19 SLP286 P0000 T01000083 401280044
KBOS 070354Z 11008KT 9SM -RA SCT045 OVC060 09/08 A3039 RMK AO2 CIG 045 E SLP289 P0003 T00940083
KBOS 070254Z 11005KT 10SM -RA FEW011 FEW033 OVC065 09/08 A3040 RMK AO2 RAB35 SLP295 P0001 60005 T00940083 56002
KBOS 070154Z 12006KT 10SM FEW032 OVC075 09/08 A3041 RMK AO2 RAE24 SLP295 P0000 T00940083
KBOS 070054Z 11005KT 10SM -RA FEW042 OVC085 10/08 A3041 RMK AO2 SLP296 P0004 T01000083
KBOS 062354Z 12009KT 10SM -RA FEW045 OVC095 10/08 A3041 RMK AO2 RAB14 SLP297 P0001 60001 T01000078 10128 20094 50003
KBOS 062254Z 09006KT 10SM BKN090 OVC220 09/07 A3042 RMK AO2 SLP299 T00940072
KBOS 062154Z 11007KT 10SM FEW050 BKN090 OVC210 10/07 A3041 RMK AO2 SLP297 T01000072
KBOS 062054Z 12004KT 10SM FEW055 BKN095 OVC210 11/06 A3040 RMK AO2 SLP294 T01060056 53000
KBOS 061954Z 16007KT 10SM BKN050 BKN120 OVC200 12/06 A3040 RMK AO2 SLP294 T01220056
KBOS 061854Z 12007KT 10SM FEW060 SCT130 OVC200 12/06 A3039 RMK AO2 SLP290 T01170061
KBOS 061754Z 08006KT 10SM FEW060 FEW140 OVC200 11/07 A3040 RMK AO2 SLP294 T01110067 10122 20067 56015
KBOS 061654Z 13003KT 10SM FEW140 OVC200 12/06 A3042 RMK AO2 SLP299 T01170061
KBOS 061554Z 14007KT 10SM FEW140 OVC220 11/06 A3043 RMK AO2 SLP302 T01110061
KBOS 061454Z 15007KT 10SM FEW140 OVC220 10/06 A3045 RMK AO2 SLP309 T01000061 53007
KBOS 061354Z 16005KT 10SM FEW140 OVC220 09/07 A3044 RMK AO2 SLP307 T00890067
KBOS 061254Z 15004KT 10SM FEW060 BKN200 OVC250 07/06 A3043 RMK AO2 SLP303 T00720056
KBOS 061154Z 17003KT 10SM FEW060 FEW200 OVC250 07/04 A3042 RMK AO2 SLP302 T00670044 10072 20050 53001
KBOS 061054Z 15005KT 10SM FEW034 BKN200 BKN250 06/04 A3042 RMK AO2 SLP299 T00610039
KBOS 060954Z 00000KT 10SM FEW036 BKN220 06/04 A3041 RMK AO2 SLP297 T00610039
KBOS 060854Z 13003KT 10SM BKN210 06/03 A3042 RMK AO2 SLP301 T00560033 51011
KBOS 060754Z 15004KT 10SM BKN250 06/03 A3042 RMK AO2 SLP299 T00560033
KBOS 060654Z 14006KT 10SM BKN220 06/03 A3040 RMK AO2 SLP294 T00560033
KBOS 060554Z 15008KT 10SM FEW032 OVC220 05/03 A3039 RMK AO2 SLP290 T00500033 10061 20039 50004
KBOS 060454Z 16007KT 10SM BKN032 BKN220 05/02 A3039 RMK AO2 SLP291 T00500022 400941017
KBOS 060354Z 17006KT 10SM FEW030 SCT220 04/02 A3038 RMK AO2 SLP287 T00390017
KBOS 060254Z 19004KT 10SM FEW220 05/02 A3038 RMK AO2 SLP286 T00500022 53008
KBOS 060154Z 17005KT 10SM FEW220 05/02 A3037 RMK AO2 SLP283 T00500017
KBOS 060054Z 16006KT 10SM SCT250 06/02 A3035 RMK AO2 SLP277 T00560017
KBOS 052354Z 17007KT 10SM FEW035 SCT200 05/01 A3036 RMK AO2 SLP278 T00500011 10094 20050 51021
KBOS 052254Z 19007KT 10SM FEW032 OVC220 06/01 A3035 RMK AO2 SLP276 T00610006
KBOS 052154Z 19007KT 10SM FEW034 BKN250 07/01 A3032 RMK AO2 SLP266 T00670006
KBOS 052054Z 20010KT 10SM FEW030 BKN250 08/01 A3029 RMK AO2 SLP257 T00780006 53007
KBOS 051954Z 20013KT 10SM FEW030 OVC250 09/M01 A3027 RMK AO2 SLP249 T00891006
KBOS 051854Z 20014KT 10SM FEW030 SCT250 09/M01 A3027 RMK AO2 SLP249 T00941011
KBOS 051754Z 19013KT 10SM FEW030 SCT250 09/M02 A3027 RMK AO2 SLP250 T00891017 10094 20000 56013
KBOS 051654Z 20015G20KT 10SM FEW030 FEW250 08/M01 A3028 RMK AO2 SLP252 T00831011
KBOS 051554Z 18014KT 10SM FEW030 FEW250 08/M02 A3030 RMK AO2 SLP260 T00781017
KBOS 051454Z 16009KT 10SM FEW250 06/M01 A3031 RMK AO2 SLP263 T00561011 51015
KBOS 051354Z 18010KT 10SM FEW250 03/M03 A3029 RMK AO2 SLP258 T00331028
KBOS 051254Z 18008KT 10SM R04R/2800VP6000FT FEW250 02/M04 A3028 RMK AO2 SLP254 T00171039
KBOS 051154Z 19006KT 10SM FEW050 00/M04 A3027 RMK AO2 SLP248 T00001044 10011 21017 53013 $
KBOS 051054Z 18008KT 10SM FEW120 FEW250 00/M04 A3024 RMK AO2 SLP241 T00001044 $
KBOS 050954Z 20005KT 10SM FEW120 FEW250 M01/M06 A3024 RMK AO2 SLP238 T10111056 $
KBOS 050854Z 18003KT 10SM FEW120 FEW250 01/M05 A3023 RMK AO2 SLP235 T00061050 50005 $
KBOS 050754Z 20003KT 10SM SCT120 01/M04 A3023 RMK AO2 SLP236 T00061044 $
KBOS 050654Z 20003KT 10SM CLR 01/M05 A3022 RMK AO2 SLP233 T00111050 $
KBOS 050554Z 18006KT 10SM CLR M01/M06 A3021 RMK AO2 SLP230 T10061056 10044 21006 53002 $
KBOS 050454Z 21005KT 10SM CLR 01/M06 A3020 RMK AO2 SLP226 T00061056 400610006 $
KBOS 050354Z 20004KT 10SM CLR 01/M06 A3020 RMK AO2 SLP225 T00111056 $
KBOS 050254Z 25007KT 10SM CLR 03/M06 A3021 RMK AO2 SLP227 T00281061 53006 $
KBOS 050154Z 22004KT 10SM CLR 03/M07 A3019 RMK AO2 SLP223 T00281067 $
KBOS 050054Z 31005KT 10SM FEW160 04/M08 A3020 RMK AO2 SLP225 T00391078 $
KBOS 042354Z 33005KT 10SM BKN160 04/M08 A3019 RMK AO2 SLP222 T00441083 10061 20039 51014 $
KBOS 042254Z 35004KT 10SM OVC160 05/M08 A3018 RMK AO2 SLP219 T00501083 $
KBOS 042154Z 32005KT 10SM OVC180 04/M08 A3018 RMK AO2 SLP217 T00441083 $
KBOS 042054Z 30008KT 10SM FEW060 OVC180 05/M08 A3015 RMK AO2 SLP208 T00501078 53013 $
KBOS 041954Z 35004KT 10SM FEW060 OVC200 05/M08 A3013 RMK AO2 SLP203 T00501078 $
KBOS 041854Z 34008G16KT 10SM FEW050 BKN200 06/M08 A3010 RMK AO2 SLP193 T00561078 $
KBOS 041754Z 32012KT 10SM FEW050 BKN250 06/M08 A3011 RMK AO2 SLP195 T00561078 10061 20028 56016 $
KBOS 041654Z 32008KT 10SM FEW050 FEW250 06/M07 A3012 RMK AO2 SLP200 T00611072 $
KBOS 041554Z 30012KT 10SM FEW040 FEW250 06/M07 A3014 RMK AO2 SLP206 T00561072 $
KBOS 041454Z 30010KT 10SM FEW040 05/M07 A3016 RMK AO2 SLP211 T00501072 50008 $
KBOS 041354Z 28009KT 10SM FEW040 04/M06 A3017 RMK AO2 SLP215 T00441061 $
KBOS 041254Z 29009KT 10SM FEW040 03/M06 A3015 RMK AO2 SLP210 T00331061 $
KBOS 041154Z 29005KT 10SM FEW050 03/M06 A3013 RMK AO2 SLP204 70016 T00281056 10056 20028 53023 $
KBOS 041054Z 30007KT 10SM FEW050 03/M05 A3010 RMK AO2 SLP191 T00281050 $
KBOS 040954Z 28009KT 10SM CLR 03/M05 A3007 RMK AO2 SLP182 T00331050 $
KBOS 040854Z 27012KT 10SM CLR 04/M04 A3007 RMK AO2 SLP181 T00391044 51026 $
KBOS 040754Z 28008G18KT 10SM CLR 04/M04 A3006 RMK AO2 SLP177 T00441044 $
KBOS 040654Z 29012KT 10SM CLR 05/M04 A3004 RMK AO2 SLP170 T00501039 $
KBOS 040554Z 29013G19KT 10SM CLR 06/M03 A2999 RMK AO2 SLP154 60002 T00561028 10139 20056 51008 $
KBOS 040454Z 29013G25KT 10SM CLR 06/M02 A2998 RMK AO2 SLP151 T00611022 401500039 $
KBOS 040354Z 28010G20KT 10SM CLR 07/M02 A2998 RMK AO2 PK WND 28029/0311 SLP153 T00671017 $
KBOS 040254Z 29023G29KT 10SM FEW070 BKN075 08/M01 A2997 RMK AO2 PK WND 28035/0244 SLP146 60002 T00781006 51041 $
KBOS 040154Z 29022G30KT 10SM BKN080 OVC095 10/03 A2993 RMK AO2 PK WND 30030/0124 WSHFT 0047 RAE11 SLP133 P0002 T01000028 $
KBOS 040101Z 30018G30KT 6SM -RA SCT016 BKN033 OVC040 11/08 A2990 RMK AO2 PK WND 31030/0057 WSHFT 0047 P0002 T01110083 $
KBOS 040054Z 27019G29KT 6SM RA FEW023 BKN028 OVC060 14/11 A2989 RMK AO2 PK WND 27029/0054 RAB50 PRESRR SLP122 P0000 T01390106 $
KBOS 040035Z 24015KT 10SM BKN025 OVC034 14/11 A2985 RMK AO2 PK WND 23026/0010 T01390111 $
KBOS 032354Z 22015KT 10SM SCT026 BKN034 BKN050 14/12 A2984 RMK AO2 SLP105 60013 T01390117 10144 20133 56008 $
KBOS 032308Z 22014KT 10SM SCT017 OVC050 14/12 A2985 RMK AO2 T01390117 $
KBOS 032254Z 22014KT 10SM BKN018 OVC023 14/12 A2985 RMK AO2 SLP107 T01390122 $
KBOS 032223Z 22013KT 10SM FEW014 BKN025 OVC040 14/12 A2985 RMK AO2 CIG 018 E T01390122 $
KBOS 032210Z 22013G22KT 10SM BKN014 BKN026 OVC040 14/12 A2985 RMK AO2 T01390122 $
KBOS 032154Z 21017KT 6SM BR BKN016 BKN021 OVC029 14/12 A2986 RMK AO2 RAE54 SLP110 P0000 T01390122 $
KBOS 032054Z 20019KT 3SM -RA BKN016 BKN025 OVC065 13/12 A2987 RMK AO2 PK WND 20031/1959 SFC VIS 7 SLP114 P0005 60013 T01330122 56030 $
KBOS 031954Z 20021G27KT 3SM RA BR SCT015 OVC021 14/12 A2989 RMK AO2 PK WND 19036/1857 SLP122 P0006 T01390122 $
KBOS 031854Z 20021G34KT 5SM RA BR BKN020 BKN029 OVC060 14/12 A2991 RMK AO2 PK WND 20035/1819 SLP129 P0002 T01390117 $
KBOS 031754Z 20023G32KT 5SM RA BR FEW010 BKN022 OVC030 14/11 A2996 RMK AO2 PK WND 20032/1656 SLP144 P0001 60001 T01390111 10150 20089 56058
KBOS 031654Z 20024G32KT 10SM -RA BKN028 OVC036 14/11 A3000 RMK AO2 PK WND 18033/1558 SLP159 P0000 T01440106
KBOS 031554Z 20020G36KT 10SM -RA BKN036 BKN042 OVC050 15/09 A3007 RMK AO2 PK WND 20036/1550 RAB17E26B54 SLP180 P0000 T01500094
KBOS 031454Z 19019G28KT 10SM FEW030 BKN045 OVC060 14/09 A3013 RMK AO2 PK WND 20036/1425 SLP202 T01440089 58035
KBOS 031354Z 19015G28KT 10SM FEW047 OVC060 14/09 A3016 RMK AO2 PK WND 20028/1347 SLP213 T01390094
KBOS 031254Z 18014KT 10SM BKN041 OVC065 11/08 A3020 RMK AO2 SLP227 T01060083
KBOS 031154Z 18009KT 10SM BKN034 OVC110 09/07 A3023 RMK AO2 SLP236 T00890067 10089 20039 56037
KBOS 031054Z 16003KT 10SM SCT043 BKN110 OVC150 06/03 A3026 RMK AO2 SLP247 T00560033
KBOS 030954Z 16006KT 10SM FEW030 BKN110 OVC150 04/02 A3030 RMK AO2 SLP260 T00440022
KBOS 030854Z 16006KT 10SM FEW030 OVC110 05/03 A3034 RMK AO2 SLP273 T00500028 58030
KBOS 030754Z 16008KT 10SM BKN120 05/02 A3038 RMK AO2 SLP287 T00500022
KBOS 030654Z 16007KT 10SM BKN140 BKN200 04/01 A3041 RMK AO2 SLP295 T00390011
KBOS 030554Z 19003KT 10SM OVC130 04/01 A3043 RMK AO2 SLP303 T00440006 10050 20033 58010
KBOS 030454Z 20004KT 10SM FEW100 OVC130 04/01 A3044 RMK AO2 SLP306 T00440006 400720006
KBOS 030354Z 17005KT 10SM BKN130 OVC200 04/01 A3045 RMK AO2 SLP311 T00440006
KBOS 030254Z 16007KT 10SM OVC120 04/M01 A3046 RMK AO2 SLP313 T00441006 58013
KBOS 030154Z 19006KT 10SM FEW130 OVC140 04/M02 A3047 RMK AO2 SLP318 T00441017
KBOS 030054Z 21007KT 10SM FEW130 BKN140 05/M02 A3050 RMK AO2 SLP326 T00501022
KBOS 022354Z 21010KT 10SM OVC120 05/M03 A3050 RMK AO2 SLP326 T00501028 10072 20050 53007
KBOS 022254Z 18011KT 10SM SCT130 OVC140 06/M02 A3048 RMK AO2 SLP320 T00561022
KBOS 022154Z 20010KT 10SM SCT180 OVC200 06/M04 A3049 RMK AO2 SLP323 T00561039
KBOS 022054Z 19010KT 10SM FEW150 SCT180 BKN250 06/M04 A3048 RMK AO2 SLP319 T00561044 53002
KBOS 021954Z 22010KT 10SM FEW120 FEW180 BKN250 07/M06 A3047 RMK AO2 SLP319 T00721056
KBOS 021854Z 18007KT 10SM FEW180 BKN250 07/M06 A3047 RMK AO2 SLP316 T00721056
KBOS 021754Z 19009KT 10SM SCT250 07/M05 A3047 RMK AO2 SLP318 T00671050 10067 20017 58024
KBOS 021654Z VRB04KT 10SM FEW250 07/M06 A3050 RMK AO2 SLP327 T00671056
KBOS 021554Z 28007KT 10SM FEW250 06/M06 A3052 RMK AO2 SLP333 T00561056
KBOS 021454Z 31007KT 270V330 10SM FEW050 FEW160 FEW250 04/M05 A3054 RMK AO2 SLP341 T00441050 50012
KBOS 021354Z 27006KT 10SM FEW050 FEW160 03/M04 A3055 RMK AO2 SLP343 T00331044
KBOS 021254Z 28006KT 10SM FEW050 FEW250 02/M04 A3052 RMK AO2 SLP333 T00221044
KBOS 021154Z 27006KT 10SM FEW050 FEW180 BKN250 02/M04 A3051 RMK AO2 SLP330 T00171044 10022 20006 51025
KBOS 021054Z 27007KT 10SM FEW050 FEW150 FEW250 02/M05 A3048 RMK AO2 SLP322 T00171050
KBOS 020954Z 26007KT 10SM CLR 02/M05 A3047 RMK AO2 SLP316 T00171050
KBOS 020854Z 25007KT 10SM CLR 02/M05 A3043 RMK AO2 SLP305 T00171050 53018
KBOS 020754Z 23007KT 10SM CLR 01/M05 A3041 RMK AO2 SLP297 T00111050
KBOS 020654Z 26006KT 10SM FEW250 02/M05 A3039 RMK AO2 SLP291 T00221050

KBWI 070606Z 00000KT 5SM BR OVC005 11/11 A3019 RMK AO2 T01110106
KBWI 070554Z 15004KT 4SM BR OVC004 11/11 A3019 RMK AO2 RAB0455E08 SLP224 P0001 60001 T01110106 10111 20089 58003
KBWI 070521Z 00000KT 4SM BR OVC004 11/11 A3019 RMK AO2 RAB0455E08 P0001 T01110106
KBWI 070458Z 18003KT 2SM -RA BR BKN004 OVC008 11/11 A3019 RMK AO2 RAB55 P0001 T01110106
KBWI 070454Z 00000KT 2SM BR OVC006 11/11 A3019 RMK AO2 DZE10RAB10E52 SLP224 P0000 T01110106 401111011
KBWI 070425Z 14003KT 2 1/2SM -RA BR BKN008 OVC012 11/10 A3020 RMK AO2 DZE10RAB10 P0000 T01060100
KBWI 070354Z 12003KT 2 1/2SM -DZ BR FEW006 OVC012 11/10 A3020 RMK AO2 DZB52 SLP228 P0000 T01060100
KBWI 070345Z 13003KT 8SM FEW005 BKN012 OVC018 11/10 A3020 RMK AO2 T01060100
KBWI 070254Z 23004KT 8SM FEW004 OVC017 11/10 A3020 RMK AO2 SLP227 T01060100 58002
KBWI 070231Z 23004KT 8SM SCT004 OVC017 11/09 A3019 RMK AO2 T01060094
KBWI 070154Z 25004KT 8SM BKN004 OVC018 10/09 A3020 RMK AO2 SLP228 T01000094
KBWI 070054Z VRB03KT 4SM BR BKN004 OVC018 09/09 A3021 RMK AO2 SLP229 T00940089
KBWI 062354Z 13003KT 4SM BR OVC004 09/08 A3020 RMK AO2 RAB06E34 SLP228 P0002 60005 T00890083 10089 20078 50001
KBWI 062254Z 12004KT 3SM BR OVC004 08/08 A3021 RMK AO2 DZE40RAB40E51 SLP229 P0002 T00830078
KBWI 062240Z 00000KT 3SM -RA BR OVC004 08/08 A3021 RMK AO2 DZE40RAB40 P0001 T00830078
KBWI 062213Z 00000KT 2SM -DZ BR OVC003 08/08 A3020 RMK AO2 P0001 T00830078
KBWI 062154Z 00000KT 1SM R10/P6000FT -DZ BR OVC004 08/08 A3020 RMK AO2 SLP227 P0000 T00830078
KBWI 062054Z 14003KT 1 1/2SM -DZ BR OVC003 08/08 A3020 RMK AO2 SLP227 P0000 60001 T00830078 56004
KBWI 062050Z 00000KT 1 1/2SM -DZ BR OVC003 08/08 A3021 RMK AO2 P0000
KBWI 062005Z 12004KT 2SM -DZ BR OVC004 08/08 A3020 RMK AO2 P0000 T00830078
KBWI 061954Z 14003KT 1 1/2SM -DZ BR OVC004 08/08 A3020 RMK AO2 DZB17 SLP227 P0000 T00830078
KBWI 061854Z 00000KT 1 3/4SM BR BKN004 OVC010 09/08 A3020 RMK AO2 DZE21 SLP227 P0001 T00890078
KBWI 061754Z 00000KT 1SM R10/P6000FT -DZ BR BKN004 OVC010 08/07 A3021 RMK AO2 RAE46DZB46 SLP232 P0001 60013 T00830072 10083 20056 56014
KBWI 061702Z 00000KT 1 1/4SM R10/5500VP6000FT -RA BR OVC004 08/07 A3023 RMK AO2 P0000 T00780067
KBWI 061654Z 00000KT 2SM -RA BR OVC004 08/07 A3023 RMK AO2 RAB54 SLP238 P0000 T00780067
KBWI 061622Z 00000KT 2SM BR OVC004 07/06 A3023 RMK AO2 T00720061
KBWI 061554Z 10006KT 2SM BR BKN006 OVC029 07/06 A3023 RMK AO2 RAE24 SLP235 P0003 T00720061
KBWI 061523Z 00000KT 1 1/2SM -RA BR BKN006 OVC029 07/06 A3025 RMK AO2 P0003 T00720061
KBWI 061454Z 00000KT 1 3/4SM R10/2600VP6000FT -RA BR SCT004 BKN010 OVC029 07/06 A3026 RMK AO2 SLP246 P0006 60009 T00670061 50006
KBWI 061441Z 00000KT 1 3/4SM -RA BR SCT004 BKN010 OVC029 07/06 A3026 RMK AO2 P0005 T00670056
KBWI 061354Z 00000KT 1SM R10/P6000FT -RA BR OVC007 06/06 A3026 RMK AO2 SLP248 P0003 T00610056
KBWI 061313Z 05003KT 1 1/4SM -RA BR OVC007 06/05 A3025 RMK AO2 P0001 T00610050
KBWI 061258Z 00000KT 2 1/2SM -RA BR OVC009 06/05 A3025 RMK AO2 P0000 T00610050
KBWI 061254Z 00000KT 3SM -RA BR OVC010 06/04 A3025 RMK AO2 RAB39 SLP245 VIS NW 2 P0000 T00610044
KBWI 061154Z 03003KT 5SM BR OVC010 06/04 A3024 RMK AO2 RAE04 SLP239 P0001 60006 70006 T00560044 10056 21011 52003
KBWI 061054Z 00000KT 4SM -RA BR OVC013 06/04 A3023 RMK AO2 SLP238 P0005 T00560039
KBWI 061019Z 06006KT 5SM -RA BR OVC014 06/03 A3023 RMK AO2 P0001 T00560033
KBWI 060954Z VRB04KT 4SM -RA BR OVC015 05/03 A3024 RMK AO2 RAB37 SLP239 P0000 T00500028
KBWI 060854Z 00000KT 10SM OVC017 04/02 A3023 RMK AO2 SLP237 T00440017 58005
KBWI 060754Z 00000KT 10SM BKN027 OVC034 04/02 A3024 RMK AO2 SLP242 T00390017
KBWI 060654Z 00000KT 10SM OVC030 01/M01 A3025 RMK AO2 SLP244 T00111011
KBWI 060554Z 00000KT 10SM SCT031 SCT250 M01/M03 A3025 RMK AO2 SLP242 T10111033 10050 21011 58005
KBWI 060454Z 00000KT 10SM SCT250 01/M03 A3025 RMK AO2 SLP242 T00061028 401001044
KBWI 060354Z 00000KT 10SM FEW250 M01/M03 A3026 RMK AO2 SLP249 T10111033
KBWI 060254Z 00000KT 10SM FEW250 01/M02 A3026 RMK AO2 SLP249 T00111022 50009
KBWI 060154Z 00000KT 10SM CLR 00/M03 A3027 RMK AO2 SLP251 T00001028
KBWI 060054Z 00000KT 10SM CLR 01/M03 A3026 RMK AO2 SLP247 T00111028
KBWI 052354Z 13004KT 10SM FEW250 05/M02 A3023 RMK AO2 SLP240 T00501022 10100 20033 50003
KBWI 052254Z 11004KT 10SM FEW200 FEW250 06/M03 A3024 RMK AO2 SLP243 T00561033
KBWI 052154Z 11004KT 10SM FEW200 SCT250 06/M05 A3023 RMK AO2 SLP239 T00611050
KBWI 052054Z 14005KT 10SM FEW160 FEW200 BKN250 09/M05 A3023 RMK AO2 SLP236 T00891050 55002
KBWI 051954Z 12006KT 10SM FEW160 SCT210 BKN250 09/M04 A3022 RMK AO2 SLP233 T00941044
KBWI 051854Z 13004KT 10SM FEW160 BKN210 BKN250 09/M01 A3022 RMK AO2 SLP235 T00941011
KBWI 051754Z 15006KT 10SM SCT160 BKN210 BKN250 09/M01 A3023 RMK AO2 SLP238 T00941011 10094 21039 58017
KBWI 051654Z VRB06KT 10SM SCT160 BKN200 BKN250 08/M03 A3025 RMK AO2 SLP244 T00831028
KBWI 051554Z 14003KT 10SM SCT160 BKN200 OVC250 06/M03 A3028 RMK AO2 SLP255 T00611028
KBWI 051454Z 09004KT 10SM SCT160 BKN250 04/M02 A3029 RMK AO2 SLP257 T00391022 51012
KBWI 051354Z 00000KT 9SM SCT160 BKN250 01/M03 A3028 RMK AO2 SLP254 T00111033 $
KBWI 051254Z 00000KT 10SM FEW160 BKN250 M03/M05 A3026 RMK AO2 SLP248 T10331050 $
KBWI 051154Z 00000KT 10SM FEW250 M03/M05 A3025 RMK AO2 SLP244 T10331050 11011 21044 53014 $
KBWI 051054Z 00000KT 10SM CLR M03/M05 A3023 RMK AO2 SLP239 T10331050
KBWI 050954Z 00000KT 10SM CLR M03/M05 A3022 RMK AO2 SLP235 T10281050
KBWI 050854Z 00000KT 10SM CLR M03/M05 A3021 RMK AO2 SLP230 T10281050 53002
KBWI 050754Z 25003KT 10SM CLR M03/M06 A3020 RMK AO2 SLP228 T10331056
KBWI 050654Z 00000KT 10SM CLR M02/M05 A3019 RMK AO2 SLP225 T10221050
KBWI 050554Z 00000KT 10SM CLR M01/M06 A3020 RMK AO2 SLP227 T10111056 10028 21028 56006
KBWI 050454Z COR 00000KT 10SM CLR M02/M06 A3021 RMK AO2 SLP230 T10171056 400891028
KBWI 050354Z COR 00000KT 10SM CLR M02/M05 A3021 RMK AO2 SLP234 T10171050
KBWI 050254Z 00000KT 10SM CLR M01/M04 A3022 RMK AO2 SLP234 T10061044 51006
KBWI 050154Z 00000KT 10SM FEW250 M01/M06 A3022 RMK AO2 SLP233 T10061056
KBWI 050054Z 24003KT 10SM FEW250 02/M06 A3022 RMK AO2 SLP236 T00171061
KBWI 042354Z 00000KT 10SM CLR 01/M06 A3020 RMK AO2 SLP228 T00111061 10089 20011 58001
KBWI 042254Z 00000KT 10SM CLR 04/M07 A3022 RMK AO2 SLP235 T00391067
KBWI 042154Z 29003KT 10SM FEW250 06/M07 A3020 RMK AO2 SLP227 T00611072
KBWI 042054Z 29008KT 10SM FEW250 07/M06 A3020 RMK AO2 SLP227 T00721061 56005
KBWI 041954Z 26007KT 10SM BKN250 08/M06 A3020 RMK AO2 SLP227 T00831061 $
KBWI 041854Z 30005KT 10SM FEW150 BKN250 08/M07 A3020 RMK AO2 SLP228 T00831072 $
KBWI 041754Z 27006KT 10SM FEW150 BKN250 08/M07 A3022 RMK AO2 SLP232 T00781067 10078 20011 58021 $
KBWI 041654Z 31004KT 10SM FEW150 BKN250 07/M05 A3023 RMK AO2 SLP238 T00721050 $
KBWI 041554Z COR 30006KT 10SM BKN250 06/M04 A3026 RMK AO2 SLPNO $
KBWI 041454Z 32006KT 10SM BKN250 06/M04 A3028 RMK AO2 SLP253 T00561044 53002
KBWI 041354Z 32009KT 10SM FEW150 SCT250 04/M04 A3027 RMK AO2 SLP251 T00391039
KBWI 041254Z 28003KT 10SM FEW150 SCT250 03/M04 A3028 RMK AO2 SLP252 T00281039
KBWI 041154Z 31003KT 10SM FEW250 02/M04 A3027 RMK AO2 SLP251 70043 T00171039 10050 20011 53004
KBWI 041054Z 31005KT 10SM CLR 02/M03 A3026 RMK AO2 SLP246 T00171033
KBWI 040954Z 32005KT 10SM CLR 03/M03 A3026 RMK AO2 SLP247 T00281028
KBWI 040854Z 30005KT 10SM FEW250 01/M03 A3026 RMK AO2 SLP246 T00111028 50010
KBWI 040754Z 27004KT 10SM FEW250 02/M01 A3026 RMK AO2 SLP247 T00221011
KBWI 040654Z 27004KT 10SM FEW250 03/M01 A3025 RMK AO2 SLP242 T00331011
KBWI 040554Z 29005KT 10SM FEW250 05/M01 A3023 RMK AO2 SLP236 T00501006 10150 20039 50003
KBWI 040454Z 00000KT 10SM CLR 06/00 A3023 RMK AO2 SLP238 T00610000 401670056
KBWI 040354Z 31008KT 10SM CLR 08/00 A3023 RMK AO2 SLP236 T00780000
KBWI 040254Z 32011KT 10SM CLR 09/01 A3022 RMK AO2 SLP233 T00940011 51042
KBWI 040154Z 30011KT 10SM CLR 11/02 A3019 RMK AO2 SLP223 T01060017
KBWI 040054Z 31009G21KT 10SM FEW060 14/00 A3015 RMK AO2 PK WND 30027/0026 PRESRR SLP207 T01390000
KBWI 032354Z 27012KT 10SM FEW045 FEW060 FEW250 14/05 A3009 RMK AO2 SLP190 T01440050 10167 20133 51028
KBWI 032254Z 25006KT 10SM FEW045 SCT055 SCT070 SCT250 15/12 A3008 RMK AO2 SLP185 T01500117
KBWI 032154Z 23008G17KT 10SM SCT060 SCT090 SCT250 16/12 A3004 RMK AO2 SLP170 T01560117
KBWI 032054Z 23010G18KT 10SM SCT060 BKN085 BKN250 17/12 A3001 RMK AO2 SLP162 T01670117 55007
KBWI 031954Z 22012G23KT 10SM SCT065 BKN080 BKN250 17/12 A3000 RMK AO2 PK WND 23027/1908 SLP158 T01670122
KBWI 031854Z 21014G24KT 10SM SCT017 SCT070 BKN085 BKN250 17/12 A3001 RMK AO2 PK WND 23030/1755 SLP161 T01670122
KBWI 031830Z 23016G24KT 10SM SCT015 BKN250 16/12 A3002 RMK AO2 PK WND 23030/1755 T01610122
KBWI 031754Z 21014G29KT 10SM BKN015 BKN085 BKN150 16/12 A3003 RMK AO2 PK WND 22030/1720 SLP169 60043 T01560122 10156 20111 56037
KBWI 031703Z 22013G25KT 10SM SCT011 OVC015 14/12 A3006 RMK AO2 T01440117
KBWI 031654Z 22015G27KT 10SM BKN013 BKN090 14/12 A3007 RMK AO2 PK WND 23030/1612 SLP180 T01440122
KBWI 031554Z 21011G23KT 7SM FEW008 BKN011 OVC018 13/12 A3010 RMK AO2 PK WND 23026/1529 RAE53 SLP194 P0004 T01280117
KBWI 031509Z 20012G20KT 5SM -RA BR SCT008 BKN011 OVC015 12/11 A3013 RMK AO2 P0001 T01220111
KBWI 031454Z 20010G16KT 4SM -RA BR BKN007 BKN010 OVC015 12/11 A3014 RMK AO2 SLP207 P0007 60039 T01220111 56028
KBWI 031410Z 19005KT 3SM -RA BR BKN007 OVC014 12/11 A3016 RMK AO2 P0002 T01170106
KBWI 031354Z 20007KT 2 1/2SM -RA BR BKN007 BKN015 OVC040 12/11 A3017 RMK AO2 SLP217 P0011 T01170106
KBWI 031340Z 19006KT 2 1/2SM -RA BR BKN007 BKN015 OVC050 12/11 A3018 RMK AO2 P0007 T01170106
KBWI 031336Z 20008KT 2 1/2SM RA BR SCT007 BKN015 OVC045 12/11 A3019 RMK AO2 P0005 T01170106
KBWI 031254Z 18007KT 3SM -RA BR SCT021 BKN050 OVC075 11/10 A3017 RMK AO2 PRESFR SLP216 P0021 T01110100
KBWI 031244Z 18006KT 3SM RA BR SCT021 BKN050 OVC070 11/10 A3019 RMK AO2 P0017 T01110100
KBWI 031154Z 23006KT 3SM RA BR BKN021 BKN042 OVC050 12/09 A3022 RMK AO2 SLP235 OCNL LTGIC DSNT SW-W CB DSNT SW-W MOV E P0004 60004 70004 T01170094 10117 20089 55002
KBWI 031132Z 22004KT 8SM -RA SCT021 BKN026 OVC085 12/09 A3022 RMK AO2 PRESRR P0001 T01170094
KBWI 031054Z 20008G17KT 10SM -RA SCT022 BKN080 OVC140 12/09 A3019 RMK AO2 RAB51 SLP224 P0000 T01170089
KBWI 031016Z 19007G16KT 10SM BKN022 BKN037 OVC100 12/08 A3020 RMK AO2 T01170083
KBWI 030954Z 20008KT 10SM SCT023 BKN110 OVC160 12/08 A3021 RMK AO2 RAE38 SLP229 P0000 T01170083
KBWI 030939Z 20010G19KT 10SM SCT028 SCT080 BKN120 BKN160 OVC250 12/08 A3021 RMK AO2 RAE38 P0000 T01170078
KBWI 030854Z 21007G16KT 10SM -RA OVC028 12/07 A3023 RMK AO2 SLP238 P0000 60000 T01170067 58031
KBWI 030754Z 22008G16KT 9SM -RA BKN028 BKN110 OVC170 12/06 A3028 RMK AO2 RAB49 SLP253 P0000 T01170056
KBWI 030748Z 22010G16KT 10SM SCT028 BKN110 12/06 A3027 RMK AO2
KBWI 030731Z COR 19007KT 10SM SCT030 BKN110 OVC140 11/05 A3026 RMK AO2 PRESFR T01110050
KBWI 030654Z VRB04KT 10SM BKN029 BKN130 BKN170 OVC200 09/03 A3029 RMK AO2 SLP258 T00940033
KBWI 030554Z 20007KT 10SM SCT041 BKN120 OVC140 09/03 A3032 RMK AO2 SLP269 T00890028 10089 20067 58014
KBWI 030454Z 18006KT 10SM FEW043 BKN140 OVC250 08/02 A3034 RMK AO2 SLP276 T00830022 401001050
KBWI 030354Z VRB04KT 10SM BKN120 BKN150 BKN250 09/02 A3036 RMK AO2 SLP280 T00890022
KBWI 030254Z 15005KT 10SM BKN110 BKN150 BKN250 08/02 A3037 RMK AO2 SLP283 T00830017 58018
KBWI 030154Z 14004KT 10SM FEW110 SCT150 SCT250 07/01 A3039 RMK AO2 SLP292 T00670011
KBWI 030054Z 15004KT 10SM BKN120 BKN250 07/02 A3040 RMK AO2 SLP297 T00720022
KBWI 022354Z 13004KT 10SM BKN130 BKN250 07/02 A3042 RMK AO2 SLP302 T00720022 10100 20061 58006
KBWI 022254Z 14004KT 10SM BKN130 BKN250 08/02 A3043 RMK AO2 SLP307 T00780017
KBWI 022154Z 12005KT 10SM SCT130 BKN250 08/01 A3043 RMK AO2 SLP306 T00780006
KBWI 022054Z 12005KT 10SM BKN130 BKN250 09/01 A3044 RMK AO2 SLP309 T00890006 55009
KBWI 021954Z 12009KT 10SM BKN120 BKN250 09/00 A3043 RMK AO2 SLP307 T00890000
KBWI 021854Z 15005KT 10SM BKN120 BKN250 09/M02 A3046 RMK AO2 SLP314 T00891022
KBWI 021754Z 18004KT 10SM BKN120 BKN250 08/M03 A3047 RMK AO2 SLP317 T00831028 10089 21050 58029
KBWI 021654Z 16007KT 10SM FEW120 FEW160 SCT250 08/M02 A3050 RMK AO2 SLP328 T00781022
KBWI 021554Z 12007KT 10SM FEW120 SCT160 BKN250 06/M03 A3054 RMK AO2 SLP343 T00561033
KBWI 021454Z 11004KT 10SM FEW130 SCT160 BKN250 04/M04 A3055 RMK AO2 SLP347 T00391039 58001
KBWI 021354Z 00000KT 7SM SCT120 BKN250 01/M04 A3056 RMK AO2 SLP350 T00111044
KBWI 021254Z 26003KT 10SM FEW120 SCT250 M03/M06 A3057 RMK AO2 SLP352 T10281056
KBWI 021154Z 00000KT 10SM FEW250 M04/M07 A3056 RMK AO2 SLP348 T10441067 11011 21044 51015
KBWI 021054Z 00000KT 10SM CLR M04/M07 A3055 RMK AO2 SLP345 T10441067
KBWI 020954Z 27003KT 10SM CLR M03/M07 A3052 RMK AO2 SLP337 T10331067
KBWI 020854Z 00000KT 10SM CLR M03/M06 A3051 RMK AO2 SLP334 T10331061 58003
KBWI 020754Z 00000KT 10SM CLR M03/M07 A3052 RMK AO2 SLP336 T10331067
KBWI 020654Z 00000KT 10SM CLR M02/M06 A3052 RMK AO2 SLP337 T10171061

KCLE 070603Z 17005KT 4SM BR SCT025 OVC036 08/07 A3002 RMK AO2 T00830072 $
KCLE 070551Z 17004KT 4SM BR BKN025 OVC035 08/07 A3002 RMK AO2 DZE30 SLP184 P0000 60000 T00830072 10094 20083 50002 $
KCLE 070524Z 00000KT 4SM -DZ BR FEW013 SCT020 OVC035 08/07 A3002 RMK AO2 P0000 T00830072 $
KCLE 070518Z 00000KT 3SM -DZ BR SCT013 BKN020 OVC035 08/07 A3002 RMK AO2 P0000 T00830072 $
KCLE 070511Z 00000KT 3SM -DZ BR FEW008 BKN014 OVC020 08/07 A3002 RMK AO2 P0000 T00830072 $
KCLE 070451Z 00000KT 2 1/2SM -DZ BR FEW008 OVC015 08/07 A3003 RMK AO2 SLP187 P0000 T00830072 401000056 $
KCLE 070444Z 00000KT 3SM -DZ BR FEW010 BKN015 OVC021 08/07 A3003 RMK AO2 P0000 T00830072 $
KCLE 070439Z 00000KT 4SM -DZ BR FEW010 BKN014 OVC021 08/07 A3004 RMK AO2 P0000 T00830072 $
KCLE 070415Z 00000KT 4SM -DZ BR FEW004 BKN021 OVC035 08/07 A3003 RMK AO2 P0000 T00830072 $
KCLE 070358Z 11003KT 4SM -DZ BR FEW004 OVC040 08/07 A3002 RMK AO2 P0000 T00830072 $
KCLE 070351Z 09003KT 4SM -DZ BR BKN004 OVC040 09/07 A3002 RMK AO2 SLP183 P0000 T00890072 $
KCLE 070347Z 09004KT 3SM -DZ BR BKN004 OVC040 08/07 A3001 RMK AO2 P0000 $
KCLE 070303Z 11003KT 3SM -DZ BR FEW016 BKN021 OVC032 08/07 A3002 RMK AO2 P0000 T00830072 $
KCLE 070251Z 12004KT 2 1/2SM -DZ BR FEW016 BKN021 OVC030 08/07 A3002 RMK AO2 SLP185 P0000 60000 T00830072 55002 $
KCLE 070239Z 13003KT 2 1/2SM -DZ BR FEW012 OVC018 08/07 A3002 RMK AO2 P0000 T00830072 $
KCLE 070225Z 15003KT 2 1/2SM -DZ BR FEW003 BKN011 OVC014 08/07 A3003 RMK AO2 P0000 T00830072 $
KCLE 070210Z 09003KT 2 1/2SM -DZ BR BKN010 OVC013 08/07 A3003 RMK AO2 P0000 T00830072 $
KCLE 070148Z 11004KT 3SM -DZ BR FEW005 BKN008 OVC031 08/07 A3002 RMK AO2 SLP185 P0000 T00830072 $
KCLE 070147Z 11005KT 3SM -DZ BR FEW005 BKN008 OVC031 08/07 A3002 RMK AO2 P0000 $
KCLE 070137Z 08004KT 2 1/2SM -DZ BR FEW005 BKN020 OVC031 08/07 A3002 RMK AO2 P0000 T00830072 $
KCLE 070126Z 06004KT 1 3/4SM -DZ BR SCT006 OVC015 08/07 A3002 RMK AO2 P0000 T00830067 $
KCLE 070119Z 08003KT 1 3/4SM -DZ BR BKN007 OVC010 08/07 A3003 RMK AO2 P0000 T00830072 $
KCLE 070051Z 08003KT 2SM -DZ BR OVC007 09/07 A3002 RMK AO2 SLP187 P0000 T00890072 $
KCLE 070046Z 07003KT 2 1/2SM -DZ BR OVC007 09/07 A3002 RMK AO2 P0000 $
KCLE 070006Z 09004KT 6SM -DZ OVC009 09/07 A3002 RMK AO2 P0000 T00940067 $
KCLE 062351Z 11003KT 7SM -DZ OVC012 09/07 A3001 RMK AO2 DZB42 SLP184 P0000 60000 T00890067 10100 20089 50007 $
KCLE 062251Z 09003KT 9SM OVC011 09/07 A3002 RMK AO2 SLP185 T00940067 $
KCLE 062151Z 09004KT 9SM OVC010 09/07 A3001 RMK AO2 SLP181 T00940067
KCLE 062051Z 12006KT 8SM BKN010 OVC015 09/07 A2999 RMK AO2 SLP176 T00940067 56007
KCLE 062034Z 13007KT 9SM BKN011 BKN016 OVC060 09/07 A3000 RMK AO2 T00940067
KCLE 062006Z 15006KT 9SM SCT011 BKN021 BKN240 10/07 A3000 RMK AO2 T01000067
KCLE 061951Z 15010KT 9SM BKN010 OVC022 09/07 A2999 RMK AO2 SLP175 T00940067
KCLE 061936Z 15006KT 9SM OVC010 09/07 A3001 RMK AO2 T00940067
KCLE 061851Z 16004KT 7SM OVC009 09/07 A3000 RMK AO2 SLP178 T00940067
KCLE 061751Z 17003KT 6SM HZ OVC008 09/06 A3001 RMK AO2 SLP183 T00890061 10089 20056 58014
KCLE 061651Z 18004KT 6SM BR OVC007 08/06 A3003 RMK AO2 SLP189 T00830061
KCLE 061609Z 00000KT 5SM BR BKN006 OVC011 08/06 A3004 RMK AO2 T00780056
KCLE 061551Z 15005KT 4SM BR OVC010 07/06 A3004 RMK AO2 SLP193 T00720056
KCLE 061533Z 17005KT 4SM BR OVC010 07/06 A3005 RMK AO2 T00720056
KCLE 061510Z 18004KT 4SM HZ OVC009 07/04 A3005 RMK AO2 T00720044
KCLE 061451Z 22003KT 8SM OVC010 07/04 A3006 RMK AO2 SLP197 T00720044 53016
KCLE 061351Z 19005KT 10SM OVC011 07/04 A3003 RMK AO2 SLP189 T00670039
KCLE 061251Z 16006KT 9SM OVC014 06/03 A3001 RMK AO2 SLP183 T00560033
KCLE 061151Z 16007KT 7SM OVC013 06/03 A3001 RMK AO2 DZE49 SLP181 P0000 60003 70003 T00560033 10083 20056 53003
KCLE 061051Z 16007KT 4SM -DZ BR OVC013 06/04 A3000 RMK AO2 RAE03DZB03 SLP177 P0000 T00560039
KCLE 061009Z 15005KT 7SM -DZ SCT006 OVC010 06/04 A2999 RMK AO2 RAE03DZB03 P0000 T00560039
KCLE 060951Z 14004KT 5SM -RA BR OVC008 06/04 A2999 RMK AO2 SLP177 P0002 T00560039
KCLE 060924Z 00000KT 3SM -RA BR BKN006 OVC011 06/04 A2999 RMK AO2 P0001 T00560039
KCLE 060916Z 00000KT 2 1/2SM -RA BR BKN008 OVC011 06/04 A2999 RMK AO2 P0001 T00560039
KCLE 060851Z 22003KT 3SM -RA BR BKN012 OVC018 06/04 A3000 RMK AO2 SLP178 P0001 60001 T00560039 51013
KCLE 060751Z 20009KT 8SM -RA OVC018 07/01 A2999 RMK AO2 RAB37 SLP172 P0000 T00720006
KCLE 060658Z 17009KT 10SM BKN021 OVC033 08/M03 A2996 RMK AO2 T00781033
KCLE 060651Z 17006KT 10SM SCT022 OVC033 08/M03 A2996 RMK AO2 SLP164 T00781033
KCLE 060648Z 16006KT 10SM SCT022 OVC033 08/M04 A2996 RMK AO2
KCLE 060611Z 16006KT 10SM BKN024 OVC034 07/M04 A2996 RMK AO2 T00721039
KCLE 060551Z 18006KT 10SM OVC035 07/M04 A2997 RMK AO2 SLP167 T00721039 10089 20072 53003
KCLE 060451Z 18010KT 10SM OVC040 09/M07 A2996 RMK AO2 SLP164 T00891072 401061022
KCLE 060351Z 17009KT 10SM BKN044 OVC065 08/M08 A2995 RMK AO2 SLP162 T00781083
KCLE 060251Z 18007KT 10SM OVC075 08/M09 A2996 RMK AO2 SLP166 T00781094 51002
KCLE 060151Z 17007KT 10SM BKN070 08/M10 A2996 RMK AO2 SLP167 T00781100
KCLE 060051Z 18009KT 10SM BKN070 08/M09 A2996 RMK AO2 SLP168 T00831094
KCLE 052351Z 17007KT 10SM BKN065 BKN180 08/M08 A2995 RMK AO2 SLP165 T00781083 10106 20072 51003
KCLE 052251Z 16007KT 10SM BKN070 OVC150 07/M08 A2995 RMK AO2 SLP164 T00721078
KCLE 052151Z 16007KT 10SM SCT070 BKN150 08/M09 A2995 RMK AO2 SLP165 T00831089
KCLE 052051Z 19012KT 10SM BKN250 10/M11 A2994 RMK AO2 SLP162 T01001106 56009
KCLE 051951Z 21010KT 10SM SCT170 BKN250 11/M10 A2995 RMK AO2 SLP163 T01061100
KCLE 051851Z 21008KT 10SM SCT190 BKN250 10/M10 A2995 RMK AO2 SLP164 T01001100
KCLE 051751Z 21015KT 10SM BKN250 09/M12 A2997 RMK AO2 SLP171 T00891117 10089 21011 58021
KCLE 051651Z 19011KT 10SM BKN250 08/M11 A3000 RMK AO2 SLP181 T00831106 $
KCLE 051551Z 21011KT 10SM BKN220 06/M11 A3003 RMK AO2 SLP192 T00561106 $
KCLE 051451Z 20011KT 10SM SCT220 03/M09 A3003 RMK AO2 SLP195 T00281089 55003
KCLE 051351Z 18009KT 10SM BKN190 01/M09 A3002 RMK AO2 SLP189 T00111089
KCLE 051251Z 19009KT 10SM BKN200 M01/M10 A3004 RMK AO2 SLP199 T10061100
KCLE 051151Z 18008KT 10SM BKN250 M01/M11 A3004 RMK AO2 SLP198 T10111106 11006 21022 53000
KCLE 051051Z 18008KT 10SM SCT250 M02/M11 A3004 RMK AO2 SLP199 T10171106
KCLE 050951Z 17007KT 10SM FEW250 M02/M11 A3004 RMK AO2 SLP197 T10171111
KCLE 050851Z 18009KT 10SM CLR M01/M11 A3004 RMK AO2 SLP197 T10111111 58003
KCLE 050751Z 19007KT 10SM CLR M01/M11 A3005 RMK AO2 SLP200 T10111111
KCLE 050651Z 20009KT 10SM CLR M01/M11 A3005 RMK AO2 SLP200 T10111106
KCLE 050551Z 20010KT 10SM CLR M01/M11 A3005 RMK AO2 SLP201 T10061106 10006 21011 58014
KCLE 050451Z 20009KT 10SM CLR M01/M10 A3007 RMK AO2 SLP209 T10061100 400331056
KCLE 050351Z 20009KT 10SM CLR M01/M10 A3008 RMK AO2 SLP212 T10061100
KCLE 050251Z 19010KT 10SM CLR 00/M10 A3009 RMK AO2 SLP216 T00001100 58011
KCLE 050151Z 20010KT 10SM CLR 00/M11 A3010 RMK AO2 SLP221 T00001106
KCLE 050051Z 19009KT 10SM CLR 00/M12 A3012 RMK AO2 SLP226 T00001117
KCLE 042351Z 20009KT 10SM CLR 00/M12 A3013 RMK AO2 SLP228 T00001122 10033 20000 56003
KCLE 042251Z 22007KT 10SM CLR 01/M12 A3014 RMK AO2 SLP232 T00061122
KCLE 042151Z 22008KT 10SM CLR 02/M12 A3012 RMK AO2 SLP226 T00171117
KCLE 042051Z 23011KT 10SM CLR 03/M11 A3014 RMK AO2 SLP230 T00281111 55016
KCLE 041951Z 20011KT 10SM CLR 03/M11 A3013 RMK AO2 SLP228 T00331111
KCLE 041851Z 22013G18KT 10SM CLR 03/M11 A3016 RMK AO2 SLP238 T00281111
KCLE 041751Z 22011G18KT 10SM CLR 02/M10 A3018 RMK AO2 SLP246 T00221100 10022 21056 58024
KCLE 041651Z 24011KT 10SM FEW140 01/M09 A3023 RMK AO2 SLP263 T00061094
KCLE 041551Z 21008KT 10SM CLR M01/M09 A3024 RMK AO2 SLP266 T10061089
KCLE 041451Z 20008KT 10SM CLR M03/M09 A3026 RMK AO2 SLP272 T10281089 58008
KCLE 041351Z 21009KT 10SM CLR M04/M09 A3026 RMK AO2 SLP275 T10441089
KCLE 041251Z 20007KT 10SM CLR M05/M09 A3027 RMK AO2 SLP278 T10501089
KCLE 041151Z 20005KT 10SM CLR M05/M09 A3028 RMK AO2 SLP280 70007 T10501089 11022 21050 56011
KCLE 041051Z 22006KT 10SM FEW025 M05/M08 A3029 RMK AO2 SLP281 T10501083
KCLE 040951Z 23004KT 10SM FEW025 M05/M08 A3029 RMK AO2 SLP283 T10501083
KCLE 040851Z 23008KT 10SM SCT025 M04/M08 A3031 RMK AO2 SLP291 T10391078 58009
KCLE 040821Z 23007KT 10SM BKN025 M03/M07 A3032 RMK AO2 T10331072
KCLE 040751Z 25008KT 10SM SCT025 M04/M08 A3032 RMK AO2 SLP294 T10391078
KCLE 040651Z 24008KT 10SM CLR M03/M07 A3033 RMK AO2 SLP296 T10331072
KCLE 040551Z 24009KT 10SM FEW035 M03/M07 A3034 RMK AO2 SLP299 T10281067 10017 21028 50001
KCLE 040451Z 25009KT 10SM CLR M02/M07 A3035 RMK AO2 SLP301 T10221067 401331022
KCLE 040351Z 23007KT 10SM CLR M02/M06 A3033 RMK AO2 SLP296 T10171061
KCLE 040251Z 25010KT 10SM FEW036 M01/M06 A3034 RMK AO2 SLP296 T10111056 53006
KCLE 040151Z 24009KT 10SM BKN036 M01/M06 A3033 RMK AO2 SLP291 T10061061
KCLE 040051Z 25010KT 10SM SCT036 01/M06 A3033 RMK AO2 SLP291 T00061056
KCLE 032351Z 25012KT 10SM OVC033 02/M06 A3032 RMK AO2 SLP288 T00171056 10050 20017 51026
KCLE 032251Z 26012G17KT 10SM SCT029 OVC034 02/M04 A3030 RMK AO2 SLP280 T00221044
KCLE 032151Z 29010KT 10SM SCT026 OVC034 03/M03 A3027 RMK AO2 SLP270 T00281033
KCLE 032051Z 29016G23KT 10SM FEW028 OVC034 03/M03 A3024 RMK AO2 SLP260 T00331033 53035 $
KCLE 031951Z 27016G22KT 10SM OVC027 03/M03 A3021 RMK AO2 PK WND 26026/1915 SLP251 T00331028
KCLE 031851Z 28018G25KT 10SM BKN022 OVC030 04/M02 A3016 RMK AO2 PK WND 32029/1756 SLP233 T00391017
KCLE 031751Z 27021G32KT 10SM OVC023 05/M01 A3013 RMK AO2 PK WND 28032/1746 SLP223 60007 T00501011 10122 20050 51059
KCLE 031651Z 27021G31KT 10SM OVC021 06/01 A3008 RMK AO2 PK WND 27031/1649 SLP206 T00560006
KCLE 031551Z 29020G29KT 10SM OVC022 06/01 A3004 RMK AO2 PK WND 30041/1457 SLP192 T00610011
KCLE 031503Z 30024G41KT 10SM SCT021 BKN026 OVC033 07/03 A2998 RMK AO2 PK WND 30041/1457 PRESRR T00720028
KCLE 031451Z 29022G39KT 10SM SCT024 BKN036 OVC060 08/03 A2996 RMK AO2 PK WND 29048/1439 RAE1352B10E37 PRESRR SLP163 P0003 60007 T00830033 53042
KCLE 031351Z 23017KT 10SM -RA BKN015 BKN026 OVC044 12/09 A2986 RMK AO2 SLP126 P0003 T01170094
KCLE 031321Z 22013G19KT 7SM -RA BKN015 OVC019 12/09 A2984 RMK AO2 P0001 T01170094
KCLE 031251Z 21012G20KT 8SM -RA BKN011 OVC016 12/09 A2984 RMK AO2 RAE03B24DZB03E24 SLP122 P0001 T01170094
KCLE 031151Z 21014G23KT 10SM -RA OVC013 12/09 A2983 RMK AO2 DZE19RAB19 SLP118 P0000 60000 70001 T01170094 10133 20111 55006
KCLE 031111Z 21016G21KT 9SM -DZ OVC013 12/09 A2983 RMK AO2 P0000 T01170089
KCLE 031051Z 22014G20KT 10SM -DZ OVC015 12/09 A2983 RMK AO2 RAE14DZB48 SLP117 P0000 T01170089
KCLE 030951Z 21015G23KT 10SM -RA OVC017 11/08 A2984 RMK AO2 SLP120 P0000 T01110083
KCLE 030851Z 21018G24KT 10SM -RA OVC019 11/08 A2985 RMK AO2 PK WND 20030/0812 RAB21 SLP125 P0000 60000 T01110078 58009
KCLE 030751Z 20014G23KT 10SM OVC022 12/07 A2985 RMK AO2 PK WND 22031/0710 RAB24E34 SLP127 P0000 T01170067
KCLE 030714Z 20021G31KT 10SM OVC028 12/06 A2987 RMK AO2 PK WND 22031/0710 T01220056
KCLE 030651Z 21020G32KT 10SM OVC032 13/04 A2987 RMK AO2 PK WND 22032/0647 SLP132 T01330044
KCLE 030551Z 20015G23KT 10SM OVC039 13/03 A2988 RMK AO2 PK WND 21032/0504 SLP134 60001 T01330028 10133 20100 55007
KCLE 030451Z 20023G33KT 10SM BKN037 OVC044 13/02 A2987 RMK AO2 PK WND 21035/0432 SLP132 T01330022 401331017
KCLE 030351Z 20019G26KT 10SM SCT049 OVC065 12/01 A2987 RMK AO2 PK WND 20034/0259 SLP133 T01170011
KCLE 030251Z 19019G28KT 10SM BKN055 OVC070 11/01 A2990 RMK AO2 PK WND 20032/0228 RAB15E44 SLP143 P0001 60001 T01060006 56026
KCLE 030151Z 19016G33KT 10SM FEW070 SCT090 SCT110 OVC200 12/M05 A2992 RMK AO2 PK WND 19033/0146 SLP150 T01221050
KCLE 030051Z 19018G27KT 10SM OVC095 11/M07 A2995 RMK AO2 PK WND 18033/0024 SLP162 T01111067
KCLE 022351Z 18019G30KT 10SM SCT110 BKN200 11/M07 A2997 RMK AO2 PK WND 17032/2340 SLP171 T01061067 10106 20083 58026
KCLE 022251Z 17014G31KT 10SM OVC110 10/M07 A3000 RMK AO2 PK WND 16031/2248 SLP181 T01001067
KCLE 022151Z 17017G24KT 10SM BKN090 OVC120 09/M06 A3003 RMK AO2 PK WND 18029/2105 SLP189 T00941056
KCLE 022051Z 18016G21KT 10SM BKN095 BKN120 09/M06 A3005 RMK AO2 SLP197 T00941056 56022
KCLE 021951Z 18011G19KT 10SM FEW070 OVC100 09/M06 A3007 RMK AO2 SLP203 T00941061
KCLE 021851Z 19015G25KT 10SM BKN080 BKN250 09/M06 A3008 RMK AO2 SLP208 T00891061
KCLE 021751Z 18017G24KT 10SM BKN110 BKN250 08/M07 A3012 RMK AO2 SLP221 60000 T00831072 10083 20017 58039
KCLE 021651Z 19011G19KT 10SM OVC110 07/M07 A3016 RMK AO2 SLP236 T00671072
KCLE 021551Z 18013G18KT 10SM OVC120 05/M08 A3020 RMK AO2 RAE1456 SLP252 P0000 T00501078
KCLE 021451Z 18014KT 10SM -RA FEW060 OVC080 03/M07 A3023 RMK AO2 RAB40 SLP263 P0000 60000 T00331072 56018
KCLE 021351Z 17015KT 10SM FEW060 OVC080 03/M09 A3024 RMK AO2 SLP265 T00281089
KCLE 021251Z 17012KT 10SM OVC080 02/M08 A3027 RMK AO2 SLP274 T00171083 $
KCLE 021151Z 19008KT 10SM BKN085 BKN110 02/M09 A3029 RMK AO2 SLP281 T00171089 10017 21011 55010 $
KCLE 021051Z 16006KT 10SM BKN110 01/M09 A3028 RMK AO2 SLP280 T00061089 $
KCLE 020951Z 15009KT 10SM BKN100 00/M08 A3027 RMK AO2 SLP277 T00001083 $
KCLE 020851Z 16007KT 10SM OVC110 00/M08 A3032 RMK AO2 SLP292 T00001078 58016 $
KCLE 020751Z 17008KT 10SM OVC110 00/M08 A3035 RMK AO2 SLP301 T00001078 $
KCLE 020651Z 17008KT 10SM OVC110 M01/M08 A3035 RMK AO2 SLP302 T10061083 $

KCLT 070552Z 00000KT 1SM BR VV002 10/10 A3026 RMK SLP245 T01000100 10100 20100 50001 RVRNO
KCLT 070452Z 00000KT 1SM BR VV002 10/09 A3026 RMK SLP246 T01000094 401000061 RVRNO
KCLT 070352Z 32003KT 1 1/2SM BR VV002 10/09 A3026 RMK SLP248 T010000094
KCLT 070252Z 00000KT 1SM BR VV002 10/09 A3025 RMK SLP245 T01000094 51004 RVRNO
KCLT 070217Z 32004KT 1SM BR VV002 10/09 A3026 RMK T01000094 RVRNO
KCLT 070152Z 00000KT 3/4SM BR VV002 10/10 A3025 RMK SLP245 T01000100 RVRNO
KCLT 070052Z 19004KT 1/2SM FG VV002 10/09 A3025 RMK SLP243 T01000094 RVRNO
KCLT 062352Z VRB03KT 1/2SM FG VV002 10/09 A3024 RMK SLP241 60000 T01000094 10100 20089 53006 RVRNO
KCLT 062252Z 00000KT 3/4SM BR OVC002 10/09 A3024 RMK SLP239 T01000094 RVRNO
KCLT 062216Z 16005KT 3/4SM BR OVC002 10/09 A3022 RMK T01000094 RVRNO
KCLT 062152Z 19003KT 1SM BR OVC002 09/09 A3021 RMK RAB23E36 SLP232 P0000 T00940089 RVRNO
KCLT 062052Z 28004KT 1SM BR OVC003 09/09 A3022 RMK SLP235 60000 T00940089 53003 RVRNO
KCLT 062006Z 00000KT 1 1/2SM BR OVC003 10/09 A3021 RMK T01000089
KCLT 061952Z 00000KT 2SM BR OVC003 10/09 A3021 RMK SLP229 T01000089
KCLT 061852Z VRB03KT 2SM BR OVC004 09/08 A3021 RMK RAE1758 SLP230 P0000 T00940083
KCLT 061803Z 08003KT 3SM BR OVC002 09/08 A3021 RMK RAE1758 P0000 T00890083
KCLT 061752Z VRB03KT 2SM -RA BR OVC002 09/08 A3021 RMK RAB00 SLP232 P0002 60003 T00890083 10089 20067 58013
KCLT 061737Z 03003KT 1 1/2SM -RA BR OVC002 08/08 A3022 RMK RAB00 P0001 T00830078
KCLT 061711Z 01003KT 2SM -RA BR OVC003 08/08 A3024 RMK RAB00 P0000 T00830078
KCLT 061652Z 36004KT 1 1/2SM BR OVC002 08/08 A3024 RMK RAB21E51 SLP242 P0000 T00830078
KCLT 061650Z 36003KT 1 1/4SM -RA BR OVC002 08/08 A3024 RMK RAB21 P0000
KCLT 061552Z 02004KT 1/2SM FG OVC002 08/07 A3025 RMK SLP245 T00780072 RVRNO
KCLT 061530Z VRB04KT 3/4SM BR OVC002 08/07 A3026 RMK T00780072 RVRNO
KCLT 061452Z 05004KT 1 1/2SM BR OVC003 08/07 A3025 RMK SLP243 60001 T00780072 53009
KCLT 061352Z 05004KT 2SM BR OVC003 07/07 A3023 RMK SLP236 T00720067
KCLT 061344Z 04004KT 2SM BR OVC003 07/07 A3023 RMK T00720067
KCLT 061252Z 05004KT 3SM BR OVC004 07/06 A3022 RMK RAE10 SLP234 P0001 T00720061
KCLT 061231Z 02006KT 3SM BR BKN004 OVC008 07/06 A3022 RMK RAE10 P0001 T00670061
KCLT 061152Z 36006KT 4SM -RA BR SCT004 OVC009 07/06 A3022 RMK SLP234 P0001 60012 70016 T00670061 10067 20061 53011
KCLT 061105Z 34004KT 4SM -RA BR BKN004 OVC011 07/06 A3020 RMK P0001 T00670061
KCLT 061052Z 36003KT 5SM -RA BR FEW004 OVC012 07/06 A3020 RMK RAB17 SLP225 P0001 T00670061
KCLT 060959Z 01005KT 6SM BR OVC010 07/06 A3019 RMK T00670056
KCLT 060952Z 35005KT 6SM BR BKN004 OVC012 07/06 A3019 RMK RAE0858 SLP222 P0000 T00670056
KCLT 060854Z 34005KT 5SM -RA BR BKN004 OVC012 06/06 A3019 RMK P0000 T00610056
KCLT 060852Z 35005KT 4SM -RA BR SCT005 OVC014 06/06 A3019 RMK SLP224 P0003 60010 T00610056 55005
KCLT 060752Z 34004KT 6SM -RA BR FEW004 OVC014 07/06 A3018 RMK SLP222 P0002 T00670056
KCLT 060652Z 06004KT 4SM -RA BR FEW003 SCT018 OVC023 06/06 A3019 RMK SLP222 P0005 T00610056
KCLT 060552Z 01006KT 2 1/2SM -RA BR BKN003 OVC012 06/05 A3021 RMK SLP229 P0002 60003 T00610050 10089 20061 51005
KCLT 060531Z 36006KT 2 1/2SM -RA BR BKN004 BKN009 OVC014 06/05 A3021 RMK P0001 T00610050
KCLT 060509Z 36005KT 2 1/2SM -RA BR FEW003 OVC013 06/05 A3020 RMK P0001 T00610050
KCLT 060457Z 03004KT 2 1/2SM -RA BR OVC016 06/05 A3020 RMK P0000 T00610050
KCLT 060452Z 02004KT 7SM -RA SCT013 OVC016 06/05 A3020 RMK RAB16 SLP227 P0001 T00610050 401000017
KCLT 060428Z 04005KT 7SM -RA BKN013 OVC016 06/05 A3020 RMK RAB16 P0000 T00610050
KCLT 060352Z VRB05KT 9SM BKN015 OVC019 07/04 A3020 RMK SLP226 T00720039
KCLT 060252Z 06005KT 9SM BKN017 OVC022 08/03 A3019 RMK RAB25E40 SLP224 P0000 60000 T00780033 50002
KCLT 060152Z 07005KT 10SM BKN019 OVC030 08/03 A3020 RMK SLP227 T00780028
KCLT 060052Z 09004KT 10SM SCT018 BKN024 OVC036 08/03 A3018 RMK SLP223 T00780028
KCLT 052352Z VRB03KT 10SM SCT021 BKN027 OVC039 09/02 A3018 RMK RAE02 SLP223 P0000 60001 T00890017 10100 20083 53006
KCLT 052252Z 09005KT 10SM -RA SCT021 OVC048 09/03 A3016 RMK RAE09B50 SLP215 P0000 T00890028
KCLT 052152Z 17005KT 10SM -RA SCT030 OVC049 09/02 A3017 RMK SLP216 P0001 T00890022
KCLT 052052Z 00000KT 10SM -RA SCT028 BKN049 OVC060 10/00 A3017 RMK RAB49 SLP217 P0000 60000 T01000000 55005
KCLT 051952Z VRB05KT 10SM BKN030 OVC050 10/00 A3016 RMK SLP213 T01000000
KCLT 051852Z 09005KT 10SM SCT034 OVC055 10/M01 A3016 RMK SLP214 T01001006
KCLT 051752Z 08005KT 10SM BKN038 OVC060 10/M01 A3018 RMK SLP222 T01001011 10100 20039 58010
KCLT 051652Z 00000KT 10SM FEW039 BKN065 OVC250 10/M02 A3022 RMK SLP234 T01001017
KCLT 051552Z 12005KT 10SM SCT038 BKN070 BKN250 09/M01 A3022 RMK SLP233 T00891006
KCLT 051452Z VRB05KT 10SM FEW040 BKN060 BKN250 07/M01 A3022 RMK SLP233 T00721006 53009
KCLT 051352Z 11007KT 10SM SCT039 BKN060 BKN250 06/00 A3020 RMK SLP229 T00610000
KCLT 051252Z 03003KT 10SM BKN039 BKN060 BKN250 05/M01 A3020 RMK SLP228 T00501006
KCLT 051152Z 12004KT 10SM SCT039 BKN060 04/00 A3019 RMK SLP224 T00440000 10050 20017 53005
KCLT 051052Z 07004KT 10SM SCT039 BKN060 04/01 A3018 RMK SLP221 T00440006
KCLT 050952Z 00000KT 10SM SCT038 SCT060 BKN250 03/00 A3018 RMK SLP220 T00280000
KCLT 050852Z 04003KT 10SM FEW032 SCT250 03/00 A3017 RMK SLP219 T00280000 50002
KCLT 050752Z 05005KT 10SM FEW032 SCT250 04/M01 A3018 RMK SLP218 T00441006
KCLT 050652Z 03005KT 10SM FEW033 SCT250 02/M01 A3017 RMK SLP217 T00221011
KCLT 050552Z 02004KT 10SM FEW033 SCT250 03/M01 A3017 RMK SLP217 T00331006 10089 20022 56005
KCLT 050452Z 35003KT 10SM FEW030 FEW100 BKN250 03/00 A3017 RMK SLP218 T00330000 401170033
KCLT 050352Z VRB03KT 10SM FEW100 BKN250 07/M01 A3017 RMK SLP217 T00671011
KCLT 050252Z 05003KT 10SM FEW110 FEW180 BKN250 07/M01 A3018 RMK SLP221 T00721011 55004
KCLT 050152Z VRB04KT 10SM BKN110 BKN180 BKN250 08/M02 A3018 RMK SLP219 T00831017
KCLT 050052Z 08004KT 10SM BKN120 OVC250 08/M02 A3019 RMK SLP222 T00831022
KCLT 042352Z 09005KT 10SM OVC110 09/M03 A3019 RMK SLP225 T00891028 10117 20083 51005
KCLT 042252Z 05006KT 10SM BKN120 BKN180 OVC220 09/M04 A3019 RMK SLP224 T00891039
KCLT 042152Z 05006KT 10SM FEW040 BKN140 OVC250 09/M03 A3019 RMK SLP223 T00941033
KCLT 042052Z 07006KT 10SM FEW045 BKN140 OVC250 10/M03 A3018 RMK SLP219 T01001033 55009
KCLT 041952Z 05006KT 10SM FEW045 SCT160 OVC200 11/M04 A3017 RMK SLP216 T01061044
KCLT 041852Z 04006KT 10SM FEW040 SCT160 OVC250 11/00 A3019 RMK SLP223 T01110000
KCLT 041752Z 05005KT 10SM FEW040 BKN150 OVC250 11/01 A3021 RMK SLP227 T01110006 10117 20067 58026
KCLT 041652Z 06003KT 10SM SCT160 BKN250 11/M01 A3024 RMK SLP238 T01061011
KCLT 041552Z VRB05KT 10SM SCT170 BKN250 11/M02 A3027 RMK SLP250 T01061022
KCLT 041452Z 03007KT 10SM FEW050 FEW150 OVC250 10/M01 A3029 RMK SLP254 T01001011 53016
KCLT 041352Z 07009KT 10SM FEW050 BKN250 09/01 A3026 RMK SLP248 T00890006
KCLT 041252Z 04003KT 10SM FEW047 BKN250 08/02 A3025 RMK SLP243 T00780017
KCLT 041152Z 05005KT 10SM FEW047 07/03 A3024 RMK SLP239 T00670033 10111 20050 53005
KCLT 041052Z 01004KT 7SM FEW049 07/06 A3023 RMK T00670056
KCLT 040952Z 03003KT 5SM BR SCT049 07/06 A3023 RMK T00670061
KCLT 040944Z 00000KT 3SM BR FEW000 FEW047 06/06 A3023 RMK FG FEW000 T00610056
KCLT 040923Z 00000KT 2SM BR FEW000 FEW047 06/06 A3023 RMK FG FEW000 T00610056
KCLT 040911Z 00000KT 1SM BR SCT000 SCT045 06/06 A3022 RMK FG SCT000 T00610061 RVRNO
KCLT 040903Z 00000KT 1/4SM FG BKN000 BKN045 08/07 A3022 RMK FG BKN000 T00780072 RVRNO
KCLT 040852Z 35003KT 1/8SM FG VV001 08/07 A3022 RMK SLP233 T00930072 58002 RVRNO
KCLT 040752Z 09004KT 1/8SM FG VV001 08/08 A3023 RMK SLP234 T00830078 RVRNO
KCLT 040652Z 30003KT 1/8SM FG VV001 09/09 A3024 RMK SLP238 T00940094 RVRNO
KCLT 040601Z 35004KT 1/8SM FG VV001 11/11 A3023 RMK T01060106 RVRNO
KCLT 040552Z 36004KT 1/4SM FG VV002 11/11 A3023 RMK SLP233 T01110106 10144 20100 58007 RVRNO
KCLT 040539Z 36004KT 1/4SM FG BKN000 BKN004 11/11 A3023 RMK FG BKN000 T01110111 RVRNO
KCLT 040511Z 32003KT 1/2SM FG SCT000 BKN004 11/11 A3024 RMK FG SCT000 T01110111 RVRNO
KCLT 040452Z 00000KT 1/4SM FG VV004 11/11 A3025 RMK SLP240 T01110111 401500094 RVRNO
KCLT 040440Z COR 29003KT 1/2SM FG VV004 11/11 A3024 RMK T01110106 RVRNO
KCLT 040352Z COR 28003KT 4SM BR FEW006 BKN250 11/11 A3025 RMK SLP242 T01110111
KCLT 040336Z 22003KT 1 1/4SM BR FEW005 11/11 A3025 RMK T01110111
KCLT 040252Z 00000KT 7SM FEW009 SCT250 12/11 A3025 RMK SLP241 T01220111 50002
KCLT 040152Z 00000KT 7SM FEW009 SCT250 12/12 A3025 RMK SLP242 T01220117
KCLT 040052Z 25004KT 10SM SCT009 OVC250 13/12 A3025 RMK SLP243 T01330122
KCLT 032352Z 26004KT 10SM SCT009 OVC010 14/13 A3024 RMK SLP240 60003 T01440128 10150 20139 53005
KCLT 032252Z 26004KT 10SM BKN010 OVC014 14/13 A3023 RMK SLP236 T01440128
KCLT 032152Z 24004KT 10SM OVC010 15/13 A3023 RMK SLP233 T01500133
KCLT 032052Z 25006KT 10SM OVC011 15/13 A3023 RMK SLP233 60003 T01500133 55008
KCLT 031952Z 21008KT 10SM OVC010 14/14 A3022 RMK RAB09E21 SLP230 P0001 T01440139
KCLT 031933Z 21007KT 10SM BKN010 BKN017 OVC100 14/14 A3022 RMK RAB09E21 P0001 T01440139
KCLT 031852Z 22008KT 8SM BKN008 BKN017 OVC060 14/13 A3024 RMK RAB05E50 SLP238 P0002 T01390133
KCLT 031752Z 21011KT 7SM BKN008 BKN050 OVC110 14/13 A3025 RMK RAE43 PRESFR SLP242 P0002 60003 T01440133 10144 20100 58028
KCLT 031719Z 23009KT 5SM -RA BR SCT009 BKN039 OVC060 14/13 A3029 RMK P0001 T01390128
KCLT 031652Z 25005KT 7SM -RA BKN008 BKN038 OVC050 14/13 A3031 RMK RAB35 SLP260 P0000 T01390128
KCLT 031552Z 23007KT 7SM BKN009 BKN027 OVC046 13/12 A3033 RMK RAB1456E34 SLP268 P0001 T01330122
KCLT 031541Z 24006KT 7SM SCT008 SCT027 OVC046 13/12 A3033 RMK RAB1456E34 P0001 T01330117
KCLT 031452Z 21011KT 10SM SCT010 SCT028 BKN070 OVC130 13/11 A3034 RMK RAB09E46 SLP272 P0000 60000 T01280106 51006
KCLT 031352Z 23006KT 10SM FEW010 SCT037 BKN080 BKN140 OVC250 12/09 A3034 RMK SLP271 T01220094
KCLT 031252Z 17007KT 10SM FEW008 SCT034 BKN140 BKN250 11/08 A3033 RMK SLP271 T01110083
KCLT 031210Z 18004KT 10SM SCT008 BKN031 10/08 A3033 RMK T01000078
KCLT 031152Z 15007KT 10SM OVC008 10/08 A3032 RMK SLP266 60001 70001 T01000078 10117 20094 58015
KCLT 031052Z 14004KT 10SM OVC009 11/08 A3034 RMK SLP173 T01110078
KCLT 031008Z 00000KT 10SM OVC009 11/08 A3035 RMK T01060078
KCLT 030952Z 00000KT 10SM OVC010 11/08 A3037 RMK SLP282 T01060078
KCLT 030936Z 29003KT 10SM BKN010 OVC060 11/07 A3037 RMK T01060072
KCLT 030852Z 00000KT 10SM FEW007 FEW033 OVC060 10/07 A3036 RMK SLP281 60001 T01000072 56011
KCLT 030837Z 00000KT 10SM SCT007 BKN038 OVC060 11/07 A3036 RMK T01060072
KCLT 030752Z 00000KT 10SM BKN008 BKN012 OVC055 11/07 A3037 RMK SLP283 T01060067
KCLT 030729Z 00000KT 10SM BKN007 BKN012 OVC055 11/07 A3038 RMK T01060067
KCLT 030652Z 00000KT 10SM BKN012 BKN045 BKN055 10/07 A3038 RMK RAB23E36 SLP285 P0001 T01000072
KCLT 030552Z 00000KT 10SM FEW055 BKN110 11/07 A3040 RMK RAB21E42 SLP292 P0000 60000 T01110067 10133 20106 58008
KCLT 030452Z 00000KT 10SM FEW030 BKN039 BKN060 11/05 A3043 RMK SLP303 T01110050 401441028
KCLT 030352Z 00000KT 9SM BKN030 OVC050 12/05 A3044 RMK SLP308 T01170050
KCLT 030252Z COR 15005KT 10SM SCT029 BKN050 OVC160 12/04 A3042 RMK SLP301 T01170039 55005
KCLT 030052Z 15005KT 10SM SCT034 SCT050 BKN140 12/02 A3043 RMK SLP306 T01170022
KCLT 022352Z 13008KT 10SM FEW023 BKN037 BKN050 13/01 A3044 RMK SLP308 T01280011 10144 20117 53003
KCLT 022252Z 17003KT 10SM SCT033 BKN041 BKN190 13/02 A3043 RMK SLP305 T01280017
KCLT 022152Z 26003KT 10SM BKN037 BKN045 BKN190 13/02 A3043 RMK SLP305 T01330017
KCLT 022052Z 00000KT 10SM BKN036 BKN150 BKN250 14/00 A3043 RMK SLP305 T01390000 56011
KCLT 021952Z 20005KT 10SM BKN037 BKN150 BKN250 13/00 A3043 RMK SLP307 T01330000
KCLT 021852Z 18004KT 10SM SCT038 SCT140 BKN250 13/M02 A3045 RMK SLP311 T01331022
KCLT 021752Z 00000KT 10SM SCT034 BKN150 BKN250 12/M05 A3046 RMK SLP317 T01171050 10122 21011 58024
KCLT 021652Z 00000KT 10SM FEW130 SCT180 BKN250 11/M05 A3050 RMK SLP330 T01111050
KCLT 021552Z 18004KT 10SM SCT140 BKN180 BKN250 09/M04 A3052 RMK SLP339 T00941044
KCLT 021452Z 34004KT 10SM FEW120 BKN140 BKN250 07/M01 A3054 RMK SLP343 T00721006 50000
KCLT 021352Z 32004KT 10SM FEW110 BKN140 BKN250 03/M01 A3054 RMK SLP347 VIRGA N AND S T00331006
KCLT 021252Z 35003KT 10SM FEW120 BKN140 BKN250 02/M01 A3054 RMK SLP343 T00221011
KCLT 021152Z 33003KT 10SM FEW170 SCT250 M01/M03 A3054 RMK SLP343 T10111028 10011 21028 53014
KCLT 021052Z 32003KT 10SM FEW250 M01/M03 A3052 RMK SLP337 T10111033
KCLT 020952Z 33004KT 10SM FEW250 M01/M04 A3050 RMK SLP330 T10111039
KCLT 020852Z 00000KT 10SM CLR M01/M03 A3049 RMK SLP328 T10061033 53004
KCLT 020752Z 00000KT 10SM CLR M01/M03 A3048 RMK SLP324 T10111033
KCLT 020652Z 00000KT 10SM CLR 00/M03 A3047 RMK SLP320 T00001028

KCVG 070552Z 31005KT 4SM R18C/4000VP6000FT BR BKN005 OVC016 11/11 A3002 RMK AO2 RAE48 SLP162 P0002 60079 T01110111 10122 20111 53011 $
KCVG 070452Z 00000KT 3SM -RA BR OVC010 12/12 A3000 RMK AO2 CIG 004V013 SLP158 P0014 T01170117 401220067 $
KCVG 070411Z 36005KT 1SM R18C/P6000FT -RA BR SCT003 OVC009 12/12 A2999 RMK AO2 SFC VIS 2 LTG DSNT E AND SW P0013 T01170117 $
KCVG 070352Z 35011KT 1SM R18C/3500VP6000FT VCTS -RA BR SCT003 OVC009 12/12 A2999 RMK AO2 SFC VIS 2 DZE52RAB03E18B52 SLP155 P0012 T01220122 $
KCVG 070318Z 13005KT 2SM -DZ BR SCT003 OVC009 12/12 A2998 RMK AO2 SFC VIS 3 LTG DSNT E RAB03E18 P0003 T01220122 $
KCVG 070252Z 14006KT 1/2SM R18C/P6000FT -DZ BR OVC004 12/12 A2998 RMK AO2 SFC VIS 1 1/4 LTG DSNT SE RAE04B27E50DZB04E27B50 SLP151 P0004 60051 T01220122 56010 $
KCVG 070243Z 12006KT 1/2SM R18C/P6000FT RA BR OVC004 12/12 A2998 RMK AO2 SFC VIS 1 1/4 LTG DSNT SE RAE04B27DZB04E27 P0003 T01220122 $
KCVG 070227Z 11006KT 1SM R18C/P6000FT -RA BR OVC005 12/12 A2998 RMK AO2 SFC VIS 1 1/4 LTG DSNT SE AND S RAE04B27DZB04E27 P0001 T01170117 $
KCVG 070217Z 08003KT 1 1/2SM -DZ BR OVC006 12/12 A2999 RMK AO2 LTG DSNT N AND S AND NW RAE04DZB04 CIG 004V007 P0001 T01170117 $
KCVG 070206Z 06003KT 2SM -DZ BR OVC007 12/12 A2998 RMK AO2 LTG DSNT N AND S AND NW RAE04DZB04 P0001 T01170117 $
KCVG 070152Z 00000KT 3SM -RA BR OVC008 12/12 A2999 RMK AO2 LTG DSNT NW SLP154 CIG 006V010 P0021 T01170117 $
KCVG 070145Z 00000KT 2SM -RA BR BKN008 OVC012 12/12 A2999 RMK AO2 LTG DSNT NW P0018 T01170117 $
KCVG 070127Z 00000KT 3SM -RA BR SCT005 BKN011 OVC018 12/12 A2999 RMK AO2 P0017 T01220122 $
KCVG 070115Z 00000KT 2 1/2SM R18C/4500VP6000FT -RA BR FEW004 SCT009 OVC018 12/12 A3000 RMK AO2 P0015 T01170117 $
KCVG 070108Z 33011KT 1 1/2SM R18C/4000VP6000FT +RA BR FEW011 OVC019 12/12 A3002 RMK AO2 PRESRR P0006 T01170117 $
KCVG 070059Z 00000KT 2SM +RA BR OVC019 12/12 A3000 RMK AO2 P0000 T01170117 $
KCVG 070052Z 17007KT 4SM -RA BR BKN021 OVC039 12/12 A2998 RMK AO2 SLP151 P0026 T01170117 $
KCVG 070011Z 20006KT 2SM +RA BR FEW003 SCT020 OVC045 12/12 A3000 RMK AO2 P0012 T01170117 $
KCVG 062357Z 19007KT 2SM R18C/6000VP6000FT RA BR SCT004 OVC022 12/12 A3002 RMK AO2 P0001 T01170117 $
KCVG 062352Z 20005KT 3SM RA BR SCT004 OVC021 12/12 A3001 RMK AO2 RAE13B32 SLP162 VIS NW-N 2 1/2 P0004 60006 T01170117 10117 20100 53009
KCVG 062338Z 19004KT 3SM -RA BR SCT005 OVC025 11/11 A3000 RMK AO2 RAE13B32 P0002 T01110111
KCVG 062324Z 19006KT 3SM BR SCT006 BKN031 OVC045 11/11 A3000 RMK AO2 SFC VIS 4 RAE13 P0002 T01110111
KCVG 062316Z 17007KT 3SM BR SCT004 BKN008 OVC045 11/11 A3000 RMK AO2 SFC VIS 4 RAE13 P0002 T01110111
KCVG 062252Z 20003KT 1 1/2SM -RA BR OVC006 12/12 A3000 RMK AO2 SFC VIS 2 1/2 RAB36 SLP159 P0002 T01170117
KCVG 062220Z 00000KT 1 1/2SM BR BKN005 OVC012 12/12 A2998 RMK AO2 SFC VIS 3 CIG 003V009 BKN V OVC T01170117
KCVG 062207Z 19004KT 1 1/2SM BR SCT006 OVC012 11/11 A2999 RMK AO2 SFC VIS 3 SFC VIS NW-N 2 1/2 T01110111
KCVG 062152Z 22004KT 1 1/2SM BR OVC004 12/12 A2999 RMK AO2 SFC VIS 4 SLP156 CIG 003V006 T01170117
KCVG 062144Z 23004KT 1 1/2SM BR OVC003 12/12 A3000 RMK AO2 SFC VIS 4 SFC VIS NW-N 2 1/2 T01170117
KCVG 062052Z 24006KT 1/4SM R18C/P6000FT BR OVC002 12/12 A2998 RMK AO2 SFC VIS 1 1/2 SLP153 60000 T01170117 53010
KCVG 061952Z 20005KT 1/4SM R18C/5000V5500FT BR OVC002 11/11 A2996 RMK AO2 SFC VIS 3/4 DZE03B21E36 SLP146 P0000 T01110111
KCVG 061852Z 00000KT 1/4SM R18C/4500V5000FT -DZ FG OVC002 11/11 A2995 RMK AO2 SFC VIS 1/2 DZE31B52RAB51E52 SLP142 P0000 T01060106
KCVG 061752Z 11004KT 1/4SM R18C/4000VP6000FT -DZ BR OVC003 10/10 A2995 RMK AO2 SFC VIS 1 1/4 RAB13E48DZB48 SLP142 P0000 60000 T01000100 10100 20078 58009
KCVG 061742Z 10004KT 1/4SM R18C/4000VP6000FT -RA BR OVC003 10/10 A2995 RMK AO2 SFC VIS 1 1/2 RAB13 P0000 T01000100
KCVG 061652Z 12004KT 1SM R18C/4000VP6000FT BR OVC004 10/10 A2997 RMK AO2 SFC VIS 3 DZE1558 SLP148 P0000 T01000100
KCVG 061621Z 10003KT 1SM R18C/P6000FT BR OVC003 09/09 A2998 RMK AO2 SFC VIS 5 DZE1558 P0000 T00940094
KCVG 061559Z 10006KT 1/2SM R18C/6000VP6000FT BR OVC003 09/09 A2998 RMK AO2 SFC VIS 1 3/4 DZE58 P0000 T00940094
KCVG 061552Z 10005KT 1/4SM R18C/3000VP6000FT -DZ BR OVC002 09/09 A2998 RMK AO2 SFC VIS 1 1/4 SLP152 P0000 T00890089
KCVG 061452Z 07004KT 1/4SM R18C/5000VP6000FT FG OVC002 09/09 A2998 RMK AO2 SFC VIS 1/2 SLP153 T00890089 53007
KCVG 061352Z 14004KT 1/4SM R18C/3000V3500FT FG VV002 08/08 A2998 RMK AO2 SLP151 T00830083
KCVG 061252Z 12004KT 1/4SM R18C/4500V5500FT BR VV002 08/08 A2996 RMK AO2 SFC VIS 1 SLP144 T00780078
KCVG 061152Z 12005KT 1/4SM R18C/P6000FT BR OVC002 08/08 A2996 RMK AO2 SFC VIS 2 SLP146 T00780078 10078 20067 53005 $
KCVG 061052Z 15005KT 1/2SM R18C/P6000FT BR OVC003 07/07 A2995 RMK AO2 SFC VIS 3 SLP144 T00720072 $
KCVG 060952Z 13006KT 1/2SM R18C/P6000FT BR OVC003 07/07 A2995 RMK AO2 SFC VIS 2 1/2 SLP141 T00720072 $
KCVG 060852Z 10004KT 1/4SM R18C/2800V3000FT FG VV002 07/07 A2995 RMK AO2 SFC VIS 1/2 SLP141 T00720072 50004 $
KCVG 060652Z 17005KT 1/4SM R18C/5500VP6000FT BR VV002 07/07 A2995 RMK AO2 SFC VIS 3/4 SLP141 T00670067 $
KCVG 060637Z 17005KT 3/4SM R18C/P6000FT BR OVC002 07/07 A2994 RMK AO2 TWR VIS 1 T00670067 $
KCVG 060552Z 15005KT 1SM R18C/P6000FT BR OVC002 07/07 A2994 RMK AO2 SLP137 T00670067 10067 20050 58003 $
KCVG 060452Z 16006KT 1SM R18C/P6000FT BR OVC003 07/07 A2995 RMK AO2 SFC VIS 2 SLP141 T00670067 400891039 $
KCVG 060424Z 16006KT 1SM R18C/P6000FT BR OVC003 07/07 A2994 RMK AO2 SFC VIS 2 T00670067 $
KCVG 060352Z 17006KT 4SM BR OVC005 07/06 A2994 RMK AO2 SLP141 T00670061 $
KCVG 060252Z 17007KT 6SM BR OVC005 06/06 A2994 RMK AO2 SLP142 T00610061 55000 $
KCVG 060224Z 17008KT 6SM BR OVC004 06/06 A2993 RMK AO2 T00610056 $
KCVG 060152Z 16008KT 6SM BR OVC005 06/06 A2993 RMK AO2 SLP141 T00560056 $
KCVG 060052Z 15007KT 7SM OVC007 05/04 A2994 RMK AO2 SLP141 T00500044 $
KCVG 060007Z 15009KT 9SM BKN008 OVC013 05/04 A2994 RMK AO2 T00500044 $
KCVG 052352Z 15009KT 6SM BR BKN010 OVC014 05/04 A2994 RMK AO2 RAB32E42 SLP144 P0000 60000 T00500044 10089 20050 55000 $
KCVG 052330Z 16009KT 5SM BR OVC014 06/03 A2995 RMK AO2 T00560033 $
KCVG 052252Z 15013KT 8SM OVC018 07/02 A2994 RMK AO2 SLP144 T00670022
KCVG 052152Z 17012KT 10SM SCT019 BKN029 OVC035 08/00 A2994 RMK AO2 CIG 021 36R SLP143 T00780000
KCVG 052052Z 18007KT 10SM OVC044 08/M03 A2995 RMK AO2 SLP144 T00831028 56008
KCVG 051952Z 19009KT 10SM OVC050 08/M03 A2995 RMK AO2 SLP146 T00831033
KCVG 051852Z 18007KT 10SM BKN060 BKN075 OVC250 09/M03 A2996 RMK AO2 SLP147 T00891033 $
KCVG 051752Z 18006KT 10SM SCT075 BKN160 BKN250 08/M03 A2997 RMK AO2 SLP153 T00781028 10078 21039 58024 $
KCVG 051652Z 15008KT 10SM BKN075 OVC250 06/M01 A3001 RMK AO2 SLP165 T00611011 $
KCVG 051552Z 18007KT 10SM FEW065 BKN300 04/M01 A3005 RMK AO2 SLP182 T00391011 $
KCVG 051452Z 16008KT 10SM SCT065 BKN300 01/M02 A3004 RMK AO2 SLP180 T00111017 $
KCVG 051352Z 17006KT 10SM FEW080 BKN300 M02/M03 A3004 RMK AO2 SLP180 T10171028 $
KCVG 051252Z COR 16006KT 9SM FEW080 BKN300 M03/M05 A3004 RMK AO2 SLP178 T10331050
KCVG 051152Z 16006KT 10SM FEW075 BKN250 M03/M06 A3006 RMK AO2 SLP186 T10331056 11017 21039 56004
KCVG 051052Z 15004KT 10SM BKN250 M03/M05 A3006 RMK AO2 SLP186 T10331050
KCVG 050952Z 16005KT 10SM BKN250 M02/M04 A3006 RMK AO2 SLP184 T10221044
KCVG 050852Z 16004KT 10SM SCT200 M02/M05 A3007 RMK AO2 SLP188 T10221050 58014
KCVG 050752Z 17004KT 10SM CLR M02/M06 A3009 RMK AO2 SLP195 T10221061
KCVG 050652Z 19005KT 10SM CLR M03/M07 A3010 RMK AO2 SLP198 T10331072
KCVG 050552Z 20004KT 10SM CLR M03/M09 A3011 RMK AO2 SLP203 T10281089 10017 21039 56009
KCVG 050452Z 19004KT 10SM CLR M02/M09 A3012 RMK AO2 SLP207 T10171089 400501067
KCVG 050352Z 18004KT 10SM CLR M03/M07 A3012 RMK AO2 SLP206 T10281072
KCVG 050252Z 19004KT 10SM CLR M03/M09 A3014 RMK AO2 SLP214 T10281094 58017
KCVG 050152Z 19005KT 10SM CLR M02/M10 A3017 RMK AO2 SLP224 T10171100
KCVG 050052Z 19004KT 10SM CLR 00/M10 A3018 RMK AO2 SLP227 T00001100
KCVG 042352Z 18003KT 10SM FEW250 02/M11 A3019 RMK AO2 SLP231 T00171106 10050 20006 55001
KCVG 042252Z 19004KT 10SM FEW250 01/M09 A3018 RMK AO2 SLP228 T00111094
KCVG 042152Z 20006KT 10SM FEW060 FEW250 03/M10 A3019 RMK AO2 SLP230 T00281100
KCVG 042052Z 23006KT 10SM FEW250 05/M11 A3020 RMK AO2 SLP232 T00501106 56024
KCVG 041952Z VRB05KT 10SM FEW150 FEW250 05/M09 A3020 RMK AO2 SLP233 T00501094
KCVG 041852Z 21005KT 10SM FEW150 SCT250 04/M10 A3022 RMK AO2 SLP240 T00441100
KCVG 041752Z 25005KT 10SM FEW150 SCT250 03/M10 A3027 RMK AO2 SLP257 T00281100 10028 21067 58024
KCVG 041652Z 23007KT 10SM FEW150 SCT250 01/M09 A3031 RMK AO2 SLP270 T00111094
KCVG 041552Z 22006KT 10SM FEW150 SCT250 M01/M08 A3034 RMK AO2 SLP282 T10061078
KCVG 041452Z 20005KT 10SM FEW150 SCT250 M03/M07 A3034 RMK AO2 SLP284 T10281072 58001
KCVG 041352Z 00000KT 10SM SCT150 BKN250 M05/M07 A3035 RMK AO2 SLP286 T10501072
KCVG 041252Z 31003KT 10SM SCT150 SCT250 M06/M09 A3035 RMK AO2 SLP284 T10611089
KCVG 041152Z 34004KT 10SM BKN250 M06/M09 A3035 RMK AO2 SLP285 T10561089 11022 21056 55008
KCVG 041052Z 00000KT 10SM BKN250 M04/M08 A3033 RMK AO2 SLP279 T10441083
KCVG 040952Z VRB04KT 10SM BKN250 M04/M09 A3034 RMK AO2 SLP280 T10391094
KCVG 040852Z 36005KT 10SM BKN250 M04/M09 A3037 RMK AO2 SLP290 T10441089 56013
KCVG 040752Z 36006KT 10SM BKN250 M04/M08 A3038 RMK AO2 SLP294 T10391083
KCVG 040652Z 35007KT 10SM BKN250 M03/M08 A3039 RMK AO2 SLP298 T10331078
KCVG 040552Z 34007KT 10SM BKN250 M03/M07 A3041 RMK AO2 SLP304 T10281072 10011 21028 58004
KCVG 040452Z 34008KT 10SM SCT250 M02/M07 A3042 RMK AO2 SLP306 T10221067 401281028
KCVG 040352Z 33008KT 10SM FEW250 M02/M06 A3042 RMK AO2 SLP306 T10171056
KCVG 040252Z 29005KT 10SM SCT250 M02/M06 A3042 RMK AO2 SLP307 T10221056 53006
KCVG 040152Z 00000KT 10SM SCT250 M02/M06 A3041 RMK AO2 SLP301 T10171056
KCVG 040052Z 00000KT 10SM SCT250 00/M05 A3041 RMK AO2 SLP300 T00001050
KCVG 032352Z 31007KT 10SM SCT250 01/M05 A3041 RMK AO2 SLP298 T00111050 10072 20011 51018
KCVG 032252Z 31008KT 10SM SCT250 03/M05 A3039 RMK AO2 SLP293 T00281050
KCVG 032152Z 30010KT 10SM SCT250 04/M05 A3037 RMK AO2 SLP285 T00441050
KCVG 032052Z 28011KT 10SM FEW250 06/M04 A3035 RMK AO2 SLP279 T00611039 53020
KCVG 031952Z 30015G18KT 10SM CLR 07/M04 A3033 RMK AO2 SLP271 T00671039
KCVG 031852Z 29015KT 10SM FEW150 07/M03 A3031 RMK AO2 SLP265 T00721033
KCVG 031752Z 28016KT 10SM CLR 07/M03 A3029 RMK AO2 PK WND 29026/1730 SLP258 60000 T00671033 10128 20061 51031
KCVG 031652Z 28014G23KT 10SM CLR 07/M02 A3028 RMK AO2 SLP253 T00671022
KCVG 031552Z 29020KT 10SM FEW050 07/M02 A3025 RMK AO2 RAE23 SLP243 P0000 T00671017
KCVG 031452Z 30014KT 10SM -RA SCT038 SCT048 07/01 A3020 RMK AO2 PK WND 30028/1357 SLP226 P0000 60000 T00720011 51054
KCVG 031441Z 30013KT 10SM -RA SCT038 BKN048 07/01 A3020 RMK AO2 PK WND 30028/1357 P0000 T00670006
KCVG 031352Z 29020G31KT 10SM -RA BKN020 OVC026 08/04 A3016 RMK AO2 PK WND 31036/1329 WSHFT 1321 RAB27 SLP213 P0000 T00830044
KCVG 031336Z 31025G36KT 8SM -RA SCT013 OVC021 09/07 A3015 RMK AO2 PK WND 31036/1329 WSHFT 1321 RAB27 PRESRR P0000 T00890067
KCVG 031252Z 25011G18KT 10SM BKN018 OVC022 13/11 A3007 RMK AO2 SLP182 T01280106
KCVG 031152Z 26014G21KT 10SM BKN017 OVC023 13/11 A3004 RMK AO2 SLP169 60008 70011 T01280111 10128 20111 53019
KCVG 031052Z 25012G21KT 10SM FEW009 BKN015 OVC019 13/12 A3000 RMK AO2 RAE03 SLP158 P0000 T01280117
KCVG 031017Z 24015G23KT 10SM SCT009 BKN015 OVC021 13/12 A3000 RMK AO2 RAE03 CIG 007 36R P0000 T01280122
KCVG 030952Z 22011KT 3SM -RA BR BKN007 OVC014 12/12 A2999 RMK AO2 SLP152 P0001 T01220122
KCVG 030852Z 22011KT 4SM -RA BR OVC007 12/11 A2998 RMK AO2 RAE36B45 SLP148 P0002 60007 T01170111 50002
KCVG 030836Z 21013G19KT 5SM BR OVC008 12/11 A2998 RMK AO2 RAE36 P0002 T01170111
KCVG 030752Z 21011G19KT 3SM -RA BR BKN011 OVC016 11/11 A2998 RMK AO2 RAB0659 SLP149 P0004 T01110106
KCVG 030748Z 21013G19KT 4SM -RA BR BKN011 OVC016 11/11 A2998 RMK AO2 RAB0659 P0003
KCVG 030736Z 21013G20KT 4SM -RA BR SCT011 OVC017 11/11 A2998 RMK AO2 RAB0659 P0003 T01110106
KCVG 030731Z 21012G20KT 3SM -RA BR BKN014 OVC019 11/11 A2998 RMK AO2 RAB0659 P0003 T01110106
KCVG 030652Z 21013G24KT 6SM BR BKN021 OVC027 11/10 A2997 RMK AO2 RAE52 SLP147 P0001 T01110100
KCVG 030617Z 21013G21KT 7SM -RA OVC029 12/09 A2997 RMK AO2 P0001 T01170089
KCVG 030552Z 21013G23KT 8SM -RA OVC033 12/08 A2996 RMK AO2 PK WND 21028/0525 SLP145 P0001 60001 T01170083 10122 20106 55004
KCVG 030452Z 20018G29KT 10SM -RA OVC034 12/08 A2996 RMK AO2 PK WND 22029/0444 SLP143 P0000 T01220078 401501022
KCVG 030352Z 20014G23KT 10SM -RA BKN038 OVC045 12/08 A2998 RMK AO2 RAB11E27B48 SLP152 P0000 T01170083
KCVG 030252Z 19019G25KT 10SM OVC038 12/07 A2998 RMK AO2 PK WND 18031/0208 RAE04B36E52 SLP150 P0000 60000 T01220072 58023
KCVG 030152Z 19019G32KT 9SM -RA OVC043 12/07 A3001 RMK AO2 PK WND 19032/0150 RAE21B45 SLP161 P0000 T01170072
KCVG 030052Z 19015G21KT 10SM -RA BKN055 OVC070 11/07 A3004 RMK AO2 SLP173 P0000 T01110072
KCVG 022352Z 18013KT 8SM -RA FEW055 SCT080 OVC100 11/06 A3005 RMK AO2 RAB31 SLP176 P0002 60002 T01110061 10150 20100 56009
KCVG 022252Z 18016KT 10SM BKN075 OVC100 13/02 A3005 RMK AO2 RAB07E12 SLP177 P0000 T01280022
KCVG 022152Z 19014G25KT 10SM FEW080 BKN095 OVC250 13/00 A3006 RMK AO2 PK WND 20029/2139 SLP181 T01330000
KCVG 022052Z 20018G26KT 10SM SCT095 OVC250 13/M02 A3007 RMK AO2 PK WND 18026/2045 SLP184 T01331022 56026
KCVG 021952Z 19016G24KT 10SM SCT110 BKN250 14/M02 A3008 RMK AO2 SLP187 T01441022
KCVG 021852Z 19014G22KT 10SM SCT100 BKN130 BKN250 13/M02 A3011 RMK AO2 SLP198 T01281017
KCVG 021752Z 20014G22KT 10SM FEW065 OVC100 10/M03 A3015 RMK AO2 RAB1653E02 SLP213 P0000 60000 T01001028 10100 20011 58035
KCVG 021652Z 21011KT 10SM FEW080 BKN100 OVC130 08/M03 A3021 RMK AO2 SLP232 T00831033
KCVG 021552Z 20012KT 10SM OVC090 07/M04 A3025 RMK AO2 SLP246 T00721039
KCVG 021452Z 19011KT 10SM BKN095 OVC250 06/M04 A3026 RMK AO2 SLP251 T00561044 58007
KCVG 021352Z 18010KT 10SM SCT090 BKN110 BKN250 03/M06 A3027 RMK AO2 SLP255 T00331056
KCVG 021252Z 18007KT 10SM BKN090 OVC110 02/M06 A3029 RMK AO2 SLP262 BINOVC T00171061
KCVG 021152Z 17007KT 10SM OVC110 01/M06 A3028 RMK AO2 SLP259 T00111061 10017 21017 56006
KCVG 021052Z 17009KT 10SM OVC110 01/M07 A3029 RMK AO2 SLP261 T00111067
KCVG 020952Z 17009KT 10SM OVC100 01/M07 A3029 RMK AO2 SLP261 T00061067
KCVG 020852Z 14008KT 10SM OVC095 01/M07 A3030 RMK AO2 SLP266 T00061072 56013
KCVG 020752Z 15009KT 10SM OVC095 00/M07 A3031 RMK AO2 SLP269 T00001072
KCVG 020652Z 16008KT 10SM CLR M02/M08 A3032 RMK AO2 SLP273 T10171078

KDCA 070636Z 18008KT 8SM BKN009 OVC015 11/09 A3020 RMK AO2 T01060094
KDCA 070552Z 20005KT 9SM OVC011 11/10 A3021 RMK AO2 RAE05 SLP229 P0000 60000 T01060100 10106 20089 55003
KDCA 070508Z 18006KT 10SM SCT007 OVC013 10/09 A3021 RMK AO2 RAE05 P0000 T01000094
KDCA 070452Z 19005KT 8SM -RA OVC007 11/09 A3021 RMK AO2 DZE01RAB50 SLP229 P0000 T01060094 401060028
KDCA 070410Z 20006KT 9SM BKN008 OVC014 11/09 A3021 RMK AO2 DZE01 P0000 T01060094
KDCA 070352Z 19008KT 5SM -DZ BR OVC014 10/09 A3022 RMK AO2 RAE0256DZB48 SLP232 P0000 T01000094
KDCA 070322Z 18007KT 9SM OVC014 10/09 A3022 RMK AO2 RAE0256 P0000 T01000089
KDCA 070303Z 19006KT 9SM OVC015 10/09 A3022 RMK AO2 RAE0256 P0000 T01000089
KDCA 070252Z 19006KT 9SM -RA FEW011 OVC014 10/09 A3022 RMK AO2 RAB43 SLP233 P0000 60000 T01000089 58001
KDCA 070236Z 19007KT 10SM FEW011 OVC014 10/09 A3021 RMK AO2 T01000089
KDCA 070152Z 20008KT 9SM FEW006 OVC018 10/09 A3022 RMK AO2 RAE24 SLP232 P0000 T01000089
KDCA 070113Z 19009KT 6SM -RA BR SCT006 OVC022 09/08 A3022 RMK AO2 P0000 T00940083
KDCA 070052Z 18008KT 5SM -RA BR BKN006 OVC019 09/08 A3023 RMK AO2 DZB08E42RAB42 SLP236 P0000 T00890083
KDCA 070042Z 18010KT 4SM -RA BR BKN007 OVC019 09/08 A3023 RMK AO2 DZB08E42RAB42 P0000 T00890083
KDCA 070018Z 19008KT 4SM -DZ BR SCT009 BKN017 OVC025 09/08 A3023 RMK AO2 DZB08 P0000 T00890083
KDCA 070016Z 19008KT 3SM -DZ BR BKN009 BKN017 OVC025 09/08 A3023 RMK AO2 DZB08 P0000 T00890083
KDCA 070008Z 18009KT 4SM -DZ BR BKN010 OVC015 09/08 A3023 RMK AO2 DZB08 P0000 T00890083
KDCA 062352Z 18008KT 8SM FEW006 SCT015 OVC020 09/08 A3022 RMK AO2 RAE24 SLP234 P0001 60006 T00890083 10089 20083 51003
KDCA 062252Z 18007KT 5SM -RA BR SCT006 BKN020 OVC024 09/08 A3022 RMK AO2 SLP234 P0003 T00890078
KDCA 062236Z 18007KT 5SM -RA BR SCT006 BKN012 OVC024 09/08 A3022 RMK AO2 P0003 T00890078
KDCA 062152Z 18006KT 5SM -RA BR OVC011 09/08 A3022 RMK AO2 DZE50RAB50 SLP233 P0001 T00890078
KDCA 062052Z 18006KT 4SM -DZ BR OVC010 08/08 A3022 RMK AO2 SLP231 P0000 60001 T00830078 55006
KDCA 061952Z 18006KT 5SM -DZ BR FEW006 OVC010 08/07 A3021 RMK AO2 DZE19B41 SLP231 P0000 T00830072
KDCA 061941Z 18006KT 6SM -DZ BR OVC010 08/07 A3021 RMK AO2 DZE19B41 P0000 T00830072
KDCA 061931Z 21005KT 6SM BR OVC008 08/07 A3022 RMK AO2 DZE19 P0000 T00830072
KDCA 061900Z 18005KT 4SM -DZ BR BKN007 BKN012 OVC028 08/08 A3022 RMK AO2 P0000 T00830078
KDCA 061852Z 19005KT 3SM -DZ BR SCT004 BKN012 OVC040 08/07 A3022 RMK AO2 SLP232 P0001 T00830072
KDCA 061842Z 18005KT 2 1/2SM -DZ BR SCT004 BKN028 OVC040 08/07 A3022 RMK AO2 P0001 T00830072
KDCA 061832Z 20005KT 2SM -DZ BR BKN004 BKN012 OVC040 08/07 A3022 RMK AO2 P0001 T00830072
KDCA 061752Z 00000KT 1 3/4SM -DZ BR FEW004 OVC012 08/07 A3023 RMK AO2 DZB30 SLP238 P0000 60011 T00830072 10083 20056 58012
KDCA 061738Z 14004KT 1 1/2SM -DZ BR FEW006 OVC012 08/07 A3024 RMK AO2 DZB30 P0000 T00780072
KDCA 061730Z 13003KT 2SM -DZ BR FEW006 OVC013 08/07 A3024 RMK AO2 DZB30 P0000 T00780067
KDCA 061652Z 00000KT 3SM BR FEW008 OVC013 07/07 A3025 RMK AO2 RAE03 SLP244 P0000 T00720067
KDCA 061552Z 00000KT 3SM -RA BR FEW006 OVC013 08/06 A3026 RMK AO2 DZE14B22E38RAB46 SLP246 P0000 T00780061
KDCA 061528Z 00000KT 3SM -DZ BR FEW006 OVC014 07/06 A3026 RMK AO2 DZE14B22 P0000 T00720061
KDCA 061516Z 00000KT 3SM BR BKN014 OVC035 07/06 A3027 RMK AO2 DZE14 BKN V SCT P0000 T00670061
KDCA 061452Z 06003KT 2 1/2SM -DZ BR BKN016 OVC034 06/06 A3027 RMK AO2 RAE51DZB51 SLP250 BKN V SCT P0006 60011 T00610056 50008
KDCA 061438Z 06006KT 2 1/2SM -RA BR SCT014 BKN027 OVC032 06/05 A3027 RMK AO2 P0006 T00610050
KDCA 061427Z 05004KT 2 1/2SM -RA BR BKN013 BKN025 OVC035 06/05 A3028 RMK AO2 P0005 T00610050
KDCA 061417Z 04004KT 2SM -RA BR SCT017 BKN028 OVC035 06/05 A3028 RMK AO2 P0004 T00610050
KDCA 061352Z 05004KT 1 1/4SM RA BR BKN015 OVC040 06/05 A3028 RMK AO2 SLP252 P0005 T00610050
KDCA 061304Z 07005KT 1 1/2SM -RA BR OVC014 06/04 A3027 RMK AO2 P0000 T00610044
KDCA 061252Z 00000KT 5SM -RA BR OVC014 06/04 A3027 RMK AO2 DZB33E43RAB46 SLP249 P0000 T00610039
KDCA 061235Z 00000KT 9SM -DZ OVC014 06/04 A3027 RMK AO2 DZB33 P0000 T00610039
KDCA 061152Z 04004KT 10SM OVC016 06/03 A3025 RMK AO2 SLP241 60000 T00560033 10056 20028 55001
KDCA 061052Z 05006KT 10SM OVC018 05/03 A3024 RMK AO2 RAB03E23 SLP238 P0000 T00500028
KDCA 060952Z 05003KT 10SM OVC019 05/02 A3024 RMK AO2 RAB0853E17 SLP240 P0000 T00500022
KDCA 060852Z 36003KT 10SM OVC022 05/02 A3025 RMK AO2 SLP242 T00500022 58002
KDCA 060745Z 02004KT 10SM BKN027 BKN034 OVC100 04/01 A3027 RMK AO2 T00440011
KDCA 060718Z 02003KT 10SM BKN033 OVC095 03/01 A3026 RMK AO2 T00330011
KDCA 060652Z 04003KT 10SM BKN027 BKN140 OVC200 04/01 A3026 RMK AO2 SLP246 T00390011
KDCA 060634Z 02003KT 10SM BKN027 BKN140 OVC200 03/01 A3026 RMK AO2 T00330006
KDCA 060552Z 02003KT 10SM FEW140 BKN200 04/01 A3025 RMK AO2 SLP244 T00390006 10067 20028 57004
KDCA 060452Z 00000KT 10SM BKN200 04/01 A3025 RMK AO2 SLP243 T00390006 401061006
KDCA 060352Z 00000KT 10SM SCT250 06/01 A3027 RMK AO2 SLP248 T00560011
KDCA 060252Z 00000KT 10SM SCT250 05/00 A3026 RMK AO2 SLP248 T00500000 50004
KDCA 060152Z 15003KT 10SM SCT250 05/M01 A3028 RMK AO2 SLP251 T00501011
KDCA 060052Z 18004KT 10SM SCT250 06/M02 A3027 RMK AO2 SLP248 T00611017
KDCA 052352Z 00000KT 10SM SCT250 07/M03 A3025 RMK AO2 SLP244 T00671033 10106 20056 53005
KDCA 052252Z 12004KT 10SM SCT250 07/M03 A3025 RMK AO2 SLP243 T00721033
KDCA 052152Z 18007KT 10SM BKN250 07/M03 A3024 RMK AO2 SLP239 T00721033
KDCA 052052Z 19009KT 10SM BKN250 09/M06 A3024 RMK AO2 SLP239 T00891056 55003
KDCA 051952Z 19009KT 10SM SCT250 10/M03 A3023 RMK AO2 SLP237 T01001028 $
KDCA 051852Z 19007KT 10SM SCT240 10/M02 A3023 RMK AO2 SLP236 T01001017 $
KDCA 051752Z 20008KT 10SM BKN240 09/M01 A3025 RMK AO2 SLP242 T00941011 10094 20000 58017 $
KDCA 051652Z 19007KT 10SM BKN250 08/00 A3027 RMK AO2 SLP250 T00780000 $
KDCA 051552Z 18006KT 10SM BKN250 06/01 A3029 RMK AO2 SLP257 T00560006 $
KDCA 051452Z 17003KT 10SM BKN250 04/01 A3030 RMK AO2 SLP259 T00390006 51012 $
KDCA 051352Z 00000KT 9SM BKN250 03/00 A3029 RMK AO2 SLP256 T00330000 $
KDCA 051252Z 00000KT 10SM FEW200 BKN250 02/M02 A3028 RMK AO2 SLP252 T00171017 $
KDCA 051152Z 00000KT 10SM BKN200 00/M03 A3026 RMK AO2 SLP247 T00001028 10011 21006 51014 $
KDCA 051052Z 00000KT 10SM CLR 00/M02 A3025 RMK AO2 SLP242 T00001022 $
KDCA 050952Z 18003KT 10SM CLR 00/M03 A3024 RMK AO2 SLP240 T00001033 $
KDCA 050852Z 24003KT 10SM CLR M01/M04 A3022 RMK AO2 SLP234 T10061039 50002 $
KDCA 050752Z 00000KT 10SM FEW200 00/M03 A3023 RMK AO2 SLP234 T00001028 $
KDCA 050652Z 00000KT 10SM FEW200 01/M03 A3022 RMK AO2 SLP231 T00061028 $
KDCA 050552Z 00000KT 10SM FEW250 01/M02 A3022 RMK AO2 SLP232 T00061022 10056 20006 58006 $
KDCA 050452Z 00000KT 10SM CLR 03/M02 A3022 RMK AO2 SLP234 T00281017 400890011 $
KDCA 050352Z 00000KT 10SM CLR 02/M03 A3023 RMK AO2 SLP237 T00221028 $
KDCA 050252Z 24003KT 10SM CLR 02/M03 A3023 RMK AO2 SLP237 T00171028 51004 $
KDCA 050152Z 00000KT 10SM CLR 03/M03 A3023 RMK AO2 SLP237 T00331033 $
KDCA 050052Z 00000KT 10SM FEW250 05/M02 A3024 RMK AO2 SLP241 T00501022 $
KDCA 042352Z 18006KT 10SM FEW250 05/M04 A3022 RMK AO2 SLP233 T00501044 10089 20039 50000 $
KDCA 042252Z 13003KT 10SM FEW250 06/M03 A3024 RMK AO2 SLP239 T00611028 $
KDCA 042152Z 00000KT 10SM FEW250 06/M04 A3022 RMK AO2 SLP232 T00611044 $
KDCA 042052Z 02004KT 10SM FEW250 08/M07 A3022 RMK AO2 SLP233 T00781067 58009 $
KDCA 041952Z 28007KT 10SM SCT250 08/M07 A3023 RMK AO2 SLP238 T00831067 $
KDCA 041852Z 34004KT 10SM BKN250 08/M06 A3024 RMK AO2 SLP238 T00781056 $
KDCA 041752Z 36008KT 10SM BKN250 07/M04 A3025 RMK AO2 SLP242 T00721044 10078 20022 56021 $
KDCA 041652Z 32009KT 10SM BKN250 08/M04 A3026 RMK AO2 SLP247 T00781044 $
KDCA 041552Z 33004KT 10SM BKN250 07/M04 A3029 RMK AO2 SLP257 T00671039 $
KDCA 041452Z 33009KT 10SM BKN250 06/M04 A3031 RMK AO2 SLP263 T00561039 53005 $
KDCA 041352Z 34010KT 10SM BKN250 04/M04 A3030 RMK AO2 SLP260 T00441039 $
KDCA 041252Z 36008KT 10SM SCT250 03/M03 A3030 RMK AO2 SLP258 T00331033 $
KDCA 041152Z 01009KT 10SM FEW250 03/M03 A3029 RMK AO2 SLP258 70028 T00281033 10072 20028 53007 $
KDCA 041052Z 36010KT 10SM CLR 03/M03 A3027 RMK AO2 SLP250 T00331033 $
KDCA 040952Z 35013KT 10SM CLR 04/M04 A3027 RMK AO2 SLP250 T00391039 $
KDCA 040852Z 34011KT 10SM CLR 04/M03 A3027 RMK AO2 SLP251 T00441033 50008 $
KDCA 040752Z 33011KT 10SM CLR 05/M03 A3029 RMK AO2 SLP255 T00501028 $
KDCA 040652Z 34008KT 10SM FEW250 06/M01 A3028 RMK AO2 SLP251 T00561011 $
KDCA 040552Z 34008KT 10SM FEW250 06/M01 A3025 RMK AO2 SLP243 T00561006 10156 20056 50004 $
KDCA 040452Z 34006KT 10SM FEW110 SCT250 07/01 A3026 RMK AO2 SLP245 T00720006 401670072 $
KDCA 040352Z 34012KT 10SM FEW047 SCT110 09/02 A3025 RMK AO2 SLP245 T00940017 $
KDCA 040252Z 36011KT 10SM FEW042 SCT100 11/02 A3024 RMK AO2 PK WND 34026/0207 SLP239 T01060022 53036 $
KDCA 040152Z 34014G27KT 10SM FEW037 SCT095 13/M01 A3021 RMK AO2 PK WND 32029/0100 SLP228 T01281006 $
KDCA 040052Z 32018G26KT 10SM FEW032 SCT090 14/M01 A3016 RMK AO2 PK WND 31026/0052 SLP212 T01441011 $
KDCA 032352Z 29006KT 10SM FEW027 SCT045 BKN090 16/11 A3013 RMK AO2 RAE2257 SLP203 P0000 60000 T01560106 10167 20144 53030 $
KDCA 032252Z 26005KT 10SM -RA SCT027 BKN045 OVC090 16/12 A3010 RMK AO2 RAB45 SLP194 P0000 T01610117 $
KDCA 032152Z 20011KT 10SM FEW027 BKN065 BKN085 BKN250 16/12 A3006 RMK AO2 SLP178 T01560117 $
KDCA 032052Z 20012KT 10SM FEW022 BKN080 BKN250 16/12 A3004 RMK AO2 SLP173 T01610117 55009 $
KDCA 031952Z 20015G22KT 10SM FEW017 BKN090 BKN250 16/12 A3004 RMK AO2 PK WND 20026/1900 SLP171 T01610117 $
KDCA 031852Z 21014G23KT 10SM FEW016 SCT085 BKN250 17/12 A3004 RMK AO2 PK WND 22029/1818 SLP171 T01670122 $
KDCA 031752Z 20015G23KT 10SM FEW016 BKN085 16/12 A3007 RMK AO2 SLP182 60028 T01560122 10156 20106 56036 $
KDCA 031726Z 21014G25KT 10SM SCT014 OVC085 14/12 A3008 RMK AO2 T01440122 $
KDCA 031652Z 20016G24KT 10SM BKN010 OVC015 14/12 A3010 RMK AO2 SLP194 T01390117 $
KDCA 031620Z 20018KT 10SM BKN010 13/11 A3013 RMK AO2 T01280111 $
KDCA 031552Z 20015G23KT 10SM OVC009 12/11 A3014 RMK AO2 RAE46 SLP206 P0003 T01220111 $
KDCA 031452Z 19016G24KT 8SM -RA BKN009 BKN012 OVC019 12/11 A3018 RMK AO2 SLP219 P0005 60025 T01170106 58009 $
KDCA 031431Z 20012G21KT 5SM VCTS -RA BR BKN009 OVC017 12/11 A3018 RMK AO2 P0004 T01170106 $
KDCA 031412Z 19010KT 6SM -RA BR OVC009 12/11 A3019 RMK AO2 P0001 T01170106 $
KDCA 031352Z 19010KT 4SM -RA BR BKN010 BKN015 OVC022 11/10 A3020 RMK AO2 SLP225 P0012 T01060100 $
KDCA 031349Z 18010KT 3SM RA BR BKN010 BKN017 OVC031 11/10 A3020 RMK AO2 P0011 $
KDCA 031347Z 18011KT 2 1/2SM RA BR SCT010 BKN017 OVC023 11/09 A3020 RMK AO2 P0011 $
KDCA 031252Z 18012KT 10SM -RA BKN022 OVC075 11/09 A3020 RMK AO2 SLP228 P0008 T01060094 $
KDCA 031152Z 23008KT 10SM -RA BKN021 OVC075 12/09 A3025 RMK AO2 RAB15 SLP244 P0002 60003 70003 T01220094 10122 20089 53007 $
KDCA 031150Z 23010KT 10SM -RA BKN021 OVC075 12/09 A3025 RMK AO2 RAB15 P0002 $
KDCA 031052Z 19012KT 10SM SCT085 OVC110 12/09 A3021 RMK AO2 RAB0954E37 SLP228 P0000 T01170089 $
KDCA 031007Z 19010KT 10SM -RA SCT024 BKN090 OVC110 11/08 A3022 RMK AO2 RAB0954 P0000 T01110083 $
KDCA 030952Z 19010KT 10SM BKN024 OVC100 10/08 A3023 RMK AO2 SLP237 T01000078 $
KDCA 030939Z 19010KT 10SM BKN024 BKN100 OVC120 10/07 A3024 RMK AO2 T01000072 $
KDCA 030852Z 22006KT 10SM SCT029 OVC110 09/06 A3026 RMK AO2 RAE01B25E46 SLP245 P0001 60001 T00940061 56022 $
KDCA 030850Z 21007KT 10SM SCT029 OVC110 09/06 A3026 RMK AO2 RAE01B25E46 P0001 $
KDCA 030752Z 19008KT 10SM -RA OVC028 09/05 A3030 RMK AO2 RAB00E12B46 SLP259 P0000 T00940050 $
KDCA 030724Z 18010KT 10SM BKN028 BKN060 OVC100 09/04 A3030 RMK AO2 RAB00E12 P0000 T00940044 $
KDCA 030652Z 20009KT 10SM BKN031 OVC120 10/03 A3032 RMK AO2 SLP267 T01000033 $
KDCA 030552Z 22012KT 10SM BKN032 OVC120 10/02 A3035 RMK AO2 SLP278 T01000022 10100 20072 58009 $
KDCA 030452Z 19009KT 10SM OVC043 09/01 A3036 RMK AO2 SLP281 T00940011 401001011 $
KDCA 030352Z 19007KT 10SM BKN120 BKN170 BKN250 07/02 A3038 RMK AO2 SLP286 T00720022 $
KDCA 030252Z 19008KT 10SM BKN120 BKN160 BKN250 07/01 A3038 RMK AO2 SLP287 T00720011 58018 $
KDCA 030152Z 18009KT 10SM FEW130 BKN160 BKN250 08/M01 A3041 RMK AO2 SLP296 T00781006 $
KDCA 030052Z 16005KT 10SM SCT130 BKN160 BKN250 07/M02 A3042 RMK AO2 SLP300 T00721017 $
KDCA 022352Z 16007KT 10SM BKN130 BKN250 08/M02 A3043 RMK AO2 SLP305 T00781022 10100 20078 58004 $
KDCA 022252Z 16007KT 10SM BKN140 BKN250 08/M02 A3044 RMK AO2 SLP308 T00831022 $
KDCA 022152Z 15006KT 10SM SCT130 BKN250 09/M03 A3044 RMK AO2 SLP308 T00891028 $
KDCA 022052Z 19006KT 10SM BKN130 BKN250 10/M01 A3044 RMK AO2 SLP309 T01001011 56010 $
KDCA 021952Z 19006KT 10SM BKN130 BKN250 09/M02 A3045 RMK AO2 SLP310 T00941022 $
KDCA 021852Z 21011G19KT 10SM BKN130 BKN250 10/M05 A3046 RMK AO2 SLP315 T01001050 $
KDCA 021752Z 17008KT 10SM BKN130 BKN250 09/M02 A3047 RMK AO2 SLP319 T00941017 10100 21011 58031 $
KDCA 021652Z 17009KT 10SM SCT110 SCT250 08/M01 A3051 RMK AO2 SLP331 T00831006 $
KDCA 021552Z 17008KT 10SM SCT110 SCT250 07/M01 A3055 RMK AO2 SLP345 T00671006 $
KDCA 021452Z 19003KT 10SM FEW120 SCT250 04/M02 A3057 RMK AO2 SLP350 T00391017 50001 $
KDCA 021352Z 00000KT 10SM SCT130 BKN250 02/M03 A3058 RMK AO2 SLP353 T00221033 $
KDCA 021252Z 00000KT 10SM FEW140 FEW200 01/M04 A3058 RMK AO2 SLP355 T00111039 $
KDCA 021152Z 05005KT 10SM FEW140 FEW200 M01/M04 A3057 RMK AO2 SLP350 T10111044 10022 21011 51013 $
KDCA 021052Z 06005KT 10SM FEW200 00/M04 A3056 RMK AO2 SLP347 T00001039 $
KDCA 020952Z 05004KT 10SM FEW200 00/M04 A3055 RMK AO2 SLP343 T00001044 $
KDCA 020852Z 03004KT 10SM FEW200 01/M04 A3053 RMK AO2 SLP337 T00111039 58004 $
KDCA 020752Z 03004KT 10SM FEW200 01/M04 A3053 RMK AO2 SLP338 T00111044 $
KDCA 020652Z 05004KT 10SM FEW200 02/M06 A3054 RMK AO2 SLP342 T00171056 $

KDEN 070553Z 15010KT 10SM FEW160 M03/M11 A3002 RMK AO2 SLP163 T10331111 10072 21056 51010
KDEN 070453Z 17007KT 10SM FEW160 M01/M11 A3001 RMK AO2 SLP159 T10111106
KDEN 070353Z 16009KT 10SM FEW130 M01/M11 A3000 RMK AO2 SLP163 T10061111
KDEN 070253Z 16009KT 10SM FEW130 M01/M11 A2999 RMK AO2 SLP169 T10061111 51018
KDEN 070153Z 15010KT 10SM FEW130 00/M12 A2997 RMK AO2 SLP164 T00001117
KDEN 070053Z 30007KT 10SM FEW090 FEW120 FEW220 06/M11 A2995 RMK AO2 SLP142 T00561111
KDEN 062353Z 30009KT 10SM FEW090 FEW120 SCT220 07/M12 A2992 RMK AO2 SLP131 T00721117 10122 20072 53018
KDEN 062253Z 32012KT 10SM FEW120 SCT220 10/M12 A2990 RMK AO2 SLP114 T01001122
KDEN 062153Z 31016G25KT 10SM FEW090 FEW120 SCT220 12/M12 A2987 RMK AO2 PK WND 31026/2105 SLP100 T01171122
KDEN 062053Z 29011KT 10SM FEW090 FEW120 SCT220 12/M11 A2986 RMK AO2 SLP099 T01221111 55006
KDEN 061953Z 27013KT 10SM FEW090 FEW120 SCT220 12/M10 A2985 RMK AO2 SLP099 T01171100
KDEN 061853Z 28011KT 10SM FEW090 FEW120 SCT220 10/M08 A2986 RMK AO2 SLP103 T01001083
KDEN 061753Z 27012KT 10SM FEW090 FEW120 FEW200 09/M07 A2988 RMK AO2 SLP111 T00891072 10089 21033 50002
KDEN 061653Z 24009KT 10SM CLR 06/M05 A2990 RMK AO2 SLP122 T00611050
KDEN 061553Z 23010KT 10SM FEW090 FEW120 FEW200 02/M04 A2989 RMK AO2 SLP124 T00221039
KDEN 061453Z 23010KT 10SM FEW070 FEW120 FEW220 M02/M05 A2987 RMK AO2 SLP125 T10171050 53006
KDEN 061353Z 21011KT 10SM FEW060 FEW090 FEW220 M03/M06 A2986 RMK AO2 SLP119 T10281056
KDEN 061253Z 21012KT 10SM FEW100 M03/M05 A2986 RMK AO2 SLP118 T10281050
KDEN 061153Z 23011KT 10SM SCT060 SCT095 M03/M05 A2985 RMK AO2 SLP112 T10331050 11006 21044 51012
KDEN 061053Z 27005KT 10SM FEW060 M03/M04 A2985 RMK AO2 SLP102 T10281044
KDEN 060953Z 31010KT 10SM FEW004 M02/M03 A2986 RMK AO2 SLP100 T10221033
KDEN 060942Z 32010KT 10SM FEW004 M02/M04 A2985 RMK AO2 T10221039
KDEN 060913Z 33009KT 10SM BKN004 M03/M05 A2985 RMK AO2 PRESRR T10281050
KDEN 060858Z 36009KT 10SM BKN006 BKN060 M04/M06 A2982 RMK AO2 T10391061
KDEN 060853Z 36009KT 10SM FEW060 FEW100 M04/M06 A2981 RMK AO2 SLP088 T10391061 53011
KDEN 060753Z 27007KT 10SM FEW100 FEW220 M04/M07 A2979 RMK AO2 SLP079 T10391067
KDEN 060653Z 13007KT 10SM FEW100 FEW220 M03/M06 A2978 RMK AO2 SLP073 T10281061 401391033
KDEN 060553Z 11010KT 10SM FEW100 FEW220 M02/M06 A2978 RMK AO2 SLP067 T10221056 10050 21033 58007
KDEN 060453Z 12006KT 10SM FEW220 M02/M06 A2979 RMK AO2 SLP068 T10221061
KDEN 060353Z 17005KT 10SM FEW220 M01/M06 A2980 RMK AO2 SLP082 T10061056
KDEN 060253Z 12010KT 10SM FEW110 FEW220 02/M06 A2980 RMK AO2 SLP083 T00171056 51002
KDEN 060153Z 12011KT 10SM FEW110 SCT220 02/M05 A2980 RMK AO2 SLP080 T00221050
KDEN 060053Z 14010KT 10SM FEW090 SCT220 03/M04 A2980 RMK AO2 SLP080 T00281044
KDEN 052353Z 13007KT 10SM FEW090 SCT160 BKN220 06/M03 A2979 RMK AO2 SLP076 T00561033 10111 20056 53006
KDEN 052253Z 11015KT 10SM FEW090 SCT140 BKN220 08/M03 A2978 RMK AO2 SLP061 T00831028
KDEN 052153Z 11015KT 10SM FEW090 SCT140 BKN220 10/M02 A2978 RMK AO2 SLP064 T01001022
KDEN 052053Z 09014KT 10SM FEW090 SCT140 BKN200 11/M02 A2977 RMK AO2 SLP065 T01061017 57010
KDEN 051953Z 08016KT 10SM FEW090 SCT140 BKN200 10/M03 A2978 RMK AO2 SLP052 T01001028
KDEN 051853Z 05016KT 10SM FEW080 SCT140 BKN220 10/M03 A2980 RMK AO2 SLP054 T01001033
KDEN 051753Z 01019G28KT 10SM FEW080 SCT140 BKN220 12/M03 A2981 RMK AO2 PK WND 01028/1753 SLP055 T01171028 10139 20022 51009
KDEN 051653Z 35007KT 10SM FEW080 FEW130 BKN220 13/M03 A2980 RMK AO2 SLP058 T01331028
KDEN 051553Z 14004KT 10SM FEW070 FEW140 BKN220 07/M04 A2979 RMK AO2 SLP065 T00671039
KDEN 051453Z 22007KT 10SM FEW070 FEW140 BKN220 04/M06 A2977 RMK AO2 SLP067 T00441056 53009
KDEN 051353Z 21004KT 10SM FEW070 BKN220 06/M06 A2975 RMK AO2 SLP059 T00561061
KDEN 051253Z 21007KT 10SM FEW220 05/M07 A2975 RMK AO2 SLP059 T00501067
KDEN 051153Z 19006KT 10SM FEW220 03/M07 A2974 RMK AO2 SLP051 T00331067 10111 21022 58010
KDEN 051053Z 21006KT 10SM FEW220 04/M06 A2975 RMK AO2 SLP041 T00441061
KDEN 050953Z 20005KT 10SM FEW220 02/M06 A2977 RMK AO2 SLP053 T00171061
KDEN 050853Z 11005KT 10SM FEW220 M01/M06 A2978 RMK AO2 SLP058 T10061061 55007
KDEN 050753Z 16006KT 10SM FEW220 08/M06 A2977 RMK AO2 SLP038 T00781061
KDEN 050653Z 19003KT 10SM FEW220 10/M06 A2980 RMK AO2 SLP045 T01001061 401561033
KDEN 050553Z 23005KT 10SM FEW100 09/M06 A2980 RMK AO2 SLP052 T00891061 10094 20011 58009
KDEN 050453Z 17003KT 10SM CLR 05/M06 A2981 RMK AO2 SLP069 T00501061
KDEN 050353Z 22007KT 10SM CLR 06/M06 A2982 RMK AO2 SLP078 T00611061
KDEN 050253Z 19009KT 10SM FEW120 05/M06 A2983 RMK AO2 SLP095 T00501061 56007
KDEN 050153Z 18008KT 10SM CLR 03/M07 A2984 RMK AO2 SLP109 T00331067
KDEN 050053Z 18009KT 10SM FEW130 04/M07 A2985 RMK AO2 SLP109 T00391067
KDEN 042353Z 19008KT 10SM FEW090 FEW130 SCT220 08/M07 A2986 RMK AO2 SLP103 T00831067 10156 20083 58014
KDEN 042253Z 18004KT 10SM FEW090 FEW130 SCT220 14/M06 A2988 RMK AO2 SLP095 T01391061
KDEN 042153Z 26004KT 10SM FEW090 FEW130 SCT220 15/M06 A2990 RMK AO2 SLP101 T01501061
KDEN 042053Z 19009KT 10SM FEW090 BKN220 14/M06 A2991 RMK AO2 SLP108 T01441061 56047
KDEN 041953Z 18010KT 10SM FEW090 BKN220 14/M06 A2995 RMK AO2 SLP125 T01391061
KDEN 041853Z 19013KT 10SM FEW090 FEW130 BKN220 14/M06 A3000 RMK AO2 SLP139 T01391061
KDEN 041753Z 18016KT 10SM FEW090 FEW150 BKN220 12/M06 A3007 RMK AO2 SLP159 T01221061 10122 21033 58022
KDEN 041653Z 16011KT 10SM FEW090 FEW150 BKN220 11/M04 A3012 RMK AO2 SLP179 T01061044
KDEN 041553Z 16009KT 10SM FEW085 FEW150 BKN220 06/M06 A3013 RMK AO2 SLP199 T00561056
KDEN 041453Z 11006KT 10SM FEW085 BKN220 01/M07 A3014 RMK AO2 SLP217 T00111067 56008
KDEN 041353Z 12006KT 10SM FEW090 SCT220 M03/M07 A3015 RMK AO2 SLP221 T10281072
KDEN 041253Z 16011KT 10SM FEW090 SCT220 M02/M07 A3015 RMK AO2 SLP215 T10221067
KDEN 041153Z 17006KT 10SM SCT090 BKN220 M02/M06 A3017 RMK AO2 SLP221 T10221061 10044 21022 58009
KDEN 041053Z 22009KT 10SM SCT085 BKN220 M01/M07 A3019 RMK AO2 SLP222 T10111072
KDEN 040953Z 24007KT 10SM SCT085 BKN220 M02/M08 A3020 RMK AO2 SLP218 T10171083
KDEN 040853Z 27007KT 10SM SCT080 SCT180 BKN220 M02/M08 A3020 RMK AO2 SLP217 T10221078 51004
KDEN 040753Z 28004KT 10SM FEW090 SCT180 BKN220 M02/M08 A3020 RMK AO2 SLP217 T10221083
KDEN 040653Z 30005KT 10SM FEW090 FEW180 BKN220 M01/M08 A3020 RMK AO2 SLP215 T10111078 401281100
KDEN 040553Z 09003KT 10SM FEW180 BKN220 03/M09 A3019 RMK AO2 SLP207 T00331089 10072 21006 51007
KDEN 040453Z 09006KT 10SM OVC220 02/M08 A3019 RMK AO2 SLP218 T00221083
KDEN 040353Z 15009KT 10SM BKN220 01/M09 A3017 RMK AO2 SLP234 T00061089
KDEN 040253Z 12008KT 10SM BKN220 M01/M09 A3016 RMK AO2 SLP245 T10061089 51003
KDEN 040153Z 17010KT 10SM BKN220 03/M09 A3016 RMK AO2 SLP239 T00281089
KDEN 040053Z 00000KT 10SM BKN220 05/M09 A3016 RMK AO2 SLP229 T00501089
KDEN 032353Z 15007KT 10SM FEW100 FEW160 BKN220 05/M09 A3015 RMK AO2 SLP223 T00501089 10128 20044 55000
KDEN 032253Z 00000KT 10SM FEW100 FEW140 BKN220 07/M08 A3014 RMK AO2 SLP219 T00671083
KDEN 032153Z 04007KT 10SM FEW100 FEW140 BKN200 10/M08 A3014 RMK AO2 SLP214 T01001083
KDEN 032053Z 36009KT 10SM FEW100 FEW140 BKN200 12/M09 A3015 RMK AO2 SLP214 T01171094 56024
KDEN 031953Z 13005KT 10SM FEW100 FEW140 BKN200 12/M12 A3017 RMK AO2 SLP214 T01221122
KDEN 031853Z 14003KT 10SM FEW100 FEW140 BKN200 11/M13 A3020 RMK AO2 SLP233 T01111128
KDEN 031753Z 20006KT 10SM FEW140 BKN200 09/M13 A3024 RMK AO2 SLP253 T00891128 10094 21089 56012
KDEN 031653Z 15004KT 10SM FEW090 FEW140 BKN200 04/M09 A3025 RMK AO2 SLP265 T00391094
KDEN 031553Z 14005KT 10SM FEW140 BKN220 M03/M11 A3026 RMK AO2 SLP284 T10331106
KDEN 031453Z 20006KT 10SM FEW140 BKN220 M07/M13 A3028 RMK AO2 SLP300 T10721128 50005
KDEN 031353Z 22007KT 10SM FEW220 M08/M14 A3028 RMK AO2 SLP296 T10831139
KDEN 031253Z 25009KT 10SM CLR M08/M14 A3028 RMK AO2 SLP289 T10781139
KDEN 031153Z 26010KT 10SM CLR M06/M13 A3026 RMK AO2 SLP272 T10561133 11050 21106 51005
KDEN 031053Z 20010KT 10SM CLR M07/M14 A3026 RMK AO2 SLP265 T10671139
KDEN 030953Z 16014KT 10SM CLR M08/M15 A3026 RMK AO2 SLP267 T10781150
KDEN 030853Z 14008KT 10SM CLR M09/M15 A3025 RMK AO2 SLP261 T10891150 50004
KDEN 030753Z 13012KT 10SM CLR M07/M15 A3025 RMK AO2 SLP255 T10721150
KDEN 030653Z 15011KT 10SM CLR M09/M15 A3025 RMK AO2 SLP265 T10941150 401391106
KDEN 030553Z 15011KT 10SM CLR M09/M15 A3023 RMK AO2 SLP243 T10941150 10011 21094 51014
KDEN 030453Z 15011KT 10SM CLR M08/M14 A3022 RMK AO2 SLP234 T10781144
KDEN 030353Z 12014KT 10SM CLR M07/M14 A3020 RMK AO2 SLP229 T10671144
KDEN 030253Z 13011KT 10SM CLR M06/M14 A3018 RMK AO2 SLP223 T10611144 51040
KDEN 030153Z 01010KT 10SM CLR M03/M14 A3014 RMK AO2 SLP202 T10331139
KDEN 030053Z 36015G23KT 10SM FEW070 M01/M14 A3011 RMK AO2 WSHFT 0020 SLP186 T10111139
KDEN 030040Z 36013G21KT 10SM FEW070 M01/M13 A3011 RMK AO2 WSHFT 0020 T10061133
KDEN 030000Z 06018G24KT 10SM FEW070 FEW140 00/M13 A3006 RMK AO2 PRESRR T00001128
KDEN 022353Z VRB03KT 10SM FEW070 FEW140 01/M12 A3005 RMK AO2 PK WND 31036/2304 PRESRR SLP157 T00111117 10139 20011 53053
KDEN 022253Z 30022G42KT 10SM FEW060 FEW100 04/M12 A2994 RMK AO2 PK WND 29042/2234 SLP112 T00391122
KDEN 022153Z 30029G42KT 10SM FEW060 SCT085 06/M12 A2992 RMK AO2 PK WND 29045/2108 SLP101 T00561122
KDEN 022053Z 30028G37KT 10SM FEW055 SCT065 SCT085 07/M11 A2986 RMK AO2 PK WND 29037/2051 SLP078 T00671106 51048
KDEN 021953Z 34018G26KT 10SM SCT055 BKN065 BKN080 08/M07 A2982 RMK AO2 PK WND 36037/1900 SLP061 T00781067
KDEN 021853Z 01020G31KT 10SM SCT075 BKN095 BKN120 06/M07 A2975 RMK AO2 PK WND 36035/1839 WSHFT 1819 SLP043 VIRGA T00561067
KDEN 021835Z 36023G32KT 10SM BKN075 OVC100 09/M04 A2973 RMK AO2 PK WND 36032/1835 WSHFT 1819 VIRGA T00891044
KDEN 021753Z 24013G21KT 10SM SCT075 SCT100 13/M05 A2969 RMK AO2 PK WND 24032/1654 SLP009 T01281050 10139 20094 53027
KDEN 021653Z 23020G31KT 10SM FEW080 FEW200 13/M05 A2966 RMK AO2 PK WND 22034/1636 SLP995 T01281050
KDEN 021553Z 24020G31KT 10SM FEW080 FEW140 SCT220 11/M05 A2962 RMK AO2 PK WND 24032/1538 SLP988 T01111050
KDEN 021453Z 24021G29KT 10SM FEW080 SCT140 SCT200 10/M07 A2960 RMK AO2 PK WND 24029/1448 SLP982 T01001067 53019
KDEN 021353Z 27016KT 10SM FEW080 BKN220 10/M07 A2958 RMK AO2 PK WND 25034/1257 SLP975 T01001072
KDEN 021253Z 24023G35KT 10SM BKN220 11/M08 A2953 RMK AO2 PK WND 23038/1220 SLP959 T01111078
KDEN 021153Z 24020G33KT 10SM BKN220 11/M07 A2953 RMK AO2 PK WND 23033/1142 SLP963 T01111072 10122 20100 58009
KDEN 021053Z 23021G30KT 10SM BKN220 11/M08 A2954 RMK AO2 PK WND 25033/0954 SLP955 T01111083
KDEN 020953Z 24023G36KT 10SM BKN220 12/M09 A2957 RMK AO2 PK WND 24036/0945 SLP955 T01171089
KDEN 020853Z 25023G37KT 10SM BKN220 12/M09 A2957 RMK AO2 PK WND 24037/0844 SLP955 T01171094 58010
KDEN 020753Z 25016G23KT 10SM BKN220 12/M10 A2959 RMK AO2 PK WND 24031/0731 SLP963 T01171100
KDEN 020653Z 23015KT 10SM FEW150 BKN220 11/M09 A2960 RMK AO2 PK WND 24036/0619 SLP971 T01111094 401781083

KDFW 070553Z 34004KT 10SM -RA FEW050 SCT085 BKN110 OVC130 16/14 A3003 RMK AO2 RAB0458 PRESRR SLPNO P0000 60000 T01610144 10222 20161 402500161 51020
KDFW 070453Z 05004KT 10SM FEW037 BKN130 OVC250 17/13 A3001 RMK AO2 SLP155 T01670133
KDFW 070353Z 35008KT 10SM FEW030 SCT110 BKN140 BKN250 17/13 A3000 RMK AO2 SLP152 T01720133
KDFW 070253Z 02004KT 10SM FEW031 SCT060 BKN130 BKN250 18/14 A2997 RMK AO2 RAE26 SLP143 P0000 60000 T01780139 51008
KDFW 070153Z 02006KT 10SM -RA FEW028 SCT080 BKN130 OVC250 18/14 A2996 RMK AO2 RAE10B51 SLP141 P0000 T01830139
KDFW 070053Z 36007KT 10SM -RA SCT028 SCT060 BKN110 OVC250 20/15 A2996 RMK AO2 RAB52 SLP140 P0000 T02000150
KDFW 062353Z 34006KT 10SM SCT120 BKN150 BKN250 22/16 A2994 RMK AO2 SLP134 T02170161 10250 20211 51018
KDFW 062253Z 00000KT 10SM FEW120 BKN170 BKN250 23/16 A2993 RMK AO2 SLP127 T02330161
KDFW 062153Z 00000KT 10SM FEW033 SCT120 BKN160 BKN250 24/16 A2991 RMK AO2 SLP123 T02440161
KDFW 062053Z 30006KT 10SM FEW033 BKN150 BKN250 25/16 A2989 RMK AO2 SLP115 T02500161 55012
KDFW 061953Z 27004KT 10SM FEW030 BKN150 BKN250 24/16 A2989 RMK AO2 SLP113 T02440161 $
KDFW 061853Z 21007KT 10SM FEW023 BKN170 BKN250 24/17 A2989 RMK AO2 SLP115 T02440167
KDFW 061753Z COR 23010KT 10SM FEW020 BKN170 BKN250 23/17 A2992 RMK AO2 SLPNO 10228 20161 51012 $
KDFW 061653Z 23013KT 10SM FEW015 BKN140 BKN250 23/17 A2992 RMK AO2 SLP124 T02280167
KDFW 061553Z 21007KT 10SM FEW015 BKN140 BKN250 20/17 A2991 RMK AO2 SLP123 T02000172
KDFW 061453Z 19006KT 10SM FEW015 BKN180 BKN250 18/17 A2989 RMK AO2 SLP114 T01830172 51024
KDFW 061353Z 18005KT 10SM FEW015 BKN180 BKN250 17/17 A2987 RMK AO2 SLP110 T01720167
KDFW 061253Z 19005KT 10SM FEW015 BKN200 16/16 A2984 RMK AO2 SLP098 T01610156
KDFW 061153Z 17005KT 10SM FEW180 17/16 A2982 RMK AO2 SLP090 T01670156 10194 20161 53008
KDFW 061053Z 18004KT 10SM FEW190 17/16 A2980 RMK AO2 SLP085 T01670156
KDFW 060953Z 20008KT 10SM FEW190 17/16 A2980 RMK AO2 SLP083 T01720161
KDFW 060853Z 20009KT 10SM BKN210 18/17 A2979 RMK AO2 SLP081 T01830167 53002
KDFW 060753Z 20010KT 10SM BKN210 19/17 A2979 RMK AO2 SLP080 T01890167
KDFW 060653Z 20011KT 10SM BKN210 19/17 A2979 RMK AO2 SLP079 T01940167
KDFW 060553Z 21011KT 10SM SCT220 19/17 A2979 RMK AO2 SLP080 T01940167 10239 20194 402720111 53003
KDFW 060453Z 20013KT 10SM FEW250 20/17 A2978 RMK AO2 SLP078 T02000172
KDFW 060353Z 20013KT 10SM BKN250 21/17 A2978 RMK AO2 SLP078 T02060172
KDFW 060253Z 19014KT 10SM FEW120 BKN250 21/17 A2978 RMK AO2 SLP077 T02110172 51012
KDFW 060153Z 19013KT 10SM FEW120 SCT250 22/18 A2977 RMK AO2 SLP076 T02170178
KDFW 060053Z 18012KT 10SM FEW120 BKN250 23/17 A2975 RMK AO2 SLP068 T02280172
KDFW 052353Z 19010KT 10SM FEW120 FEW250 23/17 A2974 RMK AO2 SLP065 T02330167 10272 20217 53003
KDFW 052253Z 20013KT 10SM FEW030 FEW120 SCT250 26/17 A2973 RMK AO2 SLP060 T02560167
KDFW 052153Z 20015G25KT 10SM FEW030 FEW120 FEW250 27/16 A2972 RMK AO2 SLP058 T02720161
KDFW 052053Z 21019G24KT 10SM FEW030 FEW250 27/16 A2973 RMK AO2 SLP061 T02720161 56030
KDFW 051953Z 20016G22KT 10SM FEW026 FEW160 FEW250 26/17 A2975 RMK AO2 SLP069 T02560167
KDFW 051853Z 20015G27KT 10SM FEW023 SCT160 SCT250 24/17 A2979 RMK AO2 PK WND 20027/1844 SLP082 T02390167
KDFW 051753Z 21011KT 10SM FEW020 SCT160 BKN250 22/16 A2982 RMK AO2 SLP093 T02170161 10217 20133 58014
KDFW 051653Z 21015G23KT 10SM FEW020 BKN150 BKN250 20/16 A2985 RMK AO2 SLP102 T02000156
KDFW 051553Z 20016KT 10SM FEW020 SCT130 BKN250 18/15 A2986 RMK AO2 SLP109 T01780150
KDFW 051453Z 19013KT 9SM FEW018 BKN130 BKN250 16/14 A2986 RMK AO2 SLP109 T01610139 56006
KDFW 051428Z 18011KT 9SM SCT018 BKN130 BKN250 16/14 A2986 RMK AO2 T01560139
KDFW 051353Z 19010KT 9SM OVC017 15/13 A2987 RMK AO2 SLP110 T01500133
KDFW 051253Z 18011KT 8SM FEW009 OVC015 14/13 A2987 RMK AO2 SLP111 T01440128
KDFW 051232Z 18012KT 8SM FEW007 OVC015 14/13 A2987 RMK AO2 T01390128
KDFW 051220Z 18011KT 6SM BR SCT007 OVC013 14/13 A2987 RMK AO2 T01390128
KDFW 051153Z 18011KT 4SM BR BKN006 OVC011 13/13 A2988 RMK AO2 CIG 005V010 SLP115 T01330128 10139 20111 55016
KDFW 051126Z 19009KT 6SM BR BKN008 OVC014 14/13 A2988 RMK AO2 CIG 006V011 T01390128
KDFW 051117Z 19010KT 6SM BR BKN010 OVC014 14/13 A2988 RMK AO2 CIG 006V011 T01390128
KDFW 051053Z 18009KT 6SM BR SCT009 OVC018 14/12 A2988 RMK AO2 SLP114 T01390122
KDFW 050953Z 18007KT 7SM OVC020 13/12 A2991 RMK AO2 SLP123 T01330117
KDFW 050853Z 17010KT 6SM BR OVC027 12/11 A2993 RMK AO2 SLP131 T01220111 56024
KDFW 050753Z 18010KT 6SM BR SCT006 BKN023 BKN039 12/11 A2994 RMK AO2 SLP137 T01170106
KDFW 050653Z 19010KT 7SM OVC005 12/11 A2998 RMK AO2 SLP150 T01170106
KDFW 050553Z 17008KT 6SM BR OVC005 11/10 A3000 RMK AO2 SLP156 60000 T01110100 10122 20106 401440083 58019
KDFW 050546Z 17011KT 6SM BR OVC005 11/10 A3000 RMK AO2 T01110100
KDFW 050453Z 17011KT 6SM BR OVC004 11/10 A3002 RMK AO2 DZE08 SLP164 P0000 T01110100
KDFW 050353Z 17012KT 6SM -DZ BR OVC005 11/10 A3004 RMK AO2 SLP171 P0000 T01110100
KDFW 050339Z 17013KT 5SM -DZ BR OVC005 11/10 A3004 RMK AO2 P0000 T01110100
KDFW 050303Z 16007KT 2SM -DZ BR OVC006 11/10 A3005 RMK AO2 SFC VIS 5 P0000 T01110100
KDFW 050253Z 16007KT 3SM -DZ BR OVC006 11/10 A3005 RMK AO2 SFC VIS 6 DZB30 SLP176 P0000 60000 T01060100 58014
KDFW 050205Z 16007KT 8SM BKN008 OVC014 11/09 A3007 RMK AO2 T01110094
KDFW 050153Z 16009KT 9SM BKN010 OVC013 11/09 A3007 RMK AO2 CIG 008V013 SLP181 T01110089
KDFW 050138Z 16010KT 10SM OVC013 11/09 A3008 RMK AO2 T01110089
KDFW 050053Z 17007KT 10SM OVC015 11/08 A3009 RMK AO2 SLP188 T01110083
KDFW 042353Z 17006KT 10SM BKN025 OVC032 12/08 A3010 RMK AO2 SLP190 T01170078 10144 20117 56011
KDFW 042253Z 16008KT 10SM OVC027 13/06 A3010 RMK AO2 SLP192 T01280061
KDFW 042153Z 09004KT 10SM BKN026 OVC040 14/04 A3011 RMK AO2 SLP195 T01390039
KDFW 042053Z 16004KT 10SM OVC037 14/02 A3013 RMK AO2 SLP200 T01390022 56036
KDFW 041953Z VRB03KT 10SM BKN039 OVC048 13/02 A3014 RMK AO2 SLP205 T01330022
KDFW 041853Z 21007KT 10SM FEW060 SCT110 BKN150 BKN250 13/02 A3018 RMK AO2 SLP218 T01330022
KDFW 041753Z 22003KT 10SM FEW044 FEW060 SCT110 BKN150 13/02 A3024 RMK AO2 RAE05 SLP237 P0000 60000 T01280017 10128 20083 58004
KDFW 041653Z 30004KT 10SM -RA FEW044 SCT060 BKN110 BKN160 12/02 A3027 RMK AO2 RAB23 SLP249 P0000 T01170017
KDFW 041553Z 16007KT 10SM FEW050 BKN160 11/02 A3024 RMK AO2 SLP240 T01110017
KDFW 041453Z 16006KT 10SM FEW050 BKN170 10/01 A3025 RMK AO2 PRESFR SLP242 T01000006 58017
KDFW 041353Z 21005KT 10SM SCT050 BKN170 09/00 A3029 RMK AO2 SLP257 T00890000
KDFW 041253Z 14005KT 10SM SCT035 BKN050 BKN170 08/00 A3028 RMK AO2 SLP254 T00830000
KDFW 041153Z 02005KT 10SM SCT035 BKN050 09/M01 A3030 RMK AO2 SLP260 T00891011 10100 20083 58013
KDFW 041110Z 02005KT 10SM SCT024 OVC037 09/M01 A3032 RMK AO2 T00891011
KDFW 041053Z 02009KT 10SM BKN024 OVC040 08/M01 A3031 RMK AO2 PRESFR SLP264 T00831011
KDFW 040953Z 31008KT 10SM OVC025 09/M01 A3034 RMK AO2 SLP273 T00891011
KDFW 040853Z 34006KT 10SM OVC024 09/M01 A3034 RMK AO2 SLP272 T00941011 55005
KDFW 040753Z 35007KT 10SM OVC024 09/M02 A3033 RMK AO2 SLP269 T00941017
KDFW 040653Z 01006KT 10SM OVC025 10/M02 A3034 RMK AO2 SLP272 T01001022
KDFW 040553Z 02007KT 10SM OVC027 10/M03 A3036 RMK AO2 SLP278 T01001028 10117 20100 401560078 58006
KDFW 040453Z 03006KT 10SM OVC028 10/M03 A3036 RMK AO2 SLP281 T01001028
KDFW 040353Z 02006KT 10SM OVC029 10/M02 A3037 RMK AO2 SLP285 T01001022
KDFW 040253Z 02007KT 10SM OVC029 11/M03 A3037 RMK AO2 SLP284 T01061028 58002
KDFW 040153Z 03009KT 10SM OVC027 11/M03 A3038 RMK AO2 SLP287 T01111028
KDFW 040053Z 02010KT 10SM OVC023 11/M03 A3039 RMK AO2 SLP289 T01111033
KDFW 032353Z 02011KT 10SM BKN025 BKN250 12/M03 A3038 RMK AO2 SLP285 T01171028 10139 20111 55003
KDFW 032253Z 02010KT 10SM BKN024 BKN250 12/M02 A3038 RMK AO2 SLP285 T01221022
KDFW 032153Z 02012KT 10SM BKN026 BKN250 13/M02 A3038 RMK AO2 SLP286 T01281022
KDFW 032139Z 02013KT 10SM BKN026 BKN250 13/M02 A3039 RMK AO2 T01331022
KDFW 032053Z 02012KT 10SM FEW028 BKN250 13/M02 A3039 RMK AO2 SLP287 T01331022 56021
KDFW 031953Z 01014KT 10SM FEW120 BKN250 13/M02 A3041 RMK AO2 SLP293 T01331022
KDFW 031853Z 36012KT 10SM BKN250 12/M03 A3042 RMK AO2 SLP299 T01221028
KDFW 031753Z 02013G23KT 10SM SCT250 11/M03 A3045 RMK AO2 SLP308 T01061028 10111 20078 50002
KDFW 031653Z 01014KT 10SM SCT250 10/M03 A3047 RMK AO2 SLP314 T01001028
KDFW 031553Z 36015KT 10SM BKN250 09/M02 A3046 RMK AO2 PK WND 36027/1521 SLP310 T00891022
KDFW 031453Z 01014G25KT 10SM BKN250 08/M02 A3044 RMK AO2 PK WND 02027/1437 SLP307 T00831022 51034
KDFW 031353Z 36016G24KT 10SM BKN250 08/M02 A3042 RMK AO2 SLP298 T00781017
KDFW 031253Z 01014KT 10SM BKN250 08/M01 A3038 RMK AO2 SLP287 T00831011
KDFW 031153Z 01015KT 10SM BKN250 10/00 A3034 RMK AO2 PK WND 02028/1101 SLP272 T01000000 10156 20100 51041
KDFW 031053Z 01017G25KT 10SM BKN250 11/01 A3030 RMK AO2 PK WND 02031/1029 SLP257 T01060011
KDFW 030953Z 36014G27KT 10SM BKN250 12/03 A3028 RMK AO2 PK WND 35032/0938 PRESRR SLP250 T01220033
KDFW 030853Z 36017G29KT 10SM FEW015 BKN250 13/07 A3022 RMK AO2 PK WND 01034/0835 PRESRR SLP230 T01280067 53040
KDFW 030753Z 30007KT 10SM BCFG FEW007 BKN250 16/16 A3017 RMK AO2 SLP211 T01560156
KDFW 030738Z 32006KT 7SM BCFG FEW007 BKN250 15/15 A3016 RMK AO2 T01500150
KDFW 030719Z 32004KT 2SM BR FEW007 BKN250 14/14 A3013 RMK AO2 PRESRR T01390139
KDFW 030703Z 21009KT 6SM BR FEW007 BKN250 15/15 A3011 RMK AO2 T01500150
KDFW 030653Z 22009KT 3SM BR FEW010 BKN250 15/15 A3011 RMK AO2 SLP191 T01500150
KDFW 030643Z COR 21010KT 1 1/2SM R17C/P6000FT BR FEW010 BKN250 14/14 A3010 RMK AO2 T01440144
KDFW 030605Z 19007KT 4SM BR CLR 14/14 A3010 RMK AO2 T01440144
KDFW 030604Z 19008KT 1 3/4SM BR CLR 14/14 A3010 RMK AO2 T01440144
KDFW 030553Z 18006KT 9SM FEW010 BKN250 16/16 A3010 RMK AO2 SLP189 T01560156 10178 20144 401830094 51019
KDFW 030453Z 21008KT 10SM FEW010 BKN250 17/16 A3008 RMK AO2 SLP182 T01670161
KDFW 030353Z 20008KT 10SM FEW010 FEW250 17/16 A3006 RMK AO2 SLP176 T01720161
KDFW 030253Z 19009KT 10SM FEW010 BKN250 17/16 A3004 RMK AO2 SLP169 T01670161 51020
KDFW 030153Z 18008KT 10SM FEW010 BKN250 17/16 A3003 RMK AO2 SLP166 T01670156
KDFW 030053Z 15005KT 10SM BKN250 16/14 A3001 RMK AO2 SLP159 T01560144
KDFW 022353Z COR 17008KT 10SM FEW016 BKN250 18/16 A2998 RMK AO2 SLP149 T01780156 10183 20139 53008
KDFW 022253Z 18011KT 10SM FEW016 BKN250 18/16 A2995 RMK AO2 SLP138 T01830156
KDFW 022239Z 18012KT 10SM SCT016 BKN250 18/16 A2994 RMK AO2 T01830156
KDFW 022153Z 18014G23KT 10SM BKN016 18/15 A2993 RMK AO2 SLP133 T01780150
KDFW 022114Z 19016KT 10SM OVC015 17/14 A2994 RMK AO2 T01720144
KDFW 022053Z 19014KT 10SM BKN014 OVC020 17/14 A2995 RMK AO2 SLP137 T01720144 56029
KDFW 021953Z 20015KT 10SM BKN010 OVC015 16/13 A2997 RMK AO2 PK WND 19026/1923 SLP145 T01610133
KDFW 021915Z 19017KT 10SM BKN010 OVC015 16/13 A2999 RMK AO2 T01610128
KDFW 021853Z 18018G24KT 10SM BKN009 OVC013 16/13 A2999 RMK AO2 SLP153 T01610128
KDFW 021753Z 18015KT 6SM BR OVC005 14/12 A3003 RMK AO2 SLP168 T01390117 10139 20100 58015
KDFW 021653Z 19013KT 5SM BR OVC006 12/11 A3006 RMK AO2 SLP177 T01220111
KDFW 021553Z 18016KT 7SM OVC006 12/11 A3007 RMK AO2 SLP181 T01220106
KDFW 021453Z 18010KT 7SM OVC007 12/09 A3008 RMK AO2 SLP183 T01170094 58001
KDFW 021353Z 16006KT 6SM BR OVC007 11/09 A3008 RMK AO2 SLP184 T01060089
KDFW 021253Z 16008KT 8SM OVC007 11/09 A3008 RMK AO2 SLP186 T01060089
KDFW 021153Z 15007KT 9SM OVC007 10/09 A3008 RMK AO2 SLP184 60000 T01000089 10106 20094 58009
KDFW 021109Z 17008KT 10SM OVC009 11/08 A3009 RMK AO2 T01060083
KDFW 021107Z 17008KT 10SM OVC010 11/08 A3009 RMK AO2 T01060083
KDFW 021053Z 18007KT 10SM OVC010 10/08 A3009 RMK AO2 SLP189 CIG 009V011 T01000083
KDFW 020953Z 17007KT 10SM OVC010 10/08 A3011 RMK AO2 SLP193 CIG 009V012 T01000083
KDFW 020927Z 17012KT 10SM OVC012 10/08 A3010 RMK AO2 T01000083
KDFW 020853Z 18010KT 9SM BKN013 OVC031 10/08 A3011 RMK AO2 RAB00E12 SLP194 P0000 60000 T01000083 56021
KDFW 020753Z 19009KT 10SM BKN016 OVC032 10/08 A3012 RMK AO2 SLP199 T01000078
KDFW 020653Z 18010KT 10SM BKN014 BKN026 OVC050 10/08 A3014 RMK AO2 RAB22E31 SLP205 P0000 T01000078

KDTW 070628Z 03003KT 2SM BR OVC003 06/04 A3006 RMK AO2 TWR VIS 2 1/2 RAE23 P0000 T00560044
KDTW 070611Z 36004KT 1SM R03R/P6000FT -RA BR OVC002 06/04 A3007 RMK AO2 TWR VIS 2 1/2 P0000 T00560044
KDTW 070553Z 36006KT 1 1/2SM -RA BR OVC004 06/04 A3006 RMK AO2 TWR VIS 2 1/2 RAB23 SLP184 P0000 60001 T00560044 10067 20056 50003
KDTW 070527Z 35005KT 1SM R03R/P6000FT -RA BR OVC004 06/05 A3006 RMK AO2 TWR VIS 2 1/2 RAB23 P0000 T00610050
KDTW 070453Z 35004KT 1 1/2SM BR OVC006 07/05 A3007 RMK AO2 TWR VIS 2 1/2 RAB10E28 SLP184 P0001 T00670050 400830044
KDTW 070434Z 00000KT 1 1/2SM BR OVC005 07/06 A3007 RMK AO2 TWR VIS 2 1/2 RAB10E28 P0001 T00670056
KDTW 070423Z 00000KT 2SM -RA BR OVC005 07/06 A3006 RMK AO2 TWR VIS 2 1/2 RAB10 T00670056 PNO
KDTW 070411Z 00000KT 1 3/4SM -RA BR OVC004 07/06 A3006 RMK AO2 TWR VIS 2 1/2 RAB10 T00670056 PNO
KDTW 070353Z 02003KT 1 3/4SM BR OVC004 07/06 A3006 RMK AO2 TWR VIS 2 1/2 SLP181 T00670056 PNO
KDTW 070253Z 05003KT 2 1/2SM BR OVC004 06/05 A3005 RMK AO2 SLP180 T00610050 50001 PNO
KDTW 070241Z 07004KT 2SM BR OVC004 06/05 A3005 RMK AO2 TWR VIS 2 1/2 T00610050 PNO
KDTW 070200Z 00000KT 2 1/2SM BR OVC006 06/05 A3006 RMK AO2 T00610050 PNO
KDTW 070153Z 08003KT 3SM BR OVC007 07/05 A3006 RMK AO2 SLP183 T00670050 PNO
KDTW 070053Z 07004KT 6SM HZ OVC009 07/04 A3005 RMK AO2 SLP181 T00670039 PNO
KDTW 070015Z 06005KT 7SM OVC009 07/04 A3006 RMK AO2 T00670039 PNO
KDTW 062353Z 05006KT 8SM OVC010 07/04 A3005 RMK AO2 SLP181 T00670039 10083 20067 52009 PNO
KDTW 062329Z 07006KT 8SM OVC014 07/04 A3005 RMK AO2 T00670039 PNO
KDTW 062253Z VRB03KT 8SM OVC015 07/03 A3004 RMK AO2 SLP178 T00670033 PNO
KDTW 062153Z 07007KT 10SM BKN020 OVC045 07/02 A3003 RMK AO2 SLP174 T00720022 PNO
KDTW 062053Z 07008KT 9SM BKN020 OVC045 08/01 A3003 RMK AO2 SLP170 T00780006 56007 PNO
KDTW 061953Z 06004KT 9SM OVC020 08/00 A3003 RMK AO2 SLP172 T00780000 PNO
KDTW 061853Z VRB04KT 9SM OVC023 08/03 A3003 RMK AO2 SLP172 T00780028 PNO
KDTW 061753Z 00000KT 9SM OVC025 07/03 A3005 RMK AO2 SLP178 T00720028 10078 20050 53002 PNO
KDTW 061709Z 23003KT 9SM SCT013 OVC025 07/03 A3006 RMK AO2 T00720028 PNO
KDTW 061653Z 18005KT 9SM BKN013 BKN018 OVC032 07/03 A3005 RMK AO2 PRESRR SLP180 T00720028 PNO
KDTW 061553Z 11008KT 10SM FEW015 SCT028 BKN085 08/02 A3003 RMK AO2 SLP172 T00780017 PNO
KDTW 061544Z 11006KT 10SM SCT028 OVC085 07/02 A3004 RMK AO2 T00720017 PNO
KDTW 061453Z 08004KT 10SM FEW015 BKN028 OVC080 07/02 A3004 RMK AO2 SLP176 T00670017 51008 PNO
KDTW 061353Z 00000KT 10SM FEW030 SCT045 OVC070 06/01 A3004 RMK AO2 SLP175 T00560006 PNO
KDTW 061253Z 00000KT 10SM OVC032 05/M01 A3003 RMK AO2 SLP172 T00501011 PNO
KDTW 061153Z 36003KT 10SM OVC031 06/M01 A3002 RMK AO2 SLP169 T00561006 10056 20044 53012 PNO
KDTW 061132Z 00000KT 10SM OVC031 05/M01 A3002 RMK AO2 T00501006 PNO
KDTW 061053Z 21003KT 10SM OVC027 05/M01 A3000 RMK AO2 SLP162 T00501006 PNO
KDTW 060953Z 00000KT 10SM OVC028 06/M02 A2998 RMK AO2 SLP156 T00561022 PNO
KDTW 060853Z 00000KT 9SM OVC028 05/M02 A2998 RMK AO2 SLP157 T00501022 51010 PNO
KDTW 060849Z 00000KT 9SM OVC028 05/M02 A2998 RMK AO2 PNO
KDTW 060753Z 19003KT 10SM OVC039 05/M02 A2998 RMK AO2 SLP156 T00501022 PNO
KDTW 060653Z 16003KT 10SM OVC037 06/M03 A2997 RMK AO2 SLP152 T00561033 PNO
KDTW 060553Z 16004KT 10SM OVC040 06/M03 A2995 RMK AO2 SLP147 T00561033 10061 20050 50004 PNO
KDTW 060453Z 18003KT 10SM OVC041 06/M03 A2996 RMK AO2 SLP150 T00561033 400721039 PNO
KDTW 060353Z 17003KT 10SM OVC043 06/M04 A2995 RMK AO2 SLP146 T00561039 PNO
KDTW 060253Z 17006KT 10SM OVC036 06/M04 A2994 RMK AO2 SLP144 T00611039 50003 PNO
KDTW 060153Z 15004KT 10SM OVC038 06/M04 A2995 RMK AO2 SLP148 T00611044 PNO
KDTW 060053Z 16005KT 10SM OVC038 06/M06 A2995 RMK AO2 SLP147 T00611061 PNO
KDTW 052353Z 17006KT 10SM OVC045 06/M08 A2993 RMK AO2 SLP142 T00611083 10072 20056 56003 PNO
KDTW 052253Z 17004KT 10SM OVC045 06/M08 A2993 RMK AO2 SLP142 T00611083 PNO
KDTW 052153Z 14005KT 10SM BKN039 OVC046 06/M08 A2993 RMK AO2 SLP139 T00611083 PNO
KDTW 052053Z 21004KT 10SM OVC050 06/M08 A2994 RMK AO2 SLP145 T00611078 55000 PNO
KDTW 051953Z 21006KT 10SM BKN130 OVC180 06/M08 A2992 RMK AO2 SLP139 T00611078 PNO
KDTW 051853Z 21010KT 10SM BKN130 BKN210 06/M08 A2993 RMK AO2 SLP140 T00611083 PNO
KDTW 051753Z 20017KT 10SM BKN140 BKN210 07/M08 A2994 RMK AO2 SLP145 T00671083 10072 21028 58015 PNO
KDTW 051653Z 22012KT 10SM BKN160 OVC240 06/M07 A2997 RMK AO2 SLP155 T00611067 PNO
KDTW 051553Z 21009KT 10SM FEW150 BKN220 03/M06 A3000 RMK AO2 SLP164 T00281061 PNO
KDTW 051453Z 21010KT 10SM SCT150 BKN220 00/M07 A2999 RMK AO2 SLP161 T00001072 53003 PNO
KDTW 051353Z 21007KT 10SM BKN230 M02/M08 A2999 RMK AO2 SLP164 T10171078 PNO
KDTW 051253Z 20008KT 10SM BKN200 M02/M08 A2997 RMK AO2 SLP158 T10221083 PNO
KDTW 051153Z 21011KT 10SM BKN200 M03/M08 A2998 RMK AO2 SLP159 T10281083 11011 21039 56011 PNO
KDTW 051053Z 21009KT 10SM BKN220 M03/M09 A2999 RMK AO2 SLP162 T10331089 PNO
KDTW 050953Z 21009KT 10SM SCT230 M03/M09 A3000 RMK AO2 SLP166 T10331089 PNO
KDTW 050853Z 20008KT 10SM CLR M04/M09 A3001 RMK AO2 SLP170 T10391094 58004 PNO
KDTW 050753Z 21008KT 10SM CLR M03/M09 A3002 RMK AO2 SLP173 T10281094 PNO
KDTW 050653Z 21009KT 10SM CLR M02/M10 A3002 RMK AO2 SLP174 T10221100 PNO
KDTW 050553Z 21012KT 10SM CLR M01/M10 A3002 RMK AO2 SLP174 T10111100 11006 21017 56010 PNO
KDTW 050453Z 21011KT 10SM CLR M01/M09 A3003 RMK AO2 SLP175 T10111094 400281067 PNO
KDTW 050353Z 21011KT 10SM CLR M01/M09 A3004 RMK AO2 SLP179 T10111094 PNO
KDTW 050253Z 21014KT 10SM CLR M01/M09 A3005 RMK AO2 SLP185 T10061094 58008 PNO
KDTW 050153Z 21009KT 10SM CLR M02/M09 A3007 RMK AO2 SLP190 T10171094 PNO
KDTW 050053Z 21011KT 10SM CLR M01/M10 A3008 RMK AO2 SLP195 T10111100 PNO
KDTW 042353Z 20012KT 10SM FEW250 M01/M09 A3008 RMK AO2 SLP194 T10061094 10028 21006 58004 PNO
KDTW 042253Z 21011KT 10SM FEW250 M01/M09 A3010 RMK AO2 SLP202 T10061094 PNO
KDTW 042153Z 21013KT 10SM CLR 01/M09 A3010 RMK AO2 SLP199 T00061094 PNO
KDTW 042053Z 21012KT 10SM CLR 02/M09 A3009 RMK AO2 SLP198 T00171089 56020 PNO
KDTW 041953Z 23014KT 10SM CLR 02/M09 A3011 RMK AO2 SLP203 T00221094 PNO
KDTW 041853Z 22013KT 10SM CLR 02/M10 A3011 RMK AO2 SLP203 T00221100 PNO
KDTW 041753Z 23013KT 10SM FEW160 02/M10 A3015 RMK AO2 SLP218 T00171100 10017 21067 58030 PNO
KDTW 041653Z 24012KT 10SM FEW140 01/M10 A3019 RMK AO2 SLP230 T00061100 PNO
KDTW 041553Z 23013KT 10SM BKN140 BKN230 M01/M09 A3022 RMK AO2 SLP243 T10111094 PNO
KDTW 041453Z 23009KT 10SM SCT230 M03/M08 A3024 RMK AO2 SLP249 T10281083 55011 PNO
KDTW 041353Z 22007KT 10SM FEW230 M06/M09 A3024 RMK AO2 SLP249 T10561089 PNO
KDTW 041253Z 20007KT 10SM FEW210 M07/M09 A3026 RMK AO2 SLP255 T10671094 PNO
KDTW 041153Z 22008KT 10SM BKN230 M06/M09 A3028 RMK AO2 SLP261 70003 T10611094 11039 21067 56015 PNO
KDTW 041053Z 21007KT 10SM FEW230 M06/M09 A3028 RMK AO2 SLP263 T10611089 PNO
KDTW 040953Z 22006KT 10SM CLR M06/M08 A3030 RMK AO2 SLP267 T10561083 PNO
KDTW 040853Z 21005KT 10SM CLR M06/M09 A3032 RMK AO2 SLP276 T10611089 56012 PNO
KDTW 040753Z 23005KT 10SM CLR M06/M09 A3033 RMK AO2 SLP280 T10561089 PNO
KDTW 040653Z 24006KT 10SM CLR M04/M08 A3034 RMK AO2 SLP281 T10441083 PNO
KDTW 040553Z 27007KT 10SM FEW030 M04/M08 A3036 RMK AO2 SLP287 T10391083 11011 21039 50001 PNO
KDTW 040453Z 25007KT 10SM SCT030 M03/M08 A3036 RMK AO2 SLP287 T10281083 401171033 PNO
KDTW 040353Z 27012G18KT 10SM BKN030 M03/M08 A3036 RMK AO2 SLP287 T10281078 PNO
KDTW 040253Z 28010KT 10SM FEW035 M02/M08 A3035 RMK AO2 SLP285 T10221078 51011 PNO
KDTW 040153Z 28008KT 10SM FEW035 M02/M08 A3034 RMK AO2 SLP281 T10221078 PNO
KDTW 040053Z 27006KT 10SM FEW250 M02/M07 A3033 RMK AO2 SLP277 T10171072 PNO
KDTW 032353Z 28006KT 10SM FEW250 M01/M07 A3032 RMK AO2 SLP271 T10111072 10028 21011 51023 PNO
KDTW 032253Z 27008KT 10SM FEW035 SCT250 M01/M07 A3030 RMK AO2 SLP266 T10061072 PNO
KDTW 032153Z 28012G19KT 10SM BKN035 BKN200 01/M06 A3028 RMK AO2 SLP256 T00061061 PNO
KDTW 032053Z 29014KT 10SM BKN034 OVC200 02/M06 A3025 RMK AO2 SLP248 T00171061 51032 PNO
KDTW 031953Z 28012G25KT 10SM SCT022 OVC034 03/M05 A3022 RMK AO2 SLP237 T00281050 PNO
KDTW 031936Z 28011G22KT 10SM SCT022 OVC034 02/M04 A3021 RMK AO2 T00221044 PNO
KDTW 031853Z 28014G20KT 10SM OVC025 02/M04 A3019 RMK AO2 PK WND 28028/1802 SLP226 T00221039 PNO
KDTW 031753Z 28020G29KT 10SM OVC025 02/M03 A3015 RMK AO2 PK WND 30033/1658 SLP214 60003 T00221033 10111 20022 51053 PNO
KDTW 031653Z 28018G27KT 10SM BKN022 OVC050 03/M03 A3012 RMK AO2 PK WND 29031/1640 SLP204 T00281028 PNO
KDTW 031553Z 30022G34KT 10SM BKN022 OVC050 03/M01 A3006 RMK AO2 PK WND 30037/1509 PRESRR SLP183 T00331011 PNO
KDTW 031453Z 28022G34KT 10SM FEW007 BKN019 OVC045 04/M01 A2999 RMK AO2 PK WND 27034/1451 PRESRR SLP159 60003 T00441006 52081 PNO
KDTW 031443Z 28019G33KT 10SM FEW007 BKN019 OVC045 04/00 A2997 RMK AO2 PK WND 28033/1435 T00440000 PNO
KDTW 031425Z 29021G31KT 10SM FEW007 BKN014 OVC045 04/00 A2996 RMK AO2 PK WND 28032/1354 T00440000 PNO
KDTW 031353Z 30021G35KT 10SM FEW008 BKN025 OVC075 04/00 A2993 RMK AO2 PK WND 29045/1259 RAB12E26 PRESRR SLP137 T00440000 PNO $
KDTW 031348Z 30019G39KT 10SM FEW008 BKN025 OVC075 04/00 A2992 RMK AO2 PK WND 29045/1259 RAB12E26 PRESRR PNO $
KDTW 031329Z 30019G41KT 9SM FEW008 SCT025 OVC085 04/01 A2990 RMK AO2 PK WND 29045/1259 RAB12E26 PRESRR T00440006 PNO $
KDTW 031315Z 29020G41KT 7SM -RA BKN017 BKN035 OVC070 06/01 A2988 RMK AO2 PK WND 29045/1259 RAB12 PRESRR T00560011 PNO $
KDTW 031309Z 28028G45KT 8SM SCT020 BKN035 OVC045 06/02 A2986 RMK AO2 PK WND 29045/1259 PRESRR T00560017 PNO $
KDTW 031253Z 27031G50KT 9SM SCT018 BKN025 OVC045 09/04 A2982 RMK AO2 PK WND 29050/1246 RAE50 PRESRR SLP098 P0003 T00890044
KDTW 031230Z 27024G45KT 8SM -RA FEW015 BKN025 OVC070 11/08 A2978 RMK AO2 PK WND 26045/1226 PRESRR P0001 T01060078
KDTW 031207Z 23016KT 9SM -RA SCT017 BKN035 OVC070 11/09 A2976 RMK AO2 P0001 T01060089
KDTW 031153Z 23016G26KT 9SM -RA SCT013 BKN020 OVC045 11/09 A2975 RMK AO2 PK WND 24031/1131 SLP076 T01060089 10111 20106 55002 PNO
KDTW 031053Z 23019G28KT 8SM -RA BKN013 OVC020 11/09 A2974 RMK AO2 PK WND 23030/1037 RAB06 SLP073 T01110089 PNO
KDTW 030953Z 23022G29KT 10SM OVC012 11/08 A2975 RMK AO2 PK WND 23032/0935 SLP075 T01110083 PNO
KDTW 030853Z 23021G27KT 10SM OVC014 11/08 A2976 RMK AO2 PK WND 23031/0842 RAE02 SLP078 T01060078 58008 PNO
KDTW 030753Z 22021G31KT 8SM -RA OVC017 11/07 A2977 RMK AO2 PK WND 22039/0704 RAB02 SLP083 T01060072 PNO
KDTW 030653Z 22024G31KT 10SM OVC020 11/07 A2977 RMK AO2 PK WND 22036/0605 SLP083 T01110067 PNO
KDTW 030553Z 22023G31KT 10SM OVC025 11/06 A2978 RMK AO2 PK WND 22039/0536 SLP086 T01110061 10117 20078 58013 PNO
KDTW 030532Z 22020G33KT 10SM OVC028 11/06 A2979 RMK AO2 PK WND 22036/0504 T01110056 PNO
KDTW 030453Z 22023G35KT 10SM OVC031 11/04 A2980 RMK AO2 PK WND 22042/0356 SLP092 T01110039 401171006 PNO
KDTW 030353Z 21028G40KT 10SM OVC040 12/03 A2981 RMK AO2 PK WND 21040/0351 SLP098 T01170028 PNO
KDTW 030253Z 21023G34KT 10SM OVC035 12/02 A2982 RMK AO2 PK WND 22035/0242 SLP100 T01170017 56021 PNO
KDTW 030153Z 20011KT 10SM OVC035 09/M01 A2984 RMK AO2 SLP109 T00941006 PNO
KDTW 030053Z 18015KT 10SM OVC039 09/M01 A2985 RMK AO2 RAE2356B15E49 SLP111 T00891011 PNO
KDTW 022353Z 17013G23KT 10SM -RA BKN045 OVC055 08/M01 A2988 RMK AO2 RAB50 SLP123 T00781006 10083 20067 56024 PNO
KDTW 022253Z 17011G21KT 10SM SCT055 BKN070 OVC090 07/M02 A2990 RMK AO2 SLP130 T00721017 PNO
KDTW 022153Z 17011G21KT 10SM BKN045 BKN070 OVC090 07/M03 A2993 RMK AO2 SLP141 T00721028 PNO
KDTW 022053Z 17012KT 10SM OVC055 08/M04 A2995 RMK AO2 SLP148 T00831039 57030 PNO
KDTW 021953Z 19013G22KT 10SM OVC070 08/M06 A2999 RMK AO2 SLP159 T00831056 PNO
KDTW 021853Z 17010KT 10SM OVC070 07/M04 A3001 RMK AO2 SLP169 T00721044 PNO
KDTW 021753Z 17011KT 10SM OVC080 07/M05 A3005 RMK AO2 SLP180 T00671050 10072 20011 56044 PNO
KDTW 021653Z 18014KT 10SM SCT070 BKN110 OVC250 07/M06 A3008 RMK AO2 SLP193 T00721056 PNO
KDTW 021553Z 18014KT 10SM BKN070 BKN110 OVC250 05/M06 A3013 RMK AO2 SLP210 T00501056 PNO
KDTW 021453Z 17008KT 10SM OVC075 03/M06 A3018 RMK AO2 SLP225 T00331056 56017 PNO
KDTW 021353Z 17009KT 10SM BKN070 BKN110 OVC230 02/M06 A3018 RMK AO2 SLP229 T00221056 PNO
KDTW 021253Z 16008KT 10SM BKN070 OVC100 01/M06 A3020 RMK AO2 SLP234 T00111056 PNO $
KDTW 021153Z 17007KT 10SM BKN055 OVC080 01/M06 A3023 RMK AO2 SLP244 T00111061 10011 21006 56016 PNO $
KDTW 021053Z 18008KT 10SM BKN055 OVC085 01/M06 A3024 RMK AO2 SLP249 T00111056 PNO $
KDTW 020953Z 18009KT 10SM BKN075 OVC095 01/M06 A3025 RMK AO2 SLP252 T00061056 PNO $
KDTW 020853Z 17007KT 10SM OVC090 01/M07 A3028 RMK AO2 SLP259 T00061067 58017 PNO $
KDTW 020753Z 18006KT 10SM OVC100 00/M07 A3030 RMK AO2 SLP266 T00001072 PNO $
KDTW 020653Z 18008KT 10SM BKN120 OVC250 00/M07 A3031 RMK AO2 SLP271 T00001067 PNO $

KEWR 070551Z 17006KT 5SM -RA BR BKN006 BKN011 OVC020 14/13 A3019 RMK AO2 SLP224 P0011 60055 T01390128 10139 20128 58016 $
KEWR 070451Z 16007KT 5SM -RA BR BKN007 OVC011 13/12 A3021 RMK AO2 SLP230 P0002 T01330122 401440011 $
KEWR 070351Z 15006KT 3SM -RA BR BKN006 OVC010 13/12 A3023 RMK AO2 SFC VIS 5 SLP236 P0020 T01280117 $
KEWR 070334Z 14006KT 3SM RA BR BKN006 OVC011 13/12 A3023 RMK AO2 SFC VIS 4 P0018 T01280117 $
KEWR 070251Z 13004KT 2SM R04R/4500VP6000FT +RA BR BKN006 OVC011 13/12 A3024 RMK AO2 SLP240 P0013 60022 T01280117 56006 $
KEWR 070203Z 12006KT 2 1/2SM RA BR BKN008 BKN014 OVC020 13/12 A3025 RMK AO2 SFC VIS 3 P0002 T01330117 $
KEWR 070151Z 14006KT 2 1/2SM -RA BR SCT008 BKN014 OVC025 13/12 A3025 RMK AO2 SFC VIS 4 SLP243 P0005 T01330117 $
KEWR 070110Z 15007KT 3SM -RA BR SCT009 BKN017 OVC025 13/12 A3025 RMK AO2 SFC VIS 5 P0001 T01330117 $
KEWR 070059Z 14007KT 3SM -RA BR BKN009 OVC025 13/12 A3025 RMK AO2 SFC VIS 5 P0000 T01330117 $
KEWR 070051Z 14008KT 3SM -RA BR SCT007 OVC022 13/12 A3025 RMK AO2 SFC VIS 5 SLP243 P0004 T01330117 $
KEWR 070025Z 13008G16KT 3SM -RA BR SCT008 OVC025 13/12 A3026 RMK AO2 SFC VIS 4 P0003 T01330117 $
KEWR 062351Z 16007KT 3SM RA BR FEW012 BKN020 OVC030 13/12 A3026 RMK AO2 SFC VIS 4 RAB05 SLP247 P0004 60015 T01330117 10144 20128 55004 $
KEWR 062251Z 14007KT 9SM FEW012 BKN024 OVC035 13/12 A3026 RMK AO2 RAE48 SLP245 P0003 T01330117 $
KEWR 062221Z 13007KT 6SM -RA BR FEW013 BKN028 OVC040 13/12 A3027 RMK AO2 P0003 T01330117 $
KEWR 062151Z 13005KT 2SM +RA BR FEW014 BKN026 OVC035 13/11 A3027 RMK AO2 SFC VIS 3 RAB13 SLP251 P0004 T01330111 $
KEWR 062145Z 14006KT 3SM RA BR FEW015 BKN026 OVC035 13/11 A3027 RMK AO2 RAB13 P0002 $
KEWR 062051Z 12004KT 8SM FEW018 SCT030 OVC040 13/11 A3026 RMK AO2 RAE38 SLP247 P0001 60004 T01330111 56005
KEWR 061951Z 13007KT 5SM -RA BR FEW018 SCT032 OVC040 13/11 A3027 RMK AO2 SLP249 P0001 T01330111
KEWR 061851Z 14007KT 8SM -RA FEW018 SCT028 OVC040 14/11 A3027 RMK AO2 SLP249 P0002 T01390111
KEWR 061751Z VRB04KT 5SM -RA FEW020 BKN044 OVC065 14/11 A3028 RMK AO2 SLP252 P0002 60002 T01390111 10144 20050 58009
KEWR 061651Z 00000KT 7SM -RA FEW018 BKN042 OVC055 13/09 A3029 RMK AO2 RAB45 SLP257 P0000 T01330094
KEWR 061551Z 00000KT 9SM FEW018 BKN045 BKN065 OVC150 12/08 A3030 RMK AO2 RAE31 SLP259 P0000 T01170078
KEWR 061451Z 05003KT 9SM -RA FEW020 BKN050 OVC070 09/06 A3031 RMK AO2 RAB16 SLP261 P0000 60000 T00890056 50002
KEWR 061351Z 02006KT 10SM FEW020 SCT050 BKN100 OVC160 07/04 A3031 RMK AO2 SLP263 T00720039
KEWR 061251Z 02007KT 10SM FEW014 OVC046 07/03 A3031 RMK AO2 SLP264 T00670033
KEWR 061151Z 02007KT 10SM FEW015 SCT046 BKN070 BKN130 BKN240 05/02 A3030 RMK AO2 SLP259 T00500022 10056 20011 56004
KEWR 061051Z 02009KT 10SM SCT020 BKN048 OVC070 05/01 A3030 RMK AO2 SLP260 T00500011
KEWR 061024Z 03008KT 10SM SCT020 BKN055 OVC085 04/01 A3031 RMK AO2 T00440011
KEWR 060951Z 03007KT 10SM BKN021 OVC055 04/01 A3030 RMK AO2 SLP261 T00440006
KEWR 060905Z 02007KT 10SM BKN022 OVC060 04/01 A3031 RMK AO2 T00390006
KEWR 060851Z 03008KT 10SM SCT022 BKN060 BKN250 03/00 A3031 RMK AO2 SLP263 T00330000 50001
KEWR 060751Z 02007KT 10SM FEW035 SCT055 BKN250 02/M01 A3032 RMK AO2 SLP265 T00221011
KEWR 060651Z 04004KT 10SM FEW030 BKN250 02/M02 A3031 RMK AO2 SLP262 T00171017
KEWR 060551Z 03005KT 10SM BKN250 02/M02 A3031 RMK AO2 SLP262 T00221022 10067 20022 56001
KEWR 060451Z 00000KT 10SM FEW050 BKN250 04/M01 A3031 RMK AO2 SLP262 T00441011 400941017
KEWR 060351Z 00000KT 10SM BKN250 06/M01 A3031 RMK AO2 SLP261 T00561011
KEWR 060251Z 11003KT 10SM SCT250 06/M01 A3031 RMK AO2 SLP263 T00611006 50003
KEWR 060151Z 00000KT 10SM FEW180 SCT250 06/M01 A3032 RMK AO2 SLP266 T00611011
KEWR 060051Z 00000KT 10SM FEW180 BKN250 07/M01 A3032 RMK AO2 SLP267 T00671011
KEWR 052351Z 19004KT 10SM FEW180 BKN250 06/M02 A3030 RMK AO2 SLP260 T00611017 10094 20061 51014
KEWR 052251Z 14004KT 10SM FEW180 BKN250 08/M02 A3028 RMK AO2 SLP254 T00781017
KEWR 052151Z 13003KT 10SM FEW180 BKN250 08/M06 A3028 RMK AO2 SLP252 T00831056
KEWR 052051Z 13006KT 10SM FEW180 BKN250 09/M07 A3026 RMK AO2 SLP246 T00891072 55006
KEWR 051951Z 13005KT 10SM FEW220 BKN250 09/M08 A3026 RMK AO2 SLP244 T00891078
KEWR 051851Z VRB04KT 10SM FEW180 BKN250 08/M07 A3026 RMK AO2 SLP247 T00831067
KEWR 051751Z 18006KT 10SM FEW200 BKN250 08/M07 A3028 RMK AO2 SLP251 T00831072 10089 21011 58011
KEWR 051651Z 18008KT 10SM FEW200 BKN250 08/M08 A3029 RMK AO2 SLP256 T00831078
KEWR 051551Z 21006KT 10SM FEW200 BKN250 07/M06 A3030 RMK AO2 SLP259 T00671056
KEWR 051451Z 23004KT 10SM FEW250 06/M03 A3031 RMK AO2 SLP262 T00561033 53016
KEWR 051351Z 24004KT 10SM FEW250 03/M03 A3029 RMK AO2 SLP258 T00331033
KEWR 051251Z 13003KT 10SM FEW250 01/M04 A3027 RMK AO2 SLP251 T00061044
KEWR 051151Z 00000KT 10SM CLR M01/M06 A3026 RMK AO2 SLP246 T10111061 10017 21017 53018
KEWR 051051Z 25005KT 10SM CLR M01/M06 A3025 RMK AO2 SLP242 T10111056
KEWR 050951Z 24005KT 10SM CLR 00/M04 A3022 RMK AO2 SLP232 T00001044
KEWR 050851Z 20003KT 10SM CLR 01/M04 A3021 RMK AO2 SLP229 T00061044 51004
KEWR 050751Z 19003KT 10SM CLR 01/M05 A3021 RMK AO2 SLP228 T00061050
KEWR 050651Z 17003KT 10SM CLR 01/M05 A3020 RMK AO2 SLP226 T00111050
KEWR 050551Z 27003KT 10SM CLR 01/M05 A3020 RMK AO2 SLP224 T00111050 10061 20006 58003
KEWR 050451Z 23005KT 10SM FEW250 02/M05 A3020 RMK AO2 SLP226 T00171050 400890006
KEWR 050351Z 25005KT 10SM FEW250 02/M05 A3021 RMK AO2 SLP228 T00171050
KEWR 050251Z 23007KT 10SM FEW220 03/M04 A3021 RMK AO2 SLP228 T00331044 51009
KEWR 050151Z 23009KT 10SM FEW210 04/M04 A3020 RMK AO2 SLP226 T00441044
KEWR 050051Z 23006KT 10SM FEW200 05/M05 A3020 RMK AO2 SLP225 T00501050
KEWR 042351Z 21004KT 10SM FEW200 05/M04 A3018 RMK AO2 SLP219 T00501044 10089 20044 50001
KEWR 042251Z 27006KT 10SM SCT200 07/M04 A3018 RMK AO2 SLP219 T00671044
KEWR 042151Z 25009KT 10SM FEW055 BKN210 07/M04 A3018 RMK AO2 SLP218 T00721044
KEWR 042051Z 32007KT 10SM FEW050 BKN220 08/M05 A3018 RMK AO2 SLP218 T00831050 53006
KEWR 041951Z 00000KT 10SM FEW050 BKN200 08/M06 A3015 RMK AO2 SLP210 T00831056
KEWR 041851Z 28009KT 10SM FEW055 BKN200 09/M06 A3015 RMK AO2 SLP208 T00891061
KEWR 041751Z 30009KT 10SM FEW055 SCT200 09/M06 A3016 RMK AO2 SLP211 T00891061 10089 20033 56024
KEWR 041651Z 32008KT 10SM FEW050 SCT200 08/M06 A3017 RMK AO2 SLP216 T00831056
KEWR 041551Z 35004KT 10SM FEW050 FEW200 07/M06 A3019 RMK AO2 SLP223 T00721056
KEWR 041451Z 32010KT 10SM FEW050 FEW250 07/M06 A3023 RMK AO2 SLP235 T00671056 56001
KEWR 041351Z 33007KT 290V350 10SM FEW050 06/M06 A3023 RMK AO2 SLP236 T00561056
KEWR 041251Z 31006KT 10SM FEW050 04/M06 A3023 RMK AO2 SLP235 T00441056
KEWR 041151Z 31006KT 10SM FEW049 03/M06 A3023 RMK AO2 SLP236 70039 T00331061 10067 20033 52015
KEWR 041051Z 30007KT 10SM FEW048 04/M06 A3021 RMK AO2 SLP230 T00391061
KEWR 040951Z 32008KT 10SM FEW047 04/M07 A3021 RMK AO2 SLP228 T00441067
KEWR 040851Z 31008G18KT 10SM FEW048 05/M06 A3019 RMK AO2 SLP221 T00501061 53012
KEWR 040751Z 32011KT 10SM FEW049 06/M06 A3017 RMK AO2 SLP216 T00561056
KEWR 040651Z 32010KT 10SM FEW049 06/M05 A3016 RMK AO2 PK WND 31028/0611 SLP213 T00611050
KEWR 040551Z 30009G20KT 10SM FEW050 07/M03 A3015 RMK AO2 SLP209 T00671028 10139 20067 51008
KEWR 040451Z 29008KT 10SM FEW055 07/M02 A3015 RMK AO2 SLP207 T00721022 401500067
KEWR 040351Z 27007KT 10SM SCT055 08/M02 A3014 RMK AO2 SLP206 T00781017
KEWR 040251Z 31013G19KT 10SM FEW070 09/M02 A3013 RMK AO2 SLP201 T00891017 51041
KEWR 040151Z 31010G19KT 10SM FEW050 10/01 A3009 RMK AO2 PK WND 32027/0103 SLP190 T01000006
KEWR 040051Z 31013G22KT 10SM SCT050 SCT090 12/05 A3005 RMK AO2 SLP174 T01220050
KEWR 032351Z 26016G22KT 10SM FEW025 FEW095 14/08 A3000 RMK AO2 RAE2254 SLP159 P0000 60002 T01390083 10150 20139 53018
KEWR 032251Z 24015KT 10SM -RA FEW022 BKN075 14/09 A2998 RMK AO2 PK WND 27026/2221 RAB13 SLP150 P0000 T01390089
KEWR 032151Z 24010KT 10SM SCT018 BKN055 BKN090 14/12 A2996 RMK AO2 RAB38E51 SLP143 P0000 T01440117
KEWR 032147Z 23011KT 10SM -RA SCT018 BKN055 BKN075 14/12 A2995 RMK AO2 RAB38 P0000
KEWR 032051Z 23016G25KT 10SM BKN015 OVC023 15/12 A2994 RMK AO2 SLP139 60002 T01500117 56013
KEWR 031951Z 23013G22KT 10SM OVC010 14/12 A2996 RMK AO2 PK WND 22032/1856 RAB23E35 SLP144 P0000 T01440122
KEWR 031938Z 23017G24KT 10SM OVC010 14/12 A2996 RMK AO2 PK WND 22032/1856 RAB23E35 P0000 T01440122
KEWR 031851Z 22017G29KT 10SM BKN008 OVC015 14/12 A2996 RMK AO2 PK WND 22033/1837 RAE45 SLP145 P0002 T01440122
KEWR 031751Z 21016G25KT 4SM RA BR BKN007 OVC015 14/13 A2998 RMK AO2 PK WND 20028/1705 SLP152 P0010 60037 T01440128 10144 20111 56046
KEWR 031659Z COR 20015G26KT 4SM RA BR BKN007 OVC015 14/12 A3002 RMK AO2 PK WND 21026/1654 P0002 T01390122
KEWR 031651Z 20014G23KT 5SM -RA BR FEW008 BKN012 OVC020 14/12 A3002 RMK AO2 PK WND 19028/1609 SLP165 P0007 T01390122
KEWR 031551Z 21018G24KT 5SM R04R/5500VP6000FT RA BR BKN012 OVC020 14/12 A3008 RMK AO2 SLP184 P0009 T01390117
KEWR 031544Z 20015G22KT 7SM -RA BKN012 OVC020 14/12 A3008 RMK AO2 P0007 T01390117
KEWR 031451Z 19015G20KT 4SM RA BR BKN015 OVC024 13/11 A3012 RMK AO2 SLP198 P0006 60011 T01330111 58029
KEWR 031351Z 19013KT 7SM -RA FEW018 BKN024 OVC050 13/11 A3015 RMK AO2 SLP209 P0001 T01280106
KEWR 031251Z 18007KT 7SM -RA FEW015 BKN029 OVC049 11/09 A3018 RMK AO2 SLP219 P0004 T01110094
KEWR 031224Z 19007KT 6SM RA BR FEW020 BKN029 OVC034 11/09 A3020 RMK AO2 P0002 T01110089
KEWR 031151Z 20007KT 10SM -RA BKN034 OVC044 11/08 A3021 RMK AO2 RAB48 SLP227 P0000 60000 T01110078 10111 20067 56024
KEWR 031051Z 18007KT 10SM FEW027 OVC037 11/07 A3021 RMK AO2 SLP230 T01060072
KEWR 030951Z 15005KT 10SM OVC037 09/06 A3023 RMK AO2 PRESFR SLP237 T00940056
KEWR 030851Z 15003KT 10SM OVC032 09/04 A3027 RMK AO2 SLP251 60000 T00890044 58031
KEWR 030751Z 16003KT 10SM OVC040 08/03 A3032 RMK AO2 SLP265 T00830028
KEWR 030651Z 19003KT 10SM FEW060 OVC110 07/01 A3036 RMK AO2 RAB36E43 SLP279 P0000 T00720011
KEWR 030551Z 16003KT 10SM BKN110 OVC250 07/01 A3037 RMK AO2 RAB32E42 SLP282 P0000 60000 T00670006 10067 20050 58021
KEWR 030451Z 00000KT 10SM BKN120 BKN250 07/00 A3039 RMK AO2 SLP291 T00670000 400781017
KEWR 030351Z 17004KT 10SM BKN140 BKN250 06/M01 A3042 RMK AO2 SLP300 T00611006
KEWR 030251Z 17005KT 10SM BKN140 BKN250 06/M01 A3043 RMK AO2 SLP303 T00611006 58018
KEWR 030151Z 20003KT 10SM BKN130 BKN250 06/M01 A3044 RMK AO2 SLP308 T00561011
KEWR 030051Z 17005KT 10SM SCT130 BKN250 05/M02 A3047 RMK AO2 SLP316 T00501022
KEWR 022351Z 18007KT 10SM FEW120 SCT250 06/M02 A3048 RMK AO2 SLP321 T00561022 10078 20044 53003
KEWR 022251Z 20003KT 10SM FEW120 SCT250 06/M02 A3048 RMK AO2 SLP321 T00561022
KEWR 022151Z 14004KT 10SM FEW120 FEW250 06/M04 A3047 RMK AO2 SLP316 T00611044
KEWR 022051Z 17007KT 10SM FEW045 FEW120 SCT250 07/M06 A3047 RMK AO2 SLP318 T00721056 56009
KEWR 021951Z VRB04KT 10SM FEW045 SCT250 08/M05 A3048 RMK AO2 SLP321 T00781050
KEWR 021851Z 18007KT 10SM FEW045 FEW250 07/M06 A3049 RMK AO2 SLP323 T00671056
KEWR 021751Z 23005KT 10SM FEW250 07/M06 A3050 RMK AO2 SLP327 T00721061 10072 21006 58023
KEWR 021651Z VRB04KT 10SM FEW250 06/M06 A3053 RMK AO2 SLP336 T00561056
KEWR 021551Z 16005KT 10SM FEW250 04/M06 A3055 RMK AO2 SLP344 T00441061
KEWR 021451Z 00000KT 10SM FEW250 03/M06 A3057 RMK AO2 SLP350 T00331056 53004
KEWR 021351Z 01004KT 10SM FEW250 03/M06 A3056 RMK AO2 SLP347 T00331056
KEWR 021251Z 28003KT 10SM FEW250 01/M06 A3055 RMK AO2 SLP345 T00061056
KEWR 021151Z 25005KT 10SM CLR M01/M07 A3056 RMK AO2 SLP346 T10061067 10011 21017 53019
KEWR 021051Z 26005KT 10SM CLR M01/M07 A3053 RMK AO2 SLP337 T10061067
KEWR 020951Z 27003KT 10SM CLR M01/M07 A3051 RMK AO2 SLP331 T10061072
KEWR 020851Z 00000KT 10SM CLR M01/M07 A3050 RMK AO2 SLP327 T10061072 51006
KEWR 020751Z 25005KT 10SM CLR 00/M07 A3050 RMK AO2 SLP327 T00001072
KEWR 020651Z 22004KT 10SM CLR M01/M08 A3050 RMK AO2 SLP326 T10061078

KFLL 070553Z 06005KT 10SM FEW040 24/18 A3018 RMK AO2 SLP218 T02390178 10244 20239 58004 $
KFLL 070453Z 07008KT 10SM FEW035 24/18 A3019 RMK AO2 SLP223 T02440178 402780206 $
KFLL 070353Z 06006KT 10SM FEW035 24/17 A3020 RMK AO2 SLP224 T02390172 $
KFLL 070253Z 05005KT 10SM FEW032 24/18 A3019 RMK AO2 SLP223 T02390178 53010 $
KFLL 070153Z 06008KT 10SM FEW031 24/18 A3018 RMK AO2 SLP219 T02440178 $
KFLL 070053Z COR 06007KT 10SM FEW030 24/18 A3017 RMK AO2 SLP216 T02440183 $
KFLL 062353Z COR 06006KT 10SM FEW030 24/18 A3016 RMK AO2 SLP212 T02440178 10278 20244 53010 $
KFLL 062253Z 06009KT 10SM SCT045 BKN055 25/18 A3015 RMK AO2 SLP208 T02500183 $
KFLL 062153Z 07007KT 10SM FEW032 26/18 A3014 RMK AO2 SLP204 T02560183 $
KFLL 062053Z 06009KT 10SM FEW035 26/19 A3013 RMK AO2 SLP202 T02610189 55002 $
KFLL 061953Z 08010KT 10SM SCT035 27/19 A3012 RMK AO2 SLP199 T02670189 $
KFLL 061853Z 04010KT 10SM SCT036 27/19 A3012 RMK AO2 SLP200 T02670189 $
KFLL 061753Z 08004KT 10SM FEW037 27/18 A3014 RMK AO2 SLP204 T02670183 10272 20206 58010 $
KFLL 061653Z 08007KT 10SM FEW037 27/18 A3015 RMK AO2 SLP209 T02720183 $
KFLL 061553Z 05006KT 10SM FEW035 27/19 A3016 RMK AO2 SLP214 T02720189 $
KFLL 061453Z 07007KT 10SM FEW050 27/18 A3017 RMK AO2 SLP214 T02670183 53016 $
KFLL 061353Z VRB03KT 10SM CLR 26/19 A3015 RMK AO2 SLP208 T02560194 $
KFLL 061253Z 36004KT 10SM FEW035 FEW080 22/19 A3013 RMK AO2 SLP203 T02220194 $
KFLL 061153Z 35005KT 10SM FEW035 21/19 A3012 RMK AO2 SLP198 70002 T02060189 10228 20206 53010 $
KFLL 061053Z 35005KT 10SM FEW040 21/19 A3010 RMK AO2 SLP192 T02060189 $
KFLL 060953Z 35004KT 10SM FEW035 FEW045 21/19 A3010 RMK AO2 SLP191 T02110194 $
KFLL 060853Z 34003KT 10SM SCT035 SCT050 22/20 A3009 RMK AO2 SLP188 T02170200 53002 $
KFLL 060753Z 32005KT 10SM BKN035 BKN050 23/21 A3009 RMK AO2 SLP187 T02280206 $
KFLL 060653Z 34003KT 10SM BKN035 BKN050 22/21 A3008 RMK AO2 SLP185 T02220206 $
KFLL 060553Z 34003KT 10SM BKN032 OVC048 23/21 A3008 RMK AO2 RAE52 SLP186 P0001 60002 T02280206 10244 20228 58004 $
KFLL 060453Z VRB03KT 8SM RA SCT030 BKN040 BKN048 23/20 A3009 RMK AO2 RAB46 SLP189 P0001 T02280200 402830194 $
KFLL 060353Z 35004KT 10SM SCT030 BKN042 OVC048 23/21 A3010 RMK AO2 SLP192 T02280206 $
KFLL 060310Z VRB03KT 10SM FEW022 BKN033 OVC048 23/21 A3010 RMK AO2 T02280206 $
KFLL 060253Z 01005KT 10SM SCT022 BKN028 OVC036 23/21 A3009 RMK AO2 SLP190 T02280206 50004 $
KFLL 060249Z 35008KT 10SM SCT022 BKN028 OVC046 23/21 A3009 RMK AO2 $
KFLL 060153Z 03003KT 10SM FEW024 SCT070 24/19 A3009 RMK AO2 SLP188 T02390189 $
KFLL 060053Z 05005KT 10SM FEW040 SCT065 24/19 A3008 RMK AO2 SLP185 T02390194 $
KFLL 052353Z 06007KT 10SM FEW025 FEW042 BKN070 24/19 A3007 RMK AO2 SLP181 T02440194 10283 20244 52012 $
KFLL 052253Z 05008KT 10SM FEW025 SCT043 BKN065 25/19 A3005 RMK AO2 SLP177 T02500194 $
KFLL 052153Z 07012KT 10SM FEW025 SCT042 BKN065 24/21 A3005 RMK AO2 SLP174 T02440206 $
KFLL 052053Z 05011KT 10SM FEW040 SCT046 BKN070 26/19 A3003 RMK AO2 SLP169 T02610189 55003 $
KFLL 051953Z 06008KT 010V090 10SM SCT040 28/18 A3002 RMK AO2 SLP165 T02830178 $
KFLL 051853Z VRB03KT 10SM SCT040 SCT250 28/17 A3002 RMK AO2 SLP166 T02780172 $
KFLL 051753Z 01007KT 10SM SCT040 SCT250 27/17 A3004 RMK AO2 SLP173 T02720172 10278 20200 58018 $
KFLL 051653Z COR 33003KT 10SM FEW045 FEW250 27/17 A3007 RMK AO2 SLP182 T02670172 $
KFLL 051553Z 32007KT 10SM FEW035 FEW250 26/17 A3009 RMK AO2 SLP189 T02610172 $
KFLL 051453Z 34008KT 10SM FEW030 FEW250 24/17 A3010 RMK AO2 SLP191 T02440172 51012 $
KFLL 051353Z 34008KT 10SM FEW030 FEW250 23/17 A3008 RMK AO2 SLP186 T02330172 $
KFLL 051253Z 34005KT 10SM FEW030 FEW250 21/18 A3008 RMK AO2 SLP184 T02110178 $
KFLL 051153Z 33005KT 10SM FEW025 20/17 A3006 RMK AO2 SLP179 T02000172 10200 20194 53007 $
KFLL 051053Z 33006KT 10SM FEW025 20/17 A3005 RMK AO2 SLP174 T02000172 $
KFLL 050953Z 33004KT 10SM CLR 20/18 A3004 RMK AO2 SLP172 T02000178 $
KFLL 050853Z 35004KT 10SM FEW005 19/17 A3004 RMK AO2 SLP172 T01940172 56008 $
KFLL 050753Z 34004KT 10SM CLR 19/17 A3005 RMK AO2 SLP174 T01940172 $
KFLL 050653Z 34004KT 10SM CLR 20/17 A3006 RMK AO2 SLP177 T02000172 $
KFLL 050553Z 34004KT 10SM CLR 20/17 A3007 RMK AO2 SLP180 T02000172 10233 20200 58013 $
KFLL 050453Z 34005KT 10SM FEW035 21/17 A3008 RMK AO2 SLP186 T02060167 402720206 $
KFLL 050353Z 35004KT 10SM FEW037 21/16 A3010 RMK AO2 SLP191 T02110161 $
KFLL 050253Z 32003KT 10SM FEW030 22/16 A3010 RMK AO2 SLP193 T02170161 50002 $
KFLL 050153Z 01003KT 10SM FEW035 22/16 A3011 RMK AO2 SLP194 T02220156 $
KFLL 050053Z 03003KT 10SM CLR 23/16 A3010 RMK AO2 SLP192 T02330156 $
KFLL 042353Z 04005KT 10SM FEW040 23/15 A3010 RMK AO2 SLP191 T02330150 10272 20233 53008 $
KFLL 042253Z 04008KT 10SM FEW030 FEW060 24/16 A3008 RMK AO2 SLP187 T02390156 $
KFLL 042153Z 04007KT 10SM FEW027 FEW044 25/16 A3007 RMK AO2 SLP184 T02500156 $
KFLL 042053Z 06010KT 10SM FEW043 26/16 A3007 RMK AO2 SLP183 T02610156 56013 $
KFLL 041953Z 08009KT 10SM SCT041 SCT048 26/17 A3008 RMK AO2 SLP184 T02610167 $
KFLL 041853Z 06013KT 10SM SCT041 27/17 A3009 RMK AO2 SLP188 T02670167 $
KFLL 041753Z 08010KT 10SM BKN042 27/17 A3011 RMK AO2 SLP196 T02670167 10272 20228 58021 $
KFLL 041653Z 06009KT 10SM FEW040 SCT049 27/17 A3014 RMK AO2 SLP205 T02720172 $
KFLL 041553Z 06008KT 10SM SCT049 27/16 A3016 RMK AO2 SLP213 T02720161 $
KFLL 041453Z 06006KT 10SM FEW038 SCT050 26/17 A3018 RMK AO2 SLP217 T02560167 51012 $
KFLL 041353Z 06007KT 10SM FEW041 26/16 A3017 RMK AO2 SLP215 T02560161 $
KFLL 041253Z 07007KT 10SM SCT042 24/16 A3016 RMK AO2 SLP211 T02390161 $
KFLL 041153Z 06005KT 10SM SCT045 23/16 A3014 RMK AO2 SLP205 T02280161 10239 20228 53004 $
KFLL 041053Z 06006KT 10SM SCT045 23/16 A3013 RMK AO2 SLP202 T02280161 $
KFLL 040953Z 06008KT 10SM SCT045 23/16 A3012 RMK AO2 SLP200 T02330161 $
KFLL 040853Z 06008KT 10SM BKN044 23/17 A3013 RMK AO2 SLP202 T02330167 56015 $
KFLL 040753Z 07006KT 10SM FEW045 23/16 A3013 RMK AO2 SLP204 T02330161 $
KFLL 040653Z 06009KT 10SM FEW045 24/16 A3015 RMK AO2 SLP210 T02390161 $
KFLL 040553Z 05006KT 10SM FEW045 23/16 A3017 RMK AO2 SLP216 T02330156 10244 20228 58017 $
KFLL 040453Z 06009KT 10SM FEW045 23/16 A3020 RMK AO2 SLP225 T02330156 402780228 $
KFLL 040353Z 06007KT 10SM BKN045 23/16 A3021 RMK AO2 SLP229 T02330161 $
KFLL 040253Z 07008KT 10SM FEW042 24/16 A3022 RMK AO2 SLP233 T02390161 51001 $
KFLL 040153Z 07007KT 10SM FEW044 24/16 A3022 RMK AO2 SLP233 T02390161 $
KFLL 040053Z 06008KT 10SM FEW042 24/16 A3023 RMK AO2 SLP234 T02390161 $
KFLL 032353Z 06008KT 10SM FEW044 24/16 A3022 RMK AO2 SLP233 T02390161 10272 20239 53010 $
KFLL 032253Z 06008KT 10SM SCT035 BKN250 24/17 A3021 RMK AO2 SLP228 T02440167 $
KFLL 032153Z 04012KT 10SM SCT040 BKN250 25/17 A3020 RMK AO2 SLP225 T02500167 $
KFLL 032053Z 05014KT 10SM SCT039 26/17 A3019 RMK AO2 SLP223 T02610172 55009 $
KFLL 031953Z 05013KT 10SM BKN039 26/18 A3019 RMK AO2 SLP222 T02610178 $
KFLL 031853Z 07010KT 10SM BKN041 27/18 A3020 RMK AO2 SLP226 T02670178 $
KFLL 031753Z 07013KT 10SM BKN048 27/17 A3022 RMK AO2 SLP232 T02720172 10278 20244 58022 $
KFLL 031653Z 08012KT 10SM SCT049 27/16 A3025 RMK AO2 SLP243 T02720156 $
KFLL 031553Z 08012KT 10SM BKN039 BKN048 27/17 A3027 RMK AO2 SLP251 T02670167 $
KFLL 031453Z 07013G19KT 10SM SCT035 27/17 A3028 RMK AO2 SLP254 T02720167 51016 $
KFLL 031353Z 09012KT 10SM SCT031 SCT048 26/17 A3028 RMK AO2 SLP252 T02560167 $
KFLL 031253Z 09010KT 10SM SCT031 SCT048 SCT250 24/16 A3026 RMK AO2 SLP245 T02440161 $
KFLL 031153Z 09010KT 10SM SCT034 BKN045 24/17 A3024 RMK AO2 SLP238 T02440167 10250 20244 53010 $
KFLL 031053Z 08011KT 10SM SCT035 OVC045 24/17 A3022 RMK AO2 SLP234 T02440167 $
KFLL 030953Z 10012KT 10SM SCT034 BKN044 24/17 A3020 RMK AO2 SLP227 T02440172 $
KFLL 030853Z 09012KT 10SM SCT032 BKN044 24/17 A3020 RMK AO2 SLP227 T02440167 56006 $
KFLL 030753Z 09014G19KT 10SM SCT035 BKN042 24/17 A3021 RMK AO2 SLP229 T02440172 $
KFLL 030653Z 08015G21KT 10SM SCT035 BKN045 24/17 A3021 RMK AO2 SLP228 T02440172 $
KFLL 030553Z 09013KT 10SM SCT035 BKN045 BKN055 24/17 A3022 RMK AO2 SLP233 T02440172 10250 20239 56015 $
KFLL 030453Z 07011G22KT 10SM FEW035 SCT045 24/19 A3023 RMK AO2 SLP238 T02440189 402720233 $
KFLL 030353Z 08017G22KT 10SM FEW043 24/15 A3025 RMK AO2 SLP243 T02440150 $
KFLL 030253Z 07012G23KT 10SM SCT039 24/17 A3026 RMK AO2 SLP248 T02440172 52013 $
KFLL 030153Z 08016G23KT 10SM FEW037 SCT044 24/16 A3025 RMK AO2 SLP244 T02440161 $
KFLL 030053Z 07013KT 10SM SCT045 24/16 A3024 RMK AO2 SLP239 T02440161 $
KFLL 022353Z 07014G18KT 10SM SCT039 24/16 A3023 RMK AO2 SLP235 T02440161 10272 20239 53010 $
KFLL 022253Z 06012G18KT 10SM FEW047 24/15 A3021 RMK AO2 SLP229 T02440150 $
KFLL 022153Z 07014KT 10SM SCT044 25/16 A3020 RMK AO2 SLP227 T02500161 $
KFLL 022053Z 05015KT 10SM BKN042 26/17 A3020 RMK AO2 SLP225 T02560167 55004 $
KFLL 021953Z 05013G21KT 10SM SCT047 27/16 A3020 RMK AO2 SLP225 T02670161 $
KFLL 021853Z 06012G18KT 10SM SCT044 27/16 A3020 RMK AO2 SLP227 T02670161 $
KFLL 021753Z 06013G20KT 10SM SCT037 SCT250 27/17 A3021 RMK AO2 SLP229 T02670167 10272 20239 58016 $
KFLL 021653Z 08015G20KT 10SM SCT035 SCT250 27/17 A3023 RMK AO2 SLP236 T02720172 $
KFLL 021553Z 09016G21KT 10SM FEW030 SCT250 27/17 A3025 RMK AO2 SLP241 T02720167 $
KFLL 021453Z 07015G21KT 10SM FEW036 SCT048 SCT250 26/17 A3026 RMK AO2 SLP245 T02610172 51015 $
KFLL 021353Z 07014G23KT 10SM FEW033 SCT050 SCT250 26/17 A3025 RMK AO2 SLP242 T02610172 $
KFLL 021253Z 07012KT 10SM SCT027 SCT045 BKN250 25/18 A3023 RMK AO2 SLP236 T02500178 $
KFLL 021153Z 07011KT 10SM SCT025 BKN043 24/18 A3021 RMK AO2 SLP231 70001 T02440178 10244 20233 53013 $
KFLL 021053Z 06009KT 10SM SCT048 24/17 A3019 RMK AO2 SLP224 T02390172 $
KFLL 020953Z 06008KT 10SM SCT044 24/17 A3018 RMK AO2 SLP219 T02390167 $
KFLL 020853Z 06010G17KT 10SM SCT043 24/16 A3018 RMK AO2 SLP218 T02390161 55002 $
KFLL 020753Z 06012G17KT 10SM BKN043 24/16 A3016 RMK AO2 SLP214 T02440161 $
KFLL 020653Z 07013G18KT 10SM FEW029 24/17 A3017 RMK AO2 SLP215 T02440172 $

KIAD 070552Z 17004KT 10SM OVC006 10/09 A3018 RMK AO2 SLP221 60000 T01000089 10100 20089 56003
KIAD 070452Z 18006KT 10SM BKN008 OVC047 10/08 A3018 RMK AO2 SLP221 T01000083 401001022
KIAD 070441Z 18006KT 10SM BKN008 OVC047 09/08 A3019 RMK AO2 T00940083
KIAD 070423Z 17007KT 10SM SCT008 BKN020 OVC046 09/08 A3019 RMK AO2 T00940083
KIAD 070352Z 18007KT 10SM OVC007 09/08 A3019 RMK AO2 SLP224 T00940083
KIAD 070252Z 18005KT 7SM OVC006 09/08 A3019 RMK AO2 SLP225 60000 T00890078 56002
KIAD 070152Z 17005KT 8SM OVC006 09/08 A3020 RMK AO2 SLP226 T00890078
KIAD 070052Z 17008KT 8SM OVC006 09/07 A3019 RMK AO2 RAB14E23 SLP226 P0000 T00890072
KIAD 062352Z 19008KT 9SM OVC006 09/07 A3020 RMK AO2 SLP227 60001 T00890072 10089 20083 51005
KIAD 062252Z 16005KT 6SM BR OVC006 08/07 A3019 RMK AO2 RAE24 SLP225 P0000 T00830072
KIAD 062152Z 18005KT 7SM -RA OVC007 09/08 A3020 RMK AO2 RAE00B19 SLP228 P0001 T00890078
KIAD 062052Z 18006KT 10SM -RA OVC007 09/08 A3019 RMK AO2 RAB50 SLP223 P0000 60000 T00890078 55004
KIAD 061952Z 17006KT 5SM BR OVC006 09/08 A3018 RMK AO2 SLP222 T00890078
KIAD 061852Z 19007KT 6SM BR OVC006 09/07 A3019 RMK AO2 SLP225 T00890072
KIAD 061759Z 19005KT 3SM BR BKN006 OVC033 08/07 A3020 RMK AO2 T00830072
KIAD 061752Z 17005KT 6SM BR SCT006 BKN024 OVC046 08/07 A3020 RMK AO2 SLP227 60003 T00830067 10083 20050 58019
KIAD 061707Z 00000KT 3SM BR OVC015 08/06 A3022 RMK AO2 T00780056
KIAD 061659Z 00000KT 3SM BR OVC013 07/06 A3024 RMK AO2 T00720056
KIAD 061652Z 00000KT 2 1/2SM BR OVC013 07/06 A3024 RMK AO2 SLP241 VIS S 4 T00720056
KIAD 061552Z 17003KT 10SM OVC017 07/05 A3024 RMK AO2 SLP241 T00720050
KIAD 061452Z 17004KT 5SM BR OVC018 07/06 A3025 RMK AO2 RAE11 SLP246 P0000 60003 T00670056 50006
KIAD 061431Z 00000KT 5SM BR BKN020 OVC043 07/06 A3025 RMK AO2 RAE11 P0000 T00670056
KIAD 061359Z 14004KT 5SM -RA BR FEW016 OVC038 06/04 A3025 RMK AO2 P0000 T00560044
KIAD 061352Z 13005KT 4SM -RA BR BKN014 OVC033 06/04 A3025 RMK AO2 RAB08 SLP246 P0003 T00560039
KIAD 061330Z 00000KT 6SM -RA BR BKN014 OVC033 05/03 A3026 RMK AO2 RAB08 P0001 T00500033
KIAD 061252Z 00000KT 10SM OVC016 06/03 A3024 RMK AO2 SLP243 T00560028
KIAD 061152Z 33003KT 10SM OVC015 05/02 A3023 RMK AO2 SLP239 60000 T00500022 10050 21022 53000
KIAD 061055Z 00000KT 10SM BKN017 OVC046 05/03 A3022 RMK AO2 T00500028
KIAD 061052Z 00000KT 10SM SCT017 OVC046 05/03 A3022 RMK AO2 SLP234 T00500028
KIAD 061033Z 00000KT 10SM SCT018 OVC046 04/02 A3022 RMK AO2 T00440022
KIAD 060952Z 00000KT 10SM OVC018 04/02 A3022 RMK AO2 RAB31E45 SLP235 P0000 T00390017
KIAD 060852Z 00000KT 10SM BKN019 BKN027 OVC032 04/01 A3023 RMK AO2 SLP238 T00390011 50001
KIAD 060717Z 00000KT 10SM BKN022 OVC100 01/M01 A3025 RMK AO2 T00111006
KIAD 060701Z 00000KT 10SM SCT020 OVC100 01/M01 A3024 RMK AO2 T00061011
KIAD 060652Z 00000KT 10SM BKN020 00/M01 A3024 RMK AO2 SLP241 T00001011
KIAD 060638Z 00000KT 10SM BKN020 M01/M02 A3024 RMK AO2 T10061022
KIAD 060552Z 00000KT 10SM FEW250 M01/M03 A3023 RMK AO2 SLP238 T10061028 10050 21011 56005
KIAD 060452Z 00000KT 10SM FEW250 02/M01 A3023 RMK AO2 SLP239 T00171006 401001061
KIAD 060352Z 13003KT 10SM CLR 02/M01 A3024 RMK AO2 SLP241 T00221006
KIAD 060252Z 00000KT 10SM CLR M01/M04 A3024 RMK AO2 SLP243 T10061039 50006
KIAD 060152Z 12003KT 10SM CLR 00/M03 A3025 RMK AO2 SLP245 T00001033
KIAD 060052Z 00000KT 10SM CLR 03/M03 A3025 RMK AO2 SLP247 T00281033
KIAD 052352Z 15006KT 10SM CLR 05/M03 A3022 RMK AO2 SLP238 T00501033 10100 20044 50007
KIAD 052252Z 13005KT 10SM CLR 06/M03 A3023 RMK AO2 SLP238 T00561033
KIAD 052152Z 14005KT 10SM SCT050 SCT100 07/M05 A3021 RMK AO2 SLP234 T00671050
KIAD 052052Z 15009KT 10SM FEW050 SCT100 09/M03 A3020 RMK AO2 SLP230 T00891028 55006
KIAD 051952Z 15008KT 10SM FEW050 SCT150 10/M02 A3020 RMK AO2 SLP229 T01001022
KIAD 051852Z 17007KT 10SM FEW150 SCT250 10/M02 A3021 RMK AO2 SLP232 T01001017
KIAD 051752Z 16008KT 10SM BKN180 BKN250 09/M02 A3022 RMK AO2 SLP236 T00891017 10094 21061 58018
KIAD 051652Z 20008KT 10SM BKN250 08/00 A3023 RMK AO2 SLP240 T00780000
KIAD 051552Z 20007KT 10SM BKN250 06/00 A3026 RMK AO2 SLP250 T00610000
KIAD 051452Z 21003KT 10SM BKN250 03/M02 A3028 RMK AO2 SLP255 T00281017 51015
KIAD 051352Z 00000KT 10SM BKN250 M01/M03 A3026 RMK AO2 SLP250 T10061028
KIAD 051252Z 00000KT 10SM BKN250 M04/M06 A3025 RMK AO2 SLP247 T10391061
KIAD 051152Z 00000KT 10SM SCT250 M06/M07 A3023 RMK AO2 SLP240 I1000 I6000 T10561072 11033 21061 51009
KIAD 051052Z 00000KT 10SM SCT250 M06/M07 A3022 RMK AO2 SLP237 T10561072
KIAD 050952Z 00000KT 10SM CLR M05/M07 A3021 RMK AO2 SLP234 T10501072
KIAD 050852Z 14003KT 10SM CLR M04/M07 A3020 RMK AO2 SLP229 T10391067 53001
KIAD 050752Z 00000KT 10SM CLR M05/M07 A3020 RMK AO2 SLP229 T10501072
KIAD 050652Z 00000KT 10SM CLR M04/M07 A3020 RMK AO2 SLP227 T10391067
KIAD 050552Z 00000KT 10SM CLR M04/M07 A3020 RMK AO2 SLP228 T10391067 10006 21044 57007
KIAD 050452Z 00000KT 10SM CLR M03/M07 A3021 RMK AO2 SLP230 T10331067 400891039
KIAD 050352Z 25003KT 10SM CLR M03/M07 A3021 RMK AO2 SLP232 T10331067
KIAD 050252Z 00000KT 10SM CLR M03/M06 A3022 RMK AO2 SLP235 T10281061 51005
KIAD 050152Z 13003KT 10SM CLR M02/M06 A3021 RMK AO2 SLP231 T10171061
KIAD 050052Z 00000KT 10SM CLR M01/M06 A3023 RMK AO2 SLP238 T10111061
KIAD 042352Z 13004KT 10SM CLR 01/M06 A3020 RMK AO2 SLP229 T00061061 10089 21011 58001
KIAD 042252Z 15003KT 10SM CLR 01/M07 A3022 RMK AO2 SLP235 T00061067
KIAD 042152Z 17004KT 10SM FEW250 04/M07 A3019 RMK AO2 SLP227 T00391067
KIAD 042052Z 00000KT 10SM FEW250 08/M08 A3020 RMK AO2 SLP228 T00831083 58009
KIAD 041952Z 27003KT 10SM FEW250 08/M08 A3022 RMK AO2 SLP234 T00781083
KIAD 041852Z 32006KT 10SM BKN250 08/M08 A3022 RMK AO2 SLP234 T00781083
KIAD 041752Z 35008KT 10SM BKN250 06/M06 A3023 RMK AO2 SLP238 T00611061 10072 20006 58021
KIAD 041652Z VRB03KT 10SM BKN250 07/M06 A3025 RMK AO2 SLP245 T00671056
KIAD 041552Z 33007KT 10SM BKN250 06/M04 A3028 RMK AO2 SLP254 T00561044
KIAD 041452Z 33008KT 10SM R01R/5000VP6000FT BKN250 04/M04 A3029 RMK AO2 SLP259 T00391044 53004
KIAD 041352Z 31006KT 10SM SCT250 03/M04 A3028 RMK AO2 SLP255 T00331039
KIAD 041252Z 32005KT 10SM SCT250 02/M04 A3028 RMK AO2 SLP255 T00171039
KIAD 041152Z 32008KT 10SM FEW250 01/M04 A3028 RMK AO2 SLP255 70016 T00111039 10056 20011 53001
KIAD 041052Z 33007KT 10SM CLR 02/M04 A3027 RMK AO2 SLP249 T00171039
KIAD 040952Z 34009KT 10SM CLR 03/M04 A3027 RMK AO2 SLP250 T00331039
KIAD 040852Z 35004KT 10SM CLR 03/M03 A3028 RMK AO2 SLP253 T00331033 50012
KIAD 040752Z 36006KT 10SM FEW120 FEW250 03/M03 A3028 RMK AO2 SLP254 T00281028
KIAD 040652Z 36007KT 10SM FEW120 04/M03 A3027 RMK AO2 SLP250 T00441028
KIAD 040552Z 00000KT 10SM CLR 05/M03 A3024 RMK AO2 SLP241 T00501033 10139 20050 50002
KIAD 040452Z 28004KT 10SM CLR 07/M03 A3025 RMK AO2 SLP244 T00721033 401670056
KIAD 040352Z 33003KT 10SM CLR 07/M03 A3025 RMK AO2 SLP243 T00671028
KIAD 040252Z 31008KT 10SM CLR 09/M02 A3023 RMK AO2 SLP238 T00891017 51031
KIAD 040152Z 33008KT 10SM CLR 11/M02 A3021 RMK AO2 SLP229 T01061022
KIAD 040052Z 32013KT 10SM FEW050 12/M03 A3018 RMK AO2 PK WND 31026/0015 PRESRR SLP221 T01221028
KIAD 032352Z 32015G22KT 10SM FEW050 FEW080 FEW250 14/02 A3014 RMK AO2 SLP207 T01390022 10167 20139 53039
KIAD 032252Z 28008G17KT 10SM FEW050 SCT075 SCT250 16/07 A3010 RMK AO2 SLP192 T01560067
KIAD 032152Z 25005KT 10SM SCT049 BKN075 BKN120 BKN250 16/11 A3006 RMK AO2 SLP178 T01560111
KIAD 032052Z 20011KT 10SM SCT050 BKN075 BKN250 16/11 A3002 RMK AO2 SLP166 T01610111 55005
KIAD 031952Z 21013G20KT 10SM SCT050 SCT080 16/11 A3001 RMK AO2 SLP162 T01610111
KIAD 031852Z COR 21012G24KT 10SM BKN075 BKN090 16/11 A3002 RMK AO2 PK WND 20028/1806 SLP165 T01560111
KIAD 031752Z 21016G25KT 10SM BKN085 16/12 A3004 RMK AO2 PK WND 21029/1656 SLP171 60016 T01610117 10161 20100 58031
KIAD 031652Z 20017G25KT 10SM SCT014 BKN080 14/11 A3008 RMK AO2 PK WND 19034/1602 SLP185 T01390111
KIAD 031626Z 20020G28KT 10SM SCT012 BKN095 13/11 A3008 RMK AO2 PK WND 19034/1602 T01330111
KIAD 031552Z 20015G24KT 10SM BKN010 OVC015 12/11 A3011 RMK AO2 PK WND 19028/1535 RAE03 SLP197 P0000 T01220106
KIAD 031508Z 20016G24KT 10SM BKN010 OVC015 12/10 A3013 RMK AO2 RAE03 P0000 T01170100
KIAD 031454Z 19017G24KT 10SM -RA BKN010 OVC070 12/10 A3013 RMK AO2 P0000 T01170100
KIAD 031452Z 19018G24KT 10SM -RA BKN010 OVC016 12/10 A3013 RMK AO2 PK WND 19026/1442 RAE21B37 SLP203 P0001 60016 T01170100 58021
KIAD 031404Z 19014G23KT 8SM -RA SCT009 BKN018 OVC065 11/09 A3015 RMK AO2 P0001 T01110094
KIAD 031354Z 19014G22KT 7SM -RA BKN009 BKN018 OVC065 11/09 A3016 RMK AO2 P0000 T01060094
KIAD 031352Z 19013G22KT 8SM -RA SCT012 BKN026 OVC065 11/09 A3016 RMK AO2 SLP212 P0009 T01060094
KIAD 031307Z 19010G18KT 5SM RA BR FEW012 BKN028 OVC065 11/09 A3018 RMK AO2 P0002 T01060094
KIAD 031252Z 19012G20KT 7SM -RA SCT028 BKN065 OVC090 11/09 A3017 RMK AO2 SLP218 P0006 T01060089
KIAD 031152Z 18010G17KT 7SM RA BKN025 OVC085 10/08 A3019 RMK AO2 SLP225 P0016 60017 70017 T01000083 10111 20083 55004
KIAD 031052Z 20015G23KT 10SM -RA BKN020 OVC090 11/07 A3018 RMK AO2 LTG DSNT W RAB38 SLP220 P0000 T01110067
KIAD 031043Z 19012G19KT 10SM -RA BKN020 OVC090 11/06 A3018 RMK AO2 LTG DSNT W RAB38 P0000 T01110061
KIAD 030952Z 19014G23KT 10SM FEW028 OVC090 11/06 A3019 RMK AO2 PK WND 20029/0936 SLP224 T01060056
KIAD 030944Z 19013G29KT 10SM SCT028 OVC090 11/06 A3019 RMK AO2 PK WND 20029/0936 T01060056
KIAD 030852Z 18013G20KT 10SM OVC028 10/05 A3021 RMK AO2 RAB0755E18 SLP229 P0000 60001 T01000050 58031
KIAD 030839Z 18010G19KT 10SM BKN028 OVC100 09/05 A3022 RMK AO2 RAB0755E18 P0000 T00940050
KIAD 030752Z 18013G24KT 10SM SCT034 BKN060 OVC100 09/03 A3026 RMK AO2 SLP247 T00940033
KIAD 030652Z 17011G21KT 10SM FEW060 BKN090 OVC120 09/02 A3027 RMK AO2 RAB11E51 PRESFR SLP249 P0001 T00890022
KIAD 030552Z 19014G21KT 10SM FEW032 OVC120 09/M01 A3030 RMK AO2 SLP260 T00941011 10100 20061 58017
KIAD 030452Z 19012KT 10SM FEW030 OVC110 09/M02 A3032 RMK AO2 SLP268 T00941022 401111061
KIAD 030352Z 17007KT 10SM BKN130 OVC250 09/M03 A3033 RMK AO2 SLP273 T00891033
KIAD 030252Z 17007KT 10SM BKN120 08/M04 A3035 RMK AO2 SLP278 T00831039 58017
KIAD 030152Z 17007KT 10SM OVC110 09/M04 A3037 RMK AO2 SLP285 T00891044
KIAD 030052Z 15006KT 10SM SCT110 07/M05 A3039 RMK AO2 SLP292 T00721050
KIAD 022352Z 15006KT 10SM FEW110 07/M06 A3040 RMK AO2 SLP298 T00671056 10111 20067 58004
KIAD 022252Z 16005KT 10SM BKN110 BKN250 08/M06 A3041 RMK AO2 SLP300 T00831056
KIAD 022152Z 15006KT 10SM BKN120 BKN250 09/M06 A3041 RMK AO2 SLP301 T00891056
KIAD 022052Z 14008KT 10SM SCT140 BKN250 10/M06 A3041 RMK AO2 SLP300 T01001056 55009
KIAD 021952Z 18007KT 10SM BKN120 BKN200 09/M07 A3041 RMK AO2 SLP300 T00941067
KIAD 021852Z 18010G17KT 10SM BKN120 BKN250 10/M07 A3042 RMK AO2 SLP303 T01001072
KIAD 021752Z 18009G18KT 10SM BKN120 BKN250 10/M06 A3044 RMK AO2 SLP309 T01001061 10100 21061 58032
KIAD 021652Z 20009KT 10SM BKN120 09/M04 A3048 RMK AO2 SLP323 T00891044
KIAD 021552Z 18010G15KT 10SM FEW120 SCT250 07/M03 A3051 RMK AO2 SLP336 T00671033
KIAD 021452Z 16006KT 10SM FEW012 SCT250 04/M03 A3053 RMK AO2 SLP342 T00441033 58003
KIAD 021352Z 00000KT 10SM FEW120 SCT250 00/M04 A3055 RMK AO2 SLP346 T00001044
KIAD 021252Z 00000KT 10SM BKN120 BKN220 M03/M06 A3055 RMK AO2 SLP349 T10281056
KIAD 021152Z 00000KT 10SM FEW090 M06/M08 A3054 RMK AO2 SLP346 T10561078 11028 21061 51011
KIAD 021052Z 00000KT 10SM CLR M06/M08 A3053 RMK AO2 SLP343 T10561083
KIAD 020952Z 00000KT 10SM CLR M05/M08 A3052 RMK AO2 SLP338 T10501078
KIAD 020852Z 00000KT 10SM CLR M05/M08 A3051 RMK AO2 SLP334 T10501083 55002
KIAD 020752Z 00000KT 10SM CLR M04/M08 A3051 RMK AO2 SLP333 T10391078
KIAD 020652Z 00000KT 10SM CLR M04/M08 A3052 RMK AO2 SLP336 T10391078

KIAH 070621Z 17003KT 7SM BKN006 BKN018 21/21 A3010 RMK AO2 T02110206
KIAH 070553Z 17006KT 10SM FEW010 FEW020 21/21 A3009 RMK AO2 SLP189 T02110206 10250 20211 402780206 52011
KIAH 070453Z 17005KT 10SM FEW014 FEW040 22/21 A3009 RMK AO2 SLP187 T02170206
KIAH 070353Z 16009KT 10SM FEW014 FEW042 22/21 A3006 RMK AO2 SLP180 T02220211
KIAH 070253Z 17004KT 10SM FEW015 BKN043 23/21 A3006 RMK AO2 SLP178 T02280211 51022
KIAH 070153Z 16006KT 10SM SCT017 BKN043 23/21 A3004 RMK AO2 SLP171 T02330206
KIAH 070053Z 18007KT 10SM FEW020 SCT040 BKN250 24/21 A3002 RMK AO2 SLP164 T02390206
KIAH 062353Z 17006KT 10SM FEW029 SCT045 BKN250 25/21 A2999 RMK AO2 SLP156 60000 T02500206 10278 20250 53011
KIAH 062253Z 20005KT 10SM FEW033 SCT050 BKN250 26/19 A2998 RMK AO2 SLP150 T02610194
KIAH 062153Z 21008G15KT 10SM SCT036 BKN055 BKN250 27/19 A2997 RMK AO2 SLP147 T02720194
KIAH 062053Z COR 19006G16KT 10SM SCT034 BKN050 27/20 A2996 RMK AO2 SLP144 60000 T02720200 56015
KIAH 061953Z 19007G14KT 10SM SCT030 BKN045 27/20 A2996 RMK AO2 SLP144 T02670200
KIAH 061853Z 20008KT 10SM SCT027 OVC045 26/20 A2997 RMK AO2 RAB04E14 SLP150 P0000 T02610200
KIAH 061753Z 24007KT 10SM BKN023 OVC043 26/20 A3000 RMK AO2 RAE08B37E48 SLP160 P0000 60000 T02560200 10256 20206 50000
KIAH 061737Z VRB06KT 10SM -RA BKN023 OVC043 25/21 A3001 RMK AO2 RAE08B37 P0000 T02500206
KIAH 061653Z 19010G16KT 10SM -RA SCT020 OVC043 24/21 A3002 RMK AO2 RAB46 SLP165 P0000 T02390206
KIAH 061635Z 22008KT 10SM SCT017 OVC043 24/21 A3003 RMK AO2 T02440211
KIAH 061615Z COR 20007KT 10SM BKN016 OVC043 23/21 A3003 RMK AO2 T02330211
KIAH 061553Z 18006G15KT 10SM BKN016 OVC040 23/21 A3002 RMK AO2 SLP166 T02330211
KIAH 061523Z 19005KT 10SM BKN016 OVC035 23/21 A3002 RMK AO2 T02280211
KIAH 061453Z 18003KT 10SM SCT015 OVC033 22/21 A3000 RMK AO2 SLP159 T02170206 53020
KIAH 061353Z 17004KT 7SM FEW020 OVC042 21/20 A2998 RMK AO2 SLP153 T02110200
KIAH 061253Z 16005KT 7SM FEW018 OVC037 21/20 A2996 RMK AO2 SLP145 T02110200
KIAH 061153Z 18004KT 7SM FEW011 SCT020 OVC038 21/20 A2994 RMK AO2 SLP140 T02060200 10217 20206 53005
KIAH 061128Z 00000KT 7SM FEW011 SCT020 BKN038 21/20 A2994 RMK AO2 T02060200
KIAH 061053Z 19004KT 7SM FEW015 OVC027 21/20 A2994 RMK AO2 SLP136 T02110200
KIAH 061044Z 18004KT 10SM SCT012 OVC028 21/21 A2993 RMK AO2 T02110206
KIAH 061024Z 16003KT 10SM BKN012 OVC028 21/20 A2993 RMK AO2 T02110200
KIAH 060953Z 17005KT 10SM SCT014 OVC026 21/20 A2992 RMK AO2 SLP133 T02110200
KIAH 060853Z 19006KT 10SM BKN012 BKN250 21/20 A2993 RMK AO2 SLP134 BKN012 V SCT T02110200 55000
KIAH 060811Z 19008KT 10SM BKN012 BKN250 21/20 A2992 RMK AO2 T02110200
KIAH 060753Z 19005KT 10SM SCT012 BKN250 21/20 A2993 RMK AO2 SLP134 T02110200
KIAH 060653Z VRB06KT 10SM BKN010 BKN250 22/21 A2993 RMK AO2 SLP134 T02170206
KIAH 060553Z 19006KT 10SM BKN010 22/21 A2993 RMK AO2 SLP135 T02170206 10244 20217 402780183 51004
KIAH 060453Z 19007KT 10SM BKN010 BKN021 22/21 A2993 RMK AO2 SLP133 T02170206
KIAH 060353Z 18005KT 10SM BKN011 BKN021 22/21 A2993 RMK AO2 SLP136 T02220206
KIAH 060320Z 17005KT 10SM BKN013 BKN021 22/20 A2993 RMK AO2 T02170200
KIAH 060253Z 17004KT 10SM SCT018 22/19 A2992 RMK AO2 SLP130 T02220194 51009
KIAH 060153Z 19006KT 10SM FEW025 23/19 A2991 RMK AO2 SLP129 T02280189
KIAH 060053Z 19005KT 10SM FEW030 FEW250 23/19 A2991 RMK AO2 SLP126 T02330189
KIAH 052353Z 19007KT 10SM FEW036 SCT250 24/19 A2989 RMK AO2 SLP122 T02440189 10278 20244 53001
KIAH 052253Z 20007KT 10SM FEW040 SCT250 26/18 A2988 RMK AO2 SLP119 T02560183
KIAH 052153Z 21008G17KT 10SM SCT040 SCT250 27/18 A2988 RMK AO2 SLP118 T02720178
KIAH 052053Z 21010G18KT 180V240 10SM SCT035 SCT060 27/19 A2989 RMK AO2 SLP120 T02670194 56029
KIAH 051953Z 19007G22KT 10SM FEW024 SCT060 SCT120 27/19 A2990 RMK AO2 SLP124 T02670194
KIAH 051853Z 22009G17KT 10SM SCT022 BKN065 BKN120 26/20 A2994 RMK AO2 SLP137 T02610200
KIAH 051753Z 22010G17KT 10SM SCT022 BKN035 BKN060 25/20 A2997 RMK AO2 SLP150 T02500200 10250 20194 58012
KIAH 051741Z 22009G17KT 10SM SCT022 BKN035 BKN060 24/19 A2998 RMK AO2 T02440194
KIAH 051653Z 21007G16KT 180V250 10SM BKN015 BKN025 BKN040 24/20 A3001 RMK AO2 SLP161 T02440200
KIAH 051632Z 21008KT 7SM BKN010 BKN019 23/21 A3002 RMK AO2 T02330206
KIAH 051553Z 21007KT 7SM BKN007 23/21 A3001 RMK AO2 SLP163 T02280206
KIAH 051542Z 21008KT 7SM BKN007 22/21 A3001 RMK AO2 T02220206
KIAH 051453Z 18005KT 7SM OVC004 21/21 A3001 RMK AO2 SLP161 T02110206 53008
KIAH 051353Z 19005KT 3SM BR OVC004 21/20 A3000 RMK AO2 SFC VIS 4 SLP158 T02060200
KIAH 051253Z 17005KT 3SM BR OVC004 20/19 A2999 RMK AO2 SFC VIS 4 SLP154 T02000194
KIAH 051153Z 17005KT 3SM BR OVC004 19/19 A2998 RMK AO2 SFC VIS 5 SLP153 T01940194 10194 20183 56010
KIAH 051053Z 18003KT 3SM BR OVC004 19/19 A2999 RMK AO2 SFC VIS 4 SLP155 T01940189
KIAH 051041Z 17005KT 3SM BR OVC004 19/19 A2999 RMK AO2 SFC VIS 4 T01940189
KIAH 050953Z 18004KT 1/2SM BR BKN004 OVC055 19/19 A3000 RMK AO2 SFC VIS 4 SLP157 T01890189
KIAH 050853Z 18004KT 1/2SM BR OVC003 19/18 A3002 RMK AO2 SFC VIS 3 SLP164 T01890183 56015
KIAH 050753Z 19003KT 1/2SM BR OVC003 19/18 A3003 RMK AO2 SFC VIS 2 1/2 SLP169 T01890183
KIAH 050653Z 17003KT 1/2SM BR OVC003 18/18 A3004 RMK AO2 SFC VIS 2 SLP172 T01830183
KIAH 050634Z 18005KT 1/2SM BR OVC003 18/18 A3005 RMK AO2 SFC VIS 3 T01830183
KIAH 050553Z 17006KT 4SM BR OVC004 18/18 A3006 RMK AO2 SLP179 T01830183 10189 20178 402060144 58017
KIAH 050546Z 17004KT 4SM BR OVC004 18/18 A3006 RMK AO2 T01830183
KIAH 050453Z 16008KT 4SM BR OVC006 19/18 A3009 RMK AO2 SLP188 T01890178
KIAH 050353Z 17006KT 4SM BR OVC006 19/18 A3011 RMK AO2 SLP195 T01890178
KIAH 050253Z 18004KT 4SM BR OVC007 19/18 A3011 RMK AO2 SLP196 BINOVC T01890178 50001
KIAH 050153Z 18005KT 5SM BR OVC007 19/18 A3011 RMK AO2 SLP196 T01890178
KIAH 050126Z 00000KT 7SM BKN009 OVC060 19/17 A3011 RMK AO2 T01890172
KIAH 050053Z 14004KT 7SM SCT010 BKN060 OVC250 19/16 A3011 RMK AO2 SLP196 T01890161
KIAH 042353Z 11005KT 7SM SCT047 BKN060 BKN250 18/16 A3011 RMK AO2 SLP195 T01830156 10206 20172 56016
KIAH 042253Z 13009KT 7SM FEW015 BKN050 BKN250 19/16 A3012 RMK AO2 SLP199 T01940156
KIAH 042153Z 16006KT 7SM FEW016 BKN045 BKN250 20/15 A3014 RMK AO2 SLP205 T02000150
KIAH 042109Z 09006KT 7SM SCT015 BKN048 BKN250 21/15 A3015 RMK AO2 T02060150
KIAH 042053Z 00000KT 10SM BKN015 BKN025 BKN048 19/14 A3015 RMK AO2 SLP211 T01940144 56028
KIAH 041953Z 07005KT 10SM BKN015 OVC025 19/14 A3017 RMK AO2 SLP217 T01890144
KIAH 041914Z VRB03KT 10SM SCT014 BKN025 BKN250 19/13 A3020 RMK AO2 T01890133
KIAH 041853Z VRB04KT 10SM BKN014 OVC030 18/13 A3021 RMK AO2 SLP230 T01830133
KIAH 041753Z 01007KT 10SM OVC012 17/13 A3024 RMK AO2 SLP239 T01720128 10172 20144 58017
KIAH 041653Z 36006KT 10SM OVC012 17/12 A3027 RMK AO2 SLP251 T01720122
KIAH 041553Z 29004KT 10SM OVC010 17/12 A3029 RMK AO2 SLP257 T01670117
KIAH 041528Z 35007KT 10SM OVC010 16/12 A3029 RMK AO2 T01610117
KIAH 041453Z 34007KT 10SM OVC009 16/11 A3029 RMK AO2 SLP256 T01560111 51008
KIAH 041413Z 33003KT 10SM OVC009 16/11 A3028 RMK AO2 T01560111
KIAH 041353Z 33004KT 10SM OVC010 15/11 A3028 RMK AO2 SLP254 T01500111
KIAH 041253Z 34004KT 10SM BKN010 OVC047 14/11 A3028 RMK AO2 SLP254 T01440106
KIAH 041153Z 00000KT 10SM BKN045 14/10 A3026 RMK AO2 SLP247 T01440100 10161 20144 55001
KIAH 041053Z 32003KT 10SM BKN047 14/11 A3026 RMK AO2 SLP245 T01440106
KIAH 040953Z 00000KT 10SM BKN046 15/11 A3026 RMK AO2 SLP248 T01500106
KIAH 040853Z 33003KT 10SM BKN049 16/10 A3027 RMK AO2 SLP248 T01560100 56015
KIAH 040753Z 34003KT 10SM BKN048 16/10 A3028 RMK AO2 SLP252 T01560100
KIAH 040653Z 34005KT 10SM BKN041 16/10 A3029 RMK AO2 SLP256 T01560100
KIAH 040553Z 35007KT 10SM BKN046 16/11 A3031 RMK AO2 SLP264 T01610106 10206 20161 402560161 58005
KIAH 040453Z 33006KT 10SM BKN040 17/11 A3033 RMK AO2 SLP269 T01670111
KIAH 040353Z 34009KT 10SM OVC040 17/12 A3033 RMK AO2 SLP271 T01720117
KIAH 040253Z 34005KT 10SM FEW025 OVC038 18/12 A3033 RMK AO2 SLP269 T01780122 51014
KIAH 040153Z 34006KT 10SM FEW025 OVC036 18/14 A3032 RMK AO2 SLP268 T01830139
KIAH 040053Z 34006KT 10SM FEW020 BKN035 19/15 A3030 RMK AO2 SLP261 T01890150
KIAH 032353Z 32009KT 10SM FEW018 BKN036 21/17 A3029 RMK AO2 SLP255 T02060167 10256 20206 53011
KIAH 032253Z 34006KT 10SM FEW023 BKN035 23/19 A3027 RMK AO2 SLP249 T02280189
KIAH 032153Z 33007KT 10SM SCT027 BKN035 24/19 A3026 RMK AO2 SLP246 T02390189
KIAH 032133Z 34009KT 10SM SCT025 BKN034 24/19 A3025 RMK AO2 T02440189
KIAH 032108Z 33005KT 10SM BKN025 BKN037 BKN250 25/19 A3025 RMK AO2 T02500189
KIAH 032053Z 34004KT 10SM FEW025 BKN037 BKN250 25/19 A3025 RMK AO2 SLP244 T02500189 56021
KIAH 031953Z 27004KT 10SM FEW022 BKN036 BKN250 25/19 A3027 RMK AO2 SLP250 T02500189
KIAH 031853Z 27007KT 10SM FEW018 BKN038 BKN250 25/19 A3029 RMK AO2 SLP255 T02500194
KIAH 031753Z 30004KT 10SM FEW016 BKN042 BKN250 24/19 A3032 RMK AO2 SLP265 60000 T02440194 10244 20200 58001
KIAH 031653Z 31004KT 10SM FEW010 BKN041 22/20 A3033 RMK AO2 SLP272 T02220200
KIAH 031634Z 32004KT 10SM SCT009 SCT022 BKN039 22/20 A3034 RMK AO2 T02170200
KIAH 031553Z 30004KT 9SM BKN009 BKN020 BKN039 22/20 A3034 RMK AO2 RAB01E11B34E43 SLP272 P0000 T02170200
KIAH 031453Z 00000KT 8SM BKN008 BKN020 BKN032 21/21 A3032 RMK AO2 RAB24E34 SLP266 P0000 60000 T02110211 51031
KIAH 031405Z 25003KT 6SM BR BKN008 BKN023 21/21 A3030 RMK AO2 T02110211
KIAH 031353Z 00000KT 6SM BR SCT008 SCT023 BKN250 21/21 A3029 RMK AO2 SLP257 T02060206
KIAH 031318Z 00000KT 7SM FEW008 SCT023 BKN250 21/21 A3027 RMK AO2 T02060206
KIAH 031253Z 00000KT 7SM BKN008 BKN020 BKN030 22/21 A3026 RMK AO2 SLP247 T02170211
KIAH 031153Z 22003KT 7SM SCT009 BKN020 BKN030 22/22 A3023 RMK AO2 RAB10E25 SLP235 P0001 60001 70001 T02220217 10228 20217 53008
KIAH 031142Z 22003KT 7SM SCT009 BKN020 BKN030 22/22 A3022 RMK AO2 RAB10E25 P0001 T02220217
KIAH 031053Z 00000KT 7SM SCT011 BKN020 BKN035 22/22 A3022 RMK AO2 SLP232 T02170217
KIAH 031029Z 00000KT 7SM SCT011 BKN020 BKN035 23/22 A3022 RMK AO2 T02280217
KIAH 030953Z 00000KT 7SM BKN013 BKN025 OVC034 23/22 A3021 RMK AO2 SLP230 T02280217
KIAH 030853Z 00000KT 7SM BKN010 BKN025 23/22 A3020 RMK AO2 SLP227 T02280217 53009
KIAH 030834Z 20004KT 7SM BKN010 BKN025 23/22 A3019 RMK AO2 T02280217
KIAH 030753Z 21003KT 7SM BKN008 BKN020 23/22 A3019 RMK AO2 SLP222 T02280217
KIAH 030653Z 21006KT 7SM BKN008 BKN014 23/22 A3018 RMK AO2 SLP219 T02280217
KIAH 030553Z 20006KT 7SM BKN009 BKN014 23/22 A3018 RMK AO2 SLP218 T02280217 10239 20222 402560122 51004
KIAH 030512Z VRB05KT 7SM BKN009 OVC012 23/22 A3018 RMK AO2 T02280217
KIAH 030453Z 19008KT 10SM FEW009 BKN012 23/22 A3017 RMK AO2 SLP215 T02280217
KIAH 030442Z 18005KT 10SM FEW009 BKN012 BKN047 22/22 A3017 RMK AO2 T02220217
KIAH 030429Z 18006KT 10SM FEW009 SCT012 BKN047 23/22 A3017 RMK AO2 T02280217
KIAH 030408Z 18005KT 10SM BKN011 BKN047 23/22 A3018 RMK AO2 T02280217
KIAH 030353Z VRB03KT 10SM SCT011 BKN047 23/22 A3018 RMK AO2 SLP218 T02280217
KIAH 030253Z VRB04KT 10SM FEW012 BKN044 23/22 A3016 RMK AO2 SLP214 T02280217 51020
KIAH 030153Z 18005KT 10SM FEW013 FEW030 OVC047 23/22 A3014 RMK AO2 SLP207 T02330217
KIAH 030053Z 16006KT 10SM FEW014 FEW030 OVC050 23/22 A3013 RMK AO2 SLP201 T02330217
KIAH 022353Z 17006KT 10SM SCT018 SCT032 BKN047 24/21 A3010 RMK AO2 RAB18E32 SLP194 SCT V BKN P0000 60000 T02390211 10256 20217 53013
KIAH 022317Z 16009KT 10SM FEW015 SCT023 BKN050 24/21 A3009 RMK AO2 SCT V BKN T02440211
KIAH 022253Z 16010KT 10SM FEW015 BKN023 BKN050 24/21 A3008 RMK AO2 SLP187 T02440211
KIAH 022153Z 17009G16KT 10SM SCT015 BKN022 25/21 A3007 RMK AO2 SLP181 T02500211
KIAH 022053Z 13009KT 10SM BKN020 24/21 A3007 RMK AO2 SLP181 T02390211 56023
KIAH 021953Z 14010KT 10SM OVC015 23/21 A3008 RMK AO2 SLP186 T02330206
KIAH 021853Z 14012KT 7SM OVC012 23/20 A3011 RMK AO2 SLP195 T02330200
KIAH 021806Z 14010KT 7SM OVC010 22/20 A3013 RMK AO2 T02220200
KIAH 021753Z 15013KT 6SM BR OVC008 22/20 A3014 RMK AO2 SLP204 60000 T02170200 10217 20139 58007
KIAH 021653Z 15011KT 5SM BR OVC007 21/19 A3016 RMK AO2 SLP211 T02060189
KIAH 021553Z 13007KT 4SM BR OVC005 18/17 A3017 RMK AO2 SLP214 T01830172
KIAH 021453Z 13009KT 3SM BR OVC005 17/16 A3016 RMK AO2 RAB00E10 SLP212 P0000 60000 T01720161 50000
KIAH 021353Z 13010KT 7SM OVC007 15/13 A3016 RMK AO2 SLP213 T01500128
KIAH 021253Z 12006KT 10SM OVC008 14/12 A3016 RMK AO2 SLP213 T01440117
KIAH 021153Z 10007KT 10SM OVC008 14/11 A3016 RMK AO2 SLP213 T01390106 10139 20122 55007
KIAH 021053Z 11008KT 10SM OVC009 13/09 A3015 RMK AO2 SLP212 T01330094
KIAH 021016Z 10006KT 10SM OVC009 13/09 A3016 RMK AO2 T01330089
KIAH 020953Z 11008KT 10SM OVC010 13/09 A3017 RMK AO2 SLP216 T01330089
KIAH 020853Z 11010KT 10SM OVC011 13/08 A3018 RMK AO2 SLP220 T01280083 56020
KIAH 020753Z 11007KT 10SM OVC012 13/08 A3020 RMK AO2 SLP227 T01280083
KIAH 020734Z 11008KT 10SM OVC013 13/08 A3020 RMK AO2 T01280078
KIAH 020653Z 10009KT 10SM BKN016 OVC030 13/08 A3022 RMK AO2 SLP233 T01280078

KJFK 070612Z 16013KT 2SM -RA BR OVC006 13/13 A3022 RMK AO2 SFC VIS 3 P0002 T01330128
KJFK 070551Z 16016KT 4SM -RA BR BKN006 OVC015 13/13 A3022 RMK AO2 SLP234 P0016 60049 T01330128 10139 20133 58013
KJFK 070543Z 16016G23KT 4SM RA BR BKN006 OVC015 13/13 A3023 RMK AO2 P0015 T01330128
KJFK 070451Z 16017KT 4SM +RA BR SCT006 OVC016 13/13 A3024 RMK AO2 SLP238 P0010 T01330128 401390022
KJFK 070351Z 14014KT 5SM RA BR FEW007 OVC016 13/12 A3026 RMK AO2 SLP245 P0005 T01330122
KJFK 070251Z 12010KT 4SM -RA BR FEW006 OVC021 13/13 A3026 RMK AO2 SLP248 P0011 60018 T01330128 58008
KJFK 070245Z 13011KT 4SM -RA BR FEW006 OVC022 13/13 A3027 RMK AO2 P0010
KJFK 070214Z 12009KT 4SM +RA BR OVC028 13/12 A3027 RMK AO2 P0004 T01330122
KJFK 070151Z 12011KT 6SM RA BR OVC031 13/12 A3027 RMK AO2 SLP251 P0005 T01330122
KJFK 070051Z 13008KT 6SM -RA BR FEW027 OVC033 13/12 A3028 RMK AO2 SLP254 P0002 T01330117
KJFK 062351Z 14013KT 8SM -RA OVC034 13/12 A3029 RMK AO2 SLP256 P0000 60007 T01330117 10139 20133 50003
KJFK 062251Z 15009KT 7SM -RA BKN037 OVC055 13/12 A3029 RMK AO2 RAB15 SLP257 P0004 T01330117
KJFK 062151Z 14015KT 8SM SCT030 OVC048 13/11 A3029 RMK AO2 SLP256 T01330111
KJFK 062051Z 13013KT 8SM FEW034 OVC050 13/11 A3028 RMK AO2 RAB19E33 SLP253 P0000 60003 T01330111 56006
KJFK 061951Z 13012KT 7SM FEW017 OVC060 13/11 A3028 RMK AO2 RAE27 SLP254 P0003 T01330111
KJFK 061851Z 13013G20KT 6SM RA BR FEW017 SCT036 OVC050 13/11 A3028 RMK AO2 SLP254 P0000 T01330111
KJFK 061751Z 14013KT 7SM -RA FEW022 OVC047 14/11 A3030 RMK AO2 RAB49 SLP259 P0000 60000 T01390111 10139 20072 57008
KJFK 061651Z 15013KT 8SM FEW022 BKN055 OVC080 13/11 A3031 RMK AO2 RAE1554 SLP262 P0000 T01330111
KJFK 061551Z 15013KT 10SM -RA FEW020 BKN055 OVC070 13/11 A3031 RMK AO2 RAB17 SLP264 P0000 T01330111
KJFK 061451Z 14016KT 10SM BKN050 BKN085 OVC180 14/11 A3032 RMK AO2 SLP267 T01390111 51005
KJFK 061351Z 14015KT 9SM FEW023 BKN050 BKN085 OVC200 13/11 A3032 RMK AO2 SLP265 T01280106
KJFK 061251Z 10005KT 10SM FEW020 BKN065 BKN080 OVC210 10/08 A3032 RMK AO2 SLP266 T01000083
KJFK 061151Z 05005KT 10SM FEW022 BKN065 BKN090 BKN230 07/06 A3031 RMK AO2 SLP262 T00720056 10072 20022 56006
KJFK 061051Z 05005KT 10SM FEW025 OVC065 07/05 A3031 RMK AO2 SLP264 T00670050
KJFK 060951Z 04005KT 10SM FEW035 OVC065 05/04 A3031 RMK AO2 SLP263 T00500039
KJFK 060851Z 36005KT 10SM FEW036 OVC060 05/03 A3032 RMK AO2 SLP268 T00500033 51004
KJFK 060751Z 01005KT 10SM FEW036 BKN060 OVC250 04/02 A3032 RMK AO2 SLP267 T00390017
KJFK 060651Z 01005KT 10SM OVC250 03/01 A3032 RMK AO2 SLP267 T00330011
KJFK 060551Z 36003KT 10SM OVC250 03/01 A3031 RMK AO2 SLP264 T00280006 10050 20022 57005
KJFK 060451Z 36004KT 10SM BKN250 03/01 A3032 RMK AO2 SLP266 T00330006 400831011
KJFK 060351Z 04004KT 10SM BKN250 03/00 A3032 RMK AO2 SLP266 T00330000
KJFK 060251Z 00000KT 10SM BKN250 03/00 A3033 RMK AO2 SLP269 T00330000 50008
KJFK 060151Z 05006KT 10SM FEW150 BKN250 03/00 A3033 RMK AO2 SLP271 T00280000
KJFK 060051Z 06006KT 10SM FEW150 BKN250 04/01 A3033 RMK AO2 SLP271 T00390011
KJFK 052351Z 13005KT 10SM BKN250 04/01 A3030 RMK AO2 SLP261 T00440006 10083 20044 51009
KJFK 052251Z 14004KT 9SM BKN250 05/01 A3030 RMK AO2 SLP260 T00500006
KJFK 052151Z 15003KT 10SM FEW160 BKN250 06/01 A3029 RMK AO2 SLP256 T00610006
KJFK 052051Z 17007KT 10SM FEW160 BKN250 07/00 A3028 RMK AO2 SLP251 T00720000 56006
KJFK 051951Z 18007KT 10SM FEW160 BKN250 08/M01 A3028 RMK AO2 SLP253 T00831011
KJFK 051851Z 19007KT 10SM BKN240 07/M02 A3027 RMK AO2 SLP251 T00721017
KJFK 051751Z 20008KT 10SM FEW170 BKN250 08/M04 A3029 RMK AO2 SLP258 T00781039 10078 20011 58011
KJFK 051651Z 21008KT 10SM FEW170 BKN250 07/M04 A3030 RMK AO2 SLP261 T00721044
KJFK 051551Z 21004KT 10SM SCT250 07/M03 A3032 RMK AO2 SLP266 T00671033
KJFK 051451Z 24006KT 10SM FEW250 06/M04 A3033 RMK AO2 SLP269 T00561039 53020
KJFK 051351Z 25006KT 10SM FEW250 04/M04 A3030 RMK AO2 SLP261 T00441039
KJFK 051251Z 26007KT 8SM FEW250 03/M01 A3029 RMK AO2 SLP255 T00281011 $
KJFK 051151Z 26007KT 10SM FEW250 01/M02 A3027 RMK AO2 SLP249 T00111022 10028 21011 53018 $
KJFK 051051Z 00000KT 10SM CLR M01/M03 A3025 RMK AO2 SLP243 T10111033 $
KJFK 050951Z 00000KT 10SM CLR M01/M04 A3022 RMK AO2 SLP234 T10111039 $
KJFK 050851Z 15004KT 10SM CLR M01/M04 A3022 RMK AO2 SLP231 T10111039 50002 $
KJFK 050751Z 00000KT 10SM CLR M01/M06 A3022 RMK AO2 SLP232 T10061056 $
KJFK 050651Z VRB03KT 10SM CLR 01/M06 A3021 RMK AO2 SLP230 T00061056 $
KJFK 050551Z 28005KT 10SM CLR 02/M04 A3021 RMK AO2 SLP228 T00221039 10050 20017 55000 $
KJFK 050451Z 27007KT 10SM CLR 03/M04 A3020 RMK AO2 SLP227 T00281044 400830028 $
KJFK 050351Z 29010KT 10SM FEW250 04/M04 A3021 RMK AO2 SLP230 T00441039 $
KJFK 050251Z 26007KT 10SM FEW250 03/M03 A3021 RMK AO2 SLP229 T00331028 51008 $
KJFK 050151Z 12004KT 10SM SCT200 03/M05 A3020 RMK AO2 SLP227 T00281050 $
KJFK 050051Z 00000KT 10SM SCT200 04/M06 A3022 RMK AO2 SLP231 T00391061 $
KJFK 042351Z 10005KT 10SM SCT200 04/M06 A3019 RMK AO2 SLP221 T00441056 10083 20039 51001 $
KJFK 042251Z 18003KT 10SM FEW050 SCT200 05/M03 A3018 RMK AO2 SLP221 T00501028 $
KJFK 042151Z 34005KT 10SM FEW050 BKN200 06/M06 A3019 RMK AO2 SLP224 T00561061 $
KJFK 042051Z 22006KT 10SM FEW050 BKN200 07/M06 A3018 RMK AO2 SLP220 T00671056 53008 $
KJFK 041951Z 28007KT 10SM BKN200 08/M06 A3017 RMK AO2 SLP215 T00781056 $
KJFK 041851Z 34007KT 10SM FEW050 SCT200 08/M06 A3015 RMK AO2 SLP210 T00781061 $
KJFK 041751Z 31008KT 10SM FEW050 SCT200 08/M06 A3016 RMK AO2 SLP212 T00781056 10078 20039 56024 $
KJFK 041651Z 35010G15KT 10SM FEW050 FEW200 07/M06 A3018 RMK AO2 SLP218 T00721061 $
KJFK 041551Z 35010KT 10SM FEW050 FEW250 07/M06 A3020 RMK AO2 SLP226 T00671061 $
KJFK 041451Z 35012KT 10SM FEW050 FEW250 06/M06 A3023 RMK AO2 SLP236 T00561061 56002 $
KJFK 041351Z 33015KT 10SM FEW050 05/M06 A3023 RMK AO2 SLP236 T00501061 $
KJFK 041251Z 33013G24KT 10SM FEW050 04/M06 A3023 RMK AO2 SLP236 T00391061 $
KJFK 041151Z 32014KT 10SM FEW050 04/M06 A3023 RMK AO2 SLP238 70023 T00391061 10072 20039 53019 $
KJFK 041051Z 30013KT 10SM FEW055 04/M06 A3021 RMK AO2 SLP229 T00441061 $
KJFK 040951Z 31016G21KT 10SM FEW065 04/M06 A3020 RMK AO2 SLP224 T00441061 $
KJFK 040851Z 31011KT 10SM CLR 05/M06 A3018 RMK AO2 SLP219 T00501056 53014 $
KJFK 040751Z 32012KT 10SM FEW060 06/M05 A3016 RMK AO2 PK WND 30026/0703 SLP213 T00561050 $
KJFK 040651Z 31016G23KT 10SM FEW065 07/M05 A3015 RMK AO2 SLP209 T00671050 $
KJFK 040551Z 30013G21KT 10SM FEW060 07/M02 A3014 RMK AO2 SLP205 T00721022 10139 20072 51006 $
KJFK 040451Z 29016KT 10SM SCT050 08/M02 A3014 RMK AO2 PK WND 30026/0354 SLP204 T00781022 401390067 $
KJFK 040351Z 30017G25KT 10SM FEW065 08/M03 A3013 RMK AO2 PK WND 32030/0325 SLP203 T00831033 $
KJFK 040251Z 32018G25KT 10SM FEW070 09/M01 A3012 RMK AO2 PK WND 30031/0201 SLP199 T00891011 53038 $
KJFK 040151Z 30019G28KT 10SM FEW090 11/01 A3008 RMK AO2 PK WND 31033/0109 SLP185 T01060011 $
KJFK 040051Z 27013G21KT 10SM FEW090 13/07 A3003 RMK AO2 SLP169 T01280067 $
KJFK 032351Z 26014KT 10SM BKN090 13/09 A3001 RMK AO2 PK WND 26030/2258 RAE25 SLP161 P0001 60011 T01330089 10139 20122 53014 $
KJFK 032251Z 27023G34KT 3SM +RA FEW019 SCT044 OVC055 13/10 A3000 RMK AO2 PK WND 27034/2249 RAB39 SLP158 P0002 T01330100 $
KJFK 032213Z 24009KT 10SM SCT022 SCT060 BKN090 12/11 A2997 RMK AO2 CIG 055 W T01220106 $
KJFK 032151Z 23011KT 10SM BKN022 BKN095 13/11 A2997 RMK AO2 SLP147 T01280111 $
KJFK 032051Z 22014KT 9SM BKN019 13/12 A2997 RMK AO2 SLP148 60008 T01330117 56016 $
KJFK 031951Z 22015KT 9SM OVC016 13/12 A2998 RMK AO2 RAE27 SLP151 P0002 T01330122 $
KJFK 031901Z 20018KT 3SM -RA BR OVC016 12/12 A2999 RMK AO2 P0001 T01220117 $
KJFK 031851Z 20018KT 1 1/2SM RA BR FEW006 OVC017 12/12 A2999 RMK AO2 PK WND 20031/1759 SLP154 P0006 T01220117 $
KJFK 031849Z 20019KT 1 3/4SM RA BR FEW006 OVC017 12/12 A2999 RMK AO2 PK WND 20031/1759 P0006 $
KJFK 031841Z 20019KT 3SM -RA BR FEW006 BKN017 OVC024 12/12 A2999 RMK AO2 PK WND 20031/1759 P0006 T01220117 $
KJFK 031827Z 20021KT 2SM -RA BR FEW006 BKN013 OVC019 12/12 A2999 RMK AO2 PK WND 20031/1759 P0005 T01220117 $
KJFK 031803Z 20024G31KT 1 3/4SM RA BR FEW007 BKN017 OVC021 12/12 A3001 RMK AO2 PK WND 20031/1759 P0001 T01220117 $
KJFK 031751Z 19023G31KT 2 1/2SM -RA BR FEW008 BKN017 OVC022 12/12 A3001 RMK AO2 PK WND 20032/1734 SLP163 P0004 60012 T01220117 10128 20122 56046 $
KJFK 031737Z 19024G32KT 2SM -RA BR FEW007 BKN017 OVC023 12/12 A3002 RMK AO2 PK WND 20032/1734 P0003 T01220117 $
KJFK 031702Z 19025G31KT 2 1/2SM -RA BR BKN020 OVC025 12/12 A3005 RMK AO2 PK WND 19031/1656 P0000 T01220117 $
KJFK 031651Z 19025G31KT 3SM -RA BR BKN020 OVC027 12/12 A3005 RMK AO2 PK WND 19033/1552 PRESFR SLP177 P0002 T01220117 $
KJFK 031551Z 19028G33KT 3SM -RA BR FEW012 OVC022 12/11 A3011 RMK AO2 PK WND 19034/1518 SLP195 P0003 T01220111 $
KJFK 031531Z 19026G33KT 3SM -RA BR BKN024 BKN032 OVC046 12/11 A3013 RMK AO2 PK WND 19034/1518 CIG 019 W P0002 T01220111 $
KJFK 031521Z 19024G34KT 2 1/2SM RA BR BKN024 BKN045 OVC060 12/11 A3014 RMK AO2 PK WND 19034/1518 CIG 019 W P0002 T01220111 $
KJFK 031451Z 19024G31KT 4SM -RA BR FEW022 BKN055 OVC070 12/11 A3015 RMK AO2 PK WND 19032/1412 CIG 023 W SLP210 P0001 60003 T01220106 58025 $
KJFK 031351Z 19023G29KT 4SM -RA BR OVC055 12/11 A3018 RMK AO2 PK WND 19029/1334 SLP220 P0002 T01220106 $
KJFK 031251Z 19021KT 4SM -RA BR OVC039 12/10 A3022 RMK AO2 PK WND 19027/1241 RAB32 SLP231 T01220100 PNO $
KJFK 031151Z 20019KT 8SM FEW010 OVC040 12/10 A3023 RMK AO2 SLP235 T01220100 10122 20078 56024
KJFK 031051Z 19012KT 7SM OVC040 12/10 A3023 RMK AO2 SLP237 T01170100
KJFK 030951Z 18011KT 8SM OVC041 11/09 A3027 RMK AO2 SLP248 T01110094
KJFK 030851Z 19012KT 10SM OVC034 11/09 A3030 RMK AO2 SLP259 T01110089 58031
KJFK 030751Z 18014KT 10SM SCT040 OVC047 11/07 A3033 RMK AO2 SLP271 T01060072
KJFK 030651Z 18009KT 10SM BKN110 OVC250 09/06 A3037 RMK AO2 SLP284 T00890061
KJFK 030551Z 18005KT 10SM BKN130 BKN250 08/04 A3039 RMK AO2 SLP290 T00780044 10078 20050 58021
KJFK 030451Z 19006KT 10SM BKN140 BKN250 07/03 A3041 RMK AO2 SLP298 T00720028 400721006
KJFK 030351Z 21007KT 10SM BKN130 BKN250 07/03 A3044 RMK AO2 SLP306 T00720028
KJFK 030251Z 22007KT 10SM BKN140 BKN250 07/03 A3045 RMK AO2 SLP311 T00720028 56016
KJFK 030151Z 20009KT 10SM BKN130 BKN250 07/00 A3046 RMK AO2 SLP315 T00670000
KJFK 030051Z 20009KT 10SM SCT100 SCT250 05/M01 A3048 RMK AO2 SLP321 T00501006
KJFK 022351Z 20010KT 10SM FEW100 SCT250 06/M01 A3050 RMK AO2 SLP327 T00561006 10061 20039 53001
KJFK 022251Z 19009KT 10SM FEW100 FEW250 04/M02 A3050 RMK AO2 SLP326 T00441017
KJFK 022151Z 17007KT 10SM FEW100 SCT250 04/M02 A3049 RMK AO2 SLP323 T00441022
KJFK 022051Z 17008KT 10SM FEW100 SCT250 05/M03 A3049 RMK AO2 SLP326 T00501028 56009
KJFK 021951Z 24006KT 10SM FEW045 FEW100 SCT250 06/M04 A3051 RMK AO2 SLP329 T00561039
KJFK 021851Z 21007KT 10SM FEW045 FEW140 FEW250 06/M04 A3051 RMK AO2 SLP330 T00561044
KJFK 021751Z 20006KT 10SM FEW045 FEW140 FEW250 05/M04 A3052 RMK AO2 SLP334 T00501039 10056 21006 58017
KJFK 021651Z 22007KT 10SM FEW042 FEW250 05/M03 A3054 RMK AO2 SLP342 T00501033
KJFK 021551Z 22009KT 10SM FEW040 FEW250 05/M03 A3057 RMK AO2 SLP350 T00501028
KJFK 021451Z 00000KT 10SM FEW037 FEW250 03/M04 A3057 RMK AO2 SLP352 T00331044 51005
KJFK 021351Z 00000KT 10SM FEW170 FEW250 03/M06 A3057 RMK AO2 SLP351 T00281056
KJFK 021251Z 00000KT 10SM CLR 00/M05 A3057 RMK AO2 SLP350 T00001050
KJFK 021151Z 36003KT 10SM CLR 01/M06 A3056 RMK AO2 SLP346 T00061061 10017 21006 52017
KJFK 021051Z 27005KT 10SM CLR 00/M06 A3054 RMK AO2 SLP342 T00001061
KJFK 020951Z 28004KT 10SM CLR 00/M06 A3052 RMK AO2 SLP333 T00001061
KJFK 020851Z 27006KT 10SM CLR 00/M07 A3050 RMK AO2 SLP329 T00001067 51005
KJFK 020751Z 30007KT 10SM CLR 01/M07 A3050 RMK AO2 SLP328 T00061067
KJFK 020651Z 29004KT 10SM CLR 01/M07 A3050 RMK AO2 SLP326 T00061067

KLAS 070556Z 28006KT 10SM FEW170 SCT210 08/01 A3002 RMK AO2 SLP163 T00830006 10133 20083 53008
KLAS 070456Z 29004KT 10SM FEW075 SCT170 BKN210 10/01 A3001 RMK AO2 SLP159 T01000011
KLAS 070356Z 25003KT 10SM FEW075 SCT170 BKN210 11/00 A3000 RMK AO2 SLP156 T01110000
KLAS 070256Z 00000KT 10SM FEW075 SCT170 BKN210 12/00 A2999 RMK AO2 SLP154 T01220000 53007
KLAS 070156Z 00000KT 10SM FEW075 SCT170 BKN210 12/M01 A2999 RMK AO2 SLP153 T01221006
KLAS 070056Z 00000KT 10SM FEW075 BKN170 BKN210 13/M01 A2997 RMK AO2 SLP148 T01281006
KLAS 062356Z 04004KT 10SM FEW075 SCT170 BKN210 13/M02 A2997 RMK AO2 SLP147 T01331017 10144 20106 55001
KLAS 062256Z 00000KT 10SM FEW075 SCT170 BKN210 13/M01 A2997 RMK AO2 SLP145 T01331011
KLAS 062156Z VRB04KT 10SM FEW075 BKN210 13/01 A2997 RMK AO2 SLP146 T01330006
KLAS 062056Z 07004KT 10SM FEW075 BKN210 14/01 A2998 RMK AO2 SLP146 T01390006 56019
KLAS 061956Z 02003KT 10SM FEW075 FEW150 BKN210 13/01 A2999 RMK AO2 SLP152 T01280011
KLAS 061856Z 00000KT 10SM FEW075 SCT170 BKN240 12/01 A3001 RMK AO2 SLP157 T01220011
KLAS 061756Z 00000KT 10SM FEW075 FEW170 SCT240 11/01 A3003 RMK AO2 SLP168 T01060006 10111 20056 51017
KLAS 061656Z 00000KT 10SM FEW075 FEW170 SCT240 09/00 A3002 RMK AO2 SLP162 T00940000
KLAS 061556Z 00000KT 10SM FEW075 SCT170 BKN240 08/M01 A3001 RMK AO2 SLP162 T00781006
KLAS 061456Z 26003KT 10SM FEW075 SCT170 BKN240 07/M01 A2998 RMK AO2 SLP150 T00671006 53013
KLAS 061356Z 21004KT 10SM FEW170 BKN240 06/M01 A2996 RMK AO2 SLP142 T00561011
KLAS 061256Z 26003KT 10SM FEW180 BKN230 06/M01 A2994 RMK AO2 SLP137 T00611011
KLAS 061156Z 22005KT 10SM SCT200 07/M02 A2994 RMK AO2 SLP135 T00671017 10106 20067 51009
KLAS 061056Z 22003KT 10SM CLR 07/M01 A2994 RMK AO2 SLP132 T00721011
KLAS 060956Z 22005KT 10SM FEW220 08/M01 A2993 RMK AO2 SLP129 T00781011
KLAS 060856Z 20003KT 10SM FEW220 08/M01 A2991 RMK AO2 SLP123 T00781006 51004
KLAS 060756Z 21005KT 10SM FEW220 09/M01 A2991 RMK AO2 SLP122 T00891006 401670089
KLAS 060656Z 23003KT 10SM FEW220 09/M01 A2991 RMK AO2 SLP124 T00941006
KLAS 060556Z 21005KT 10SM FEW140 SCT220 10/M01 A2990 RMK AO2 SLP120 T01001011 10156 20100 53010
KLAS 060456Z 20004KT 10SM FEW140 FEW220 11/M01 A2990 RMK AO2 SLP119 T01061006
KLAS 060356Z 20006KT 10SM FEW140 FEW220 12/00 A2988 RMK AO2 SLP112 T01170000
KLAS 060256Z 20007KT 10SM FEW070 FEW140 SCT220 12/00 A2987 RMK AO2 SLP110 T01220000 53004
KLAS 060156Z 20007KT 10SM FEW070 FEW140 SCT220 13/01 A2986 RMK AO2 SLP106 T01330006
KLAS 060056Z 22009KT 10SM FEW070 FEW140 BKN220 14/01 A2986 RMK AO2 SLP103 T01390006
KLAS 052356Z 23007KT 10SM FEW070 FEW140 BKN220 16/M01 A2986 RMK AO2 SLP102 T01561006 10167 20128 55004
KLAS 052256Z 22010G22KT 10SM FEW070 FEW140 BKN220 16/00 A2985 RMK AO2 SLP099 T01610000
KLAS 052156Z 19012G18KT 10SM FEW070 FEW140 BKN220 16/01 A2985 RMK AO2 SLP099 T01610006
KLAS 052056Z 18009KT 10SM FEW065 FEW140 BKN220 16/02 A2987 RMK AO2 SLP106 T01610017 58029
KLAS 051956Z 19012G19KT 10SM FEW065 FEW140 BKN220 15/03 A2991 RMK AO2 SLP120 T01500028
KLAS 051856Z 20010G16KT 10SM FEW050 FEW140 BKN220 14/03 A2993 RMK AO2 SLP126 T01390028
KLAS 051756Z 28003KT 10SM FEW050 BKN200 BKN250 13/06 A2996 RMK AO2 SLP138 T01280061 10133 20100 50001
KLAS 051656Z 28003KT 10SM FEW050 BKN200 OVC250 12/07 A2996 RMK AO2 SLP139 T01170067
KLAS 051556Z 22003KT 10SM FEW050 BKN200 OVC250 11/06 A2996 RMK AO2 SLP138 T01060056
KLAS 051456Z 23004KT 10SM FEW060 BKN200 OVC250 10/06 A2996 RMK AO2 SLP138 T01000056 53016
KLAS 051356Z 26006KT 10SM BKN250 10/05 A2994 RMK AO2 SLP131 T01000050
KLAS 051256Z 19004KT 10SM OVC250 12/04 A2992 RMK AO2 SLP123 T01220044
KLAS 051156Z 18007KT 10SM FEW080 OVC250 12/05 A2991 RMK AO2 SLP117 T01220050 10150 20122 58009
KLAS 051056Z 12006KT 10SM FEW080 OVC250 13/06 A2992 RMK AO2 SLP121 T01330056
KLAS 050956Z 16006KT 10SM FEW080 OVC250 13/06 A2994 RMK AO2 SLP128 T01280056
KLAS 050856Z 19011KT 10SM FEW080 FEW200 OVC250 13/06 A2994 RMK AO2 SLP129 T01330056 56011
KLAS 050756Z 15008KT 10SM FEW080 BKN200 14/06 A2995 RMK AO2 SLP132 T01390056 402060067
KLAS 050656Z 18012G18KT 10SM FEW080 SCT200 14/05 A2996 RMK AO2 SLP137 T01440050
KLAS 050556Z 19007KT 10SM FEW080 FEW250 14/05 A2997 RMK AO2 SLP141 T01440050 10194 20139 51012
KLAS 050456Z 22009G17KT 10SM FEW080 16/05 A2997 RMK AO2 SLP142 T01560050
KLAS 050356Z 20012G20KT 10SM FEW080 16/05 A2995 RMK AO2 SLP137 T01610050
KLAS 050256Z 22010KT 10SM FEW080 17/05 A2994 RMK AO2 SLP132 T01670050 58003
KLAS 050156Z 22009G18KT 10SM FEW080 FEW200 17/05 A2994 RMK AO2 SLP134 T01720050
KLAS 050056Z 22011G22KT 10SM FEW080 FEW200 18/04 A2994 RMK AO2 SLP133 T01780044
KLAS 042356Z 20010G20KT 10SM FEW080 FEW200 19/05 A2994 RMK AO2 SLP132 T01940050 10206 20128 56019
KLAS 042256Z 25006KT 10SM FEW080 SCT200 21/03 A2996 RMK AO2 SLP135 T02060028
KLAS 042156Z 08009KT 10SM FEW090 FEW200 18/04 A2997 RMK AO2 SLP140 T01830044
KLAS 042056Z 08009KT 10SM FEW090 FEW200 17/06 A3000 RMK AO2 SLP154 T01670056 56036
KLAS 041956Z 07006KT 10SM FEW090 SCT200 14/04 A3004 RMK AO2 SLP166 T01440044
KLAS 041856Z 00000KT 10SM FEW070 FEW120 BKN200 13/03 A3008 RMK AO2 SLP181 T01330028
KLAS 041756Z 00000KT 10SM FEW070 FEW120 BKN200 13/02 A3011 RMK AO2 SLP193 T01280022 10128 20067 50000
KLAS 041656Z 00000KT 10SM FEW070 FEW100 BKN200 10/02 A3012 RMK AO2 SLP198 T01000022
KLAS 041556Z 24003KT 10SM FEW070 SCT100 BKN160 BKN250 09/01 A3012 RMK AO2 SLP197 T00890011
KLAS 041456Z 21004KT 10SM FEW070 SCT100 BKN250 07/01 A3012 RMK AO2 SLP196 T00670006 53001
KLAS 041356Z 22003KT 10SM FEW100 SCT250 07/01 A3011 RMK AO2 SLP195 T00720011
KLAS 041256Z 22003KT 10SM SCT100 SCT250 07/01 A3011 RMK AO2 SLP191 T00720011
KLAS 041156Z 26003KT 10SM FEW250 08/01 A3011 RMK AO2 SLP191 T00780011 10106 20078 58003
KLAS 041056Z 27003KT 10SM FEW250 08/01 A3011 RMK AO2 SLP192 T00830011
KLAS 040956Z 27006KT 10SM FEW250 08/01 A3012 RMK AO2 SLP194 T00830011
KLAS 040856Z 27003KT 10SM FEW250 09/01 A3012 RMK AO2 SLP194 T00890011 58004
KLAS 040756Z 25005KT 10SM FEW250 09/01 A3013 RMK AO2 SLP197 T00940011 401720089
KLAS 040656Z 19004KT 10SM FEW250 10/01 A3013 RMK AO2 SLP199 T01000011
KLAS 040556Z 28003KT 10SM FEW250 11/01 A3013 RMK AO2 SLP198 T01060011 10167 20100 55000
KLAS 040456Z 29003KT 10SM FEW250 11/01 A3013 RMK AO2 SLP198 T01110011
KLAS 040356Z 00000KT 10SM FEW250 12/01 A3013 RMK AO2 SLP199 T01220011
KLAS 040256Z 02003KT 10SM FEW250 13/02 A3013 RMK AO2 SLP199 T01330017 53010
KLAS 040156Z 00000KT 10SM FEW250 14/02 A3012 RMK AO2 SLP195 T01390017
KLAS 040056Z 07006KT 10SM FEW090 FEW250 15/01 A3011 RMK AO2 SLP191 T01500011
KLAS 032356Z 07006KT 10SM FEW090 SCT250 17/01 A3010 RMK AO2 SLP187 T01670011 10172 20133 56008
KLAS 032256Z 06005KT 10SM FEW090 SCT250 17/01 A3010 RMK AO2 SLP187 T01720011
KLAS 032156Z 07003KT 10SM FEW090 SCT250 17/01 A3011 RMK AO2 SLP189 T01670011
KLAS 032056Z 12003KT 10SM FEW090 SCT250 16/01 A3013 RMK AO2 SLP195 T01610006 56023
KLAS 031956Z 05004KT 10SM FEW090 SCT250 16/01 A3014 RMK AO2 SLP199 T01610011
KLAS 031856Z 00000KT 10SM FEW090 FEW140 BKN250 14/01 A3018 RMK AO2 SLP213 T01440011
KLAS 031756Z 00000KT 10SM FEW090 FEW140 BKN250 13/01 A3020 RMK AO2 SLP220 T01330011 10139 20089 50004
KLAS 031656Z 27003KT 10SM FEW090 SCT140 SCT180 BKN250 12/01 A3020 RMK AO2 SLP223 T01170011
KLAS 031556Z 00000KT 10SM FEW090 SCT140 BKN180 BKN250 10/01 A3019 RMK AO2 SLP221 T01000011
KLAS 031456Z 26003KT 10SM FEW090 SCT140 BKN180 BKN250 09/01 A3018 RMK AO2 SLP218 T00940011 51010
KLAS 031356Z 00000KT 10SM FEW090 FEW120 BKN250 09/01 A3017 RMK AO2 SLP212 T00940011
KLAS 031256Z 26004KT 10SM FEW180 BKN250 09/02 A3017 RMK AO2 SLP211 T00940017
KLAS 031156Z 25003KT 10SM SCT180 BKN250 09/02 A3015 RMK AO2 SLP206 T00890017 10117 20089 58003
KLAS 031056Z 00000KT 10SM SCT180 BKN250 09/02 A3016 RMK AO2 SLP209 T00940017
KLAS 030956Z 27004KT 10SM SCT180 BKN250 10/02 A3017 RMK AO2 SLP210 T01000017
KLAS 030856Z 22005KT 10SM SCT180 BKN250 11/01 A3016 RMK AO2 SLP208 T01060011 51005
KLAS 030756Z 19003KT 10SM FEW090 BKN180 BKN250 11/02 A3016 RMK AO2 SLP208 T01110017 401670106
KLAS 030656Z 24003KT 10SM FEW090 BKN180 BKN250 12/02 A3017 RMK AO2 SLP210 T01170017
KLAS 030556Z 00000KT 10SM FEW090 BKN180 BKN250 11/01 A3015 RMK AO2 SLP204 T01110011 10156 20106 50005
KLAS 030456Z 27003KT 10SM FEW090 BKN180 BKN250 12/01 A3015 RMK AO2 SLP205 T01170011
KLAS 030356Z 28006KT 10SM FEW090 BKN180 BKN250 11/01 A3014 RMK AO2 SLP202 T01110011
KLAS 030256Z 22003KT 10SM FEW090 SCT180 BKN250 13/02 A3013 RMK AO2 SLP199 T01280017 53008
KLAS 030156Z 12003KT 10SM FEW090 SCT180 BKN250 14/02 A3012 RMK AO2 SLP194 T01390022
KLAS 030056Z 10003KT 10SM FEW090 SCT180 BKN250 14/02 A3011 RMK AO2 SLP191 T01440022
KLAS 022356Z 10003KT 10SM FEW090 BKN250 16/01 A3011 RMK AO2 SLP188 T01560011 10167 20139 51003
KLAS 022256Z 00000KT 10SM FEW090 BKN250 16/01 A3011 RMK AO2 SLP186 T01610011
KLAS 022156Z 05005KT 10SM FEW090 BKN250 17/02 A3010 RMK AO2 SLP186 T01670017
KLAS 022056Z 00000KT 10SM FEW090 BKN250 16/02 A3010 RMK AO2 SLP184 T01560017 58007
KLAS 021956Z 06003KT 10SM FEW070 BKN250 16/02 A3011 RMK AO2 SLP188 T01560017
KLAS 021856Z 03004KT 10SM FEW070 BKN250 15/02 A3012 RMK AO2 SLP193 T01500017
KLAS 021756Z 06004KT 10SM FEW070 SCT250 14/02 A3012 RMK AO2 SLP193 T01440017 10150 20106 51037
KLAS 021656Z 19007KT 10SM FEW065 SCT250 13/02 A3010 RMK AO2 SLP187 T01330022
KLAS 021556Z 21009KT 10SM FEW060 BKN250 12/02 A3005 RMK AO2 SLP171 T01170022
KLAS 021456Z 22009KT 10SM FEW060 SCT250 12/02 A3001 RMK AO2 SLP155 T01170017 53035
KLAS 021356Z 23009KT 10SM FEW060 SCT220 12/02 A2996 RMK AO2 SLP140 T01220017
KLAS 021256Z 23013G21KT 10SM FEW055 SCT220 12/02 A2991 RMK AO2 SLP120 T01220017
KLAS 021156Z 22014G30KT 10SM FEW055 FEW150 BKN220 12/02 A2990 RMK AO2 PK WND 22030/1149 PRESRR SLP116 T01170022 10133 20117 51021
KLAS 021056Z 21004KT 10SM SCT055 SCT150 BKN220 12/02 A2990 RMK AO2 SLP114 T01220022
KLAS 020956Z 21010G25KT 10SM FEW090 SCT150 BKN250 12/02 A2987 RMK AO2 PK WND 22037/0903 SLP105 T01220022
KLAS 020856Z 20013G33KT 10SM FEW100 SCT180 OVC250 12/03 A2983 RMK AO2 PK WND 22033/0851 SLP093 T01220028 58006
KLAS 020756Z 22014G30KT 10SM FEW100 SCT180 OVC250 12/02 A2984 RMK AO2 PK WND 20031/0742 SLP096 T01220022 401610028
KLAS 020656Z 22010G21KT 10SM FEW100 SCT180 OVC240 13/M01 A2985 RMK AO2 PK WND 20032/0630 SLP103 T01281006

KLAX 070553Z 00000KT 10SM FEW020 FEW090 13/08 A3008 RMK AO2 SLP184 T01280083 10150 20117 53009 $
KLAX 070453Z 36004KT 10SM FEW020 13/08 A3007 RMK AO2 SLP181 T01280083 $
KLAX 070353Z 27013KT 10SM FEW020 FEW150 13/07 A3006 RMK AO2 SLP177 T01330067 $
KLAX 070253Z 26009KT 10SM FEW030 FEW150 13/09 A3005 RMK AO2 SLP176 T01330094 52009 $
KLAX 070153Z 27011KT 10SM FEW030 14/10 A3004 RMK AO2 SLP174 T01390100 $
KLAX 070053Z 27009KT 10SM FEW030 FEW250 14/09 A3003 RMK AO2 SLP167 T01440094 $
KLAX 062353Z 25007KT 10SM FEW031 FEW150 SCT250 15/09 A3002 RMK AO2 SLP165 T01500094 10161 20150 55001 $
KLAX 062253Z 24007KT 10SM FEW045 FEW150 SCT250 16/10 A3002 RMK AO2 SLP164 T01560100 $
KLAX 062153Z 25007KT 10SM FEW035 SCT045 BKN140 BKN160 16/09 A3002 RMK AO2 SLP163 T01610094 $
KLAX 062053Z VRB03KT 10SM FEW033 SCT042 BKN140 16/08 A3002 RMK AO2 SLP166 T01610083 58017 $
KLAX 061953Z COR 00000KT 10SM FEW005 FEW018 FEW029 SCT110 BKN150 16/08 A3004 RMK AO2 FU FEW005 SLP173 T01610078 $
KLAX 061853Z 10007KT 10SM FEW022 SCT100 BKN140 BKN180 16/10 A3006 RMK AO2 SLP180 T01560100 $
KLAX 061753Z 09007KT 10SM FEW010 SCT050 BKN140 BKN180 15/10 A3008 RMK AO2 SLP184 T01500100 10150 20100 51012 /
KLAX 061653Z 09007KT 10SM FEW010 SCT050 BKN140 BKN180 13/09 A3006 RMK AO2 SLP179 T01330089 $
KLAX 061553Z 05004KT 10SM FEW010 FEW041 SCT050 BKN130 12/08 A3006 RMK AO2 SLP177 T01170078 $
KLAX 061453Z 09005KT 10SM FEW015 SCT037 SCT180 BKN280 11/08 A3004 RMK AO2 SLP171 T01110078 53011 $
KLAX 061353Z 08004KT 10SM FEW014 FEW028 SCT180 BKN280 10/08 A3002 RMK AO2 SLP165 T01000078 $
KLAX 061253Z 08005KT 10SM FEW010 FEW028 BKN180 BKN280 11/08 A3001 RMK AO2 SLP160 T01110078 $
KLAX 061153Z 07005KT 10SM FEW010 FEW028 BKN180 BKN280 11/08 A3001 RMK AO2 SLP160 T01060078 10128 20094 50000 $
KLAX 061053Z 06006KT 10SM FEW008 FEW250 11/08 A3002 RMK AO2 SLP165 T01060078 $
KLAX 060953Z 07004KT 10SM FEW008 11/07 A3002 RMK AO2 SLP164 T01060072 $
KLAX 060853Z COR 08004KT 10SM FEW008 FEW012 11/07 A3001 RMK AO2 SLP160 T01060072 58003 $
KLAX 060753Z 09005KT 10SM FEW008 FEW012 11/08 A3002 RMK AO2 SLP163 T01110078 401610111 $
KLAX 060653Z 08004KT 10SM FEW008 FEW050 12/08 A3002 RMK AO2 SLP163 T01220083 $
KLAX 060650Z 07003KT 10SM FEW008 FEW050 12/08 A3002 RMK AO2 $
KLAX 060553Z 02004KT 10SM FEW050 13/09 A3002 RMK AO2 SLP163 T01280089 10156 20122 51012 $
KLAX 060453Z 03003KT 10SM FEW050 14/09 A3001 RMK AO2 SLP161 T01390094 $
KLAX 060353Z 00000KT 10SM FEW050 14/10 A3000 RMK AO2 SLP156 T01440100 $
KLAX 060253Z 33004KT 10SM FEW050 15/11 A2998 RMK AO2 SLP151 T01500106 50001 $
KLAX 060153Z 26012KT 10SM FEW060 FEW250 15/09 A2998 RMK AO2 SLP152 T01500094 $
KLAX 060053Z 27012KT 10SM FEW060 FEW200 SCT250 15/08 A2998 RMK AO2 SLP151 T01500078 $
KLAX 052353Z 26012KT 10SM FEW060 SCT200 SCT250 16/08 A2998 RMK AO2 SLP150 T01560078 10161 20150 56012 $
KLAX 052253Z 26013KT 10SM FEW060 FEW200 SCT250 16/09 A2998 RMK AO2 SLP152 T01610089 $
KLAX 052153Z 27011KT 10SM FEW010 SCT024 BKN042 BKN130 16/09 A2999 RMK AO2 SLP155 T01610094 $
KLAX 052053Z 23011KT 10SM FEW022 BKN040 BKN140 16/11 A3001 RMK AO2 SLP162 T01560106 56024 $
KLAX 051953Z 24008KT 9SM FEW010 SCT024 BKN035 BKN140 15/11 A3003 RMK AO2 SLP169 T01500106 $
KLAX 051853Z 27006KT 9SM FEW010 FEW025 SCT140 BKN180 16/11 A3006 RMK AO2 SLP178 T01610106 $
KLAX 051753Z 27009KT 9SM FEW010 SCT023 BKN140 BKN180 15/10 A3008 RMK AO2 SLP186 T01500100 10150 20139 53011 $
KLAX 051715Z 28009KT 9SM FEW010 SCT023 BKN140 BKN180 14/11 A3008 RMK AO2 T01440111 $
KLAX 051703Z 28009KT 9SM SCT021 BKN026 BKN140 BKN180 14/11 A3008 RMK AO2 T01440111 $
KLAX 051653Z 27008KT 9SM FEW018 SCT024 BKN140 BKN180 14/11 A3007 RMK AO2 SLP183 T01440111 $
KLAX 051553Z 26008KT 9SM FEW014 SCT120 BKN140 BKN180 14/11 A3006 RMK AO2 SLP177 T01390111 $
KLAX 051453Z 28007KT 9SM FEW013 SCT100 BKN140 BKN180 14/12 A3005 RMK AO2 SLP175 T01390117 53002 $
KLAX 051353Z 30008KT 10SM FEW007 FEW010 SCT090 14/12 A3005 RMK AO2 SLP174 T01390122 $
KLAX 051347Z 30006KT 10SM FEW007 SCT010 14/12 A3005 RMK AO2 T01440122 $
KLAX 051253Z 26005KT 10SM FEW006 BKN010 14/13 A3005 RMK AO2 SLP174 T01390128 $
KLAX 051242Z VRB04KT 10SM FEW006 BKN010 14/13 A3005 RMK AO2 T01390128 $
KLAX 051153Z 00000KT 10SM FEW006 BKN009 14/13 A3005 RMK AO2 SLP173 60000 70013 T01390133 10156 20133 58003 $
KLAX 051144Z 04003KT 10SM FEW006 BKN009 14/13 A3005 RMK AO2 T01390128 $
KLAX 051053Z 00000KT 10SM FEW005 SCT008 SCT018 14/13 A3005 RMK AO2 SLP175 T01440133 $
KLAX 050953Z 26004KT 8SM FEW004 FEW006 BKN008 14/14 A3006 RMK AO2 SLP177 T01440139 $
KLAX 050853Z 00000KT 8SM FEW004 FEW006 BKN008 15/13 A3005 RMK AO2 SLP175 60000 T01500133 58008 $
KLAX 050753Z 25007KT 8SM FEW004 FEW006 BKN009 15/14 A3007 RMK AO2 SLP179 SHRA N T01500139 401780122 $
KLAX 050653Z 25004KT 8SM FEW004 BKN009 BKN014 15/14 A3007 RMK AO2 DZE00 SLP182 P0000 T01500139 $
KLAX 050553Z 31005KT 9SM -DZ FEW003 FEW005 BKN009 16/14 A3008 RMK AO2 RAE21B46E48DZB48 SLP183 P0003 60013 T01560144 10161 20150 50000 $
KLAX 050548Z VRB03KT 10SM -DZ FEW003 FEW005 BKN009 16/14 A3008 RMK AO2 RAE21B46E48DZB48 P0003 $
KLAX 050453Z 31005KT 7SM -RA SCT006 BKN010 OVC018 16/14 A3008 RMK AO2 SLP184 P0004 T01560144 $
KLAX 050443Z 33004KT 8SM -RA BKN006 BKN010 OVC024 16/14 A3008 RMK AO2 P0004 T01560144 $
KLAX 050427Z 33004KT 4SM -RA BR OVC004 15/14 A3008 RMK AO2 P0004 T01500144 $
KLAX 050420Z 34004KT 2 1/2SM -RA BR OVC004 15/14 A3008 RMK AO2 P0004 T01500144 $
KLAX 050353Z 33004KT 3SM -RA BR BKN004 OVC010 15/14 A3008 RMK AO2 RAB0255 SLP184 P0006 T01500144 $
KLAX 050327Z 00000KT 2SM R25L/2400VP6000FT -RA BR BKN004 OVC015 16/14 A3008 RMK AO2 RAB0255 P0004 T01560144 $
KLAX 050309Z 29003KT 2SM R25L/6000VP6000FT -RA BR BKN006 OVC015 16/14 A3008 RMK AO2 RAB0255 P0002 T01560144 $
KLAX 050253Z 00000KT 3SM BR SCT006 OVC015 16/14 A3008 RMK AO2 VIS 1 1/2 RWY24 RAB31E42 CIG 007 RWY24 SLP184 P0000 60000 T01560144 53001 $
KLAX 050233Z 00000KT 6SM -RA BR SCT006 OVC017 16/14 A3007 RMK AO2 RAB31 CIG 009 RWY24 P0000 T01560144 $
KLAX 050153Z VRB03KT 5SM BR OVC021 16/14 A3007 RMK AO2 SLP181 T01560144 $
KLAX 050147Z 15004KT 5SM BR FEW006 OVC021 15/14 A3007 RMK AO2 T01500139 $
KLAX 050114Z 10003KT 8SM BKN008 BKN013 OVC023 16/14 A3006 RMK AO2 T01560144 $
KLAX 050103Z 12004KT 6SM BR SCT010 BKN014 OVC024 16/14 A3007 RMK AO2 T01560144 $
KLAX 050053Z 12005KT 6SM BR SCT010 BKN015 OVC022 16/14 A3007 RMK AO2 SLP180 T01560144 $
KLAX 042353Z 00000KT 10SM SCT021 BKN029 16/13 A3007 RMK AO2 SLP183 SHRA NE-SE 60000 T01610133 10178 20161 56007 $
KLAX 042253Z 24003KT 10SM OVC019 17/13 A3008 RMK AO2 RAB19E32 SLP185 P0000 T01670133 $
KLAX 042153Z 26003KT 10SM FEW008 SCT018 OVC024 17/13 A3009 RMK AO2 RAE09 SLP188 P0000 T01670133 $
KLAX 042104Z 30004KT 4SM -RA FEW008 SCT017 OVC028 17/14 A3010 RMK AO2 P0000 T01670139 $
KLAX 042053Z 30005KT 4SM -RA FEW008 SCT020 OVC030 17/14 A3009 RMK AO2 RAB47 SLP190 P0000 60000 T01720139 58017 $
KLAX 041953Z 00000KT 10SM FEW009 BKN034 OVC060 17/14 A3011 RMK AO2 SLP194 T01720139 $
KLAX 041853Z 26006KT 10SM SCT009 BKN041 OVC060 17/14 A3014 RMK AO2 RAE1755 SLP204 P0000 T01720139 $
KLAX 041753Z 26004KT 10SM -RA SCT009 SCT050 BKN070 OVC270 17/14 A3014 RMK AO2 RAB45 SLP206 P0000 60000 T01670139 10172 20128 51009 $
KLAX 041653Z 22004KT 8SM FEW007 SCT050 BKN080 BKN270 16/14 A3014 RMK AO2 SLP204 T01610144 $
KLAX 041553Z 11003KT 10SM FEW007 SCT050 BKN080 BKN270 15/13 A3013 RMK AO2 SLP201 T01500128 $
KLAX 041453Z 00000KT 10SM SCT006 BKN055 BKN085 14/13 A3012 RMK AO2 SLP199 T01440128 53012 $
KLAX 041353Z 09004KT 9SM FEW003 FEW009 BKN095 13/12 A3010 RMK AO2 SLP193 T01280117 $
KLAX 041253Z 08003KT 7SM FEW003 FEW009 BKN095 13/12 A3009 RMK AO2 SLP188 VIS S-SW 5 BR T01330122 $
KLAX 041153Z 04004KT 6SM BR FEW003 FEW009 BKN100 13/13 A3009 RMK AO2 SLP187 T01330128 10161 20122 58005 $
KLAX 041053Z 00000KT 6SM BR FEW003 FEW009 BKN110 13/12 A3009 RMK AO2 SLP189 T01280122 $
KLAX 040953Z 00000KT 6SM BR VCFG FEW003 FEW009 SCT110 14/13 A3010 RMK AO2 SLP190 T01390133
KLAX 040853Z 00000KT 8SM VCFG FEW003 FEW009 SCT050 14/13 A3010 RMK AO2 SLP191 T01440133 58002
KLAX 040753Z 00000KT 10SM VCFG FEW003 SCT009 SCT050 15/14 A3011 RMK AO2 SLP194 T01500139 402000117
KLAX 040727Z VRB04KT 8SM VCFG FEW003 SCT009 16/14 A3011 RMK AO2 T01610144
KLAX 040653Z 25003KT 10SM SCT012 16/14 A3011 RMK AO2 SLP195 T01560144
KLAX 040553Z 25007KT 10SM FEW012 16/14 A3011 RMK AO2 SLP193 T01560144 10172 20156 53006
KLAX 040453Z 25008KT 10SM FEW013 FEW045 16/14 A3010 RMK AO2 SLP190 T01560144
KLAX 040353Z 24008KT 10SM FEW012 SCT048 16/14 A3009 RMK AO2 SLP188 T01560144
KLAX 040253Z 27008KT 10SM FEW014 SCT050 16/14 A3009 RMK AO2 SLP188 T01560144 51010
KLAX 040153Z 25005KT 10SM FEW015 SCT050 16/14 A3008 RMK AO2 SLP185 T01560144
KLAX 040053Z COR 27009KT 10SM FEW017 SCT042 SCT110 16/14 A3007 RMK AO2 SLP181 T01610139
KLAX 032353Z 10SM FEW015 FEW044 SCT120 17/14 A3005 RMK AO2 SLP177 T01720139 10200 20172 53001
KLAX 032253Z 26010KT 10SM FEW016 FEW045 SCT120 18/13 A3005 RMK AO2 SLP174 T01780133
KLAX 032153Z 26011KT 10SM FEW015 FEW045 SCT120 SCT280 18/13 A3005 RMK AO2 SLP174 T01830133
KLAX 032053Z 26007KT 10SM FEW017 FEW040 SCT120 SCT280 19/12 A3005 RMK AO2 SLP175 T01940117 58021
KLAX 031953Z 24004KT 10SM FEW035 FEW055 SCT140 SCT300 20/11 A3007 RMK AO2 SLP182 T02000106
KLAX 031853Z VRB03KT 10SM FEW015 FEW055 SCT140 SCT300 19/13 A3010 RMK AO2 SLP193 T01890128
KLAX 031753Z 00000KT 10SM FEW010 FEW060 SCT180 SCT300 18/13 A3012 RMK AO2 SLP197 T01780128 10178 20117 51010
KLAX 031653Z 00000KT 10SM FEW007 FEW070 SCT200 BKN300 16/12 A3011 RMK AO2 SLP197 T01610122
KLAX 031553Z 00000KT 10SM FEW007 FEW070 SCT220 BKN300 14/12 A3010 RMK AO2 SLP192 T01390117
KLAX 031453Z 00000KT 10SM FEW009 FEW100 SCT220 BKN300 12/11 A3009 RMK AO2 SLP188 T01220111 53010
KLAX 031353Z VRB03KT 10SM BKN120 13/12 A3007 RMK AO2 SLP182 T01330117
KLAX 031253Z 00000KT 10SM SCT120 12/12 A3007 RMK AO2 SLP179 T01220117
KLAX 031153Z 00000KT 10SM SCT120 12/12 A3006 RMK AO2 SLP177 70010 T01220117 10150 20122 56011
KLAX 031053Z 30003KT 10SM SCT120 14/12 A3007 RMK AO2 SLP180 T01390122
KLAX 030953Z 00000KT 10SM SCT120 14/12 A3008 RMK AO2 SLP185 T01390117
KLAX 030853Z 30005KT 10SM BKN120 14/12 A3009 RMK AO2 SLP188 T01440122 58006
KLAX 030753Z VRB06KT 10SM BKN120 14/12 A3010 RMK AO2 SLP192 T01440122 401610111
KLAX 030653Z 31005KT 10SM BKN110 15/12 A3010 RMK AO2 SLP193 T01500122
KLAX 030553Z 31003KT 10SM SCT023 BKN090 OVC110 15/12 A3011 RMK AO2 SLP194 60005 T01500122 10161 20144 50002
KLAX 030453Z 30005KT 10SM SCT021 BKN095 OVC110 14/13 A3011 RMK AO2 RAE02 SLP196 P0000 T01440128
KLAX 030353Z 30004KT 10SM -RA SCT025 BKN095 OVC110 14/12 A3010 RMK AO2 SLP193 P0004 T01440122
KLAX 030253Z 26004KT 9SM -RA SCT024 BKN090 OVC120 15/12 A3010 RMK AO2 RAB13 SLP193 P0001 60001 T01500122 53004
KLAX 030153Z 32004KT 10SM SCT025 BKN090 OVC120 15/12 A3009 RMK AO2 SLP190 T01500117
KLAX 030053Z 31006KT 10SM FEW013 BKN025 OVC120 15/12 A3009 RMK AO2 SLP188 T01500117
KLAX 022353Z VRB04KT 10SM FEW010 SCT015 OVC027 16/11 A3009 RMK AO2 SLP188 60000 T01610106 10161 20128 58004
KLAX 022253Z 13005KT 10SM FEW010 SCT016 OVC025 16/11 A3009 RMK AO2 SLP190 T01610106
KLAX 022153Z 08007KT 8SM FEW009 SCT019 OVC025 16/11 A3010 RMK AO2 SLP193 T01610106
KLAX 022146Z COR 10006KT 8SM FEW009 SCT019 OVC023 16/11 A3010 RMK AO2 T01610106
KLAX 022053Z COR 11017KT 8SM FEW008 BKN019 OVC026 16/11 A3010 RMK AO2 SLP192 60000 T01560111 58020 $
KLAX 021953Z 08010KT 7SM SCT008 BKN019 OVC026 14/12 A3013 RMK AO2 SLP202 T01440117 $
KLAX 021919Z 09012KT 7SM SCT008 BKN019 OVC024 13/12 A3015 RMK AO2 T01330117 $
KLAX 021853Z 08011KT 5SM BR SCT005 BKN010 OVC020 13/12 A3015 RMK AO2 RAE04 SLP210 P0000 T01330122 $
KLAX 021811Z 08011KT 5SM BR SCT008 SCT016 OVC023 13/12 A3016 RMK AO2 RAE04 P0000 T01280117 $
KLAX 021753Z 08010KT 4SM -RA BR BKN006 BKN016 OVC022 13/12 A3016 RMK AO2 RAE1659B20 SLP213 P0000 60005 T01280117 10128 20111 51012 $
KLAX 021713Z 08011KT 4SM BR BKN006 OVC022 12/12 A3016 RMK AO2 RAE1659 P0000 T01220117 $
KLAX 021703Z 09011KT 2 1/2SM BR BKN006 OVC022 12/12 A3016 RMK AO2 RAE1659 VIS 2V3 P0000 T01220117 $
KLAX 021653Z COR 08009KT 2 1/2SM -RA BR SCT006 OVC022 12/11 A3015 RMK AO2 RAB1557 CIG 005 RWY24 SLP210 VIS 1V3 SCT V BKN P0002 T01220111 $
KLAX 021636Z COR 08011KT 3SM -RA BR SCT006 SCT009 OVC019 12/11 A3015 RMK AO2 RAB1557 P0002 T01170111 $
KLAX 021613Z 07008KT 2SM -RA BR BKN006 OVC013 12/11 A3015 RMK AO2 RAB1557 VIS 1V3 P0000 T01170111 $
KLAX 021553Z 08008KT 2 1/2SM BR SCT006 BKN016 OVC026 12/11 A3014 RMK AO2 RAE34 SLP205 VIS 1V3 SCT V BKN P0001 T01170111 $
KLAX 021514Z 08009KT 2 1/2SM -RA BR SCT006 BKN016 OVC026 11/11 A3013 RMK AO2 VIS 1V3 SCT V BKN P0000 T01110106 $
KLAX 021503Z 08010KT 2 1/2SM -RA BR BKN006 BKN018 OVC029 11/11 A3013 RMK AO2 VIS 1V3 P0000 T01110106 $
KLAX 021453Z 08009KT 4SM -RA BR FEW006 SCT008 OVC029 11/11 A3013 RMK AO2 DZE34RAB34 SLP200 P0002 60002 T01110106 53013 $
KLAX 021434Z 08007KT 4SM -RA BR FEW006 SCT008 OVC029 12/11 A3012 RMK AO2 DZE34RAB34 P0001 T01170106 $
KLAX 021353Z 08008KT 4SM -DZ BR FEW006 BKN008 OVC029 12/11 A3011 RMK AO2 RAB31E34DZB34 SLP195 P0000 T01170106 $
KLAX 021350Z 08007KT 4SM -DZ BR FEW006 BKN008 OVC031 12/11 A3011 RMK AO2 RAB31E34DZB34 P0000 $
KLAX 021334Z 08008KT 4SM -DZ BR SCT007 BKN016 OVC032 12/11 A3011 RMK AO2 RAB31E34DZB34 P0000 T01170106 $
KLAX 021253Z 07009KT 7SM FEW007 SCT012 OVC040 12/11 A3010 RMK AO2 SLP190 T01170106 $
KLAX 021153Z 08008KT 9SM FEW006 SCT027 OVC040 11/11 A3009 RMK AO2 RAE34 SLP187 P0001 60002 70002 T01110106 10144 20111 50003 $
KLAX 021146Z 07009KT 9SM FEW006 SCT027 OVC040 11/11 A3009 RMK AO2 RAE34 P0001 T01110106 $
KLAX 021113Z 08008KT 2 1/2SM -RA BR FEW006 SCT012 OVC016 12/11 A3010 RMK AO2 P0000 T01170106 $
KLAX 021053Z 08007KT 2 1/2SM -RA BR BKN016 OVC025 12/11 A3009 RMK AO2 RAB0956E12B33 SLP189 P0001 T01170106 $
KLAX 021048Z 08007KT 2 1/2SM -RA BR BKN016 OVC025 12/11 A3009 RMK AO2 RAB0956E12B33 P0001 $
KLAX 020953Z 09006KT 10SM BKN022 BKN028 OVC035 13/09 A3009 RMK AO2 RAB11E22 SLP187 P0000 T01330094 $
KLAX 020853Z VRB04KT 10SM FEW022 BKN027 OVC040 13/09 A3008 RMK AO2 SLP184 60000 T01280094 50000 $
KLAX 020848Z 09005KT 10SM FEW022 BKN027 OVC040 13/09 A3008 RMK AO2 $
KLAX 020753Z 11006KT 10SM FEW024 BKN030 OVC040 13/09 A3008 RMK AO2 RAE52 SLP183 P0000 T01280089 401670128 $
KLAX 020653Z 00000KT 10SM -RA SCT026 BKN030 OVC040 14/08 A3009 RMK AO2 RAB39 SLP190 P0000 T01390083 $

KLGA 070551Z 18016G24KT 2SM RA BR BKN007 OVC019 14/12 A3020 RMK AO2 PK WND 17026/0504 SFC VIS 2 1/2 SLP227 P0013 60081 T01390122 10139 20133 56017
KLGA 070547Z 18016G24KT 2SM -RA BR BKN007 OVC019 14/12 A3020 RMK AO2 PK WND 17026/0504 SFC VIS 3 P0012
KLGA 070509Z 17016G26KT 2 1/2SM -RA BR BKN007 OVC013 14/12 A3021 RMK AO2 PK WND 17026/0504 P0002 T01390117
KLGA 070451Z 17017KT 4SM -RA BR SCT008 BKN010 OVC015 14/12 A3021 RMK AO2 PK WND 18027/0435 SLP231 P0016 T01390117 401560050
KLGA 070448Z 16017G25KT 4SM RA BR FEW008 BKN010 OVC015 14/12 A3021 RMK AO2 PK WND 18027/0435 P0015
KLGA 070427Z 17015G26KT 2SM RA BR FEW008 BKN010 OVC017 14/12 A3022 RMK AO2 PK WND 17026/0421 SFC VIS 2 1/2 P0010 T01390117
KLGA 070405Z 15014G20KT 5SM -RA BR FEW008 BKN010 OVC021 14/12 A3023 RMK AO2 P0002 T01390117
KLGA 070351Z 15015G21KT 2SM RA BR SCT008 BKN012 OVC021 13/12 A3023 RMK AO2 SLP236 P0018 T01330117
KLGA 070348Z 15016KT 2SM RA BR SCT008 BKN012 OVC021 13/12 A3023 RMK AO2 P0017
KLGA 070341Z 15014KT 1 1/2SM RA BR BKN008 BKN014 OVC021 13/12 A3023 RMK AO2 SFC VIS 1 3/4 P0016 T01330117
KLGA 070321Z 15010KT 1 3/4SM +RA BR BKN008 OVC016 13/12 A3024 RMK AO2 TWR VIS 2 P0008 T01330117
KLGA 070251Z 14009G15KT 2SM -RA BR BKN009 OVC014 13/11 A3025 RMK AO2 SLP244 P0020 60034 T01330111 58006
KLGA 070245Z 14007KT 2SM RA BR BKN009 OVC016 13/11 A3026 RMK AO2 P0019
KLGA 070242Z 14007KT 2SM +RA BR SCT009 BKN016 OVC021 13/11 A3025 RMK AO2 P0018 T01330111
KLGA 070225Z 14009KT 3SM RA BR FEW009 SCT016 OVC025 13/11 A3026 RMK AO2 P0009 T01330111
KLGA 070209Z 14008KT 2SM RA BR OVC025 13/11 A3026 RMK AO2 P0006 T01330111
KLGA 070151Z 15008KT 4SM -RA BR FEW015 OVC027 13/11 A3026 RMK AO2 SLP247 P0007 T01330111
KLGA 070106Z 15007KT 3SM -RA FEW015 BKN029 OVC035 13/11 A3026 RMK AO2 P0002 T01330106
KLGA 070051Z 16011KT 2 1/2SM -RA FEW016 BKN027 OVC035 13/11 A3027 RMK AO2 SLP248 P0007 T01330106
KLGA 070035Z 17015G22KT 2 1/2SM -RA FEW010 BKN027 OVC033 13/11 A3027 RMK AO2 P0005 T01330106
KLGA 062351Z 16009KT 8SM -RA FEW025 OVC035 14/09 A3027 RMK AO2 RAE12B41 SLP251 P0000 60010 T01390094 10156 20133 51002
KLGA 062251Z 15013G19KT 10SM -RA FEW025 BKN033 OVC045 14/11 A3027 RMK AO2 SLP249 P0007 T01390106
KLGA 062231Z 15011G19KT 6SM -RA FEW025 OVC039 14/11 A3027 RMK AO2 P0006 T01390106
KLGA 062219Z 15011KT 3SM -RA BKN025 BKN030 OVC038 13/11 A3027 RMK AO2 P0005 T01330106
KLGA 062203Z 15011KT 2 1/2SM -RA BKN027 OVC035 14/10 A3028 RMK AO2 P0001 T01390100
KLGA 062151Z 16012KT 5SM -RA FEW020 BKN035 OVC046 14/10 A3028 RMK AO2 SLP252 P0001 T01390100
KLGA 062051Z 13012G16KT 7SM -RA FEW020 OVC045 15/11 A3026 RMK AO2 RAB1957 SLP248 P0000 60002 T01500106 56006
KLGA 061951Z 14010KT 10SM FEW020 BKN050 OVC070 14/10 A3027 RMK AO2 RAE39 SLP249 P0001 T01390100
KLGA 061851Z 15008KT 8SM -RA FEW020 BKN050 OVC070 14/10 A3027 RMK AO2 SLP249 P0001 T01390100
KLGA 061751Z 15010KT 6SM -RA FEW018 OVC045 14/10 A3028 RMK AO2 RAB19 SLP254 P0000 60000 T01390100 10144 20078 56009
KLGA 061651Z 17011KT 10SM FEW020 BKN050 OVC180 14/10 A3029 RMK AO2 RAE1553 SLP257 P0000 T01390100
KLGA 061551Z 16014G23KT 10SM -RA FEW020 BKN070 OVC180 14/10 A3029 RMK AO2 RAB42 SLP258 P0000 T01390100
KLGA 061451Z VRB05KT 10SM FEW020 OVC060 12/08 A3031 RMK AO2 SLP263 T01170083 50001
KLGA 061351Z 04007KT 10SM FEW020 BKN060 OVC250 09/07 A3031 RMK AO2 SLP264 T00940072
KLGA 061251Z 04007KT 10SM FEW020 OVC060 09/07 A3031 RMK AO2 SLP264 T00940067
KLGA 061151Z 05007KT 10SM OVC060 08/06 A3031 RMK AO2 SLP262 T00830056 10083 20050 55005
KLGA 061051Z 04006KT 8SM BKN060 OVC250 07/05 A3030 RMK AO2 SLP261 T00720050
KLGA 060951Z 03005KT 10SM FEW022 BKN070 BKN250 06/03 A3031 RMK AO2 SLP262 T00610033
KLGA 060851Z 04005KT 10SM SCT028 OVC060 06/03 A3032 RMK AO2 SLP267 T00560028 51005
KLGA 060751Z 04005KT 10SM SCT055 BKN250 05/02 A3032 RMK AO2 SLP266 T00500022
KLGA 060651Z 05004KT 10SM BKN250 06/02 A3031 RMK AO2 SLP265 T00560017
KLGA 060551Z 01003KT 10SM BKN250 06/02 A3030 RMK AO2 SLP261 T00560022 10072 20050 57002
KLGA 060451Z 00000KT 10SM BKN250 06/01 A3031 RMK AO2 SLP262 T00560011 400830022
KLGA 060351Z 00000KT 10SM BKN250 05/00 A3031 RMK AO2 SLP263 T00500000
KLGA 060251Z 12003KT 10SM FEW180 SCT250 06/01 A3031 RMK AO2 SLP264 T00610006 50007
KLGA 060151Z 07005KT 10SM FEW180 SCT250 07/01 A3032 RMK AO2 SLP266 T00670011
KLGA 060140Z 08005KT 10SM FEW180 SCT250 07/01 A3032 RMK AO2 T00670011
KLGA 060051Z 26003KT 10SM FEW180 SCT250 07/01 A3033 RMK AO2 SLP269 T00670006
KLGA 052351Z 16004KT 10SM FEW180 SCT250 07/00 A3029 RMK AO2 SLP257 T00670000 10083 20067 51012
KLGA 052251Z 17005KT 10SM FEW180 SCT250 07/M01 A3029 RMK AO2 SLP256 T00671006
KLGA 052151Z 17007KT 10SM FEW180 BKN250 07/M02 A3028 RMK AO2 SLP253 T00721022
KLGA 052051Z 16008KT 10SM FEW180 BKN250 08/M07 A3026 RMK AO2 SLP245 T00781072 56006
KLGA 051951Z 16007KT 130V220 10SM FEW180 BKN250 08/M11 A3026 RMK AO2 SLP248 T00831106
KLGA 051851Z 18006KT 10SM FEW180 BKN250 08/M11 A3025 RMK AO2 SLP243 T00781106
KLGA 051751Z COR 18009KT 10SM FEW180 BKN250 08/M11 A3027 RMK AO2 SLP251 T00831111 10083 20022 58011
KLGA 051651Z 20006KT 10SM BKN250 08/M09 A3028 RMK AO2 SLP255 T00781094
KLGA 051551Z 19005KT 10SM BKN250 07/M09 A3030 RMK AO2 SLP259 T00671089
KLGA 051451Z 20007KT 10SM FEW250 06/M08 A3031 RMK AO2 SLP262 T00561083 51019
KLGA 051351Z 18005KT 10SM FEW250 04/M05 A3029 RMK AO2 SLP256 T00441050
KLGA 051251Z 19004KT 10SM CLR 03/M05 A3027 RMK AO2 SLP249 T00331050
KLGA 051151Z 20004KT 10SM CLR 03/M06 A3025 RMK AO2 SLP243 T00281061 10044 20022 53018
KLGA 051051Z 21005KT 10SM CLR 03/M05 A3024 RMK AO2 SLP238 T00281050
KLGA 050951Z 17005KT 10SM CLR 02/M06 A3021 RMK AO2 SLP229 T00221056
KLGA 050851Z 16005KT 10SM CLR 02/M06 A3020 RMK AO2 SLP225 T00221061 50003
KLGA 050751Z 00000KT 10SM CLR 04/M07 A3020 RMK AO2 SLP227 T00391067
KLGA 050651Z 00000KT 10SM CLR 04/M07 A3020 RMK AO2 SLP226 T00391067
KLGA 050551Z 31007KT 10SM CLR 04/M05 A3019 RMK AO2 SLP222 T00441050 10067 20039 58001
KLGA 050451Z 00000KT 10SM CLR 04/M06 A3019 RMK AO2 SLP222 T00441061 400780039
KLGA 050351Z 26008KT 10SM CLR 05/M06 A3020 RMK AO2 SLP227 T00501061
KLGA 050251Z 27003KT 10SM FEW250 05/M06 A3019 RMK AO2 SLP224 T00501056 50006
KLGA 050151Z 15005KT 10SM FEW250 06/M07 A3019 RMK AO2 SLP224 T00561072
KLGA 050051Z VRB04KT 10SM FEW200 06/M07 A3020 RMK AO2 SLP225 T00611072
KLGA 042351Z 11008KT 10SM SCT200 07/M08 A3017 RMK AO2 SLP217 T00671078 10078 20061 51000
KLGA 042251Z 08004KT 10SM FEW050 BKN200 06/M08 A3017 RMK AO2 SLP216 T00611078
KLGA 042151Z 36004KT 10SM FEW050 SCT080 BKN200 07/M07 A3018 RMK AO2 SLP219 T00671072
KLGA 042051Z 30009KT 10SM FEW055 SCT090 BKN200 07/M07 A3017 RMK AO2 SLP217 T00721067 53008
KLGA 041951Z 31006KT 10SM FEW055 SCT085 BKN200 07/M07 A3015 RMK AO2 SLP211 T00721072
KLGA 041851Z 29009KT 10SM FEW055 FEW090 SCT160 BKN250 07/M07 A3014 RMK AO2 SLP207 T00721072
KLGA 041751Z 30011KT 10SM FEW090 SCT160 SCT250 07/M07 A3015 RMK AO2 SLP209 T00671072 10067 20039 56025
KLGA 041651Z 33009KT 10SM FEW090 FEW200 SCT250 06/M07 A3017 RMK AO2 SLP215 T00611072
KLGA 041551Z 32011KT 10SM FEW090 FEW200 FEW250 06/M07 A3019 RMK AO2 SLP222 T00561067
KLGA 041451Z 33013KT 10SM FEW080 FEW250 05/M07 A3022 RMK AO2 SLP234 T00501067 55004
KLGA 041351Z 35008KT 10SM FEW035 FEW090 FEW230 04/M06 A3022 RMK AO2 SLP233 T00441061
KLGA 041251Z 33008KT 10SM FEW090 FEW230 04/M06 A3023 RMK AO2 SLP236 T00441056
KLGA 041151Z 33008KT 10SM FEW035 FEW050 04/M06 A3023 RMK AO2 SLP237 70041 T00441061 10072 20044 53020
KLGA 041051Z 30010KT 10SM FEW050 04/M06 A3020 RMK AO2 SLP226 T00441056
KLGA 040951Z 30009KT 10SM CLR 05/M06 A3019 RMK AO2 SLP221 T00501061
KLGA 040851Z 31014KT 10SM CLR 06/M04 A3017 RMK AO2 SLP217 T00561044 52013
KLGA 040751Z 33013KT 10SM CLR 06/M05 A3016 RMK AO2 SLP212 T00611050
KLGA 040651Z 30012KT 10SM CLR 07/M05 A3015 RMK AO2 PK WND 30027/0611 SLP209 T00671050
KLGA 040551Z 32014KT 10SM SCT048 07/M03 A3014 RMK AO2 SLP204 T00721028 10144 20072 51009
KLGA 040451Z 29013KT 10SM BKN050 08/M03 A3013 RMK AO2 SLP202 T00781028 401500072
KLGA 040351Z 30012G24KT 10SM FEW050 08/M03 A3012 RMK AO2 PK WND 31029/0336 SLP200 T00831033
KLGA 040251Z 30016G22KT 10SM FEW050 FEW090 09/M02 A3011 RMK AO2 PK WND 29036/0223 SLP194 T00891022 51041
KLGA 040151Z 31013G19KT 10SM FEW055 FEW090 11/02 A3008 RMK AO2 PK WND 31033/0100 SLP185 T01060017
KLGA 040051Z 30021G34KT 10SM FEW020 SCT055 SCT085 12/03 A3003 RMK AO2 PK WND 31034/0047 SLP170 T01220028
KLGA 032351Z 27019G25KT 10SM FEW018 FEW050 BKN085 14/07 A2999 RMK AO2 PK WND 26027/2333 RAB2255E05 SLP154 P0000 60011 T01440072 10150 20133 53016
KLGA 032251Z 23013G21KT 10SM SCT017 SCT045 BKN070 14/09 A2997 RMK AO2 PK WND 27027/2232 RAB14E48 SLP149 P0005 T01390089
KLGA 032243Z 25016G25KT 10SM -RA SCT017 BKN045 BKN070 14/09 A2997 RMK AO2 PK WND 27027/2232 RAB14 P0005 T01440094
KLGA 032212Z 24010KT 10SM BKN020 BKN055 BKN095 14/11 A2996 RMK AO2 T01390106
KLGA 032151Z 24011G18KT 10SM SCT020 BKN050 BKN095 14/11 A2995 RMK AO2 SLP142 T01390106
KLGA 032142Z 23013G21KT 10SM SCT018 SCT025 BKN095 14/11 A2994 RMK AO2 T01390106
KLGA 032051Z 23013G23KT 10SM BKN018 BKN025 14/11 A2994 RMK AO2 PK WND 23026/1952 SLP138 60006 T01440106 56015
KLGA 031951Z 23018G27KT 10SM OVC016 14/11 A2996 RMK AO2 PK WND 24031/1926 RAE03 SLP144 P0000 T01440111
KLGA 031851Z 21012G21KT 4SM -RA BR OVC015 14/11 A2996 RMK AO2 SLP145 P0006 T01390111
KLGA 031751Z 21014G22KT 2 1/2SM RA BR OVC013 14/11 A2998 RMK AO2 SLP153 P0009 60030 T01390111 10139 20106 56044
KLGA 031713Z 21013G22KT 2 1/2SM R04/5000VP6000FT RA BR OVC013 14/11 A3000 RMK AO2 P0003 T01390111
KLGA 031651Z 20017G27KT 4SM -RA BR SCT013 OVC019 14/11 A3002 RMK AO2 PK WND 20027/1651 PRESFR SLP164 P0007 T01390111
KLGA 031626Z 20014G22KT 2 1/2SM RA BR FEW010 OVC016 13/11 A3004 RMK AO2 SFC VIS 3 P0004 T01330106
KLGA 031551Z 20011G20KT 4SM -RA BR BKN015 OVC021 13/11 A3007 RMK AO2 SLP183 P0007 T01330106
KLGA 031529Z 20013G21KT 4SM -RA BR BKN015 OVC021 13/11 A3010 RMK AO2 P0005 T01330106
KLGA 031451Z 19014G25KT 7SM -RA SCT024 OVC033 13/10 A3012 RMK AO2 SLP198 P0002 60007 T01330100 58029
KLGA 031351Z 19009KT 8SM -RA SCT027 OVC033 13/09 A3015 RMK AO2 SLP210 P0003 T01280094
KLGA 031251Z COR 19007KT 5SM -RA BR OVC034 11/08 A3019 RMK AO2 RAB04 SLP221 P0002 T01110083
KLGA 031151Z 22005KT 10SM OVC039 11/08 A3020 RMK AO2 SLP227 60000 T01110083 10111 20072 56026
KLGA 031051Z 19007KT 10SM OVC039 11/08 A3021 RMK AO2 SLP231 T01060078
KLGA 031008Z 18009KT 10SM OVC040 11/07 A3023 RMK AO2 T01060067
KLGA 030951Z 18009KT 10SM FEW021 BKN029 OVC038 11/07 A3024 RMK AO2 SLP241 T01060067
KLGA 030930Z 18008KT 10SM FEW022 OVC028 11/06 A3025 RMK AO2 T01060061
KLGA 030851Z 19005KT 10SM OVC032 10/06 A3028 RMK AO2 SLP253 60000 T01000056 58031
KLGA 030751Z 20005KT 10SM OVC044 09/04 A3032 RMK AO2 SLP265 T00890039
KLGA 030651Z 20005KT 10SM SCT110 BKN130 OVC250 08/02 A3035 RMK AO2 RAB0554E03 SLP278 P0000 T00780017
KLGA 030551Z 15003KT 10SM SCT110 OVC130 07/01 A3037 RMK AO2 SLP285 T00720006 10078 20056 58021
KLGA 030451Z 19003KT 10SM BKN150 BKN250 07/00 A3040 RMK AO2 SLP292 T00720000 400720011
KLGA 030351Z 19005KT 10SM BKN140 BKN250 07/M01 A3042 RMK AO2 SLP300 T00671006
KLGA 030251Z 20006KT 10SM BKN130 BKN250 07/M02 A3043 RMK AO2 SLP305 T00671017 56015
KLGA 030151Z 20004KT 10SM BKN120 BKN250 06/M03 A3045 RMK AO2 SLP310 T00611028
KLGA 030051Z 20007KT 10SM SCT120 SCT250 06/M03 A3046 RMK AO2 SLP314 T00611033
KLGA 022351Z 22007KT 10SM FEW130 SCT250 06/M03 A3048 RMK AO2 SLP320 T00561033 10067 20050 53002
KLGA 022251Z 19007KT 10SM FEW130 FEW250 05/M03 A3048 RMK AO2 SLP321 T00501033
KLGA 022151Z 18009KT 10SM FEW130 SCT250 05/M04 A3047 RMK AO2 SLP317 T00501039
KLGA 022051Z 19009KT 10SM SCT130 SCT250 06/M07 A3047 RMK AO2 SLP318 T00611072 56010
KLGA 021951Z 21007KT 10SM SCT130 SCT250 06/M07 A3048 RMK AO2 SLP322 T00611072
KLGA 021851Z 18006KT 10SM FEW250 06/M07 A3048 RMK AO2 SLP322 T00611072
KLGA 021751Z 20008KT 10SM FEW250 06/M08 A3050 RMK AO2 SLP328 T00561078 10061 20011 58019
KLGA 021651Z 22007KT 10SM FEW250 05/M07 A3052 RMK AO2 SLP334 T00501072
KLGA 021551Z 20008KT 10SM FEW250 04/M07 A3055 RMK AO2 SLP344 T00441072
KLGA 021451Z 17005KT 10SM FEW250 04/M07 A3056 RMK AO2 SLP347 T00391067 53005
KLGA 021351Z 00000KT 10SM FEW250 03/M06 A3055 RMK AO2 SLP346 T00281061
KLGA 021251Z 00000KT 10SM FEW250 02/M06 A3055 RMK AO2 SLP344 T00171061
KLGA 021151Z 30004KT 10SM FEW250 01/M06 A3054 RMK AO2 SLP343 7//// T00111061 10017 20011 53019
KLGA 021051Z 30006KT 10SM FEW250 01/M07 A3053 RMK AO2 SLP337 T00111067
KLGA 020951Z 28005KT 10SM CLR 01/M07 A3050 RMK AO2 SLP329 T00111072
KLGA 020851Z 29006KT 10SM CLR 01/M07 A3049 RMK AO2 SLP324 T00111072 51005
KLGA 020751Z 30005KT 10SM CLR 01/M07 A3049 RMK AO2 SLP324 T00111072
KLGA 020651Z 28006KT 10SM CLR 02/M08 A3048 RMK AO2 SLP321 T00171078

KMCO 070553Z 00000KT 10SM CLR 18/17 A3024 RMK AO2 SLP237 T01830172 10222 20183 58001
KMCO 070453Z 00000KT 10SM CLR 19/17 A3024 RMK AO2 SLP239 T01940172 402830167
KMCO 070353Z 35003KT 10SM CLR 19/17 A3024 RMK AO2 SLP239 T01940172
KMCO 070253Z 06004KT 10SM CLR 20/17 A3024 RMK AO2 SLP238 T02000172 51012
KMCO 070153Z 07005KT 10SM CLR 21/17 A3023 RMK AO2 SLP236 T02060172
KMCO 070053Z 06005KT 10SM FEW070 21/18 A3022 RMK AO2 SLP233 T02110178
KMCO 062353Z 07005KT 10SM BKN070 22/18 A3021 RMK AO2 SLP227 T02220178 10283 20222 51014
KMCO 062253Z 08007KT 10SM BKN065 23/18 A3020 RMK AO2 SLP224 T02330183
KMCO 062153Z 03007KT 10SM FEW040 BKN065 26/16 A3018 RMK AO2 SLP218 T02560161
KMCO 062053Z 05006KT 10SM FEW040 BKN065 26/16 A3017 RMK AO2 SLP213 T02610156 55003
KMCO 061953Z 36004KT 10SM OVC060 27/16 A3016 RMK AO2 SLP211 T02720161
KMCO 061853Z 04003KT 10SM FEW041 SCT060 27/16 A3016 RMK AO2 SLP211 T02720156
KMCO 061753Z VRB03KT 10SM FEW038 SCT060 27/16 A3017 RMK AO2 SLP216 T02670156 10267 20172 58008
KMCO 061653Z VRB04KT 10SM FEW038 BKN060 26/16 A3020 RMK AO2 SLP223 T02610156
KMCO 061553Z VRB03KT 10SM FEW034 BKN060 25/16 A3021 RMK AO2 SLP228 T02500156
KMCO 061453Z 00000KT 10SM FEW070 24/17 A3020 RMK AO2 SLP225 T02390167 53016
KMCO 061353Z 00000KT 10SM FEW065 21/18 A3018 RMK AO2 SLP218 T02110183
KMCO 061253Z 00000KT 10SM FEW065 19/18 A3017 RMK AO2 SLP214 T01940178
KMCO 061153Z 00000KT 10SM BKN060 18/17 A3015 RMK AO2 SLP209 T01830167 10189 20167 53007
KMCO 061053Z 00000KT 10SM FEW015 BKN060 18/17 A3014 RMK AO2 SLP205 T01830172
KMCO 060953Z 00000KT 9SM SCT060 17/16 A3014 RMK AO2 SLP203 T01720161
KMCO 060853Z 00000KT 10SM FEW010 FEW250 17/16 A3013 RMK AO2 SLP201 T01670156 53002
KMCO 060753Z 00000KT 10SM FEW010 FEW250 17/16 A3013 RMK AO2 SLP200 T01720161
KMCO 060653Z 00000KT 9SM FEW250 17/16 A3013 RMK AO2 SLP200 T01720161
KMCO 060553Z 00000KT 10SM FEW250 18/17 A3012 RMK AO2 SLP199 T01830167 10217 20183 58001
KMCO 060453Z 08003KT 10SM FEW250 18/17 A3013 RMK AO2 SLP200 T01830167 402610172
KMCO 060353Z 10004KT 10SM FEW250 19/17 A3013 RMK AO2 SLP200 T01890167
KMCO 060253Z 09003KT 10SM FEW003 BKN250 19/17 A3013 RMK AO2 SLP200 FU FEW003 T01940172 50008
KMCO 060153Z 09003KT 10SM FEW070 BKN250 20/17 A3013 RMK AO2 SLP201 T02000172
KMCO 060053Z 08005KT 10SM FEW030 FEW070 BKN250 21/17 A3012 RMK AO2 SLP197 T02060167
KMCO 052353Z 06007KT 10SM FEW045 FEW070 SCT250 22/17 A3010 RMK AO2 SLP192 T02170167 10256 20217 53011
KMCO 052253Z 03006KT 10SM FEW045 BKN070 23/17 A3008 RMK AO2 SLP185 T02330167
KMCO 052153Z 36005KT 10SM FEW046 BKN070 24/17 A3008 RMK AO2 SLP183 T02390167
KMCO 052053Z 36005KT 10SM FEW038 SCT046 BKN070 OVC250 24/17 A3007 RMK AO2 SLP181 T02440167 55005
KMCO 051953Z 32005KT 10SM FEW033 BKN065 25/17 A3006 RMK AO2 SLP178 T02500167
KMCO 051853Z 31006KT 10SM FEW038 BKN065 BKN250 25/17 A3007 RMK AO2 SLP181 T02500167
KMCO 051753Z 31008KT 10SM FEW030 SCT060 BKN250 26/17 A3009 RMK AO2 SLP186 T02560167 10261 20172 58016
KMCO 051653Z 36004KT 10SM FEW026 SCT250 25/17 A3011 RMK AO2 SLP193 T02500167
KMCO 051553Z 08005KT 10SM FEW024 FEW250 24/18 A3013 RMK AO2 SLP199 T02390178
KMCO 051453Z 07004KT 10SM FEW021 SCT250 23/18 A3013 RMK AO2 SLP202 T02280178 51013
KMCO 051353Z 36005KT 10SM FEW045 FEW250 21/19 A3012 RMK AO2 SLP198 T02110189
KMCO 051253Z 36004KT 8SM FEW045 FEW150 FEW250 19/18 A3012 RMK AO2 SLP196 T01890178
KMCO 051153Z 35004KT 10SM FEW050 18/17 A3009 RMK AO2 SLP189 T01780167 10200 20172 53005
KMCO 051053Z 36004KT 10SM FEW055 18/17 A3008 RMK AO2 SLP184 T01780167
KMCO 050953Z 34003KT 10SM FEW060 18/17 A3007 RMK AO2 SLP180 T01830172
KMCO 050853Z 36005KT 10SM FEW060 18/17 A3008 RMK AO2 SLP183 T01830172 56009
KMCO 050753Z 07003KT 10SM BKN060 20/18 A3008 RMK AO2 SLP185 T02000183
KMCO 050653Z 02005KT 10SM BKN060 BKN070 20/18 A3009 RMK AO2 SLP188 T02000183
KMCO 050553Z 35004KT 10SM BKN075 19/18 A3010 RMK AO2 SLP193 T01940183 10228 20189 58007
KMCO 050453Z 01005KT 10SM FEW040 BKN080 19/17 A3012 RMK AO2 SLP198 T01940172 402670150
KMCO 050353Z 36004KT 10SM FEW040 SCT075 19/18 A3013 RMK AO2 SLP202 T01940178
KMCO 050253Z 06004KT 10SM FEW045 FEW080 19/16 A3013 RMK AO2 SLP200 T01940161 51004
KMCO 050153Z 16003KT 10SM FEW080 21/16 A3012 RMK AO2 SLP199 T02060156
KMCO 050053Z 17003KT 10SM FEW055 SCT080 21/15 A3012 RMK AO2 SLP197 T02060150
KMCO 042353Z 31004KT 10SM FEW080 23/16 A3012 RMK AO2 SLP196 T02280156 10267 20228 53002
KMCO 042253Z 24003KT 10SM FEW045 FEW080 23/15 A3011 RMK AO2 SLP194 T02280150
KMCO 042153Z 31005KT 10SM FEW045 25/14 A3011 RMK AO2 SLP195 T02500144
KMCO 042053Z 31006KT 10SM FEW045 26/14 A3011 RMK AO2 SLP194 T02610144 56016
KMCO 041953Z 32006KT 10SM FEW044 27/14 A3011 RMK AO2 SLP195 T02670139
KMCO 041853Z 36005KT 10SM FEW050 26/14 A3013 RMK AO2 SLP200 T02610144
KMCO 041753Z 33006KT 10SM FEW050 26/15 A3016 RMK AO2 SLP210 T02560150 10267 20161 58024
KMCO 041653Z 33007KT 10SM FEW040 FEW250 26/15 A3018 RMK AO2 SLP220 T02610150
KMCO 041553Z VRB06KT 10SM CLR 25/17 A3022 RMK AO2 SLP230 T02500172
KMCO 041453Z 34005KT 10SM FEW250 23/17 A3023 RMK AO2 SLP234 T02330172 53010
KMCO 041353Z 00000KT 10SM FEW250 20/17 A3022 RMK AO2 SLP231 T02000167
KMCO 041253Z 00000KT 10SM FEW250 17/16 A3021 RMK AO2 SLP228 T01720161
KMCO 041153Z 30003KT 10SM SCT250 17/16 A3020 RMK AO2 SLP224 T01670156 10178 20150 53003
KMCO 041053Z 32005KT 10SM CLR 17/16 A3019 RMK AO2 SLP221 T01670156
KMCO 040953Z 00000KT 10SM CLR 16/15 A3019 RMK AO2 SLP221 T01560150
KMCO 040853Z 34003KT 10SM CLR 16/15 A3019 RMK AO2 SLP222 T01610150 56014
KMCO 040753Z 00000KT 10SM CLR 17/15 A3020 RMK AO2 SLP224 T01670150
KMCO 040653Z 00000KT 10SM CLR 17/16 A3022 RMK AO2 SLP231 T01720156
KMCO 040553Z 35003KT 10SM CLR 17/16 A3023 RMK AO2 SLP236 T01720156 10217 20172 58018
KMCO 040453Z 32003KT 10SM FEW250 18/16 A3026 RMK AO2 SLP244 T01830161 402830167
KMCO 040353Z 01004KT 10SM FEW250 18/16 A3027 RMK AO2 SLP248 T01830161
KMCO 040253Z 07004KT 10SM FEW250 19/16 A3028 RMK AO2 SLP253 T01940161 51005
KMCO 040153Z 08004KT 10SM SCT250 20/16 A3028 RMK AO2 SLP253 T02000161
KMCO 040053Z 09005KT 10SM FEW250 21/16 A3028 RMK AO2 SLP253 T02060161
KMCO 032353Z 09005KT 10SM FEW250 22/16 A3027 RMK AO2 SLP249 T02170156 10283 20217 53009
KMCO 032253Z 07008KT 10SM FEW060 FEW250 23/16 A3026 RMK AO2 SLP246 T02280156
KMCO 032153Z 09007KT 10SM FEW055 SCT250 25/15 A3025 RMK AO2 SLP241 T02500150
KMCO 032053Z 07007KT 10SM FEW055 FEW250 27/13 A3024 RMK AO2 SLP240 T02670133 56013
KMCO 031953Z 04007KT 10SM SCT060 BKN250 28/14 A3025 RMK AO2 SLP242 T02780139
KMCO 031853Z 11004KT 10SM FEW050 SCT060 28/14 A3026 RMK AO2 SLP245 T02780144
KMCO 031753Z 03005KT 10SM FEW049 BKN060 27/14 A3028 RMK AO2 SLP253 T02720144 10278 20172 58025
KMCO 031653Z 08004KT 10SM BKN050 28/14 A3031 RMK AO2 SLP262 T02780144
KMCO 031553Z VRB05KT 10SM BKN050 26/14 A3034 RMK AO2 SLP274 T02560144
KMCO 031453Z 09006KT 10SM FEW050 26/16 A3036 RMK AO2 SLP277 T02560156 51010
KMCO 031353Z 03004KT 10SM SCT047 22/17 A3035 RMK AO2 SLP277 T02220172
KMCO 031253Z 36003KT 10SM FEW041 BKN050 19/17 A3035 RMK AO2 SLP274 T01940172
KMCO 031153Z 36006KT 10SM SCT047 17/16 A3033 RMK AO2 SLP268 T01720156 10189 20167 53015
KMCO 031053Z 02003KT 10SM BKN047 17/16 A3030 RMK AO2 SLP259 T01720156
KMCO 030953Z 36004KT 10SM FEW041 17/16 A3029 RMK AO2 SLP253 T01720156
KMCO 030853Z 06003KT 10SM FEW035 FEW250 17/16 A3028 RMK AO2 SLP252 T01720156 58006
KMCO 030753Z 01004KT 10SM FEW250 17/16 A3029 RMK AO2 SLP257 T01720156
KMCO 030653Z 02005KT 10SM FEW040 SCT250 18/16 A3030 RMK AO2 SLP258 T01780156
KMCO 030553Z 06005KT 10SM FEW047 SCT250 19/16 A3030 RMK AO2 SLP258 T01890156 10217 20189 56012
KMCO 030453Z 08004KT 10SM FEW043 SCT250 19/15 A3031 RMK AO2 SLP262 T01940150 402720167
KMCO 030353Z 09005KT 10SM FEW047 19/16 A3032 RMK AO2 SLP265 T01940156
KMCO 030253Z 06006KT 10SM FEW049 20/16 A3034 RMK AO2 SLP271 T02000156 51006
KMCO 030153Z 07008KT 10SM FEW046 21/16 A3033 RMK AO2 SLP268 T02060161
KMCO 030053Z 07007KT 10SM FEW045 21/16 A3033 RMK AO2 SLP269 T02110161
KMCO 022353Z 06008KT 10SM FEW048 FEW060 22/16 A3032 RMK AO2 SLP265 T02170161 10272 20217 51017
KMCO 022253Z 07008KT 10SM FEW047 FEW060 23/16 A3030 RMK AO2 SLP260 T02280156
KMCO 022153Z 08012KT 10SM FEW045 24/14 A3029 RMK AO2 SLP255 T02390144
KMCO 022053Z 07014KT 10SM FEW049 FEW060 26/14 A3027 RMK AO2 SLP248 T02560144 56008
KMCO 021953Z 08014KT 10SM FEW047 FEW055 26/14 A3027 RMK AO2 SLP247 T02560139
KMCO 021853Z 09009KT 10SM SCT050 26/14 A3027 RMK AO2 SLP250 T02610144
KMCO 021753Z 08015G21KT 10SM SCT049 27/13 A3029 RMK AO2 SLP256 T02670133 10272 20172 58017
KMCO 021653Z 06014G20KT 10SM SCT046 26/14 A3032 RMK AO2 SLP264 T02610144
KMCO 021553Z 09012G20KT 10SM SCT048 25/14 A3034 RMK AO2 SLP271 T02500144
KMCO 021453Z 07011KT 10SM FEW048 24/14 A3034 RMK AO2 SLP273 T02440144 51010
KMCO 021353Z 03006KT 10SM FEW046 22/14 A3033 RMK AO2 SLP270 T02170144
KMCO 021253Z 02007KT 10SM SCT046 19/14 A3033 RMK AO2 SLP268 T01940144
KMCO 021153Z 03006KT 10SM SCT044 18/14 A3031 RMK AO2 SLP262 T01780139 10189 20167 53010
KMCO 021053Z 03007KT 10SM FEW043 17/14 A3030 RMK AO2 SLP257 T01720139
KMCO 020953Z 04007KT 10SM FEW045 FEW250 18/14 A3028 RMK AO2 SLP251 T01830139
KMCO 020853Z 03008KT 10SM OVC045 18/14 A3028 RMK AO2 SLP252 T01830144 56005
KMCO 020753Z 01004KT 10SM BKN044 17/14 A3028 RMK AO2 SLP252 T01720139
KMCO 020653Z 02006KT 10SM BKN043 BKN300 17/14 A3028 RMK AO2 SLP251 T01720139

KMDW 070631Z 33003KT 5SM BR OVC013 04/03 A3010 RMK AO2 T00440028
KMDW 070553Z 33004KT 6SM BR BKN018 03/02 A3010 RMK AO2 SLP198 T00280017 10061 20022 400670022 53013
KMDW 070541Z 33005KT 6SM BR BKN018 02/01 A3010 RMK AO2 T00220011
KMDW 070453Z 34003KT 6SM BR FEW033 03/02 A3008 RMK AO2 SLP194 T00280017
KMDW 070353Z 00000KT 8SM FEW033 05/02 A3006 RMK AO2 SLP187 T00500022
KMDW 070307Z 13005KT 8SM FEW014 SCT019 BKN033 BKN130 05/02 A3006 RMK AO2 T00500022
KMDW 070253Z 13004KT 8SM SCT014 BKN019 BKN033 OVC130 05/02 A3006 RMK AO2 SLP184 T00500022 51012
KMDW 070242Z 14005KT 8SM SCT014 BKN019 BKN033 OVC130 06/03 A3005 RMK AO2 T00560028
KMDW 070153Z 13005KT 9SM FEW014 SCT021 BKN033 OVC130 06/02 A3005 RMK AO2 SLP181 T00560022
KMDW 070053Z 09004KT 10SM FEW012 BKN033 OVC120 06/02 A3003 RMK AO2 SLP176 T00560022
KMDW 062353Z 09006KT 8SM SCT012 BKN041 OVC070 06/02 A3002 RMK AO2 SLP173 T00560022 10067 20056 51007
KMDW 062253Z 08006KT 8SM SCT017 BKN030 OVC065 06/02 A3002 RMK AO2 SLP171 T00610022
KMDW 062225Z 08009KT 5SM BR BKN017 BKN030 BKN070 OVC170 06/02 A3000 RMK AO2 T00610022
KMDW 062153Z 02006KT 6SM BR BKN014 OVC017 06/03 A3001 RMK AO2 SLP169 T00610028
KMDW 062053Z 36008KT 6SM BR BKN015 OVC020 06/03 A3000 RMK AO2 SLP166 T00610028 56003
KMDW 062045Z 36007KT 6SM BR BKN015 OVC020 07/03 A3000 RMK AO2 T00670033
KMDW 061953Z 33004KT 6SM BR OVC011 06/03 A3000 RMK AO2 SLP165 T00610033
KMDW 061939Z 34007KT 5SM BR OVC010 06/03 A3000 RMK AO2 T00610033
KMDW 061853Z 04005KT 5SM BR OVC009 06/04 A2999 RMK AO2 SLP162 T00610039
KMDW 061753Z 02003KT 5SM BR OVC008 06/04 A3001 RMK AO2 DZE1657 SLP169 P0000 60000 T00610039 10061 20050 58005
KMDW 061703Z 06005KT 3SM BR BKN006 OVC010 06/04 A3001 RMK AO2 DZE1657 P0000 T00560039
KMDW 061653Z 08006KT 2SM -DZ BR OVC008 06/04 A3001 RMK AO2 DZB17 SLP170 P0000 T00560039
KMDW 061638Z 06006KT 2SM -DZ BR OVC009 06/03 A3001 RMK AO2 DZB17 P0000 T00560033
KMDW 061618Z 05007KT 2SM -DZ BR OVC011 06/03 A3003 RMK AO2 DZB17 P0000 T00560033
KMDW 061553Z 02007KT 5SM BR OVC013 06/02 A3005 RMK AO2 SLP182 T00560022
KMDW 061453Z 05006KT 10SM OVC014 06/02 A3002 RMK AO2 SLP174 T00560017 53016
KMDW 061433Z 02006KT 10SM OVC014 06/02 A3002 RMK AO2 T00560017
KMDW 061353Z 03006KT 10SM OVC021 05/01 A3000 RMK AO2 SLP167 T00500011
KMDW 061253Z 05007KT 9SM BKN021 OVC026 05/01 A2997 RMK AO2 SLP155 T00500011
KMDW 061153Z 01008KT 9SM BKN019 OVC026 04/01 A2998 RMK AO2 SLP158 T00440011 10050 20033 53008
KMDW 061053Z 01008KT 9SM BKN017 OVC028 04/01 A2995 RMK AO2 SLP149 T00440011
KMDW 060953Z 02006KT 9SM OVC090 04/01 A2994 RMK AO2 SLP146 T00440011
KMDW 060935Z 02005KT 9SM SCT028 OVC090 04/01 A2994 RMK AO2 T00440011
KMDW 060853Z 00000KT 9SM SCT016 BKN028 OVC090 04/01 A2995 RMK AO2 SLP150 T00390011 51006
KMDW 060753Z 00000KT 9SM BKN016 OVC030 04/02 A2995 RMK AO2 SLP148 T00390022
KMDW 060653Z 31006KT 7SM FEW006 OVC027 04/02 A2996 RMK AO2 SLP153 T00390022
KMDW 060629Z 27004KT 7SM SCT006 OVC027 04/02 A2995 RMK AO2 T00390022
KMDW 060553Z 00000KT 6SM BR OVC006 04/02 A2993 RMK AO2 SLP143 60000 T00390022 10056 20033 400671022 53009
KMDW 060453Z 18004KT 4SM BR OVC005 04/03 A2991 RMK AO2 DZE35 SLP134 P0000 T00390028
KMDW 060353Z 23004KT 3SM -DZ BR OVC004 03/02 A2992 RMK AO2 DZB06 SLP140 P0000 T00330022
KMDW 060321Z 21005KT 6SM -DZ BR OVC004 04/02 A2991 RMK AO2 DZB06 P0000 T00390022
KMDW 060253Z 19006KT 9SM BKN008 OVC022 04/02 A2991 RMK AO2 SLP136 T00390017 51012
KMDW 060153Z 19007KT 10SM BKN019 OVC028 05/01 A2989 RMK AO2 SLP132 T00500011
KMDW 060053Z 19006KT 10SM OVC019 06/01 A2989 RMK AO2 SLP129 T00560006
KMDW 052353Z 20006KT 10SM BKN023 OVC031 06/M01 A2987 RMK AO2 SLP124 T00561006 10067 20050 53013
KMDW 052328Z 19008KT 170V230 10SM BKN025 OVC031 06/M02 A2985 RMK AO2 T00611017
KMDW 052253Z 21006KT 10SM FEW025 BKN033 OVC120 06/M02 A2986 RMK AO2 SLP119 T00611017
KMDW 052153Z 18007G16KT 10SM SCT120 BKN160 OVC250 06/M02 A2984 RMK AO2 SLP113 T00611017
KMDW 052053Z 18008KT 10SM SCT120 BKN150 OVC250 06/M02 A2983 RMK AO2 SLP111 T00611022 58011 $
KMDW 051953Z 19008KT 10SM BKN120 BKN150 OVC250 06/M03 A2985 RMK AO2 SLP116 T00561028
KMDW 051853Z 21008KT 10SM BKN120 BKN150 OVC250 05/M04 A2985 RMK AO2 SLP119 T00501039
KMDW 051753Z 20011KT 10SM SCT110 BKN150 BKN250 06/M04 A2987 RMK AO2 SLP122 T00611044 10067 21011 58016
KMDW 051653Z 22007KT 10SM BKN120 BKN180 BKN250 04/M05 A2989 RMK AO2 SLP132 T00441050
KMDW 051553Z 24008KT 10SM SCT120 BKN180 BKN250 02/M06 A2993 RMK AO2 SLP144 T00221056
KMDW 051453Z 20008KT 10SM BKN110 BKN150 BKN200 00/M06 A2991 RMK AO2 SLP140 T00001061 55002
KMDW 051353Z 20009KT 10SM SCT120 BKN150 BKN200 M01/M07 A2991 RMK AO2 SLP138 T10061067
KMDW 051253Z COR 20010KT 10SM BKN160 BKN210 M01/M07 A2991 RMK AO2 SLP138 T10111067
KMDW 051153Z 22008KT 10SM BKN210 M01/M07 A2992 RMK AO2 SLP142 T10111067 11011 21022 55015
KMDW 051053Z 20009KT 10SM BKN230 M02/M07 A2991 RMK AO2 SLP139 T10171072
KMDW 050953Z 19007KT 10SM BKN200 M02/M07 A2993 RMK AO2 SLP145 T10171072
KMDW 050853Z 19008KT 10SM BKN210 M02/M07 A2996 RMK AO2 SLP157 T10171072 56008
KMDW 050753Z 19006KT 10SM SCT250 M02/M07 A2997 RMK AO2 SLP160 T10171072
KMDW 050653Z 20008KT 10SM FEW250 M02/M07 A2996 RMK AO2 SLP157 T10171072
KMDW 050553Z 21008G20KT 10SM FEW250 M01/M07 A2999 RMK AO2 SLP167 T10111072 10022 21011 400441078 58013
KMDW 050453Z 21010G22KT 10SM FEW250 M01/M07 A3001 RMK AO2 SLP173 T10061072
KMDW 050353Z 21013G22KT 10SM FEW250 M01/M07 A3002 RMK AO2 SLP177 T10061072
KMDW 050253Z 21011G22KT 10SM FEW250 01/M08 A3003 RMK AO2 SLP182 T00061078 58007
KMDW 050153Z 21008G18KT 10SM FEW250 01/M08 A3004 RMK AO2 SLP185 T00111083
KMDW 050053Z 21012G21KT 10SM FEW250 02/M09 A3004 RMK AO2 SLP187 T00171089
KMDW 042353Z 21010KT 10SM FEW250 02/M09 A3005 RMK AO2 SLP189 T00171094 10044 20017 57016
KMDW 042253Z 21009KT 10SM FEW250 03/M10 A3006 RMK AO2 SLP194 T00281100
KMDW 042153Z 23014G18KT 10SM FEW250 04/M11 A3008 RMK AO2 SLP200 T00391106
KMDW 042053Z 21012KT 10SM FEW250 04/M10 A3010 RMK AO2 SLP204 T00441100 56020
KMDW 041953Z 24012G20KT 10SM FEW250 04/M11 A3012 RMK AO2 SLP211 T00441106
KMDW 041853Z 23016G23KT 10SM FEW250 03/M11 A3012 RMK AO2 SLP212 T00331106
KMDW 041753Z 23013G23KT 10SM CLR 02/M11 A3016 RMK AO2 PRESFR SLP225 T00221111 10022 21067 58028
KMDW 041653Z 23012KT 10SM CLR 01/M11 A3020 RMK AO2 SLP242 T00111111
KMDW 041553Z 26012KT 10SM FEW250 M01/M12 A3023 RMK AO2 SLP251 T10111117
KMDW 041453Z 23010KT 10SM FEW250 M04/M11 A3024 RMK AO2 SLP256 T10391111 58006
KMDW 041353Z 23010KT 10SM FEW210 FEW250 M06/M12 A3026 RMK AO2 SLP264 T10561117
KMDW 041253Z 22007KT 10SM FEW210 FEW250 M07/M12 A3026 RMK AO2 SLP264 T10671122
KMDW 041153Z 21008G17KT 10SM CLR M07/M13 A3026 RMK AO2 SLP263 T10671128 11061 21078 56023
KMDW 041053Z 21005KT 10SM CLR M07/M13 A3028 RMK AO2 SLP271 T10721128
KMDW 040953Z 21007KT 10SM CLR M07/M13 A3030 RMK AO2 SLP276 T10721128
KMDW 040853Z 21006KT 10SM CLR M07/M13 A3033 RMK AO2 SLP286 T10721128 56022
KMDW 040753Z 24005KT 10SM CLR M07/M13 A3035 RMK AO2 SLP293 T10721128
KMDW 040653Z 24006KT 10SM CLR M07/M13 A3038 RMK AO2 SLP302 T10721133
KMDW 040553Z 27005KT 10SM CLR M06/M13 A3040 RMK AO2 SLP309 T10611133 11028 21061 401111061 56012
KMDW 040453Z 29008KT 10SM CLR M06/M13 A3041 RMK AO2 SLP314 T10561133
KMDW 040353Z 25008KT 10SM CLR M06/M13 A3040 RMK AO2 SLP312 T10561128
KMDW 040253Z 27012KT 10SM CLR M04/M13 A3043 RMK AO2 SLP322 T10441133 50008
KMDW 040153Z 28009KT 10SM CLR M04/M13 A3044 RMK AO2 SLP324 T10391133
KMDW 040053Z 27009KT 10SM FEW250 M03/M13 A3045 RMK AO2 SLP327 T10331128
KMDW 032353Z 25010KT 10SM FEW250 M03/M13 A3041 RMK AO2 SLP312 T10281128 10000 21028 50007
KMDW 032253Z 29009KT 10SM FEW250 M02/M14 A3041 RMK AO2 SLP312 T10171139
KMDW 032153Z 27013KT 10SM FEW250 M01/M13 A3040 RMK AO2 SLP306 T10061133
KMDW 032053Z 28009KT 10SM FEW250 00/M13 A3039 RMK AO2 SLP301 T00001128 51004
KMDW 031953Z 30013G20KT 10SM FEW250 00/M13 A3039 RMK AO2 SLP298 T00001128
KMDW 031853Z 27013KT 10SM CLR M01/M12 A3039 RMK AO2 SLP298 T10061122
KMDW 031753Z 28012G20KT 10SM CLR M01/M12 A3038 RMK AO2 SLP294 T10111117 11011 21050 53024
KMDW 031653Z 27014KT 10SM FEW030 M02/M12 A3035 RMK AO2 SLP285 T10221117
KMDW 031553Z 30015G23KT 10SM FEW030 M03/M11 A3033 RMK AO2 PK WND 28027/1459 SLP280 T10331111
KMDW 031453Z 29018G28KT 10SM FEW025 M04/M11 A3030 RMK AO2 PK WND 29028/1414 SLP271 T10441111 52057
KMDW 031353Z 29014G28KT 10SM FEW025 M05/M11 A3024 RMK AO2 PK WND 28028/1345 SLP250 T10501106
KMDW 031253Z 29014G22KT 10SM FEW025 M04/M11 A3020 RMK AO2 PK WND 28032/1159 SLP234 T10441106
KMDW 031153Z 28020G30KT 10SM FEW025 M03/M09 A3013 RMK AO2 PK WND 29034/1100 SLP212 60000 T10331089 10111 21033 51082
KMDW 031053Z 28017G33KT 10SM FEW025 FEW140 M02/M07 A3005 RMK AO2 PK WND 28035/1010 SLP183 T10171072
KMDW 031004Z 29024G34KT 10SM SCT025 BKN140 00/M06 A3001 RMK AO2 PK WND 29034/1002 T00001056
KMDW 030953Z 27022G33KT 10SM BKN023 BKN070 BKN140 01/M04 A2999 RMK AO2 PK WND 27036/0928 RAB04E34SNB34E47 SLP163 P0000 T00061044
KMDW 030947Z 28018G33KT 10SM BKN023 BKN070 OVC090 01/M04 A2998 RMK AO2 PK WND 27036/0928 RAB04E34SNB34E47 P0000
KMDW 030935Z 28023G36KT 10SM -SN BKN020 BKN070 OVC090 01/M04 A2996 RMK AO2 PK WND 27036/0928 RAB04E34SNB34 P0000 T00111039
KMDW 030853Z 27015G32KT 10SM SCT020 SCT095 BKN120 03/M01 A2989 RMK AO2 PK WND 30037/0802 DZE0757 SLP126 P0000 60000 T00331011 53048
KMDW 030805Z 28024G37KT 10SM SCT019 SCT031 BKN060 07/01 A2986 RMK AO2 PK WND 30037/0802 DZE0757 PRESRR P0000 T00720011
KMDW 030753Z 26019G32KT 10SM -DZ BKN019 BKN024 OVC042 08/04 A2981 RMK AO2 PK WND 27037/0742 RAB38E46DZB46 SLP099 P0000 T00830044
KMDW 030653Z 23013KT 10SM SCT018 OVC029 11/08 A2974 RMK AO2 RAE40 SLP075 P0000 T01060078
KMDW 030615Z 23012G20KT 8SM -RA SCT014 BKN025 OVC033 10/08 A2975 RMK AO2 P0000 T01000078
KMDW 030553Z 22014G22KT 9SM -RA SCT016 BKN036 OVC070 10/08 A2974 RMK AO2 RAB36 SLP075 P0000 60000 T01000078 10111 20100 401110022 51008
KMDW 030542Z 23015KT 10SM -RA SCT016 BKN048 OVC070 11/07 A2974 RMK AO2 RAB36 P0000 T01060072
KMDW 030453Z 22015G25KT 10SM BKN016 OVC019 11/07 A2974 RMK AO2 PK WND 22026/0427 RAE23 SLP073 P0000 T01060067
KMDW 030353Z 21012KT 10SM -RA OVC018 10/07 A2974 RMK AO2 PK WND 21026/0254 RAB25 SLP073 P0000 T01000067
KMDW 030253Z 21017G27KT 10SM OVC020 10/06 A2972 RMK AO2 PK WND 20032/0158 SLP068 T01000056 55000
KMDW 030153Z 21015G31KT 10SM BKN025 OVC032 11/05 A2971 RMK AO2 PK WND 19032/0121 SLP066 T01060050
KMDW 030133Z 20017G32KT 10SM BKN027 OVC034 11/04 A2971 RMK AO2 PK WND 19032/0121 T01060044
KMDW 030053Z 21015G26KT 10SM OVC035 11/03 A2971 RMK AO2 PK WND 21034/2357 SLP066 T01110033
KMDW 022353Z 21017G30KT 10SM OVC033 11/02 A2972 RMK AO2 PK WND 21037/2331 SLP067 T01110017 10111 20072 55000
KMDW 022253Z 20015G29KT 10SM OVC036 11/01 A2970 RMK AO2 PK WND 17033/2233 SLP063 T01110006
KMDW 022153Z 19019G32KT 10SM BKN037 OVC250 11/01 A2971 RMK AO2 PK WND 18035/2106 SLP065 T01110006
KMDW 022053Z 20015G35KT 10SM BKN034 BKN210 OVC250 11/M01 A2972 RMK AO2 PK WND 17035/2047 SLP069 T01061006 56048
KMDW 021953Z 19015G23KT 10SM BKN037 BKN250 09/M02 A2977 RMK AO2 PK WND 18030/1928 SLP088 T00891017
KMDW 021853Z 20017G26KT 10SM BKN030 BKN036 OVC250 08/M02 A2981 RMK AO2 PK WND 19035/1802 SLP102 T00781022
KMDW 021753Z 19017G29KT 10SM FEW040 BKN250 07/M03 A2987 RMK AO2 PK WND 20036/1731 SLP120 T00721028 10078 20039 58034
KMDW 021653Z 20017G27KT 10SM BKN038 BKN250 07/M04 A2990 RMK AO2 PK WND 19028/1639 PRESFR SLP132 T00721039
KMDW 021553Z 21017G26KT 10SM OVC033 06/M04 A2995 RMK AO2 PK WND 18028/1543 SLP150 T00561044
KMDW 021453Z 20014G33KT 10SM OVC030 04/M04 A2997 RMK AO2 PK WND 16033/1448 SLP157 T00441039 58027
KMDW 021353Z 20012G24KT 10SM OVC038 04/M06 A3000 RMK AO2 PK WND 20026/1333 SLP167 T00391056
KMDW 021253Z 20014G21KT 10SM OVC048 04/M06 A3002 RMK AO2 PK WND 18026/1224 SLP175 T00391061
KMDW 021153Z 20016G22KT 10SM OVC050 04/M06 A3005 RMK AO2 SLP185 T00391061 10039 20022 56025
KMDW 021053Z 19015G22KT 10SM BKN050 BKN060 03/M07 A3005 RMK AO2 SLP186 T00331067
KMDW 020953Z 20013G22KT 10SM OVC050 03/M07 A3009 RMK AO2 SLP199 T00331067
KMDW 020853Z 21013G21KT 10SM OVC055 03/M07 A3012 RMK AO2 PK WND 21028/0802 SLP210 T00331067 56015
KMDW 020753Z 20015G23KT 10SM FEW040 OVC065 03/M07 A3013 RMK AO2 SLP213 T00281072
KMDW 020653Z 20010G18KT 10SM SCT065 OVC080 02/M07 A3014 RMK AO2 SLP217 T00221072

KMEM 070554Z 21010G18KT 10SM -RA BKN027 OVC034 20/19 A3005 RMK AO2 RAE17B32 SLP174 P0000 60011 T02000189 10217 20194 402220167 53006
KMEM 070526Z 20012G18KT 10SM BKN037 BKN065 OVC120 20/18 A3005 RMK AO2 RAE17 P0000 T02000183
KMEM 070454Z 19009KT 10SM -RA FEW036 BKN044 OVC110 20/18 A3004 RMK AO2 RAB41 SLP169 P0000 T02000183
KMEM 070444Z 20011KT 10SM -RA BKN038 BKN047 OVC065 20/19 A3004 RMK AO2 RAB41 P0000 T02000189
KMEM 070354Z 20005KT 10SM FEW032 BKN042 OVC050 20/19 A3004 RMK AO2 RAE38 SLP170 P0002 T02000189
KMEM 070254Z 21007KT 10SM -RA FEW049 SCT095 SCT120 OVC130 20/19 A3004 RMK AO2 SLP167 P0000 60009 T02000189 53013
KMEM 070154Z 17017KT 10SM -RA FEW075 FEW090 OVC110 20/19 A2999 RMK AO2 SLP152 P0008 T02000189
KMEM 070054Z 20007KT 10SM -RA SCT031 BKN043 OVC050 21/19 A3003 RMK AO2 RAB07 SLP164 P0001 T02060189
KMEM 070021Z 20009KT 10SM -RA SCT037 OVC046 21/19 A3001 RMK AO2 RAB07 P0001 T02110189
KMEM 062354Z 20009KT 10SM FEW028 BKN037 OVC046 22/18 A3000 RMK AO2 SLP155 60000 T02170183 10222 20211 53014
KMEM 062339Z 20008KT 10SM FEW028 BKN039 OVC046 22/18 A2999 RMK AO2 T02170183
KMEM 062322Z 21007KT 10SM SCT023 OVC043 22/18 A2999 RMK AO2 T02170183
KMEM 062254Z 21008KT 10SM BKN023 OVC045 22/18 A2999 RMK AO2 SLP150 T02170183
KMEM 062154Z 20009KT 10SM BKN020 OVC046 22/18 A2997 RMK AO2 SLP144 T02170183
KMEM 062109Z 21009KT 10SM BKN020 OVC046 22/19 A2996 RMK AO2 T02170189
KMEM 062054Z 21008KT 10SM SCT020 BKN030 OVC044 22/19 A2996 RMK AO2 SLP142 SCT V BKN 60000 T02170189 53001
KMEM 062022Z 20011KT 10SM SCT020 BKN030 OVC045 22/19 A2995 RMK AO2 SCT V BKN T02170189
KMEM 061954Z 21010G17KT 10SM BKN020 BKN030 OVC045 22/19 A2994 RMK AO2 RAB22E33 SLP137 BKN020 V SCT P0000 T02170189
KMEM 061854Z 21011G16KT 10SM BKN020 OVC030 22/19 A2994 RMK AO2 SLP135 T02220189
KMEM 061808Z 21009KT 10SM BKN015 OVC022 22/18 A2995 RMK AO2 T02170183
KMEM 061754Z 22012G19KT 10SM BKN014 OVC020 21/18 A2995 RMK AO2 RAB1655E08 SLP140 P0000 60000 T02110183 10211 20194 58003
KMEM 061654Z 22012G23KT 10SM BKN013 OVC020 21/19 A2997 RMK AO2 PK WND 23026/1600 RAB15E27 SLP146 VCSH P0000 T02060189
KMEM 061554Z 21010G16KT 10SM BKN012 OVC020 21/19 A2998 RMK AO2 SLP149 T02110194
KMEM 061454Z 20010G18KT 8SM FEW009 BKN014 OVC023 21/19 A2996 RMK AO2 SLP144 60000 T02060189 51018
KMEM 061354Z 21008KT 8SM BKN012 BKN026 OVC038 20/19 A2995 RMK AO2 SLP139 T02000189
KMEM 061254Z 21009G18KT 3SM BR FEW009 BKN014 OVC024 19/18 A2993 RMK AO2 SFC VIS 6 RAE15 SLP132 P0000 T01940183
KMEM 061240Z 23011KT 3SM BR FEW009 BKN014 OVC021 19/18 A2992 RMK AO2 SFC VIS 6 RAE15 P0000 T01940183
KMEM 061154Z 22011G18KT 3SM -RA BR BKN009 OVC013 19/18 A2991 RMK AO2 SFC VIS 5 RAE01B22 SLP126 P0000 60026 70093 T01940183 10200 20167 53003
KMEM 061054Z 21008KT 3SM -RA BR OVC009 19/19 A2990 RMK AO2 SFC VIS 5 SLP122 P0002 T01940189
KMEM 060954Z 23008KT 3SM -RA BR OVC007 19/18 A2990 RMK AO2 SFC VIS 5 SLP121 P0006 T01890183
KMEM 060854Z 29005KT 3SM +RA BR OVC006 17/17 A2990 RMK AO2 CIG 005V010 SLP124 P0010 60018 T01720172 53009
KMEM 060824Z 25006KT 3SM -RA BR BKN007 OVC012 18/18 A2990 RMK AO2 SFC VIS 5 P0002 T01830178
KMEM 060754Z 27006KT 3SM RA BKN011 BKN017 OVC044 19/18 A2988 RMK AO2 SFC VIS 7 RAB35 SLP116 P0007 T01890183
KMEM 060711Z 21012G24KT 170V240 3SM BR BKN011 OVC016 20/19 A2987 RMK AO2 SFC VIS 6 T02000189
KMEM 060654Z 21012G21KT 3SM BR BKN009 OVC031 20/18 A2986 RMK AO2 PK WND 24029/0632 SFC VIS 5 DZB06E08RAB08E46 SLP110 P0001 T02000183
KMEM 060554Z 20011G27KT 3SM BR BKN007 OVC010 20/19 A2987 RMK AO2 PK WND 21027/0552 SLP114 P0009 60011 T02000189 10200 20122 402000061 50001
KMEM 060517Z 20012G18KT 3SM BR BKN012 BKN023 OVC031 19/18 A2988 RMK AO2 SFC VIS 10 P0001 T01940183
KMEM 060454Z 21011G19KT 180V250 3SM BR SCT009 BKN016 OVC027 19/18 A2987 RMK AO2 SFC VIS 9 SLP115 T01890183
KMEM 060429Z 20009KT 3SM BR SCT009 BKN016 OVC027 18/18 A2987 RMK AO2 SFC VIS 8 T01780178
KMEM 060354Z 21005KT 3SM BR BKN016 OVC026 17/17 A2987 RMK AO2 SFC VIS 9 DZE39 SLP113 P0000 T01670167
KMEM 060340Z 20006KT 1/2SM R36L/P6000FT BR SCT004 BKN016 OVC034 16/16 A2987 RMK AO2 SFC VIS 8 DZE39 P0000 T01610161
KMEM 060254Z 00000KT 1/2SM R36L/4500VP6000FT DZ BR VV003 13/13 A2987 RMK AO2 SFC VIS 1 RAB0159E11DZB52 SLP113 P0001 60002 T01330133 58003
KMEM 060154Z 00000KT 1/2SM R36L/2200V2600FT FG VV002 12/12 A2987 RMK AO2 RAE04 SLP115 P0000 T01220122
KMEM 060054Z 00000KT 1/2SM R36L/2600V3500FT -RA BR VV002 12/12 A2987 RMK AO2 SFC VIS 3/4 RAE29B47 SLP115 P0001 T01220122
KMEM 052354Z 00000KT 1/2SM R36L/P6000FT RA BR OVC003 12/12 A2987 RMK AO2 SFC VIS 5 RAE21B23 SLP115 P0004 60026 T01220122 10128 20100 53002
KMEM 052321Z 15003KT 1/2SM R36L/P6000FT BR OVC003 12/12 A2987 RMK AO2 SFC VIS 3 RAE21 P0001 T01220122
KMEM 052254Z 00000KT 4SM -RA BR BKN004 OVC015 13/13 A2987 RMK AO2 RAB44 SLP115 P0000 T01280128
KMEM 052154Z 20007KT 4SM BR BKN004 BKN015 OVC023 12/12 A2987 RMK AO2 RAE04 SLP113 BKN004 V SCT P0000 T01220122
KMEM 052114Z 18011KT 4SM BR BKN003 BKN010 OVC020 12/12 A2986 RMK AO2 RAE04 BKN003 V SCT P0000 T01220117
KMEM 052058Z 18009KT 2 1/2SM R36L/5500VP6000FT -RA BR BKN004 BKN018 OVC027 12/12 A2987 RMK AO2 CIG 003V005 P0000 T01220117
KMEM 052054Z 18008KT 3SM R36L/5500VP6000FT -RA BR BKN004 BKN018 OVC027 12/12 A2987 RMK AO2 SLP114 CIG 003V005 P0004 60022 T01170117 56021
KMEM 052043Z 20007KT 3SM -RA BR BKN004 BKN016 OVC027 12/12 A2987 RMK AO2 CIG 003V005 P0003 T01170117
KMEM 052021Z 18009KT 2 1/2SM R36L/6000VP6000FT -RA BR OVC004 12/12 A2987 RMK AO2 CIG 003V005 P0003 T01170117
KMEM 051954Z 20008KT 6SM -RA BR BKN004 OVC010 12/11 A2988 RMK AO2 RAE25B53 SLP119 CIG 003V005 P0004 T01170111
KMEM 051924Z 16004KT 6SM -RA BR BKN004 OVC010 11/11 A2989 RMK AO2 CIG 003V005 P0003 T01110111
KMEM 051913Z 16004KT 4SM -RA BR BKN003 OVC008 11/11 A2989 RMK AO2 P0003 T01110106
KMEM 051854Z 17004KT 2 1/2SM RA BR OVC003 11/11 A2990 RMK AO2 SLP126 P0014 T01060106
KMEM 051833Z 17003KT 2 1/2SM RA BR BKN003 OVC007 11/11 A2991 RMK AO2 P0007 T01060106
KMEM 051754Z 17005KT 4SM -RA BR BKN003 OVC007 10/10 A2993 RMK AO2 SLP135 P0008 60030 T01000100 10100 20072 58020
KMEM 051743Z 17004KT 4SM -RA BR BKN003 OVC007 10/10 A2994 RMK AO2 P0007 T01000100
KMEM 051656Z 17005KT 2 1/2SM +RA BR BKN003 OVC007 10/09 A2997 RMK AO2 P0001 T01000089
KMEM 051654Z 17005KT 3SM RA BR BKN003 OVC007 10/09 A2997 RMK AO2 RAE13B47DZB15E47 SLP149 P0003 T01000094
KMEM 051615Z 20004KT 4SM -DZ BR BKN003 OVC007 09/09 A2999 RMK AO2 RAE13DZB15 P0000 T00940089
KMEM 051610Z 19003KT 4SM -RA BR BKN004 OVC008 09/09 A2999 RMK AO2 P0000 T00940089
KMEM 051554Z COR 17003KT 2 1/2SM -RA BR BKN003 OVC010 09/09 A2999 RMK AO2 SLP154 P0007 T00890089
KMEM 051543Z 17004KT 3SM -RA BR BKN004 BKN015 OVC029 09/09 A2999 RMK AO2 P0005 T00890089
KMEM 051522Z 16007KT 2 1/2SM RA BR BKN003 BKN015 OVC029 08/08 A2998 RMK AO2 P0003 T00830083
KMEM 051454Z 14004KT 2 1/2SM -RA BR BKN004 OVC010 08/08 A2999 RMK AO2 SLP155 P0005 60012 T00830078 56002
KMEM 051432Z 14004KT 3SM -RA BR BKN005 OVC011 08/08 A2999 RMK AO2 P0004 T00780078
KMEM 051354Z 12004KT 2 1/2SM -RA BR OVC005 08/07 A2999 RMK AO2 SLP156 P0005 T00780072
KMEM 051337Z 11004KT 2SM -RA BR OVC006 08/07 A3000 RMK AO2 P0004 T00780072
KMEM 051303Z 11003KT 5SM -RA BR BKN007 OVC010 07/07 A2999 RMK AO2 P0001 T00720072
KMEM 051254Z 11003KT 6SM -RA BR OVC004 07/07 A2999 RMK AO2 SLP154 P0002 T00720072
KMEM 051219Z 10004KT 6SM -RA BR OVC004 07/07 A2999 RMK AO2 P0001 T00720072
KMEM 051154Z 07003KT 5SM -RA BR OVC005 07/07 A2999 RMK AO2 RAB39 SLP157 P0000 60004 70004 T00720067 10078 20061 56017
KMEM 051054Z 00000KT 10SM OVC006 07/06 A3000 RMK AO2 RAE12 SLP158 P0000 T00670061
KMEM 051008Z 18005KT 10SM -RA BKN005 OVC013 07/06 A3001 RMK AO2 P0000 T00670061
KMEM 050954Z 18004KT 9SM -RA FEW005 BKN013 OVC025 06/06 A3002 RMK AO2 SLP165 P0001 T00610061
KMEM 050930Z 18007KT 10SM -RA OVC013 06/06 A3002 RMK AO2 P0000 T00610056
KMEM 050904Z 17003KT 8SM -RA FEW008 OVC015 06/06 A3004 RMK AO2 P0000 T00610056
KMEM 050854Z 00000KT 7SM -RA OVC015 06/06 A3005 RMK AO2 SLP175 P0001 60003 T00610056 56015
KMEM 050841Z 16004KT 5SM -RA BR FEW009 OVC015 06/05 A3004 RMK AO2 P0001 T00610050
KMEM 050810Z 17004KT 10SM -RA BKN013 OVC023 06/05 A3005 RMK AO2 P0001 T00610050
KMEM 050754Z 16005KT 7SM -RA BKN015 OVC025 06/04 A3006 RMK AO2 SLP178 P0001 T00610044
KMEM 050654Z 16004KT 10SM -RA OVC018 07/02 A3007 RMK AO2 RAB38 SLP181 P0001 T00720022
KMEM 050554Z 15003KT 10SM OVC020 07/01 A3009 RMK AO2 SLP190 T00720006 10072 20056 400780011 58023
KMEM 050454Z 13004KT 10SM OVC023 07/00 A3011 RMK AO2 SLP196 T00720000
KMEM 050354Z 12003KT 10SM BKN027 OVC036 07/00 A3015 RMK AO2 SLP209 T00720000
KMEM 050343Z 10004KT 10SM BKN029 OVC042 07/00 A3014 RMK AO2 T00670000
KMEM 050254Z 00000KT 10SM SCT033 BKN045 OVC090 07/00 A3016 RMK AO2 SLP213 T00670000 58015
KMEM 050154Z 00000KT 10SM OVC050 06/01 A3018 RMK AO2 SLP221 T00610006
KMEM 050054Z 00000KT 10SM FEW060 BKN085 07/M01 A3018 RMK AO2 SLP222 T00671011
KMEM 042354Z 00000KT 10SM BKN070 OVC085 07/M01 A3020 RMK AO2 SLP228 60000 T00671011 10078 20056 55002
KMEM 042254Z 03005KT 10SM SCT055 OVC065 07/M01 A3019 RMK AO2 RAE10 SLP223 P0000 T00671006
KMEM 042154Z 32003KT 10SM -RA BKN055 OVC070 07/M01 A3022 RMK AO2 RAB25 SLP233 P0000 T00671006
KMEM 042054Z 00000KT 10SM OVC085 07/M01 A3021 RMK AO2 SLP230 60000 T00721011 55025
KMEM 041954Z 09006KT 10SM OVC095 07/M02 A3018 RMK AO2 RAB15E29 SLP220 P0000 T00721017
KMEM 041854Z 10004KT 10SM FEW080 OVC100 07/M02 A3024 RMK AO2 SLP240 T00671017
KMEM 041754Z 11004KT 10SM BKN100 BKN120 06/M02 A3028 RMK AO2 PRESFR SLP256 T00561022 10056 20011 58030
KMEM 041654Z 06006KT 10SM SCT120 OVC200 05/M02 A3034 RMK AO2 SLP276 T00501022
KMEM 041554Z 05004KT 10SM FEW120 BKN200 04/M02 A3037 RMK AO2 SLP287 T00441022
KMEM 041454Z 02003KT 10SM BKN230 03/M03 A3037 RMK AO2 SLP286 T00281033 51013
KMEM 041354Z 06003KT 10SM FEW050 BKN130 BKN220 02/M03 A3035 RMK AO2 SLP280 T00171033
KMEM 041254Z 06004KT 10SM FEW050 BKN230 01/M04 A3035 RMK AO2 SLP280 T00111039
KMEM 041154Z 04006KT 10SM BKN220 01/M04 A3033 RMK AO2 SLP273 T00111039 10033 20011 56011
KMEM 041054Z 04006KT 10SM FEW250 01/M04 A3034 RMK AO2 SLP276 T00111039
KMEM 040954Z 04006KT 10SM FEW250 02/M04 A3035 RMK AO2 SLP279 T00171039
KMEM 040854Z 05006KT 10SM FEW250 02/M04 A3037 RMK AO2 SLP284 T00171039 58005
KMEM 040754Z 01005KT 10SM CLR 02/M03 A3038 RMK AO2 SLP288 T00171033
KMEM 040654Z 03006KT 10SM CLR 03/M03 A3037 RMK AO2 SLP285 T00281033
KMEM 040554Z 04006KT 10SM CLR 03/M03 A3038 RMK AO2 SLP288 T00331033 10067 20033 401890033 58015
KMEM 040454Z 04006KT 10SM CLR 04/M02 A3040 RMK AO2 SLP296 T00391022
KMEM 040354Z 03007KT 10SM CLR 04/M02 A3042 RMK AO2 SLP300 T00391022
KMEM 040254Z 03006KT 10SM CLR 04/M02 A3043 RMK AO2 SLP303 T00441017 58006
KMEM 040154Z 03007KT 10SM CLR 05/M02 A3044 RMK AO2 SLP308 T00501017
KMEM 040054Z 01010KT 10SM CLR 06/M01 A3045 RMK AO2 SLP310 T00611011
KMEM 032354Z 34007KT 10SM FEW250 06/M01 A3044 RMK AO2 SLP308 T00611006 10128 20061 53015
KMEM 032254Z 01011KT 10SM FEW250 08/00 A3042 RMK AO2 SLP300 T00830000
KMEM 032154Z 35010KT 10SM SCT250 10/M01 A3041 RMK AO2 SLP297 T01001006
KMEM 032054Z 01012G19KT 10SM BKN250 12/00 A3040 RMK AO2 SLP293 T01170000 56002
KMEM 031954Z 35012KT 10SM BKN250 12/01 A3040 RMK AO2 SLP292 T01220011
KMEM 031854Z 02010KT 10SM FEW029 BKN250 12/02 A3040 RMK AO2 SLP293 T01220022
KMEM 031754Z 33012G17KT 10SM FEW025 BKN250 12/04 A3041 RMK AO2 SLP296 T01220044 10172 20122 50021
KMEM 031654Z 36009KT 10SM FEW023 FEW250 12/05 A3041 RMK AO2 SLP296 T01220050
KMEM 031630Z 35011KT 10SM FEW029 BKN250 12/06 A3040 RMK AO2 T01220056
KMEM 031554Z 36010KT 10SM BKN020 BKN027 BKN250 13/07 A3039 RMK AO2 SLP288 T01280067
KMEM 031454Z 35015KT 10SM OVC021 14/12 A3034 RMK AO2 SLP273 T01440117 51036
KMEM 031436Z 36014G21KT 10SM BKN019 BKN250 16/13 A3033 RMK AO2 T01560128
KMEM 031354Z 33007KT 10SM FEW010 SCT024 SCT250 16/14 A3031 RMK AO2 SLP262 T01610139
KMEM 031254Z 31008KT 10SM FEW010 FEW090 SCT250 16/15 A3028 RMK AO2 SLP250 T01610150
KMEM 031154Z 30007KT 10SM FEW010 SCT070 BKN100 17/16 A3024 RMK AO2 RAB1059E26 SLP237 P0000 60003 70005 T01720161 10189 20167 51029
KMEM 031115Z 30008KT 7SM -RA FEW010 OVC060 18/17 A3022 RMK AO2 RAB1059 P0000 T01780172
KMEM 031054Z 29006KT 6SM BR BKN010 BKN018 OVC060 18/17 A3021 RMK AO2 RAB0959E43 SLP228 P0003 T01780172
KMEM 031048Z 30005KT 6SM BR BKN010 BKN018 OVC060 18/17 A3021 RMK AO2 RAB0959E43 P0003
KMEM 031006Z 24009KT 6SM RA BR FEW009 BKN017 OVC020 19/17 A3019 RMK AO2 RAB0959 P0001 T01890172
KMEM 030954Z 24007G16KT 8SM BKN009 OVC017 19/17 A3018 RMK AO2 SLP219 T01890172
KMEM 030933Z 26007KT 8SM OVC009 18/17 A3018 RMK AO2 CIG 008V013 T01830172
KMEM 030854Z 21011KT 8SM OVC011 18/17 A3015 RMK AO2 SLP208 60000 T01830172 51011
KMEM 030754Z 21011KT 9SM OVC012 18/17 A3015 RMK AO2 SLP207 T01830167
KMEM 030723Z 21013G20KT 9SM OVC013 18/17 A3013 RMK AO2 T01830167
KMEM 030654Z 21017G24KT 10SM BKN017 OVC021 18/16 A3012 RMK AO2 RAE0558 SLP198 P0000 T01830161
KMEM 030554Z 22008KT 190V260 10SM -RA BKN020 BKN025 OVC034 17/14 A3012 RMK AO2 SLP198 P0001 60002 T01670144 10189 20156 401890072 51008
KMEM 030534Z 20014KT 10SM -RA BKN025 BKN040 OVC060 17/14 A3011 RMK AO2 P0001 T01670144
KMEM 030454Z 19013KT 10SM -RA FEW029 BKN043 OVC070 17/14 A3011 RMK AO2 RAB20 SLP195 P0001 T01720144
KMEM 030452Z 19016KT 10SM -RA SCT029 BKN043 OVC075 17/14 A3011 RMK AO2 RAB20 P0001
KMEM 030422Z 19013G20KT 10SM -RA OVC028 18/13 A3010 RMK AO2 RAB20 P0000 T01780133
KMEM 030354Z 18013KT 10SM OVC032 18/13 A3010 RMK AO2 SLP190 T01780133
KMEM 030254Z 18012KT 10SM BKN033 OVC049 17/12 A3007 RMK AO2 SLP183 T01720117 55003
KMEM 030246Z 18013KT 10SM BKN035 BKN049 OVC065 17/12 A3008 RMK AO2 T01670117
KMEM 030154Z 17015KT 10SM BKN050 OVC075 16/11 A3006 RMK AO2 PK WND 18026/0120 SLP177 T01610106
KMEM 030054Z 17013KT 10SM SCT049 BKN060 16/10 A3006 RMK AO2 SLP179 T01560100
KMEM 022354Z 17012KT 10SM OVC048 16/09 A3008 RMK AO2 SLP185 60000 T01610094 10161 20133 53005
KMEM 022254Z 17010KT 10SM OVC050 16/08 A3008 RMK AO2 SLP185 T01560083
KMEM 022154Z 18008KT 10SM OVC055 16/08 A3007 RMK AO2 RAB39E51 SLP180 P0000 T01560078
KMEM 022054Z 14009KT 10SM BKN060 OVC180 14/08 A3007 RMK AO2 RAE14 SLP182 SHRA DSNT NE-SE P0000 60000 T01440078 58034
KMEM 021954Z 17007KT 9SM -RA BKN060 OVC075 14/07 A3012 RMK AO2 RAB50 SLP200 P0000 T01390067
KMEM 021854Z 16010KT 10SM OVC095 14/04 A3014 RMK AO2 SLP204 T01440039
KMEM 021754Z 16009KT 10SM FEW055 OVC090 13/02 A3017 RMK AO2 RAB28E37 SLP216 SHRA DSNT E P0000 60000 T01330022 10133 20078 58029
KMEM 021654Z 17010KT 10SM FEW065 BKN100 BKN250 12/02 A3022 RMK AO2 RAB08E20 SLP234 SHRA DSNT NE-E P0000 T01220022
KMEM 021554Z COR 17010KT 10SM BKN090 BKN110 BKN250 11/01 A3026 RMK AO2 SLP246 SHRA DSNT E AND S-SW T01110006
KMEM 021454Z 16008KT 10SM BKN080 BKN100 BKN250 10/00 A3026 RMK AO2 SLP245 60000 T01000000 58007
KMEM 021354Z 15006KT 10SM SCT095 BKN110 BKN250 08/M01 A3028 RMK AO2 RAB23E32 SLP252 P0000 T00831011
KMEM 021254Z 16007KT 10SM BKN095 BKN140 08/M02 A3028 RMK AO2 SLP253 T00831017
KMEM 021154Z 17007KT 10SM BKN095 08/M02 A3028 RMK AO2 SLP253 60000 T00781017 10083 20072 53004
KMEM 021054Z 16009KT 10SM BKN100 08/M02 A3026 RMK AO2 SLP248 T00781022
KMEM 020954Z 18007KT 10SM BKN100 08/M02 A3028 RMK AO2 SLP253 T00781022
KMEM 020854Z 16010KT 10SM BKN110 08/M03 A3027 RMK AO2 SLP249 60000 T00781033 58009
KMEM 020754Z 15010KT 10SM BKN110 08/M03 A3026 RMK AO2 RAB10E26 SLP247 P0000 T00781033
KMEM 020654Z 20010KT 10SM BKN110 08/M04 A3030 RMK AO2 SLP261 T00781039

KMIA 070553Z 35003KT 10SM FEW033 FEW045 23/18 A3019 RMK AO2 SLP222 T02280183 10250 20228 58004 $
KMIA 070453Z VRB03KT 10SM FEW033 FEW045 23/18 A3020 RMK AO2 SLP226 T02330183 402830222 $
KMIA 070353Z 00000KT 10SM FEW033 FEW045 24/18 A3021 RMK AO2 SLP228 T02390183 $
KMIA 070253Z 02003KT 10SM FEW045 24/18 A3020 RMK AO2 SLP225 T02390178 51011 $
KMIA 070153Z 04004KT 10SM FEW046 24/18 A3019 RMK AO2 SLP222 T02440178 $
KMIA 070053Z 04004KT 10SM FEW047 24/18 A3018 RMK AO2 SLP219 T02440183 $
KMIA 062353Z 04005KT 10SM FEW047 25/18 A3017 RMK AO2 SLP215 T02500183 10283 20250 53010 $
KMIA 062253Z 05005KT 10SM FEW047 25/18 A3015 RMK AO2 SLP210 T02500178 $
KMIA 062153Z 05007KT 10SM FEW048 26/18 A3014 RMK AO2 SLP207 T02610178 $
KMIA 062053Z 07009KT 10SM FEW049 27/18 A3013 RMK AO2 SLP204 T02720178 55001 $
KMIA 061953Z 07010KT 10SM FEW015 SCT045 27/18 A3012 RMK AO2 SLP201 FU FEW015 T02720178 $
KMIA 061911Z 07009G15KT 030V090 10SM FEW004 SCT045 28/18 A3013 RMK AO2 FU FEW004 T02780178 $
KMIA 061853Z 08011G14KT 10SM SCT041 28/18 A3012 RMK AO2 SLP201 FU N T02780178 $
KMIA 061753Z COR 06008KT 10SM FEW042 28/17 A3014 RMK AO2 SLP205 T02780167 10283 20222 58012 $
KMIA 061653Z COR 11006KT 10SM FEW040 27/17 A3016 RMK AO2 SLP211 T02720172 $
KMIA 061553Z COR 04005KT 10SM FEW036 27/18 A3017 RMK AO2 SLP216 T02720178 $
KMIA 061453Z 08008KT 10SM FEW030 FEW065 27/18 A3017 RMK AO2 SLP217 T02670183 53016 $
KMIA 061353Z 05007KT 10SM FEW030 FEW065 25/19 A3015 RMK AO2 SLP211 T02500194 $
KMIA 061253Z 02005KT 10SM FEW030 FEW065 23/19 A3014 RMK AO2 SLP206 T02330194 $
KMIA 061153Z VRB03KT 10SM FEW030 FEW060 22/19 A3013 RMK AO2 SLP201 70002 T02220194 10239 20222 53010 $
KMIA 061053Z 00000KT 10SM SCT032 BKN060 23/19 A3011 RMK AO2 SLP195 T02280194 $
KMIA 060953Z 35003KT 10SM FEW035 BKN060 23/19 A3010 RMK AO2 SLP194 T02330194 $
KMIA 060853Z 02003KT 10SM BKN035 BKN055 23/19 A3010 RMK AO2 SLP191 T02330194 53002 $
KMIA 060653Z 00000KT 10SM BKN041 23/20 A3009 RMK AO2 SLP188 T02330200 $
KMIA 060553Z 00000KT 10SM BKN032 OVC080 23/21 A3009 RMK AO2 RAB0455E12 SLP189 P0002 60002 T02330206 10244 20228 58005 $
KMIA 060531Z 00000KT 10SM OVC032 23/21 A3010 RMK AO2 RAB0455E12 P0002 T02330206 $
KMIA 060453Z 02006KT 10SM BKN026 BKN034 OVC080 24/20 A3010 RMK AO2 SLP194 T02390200 402830206 $
KMIA 060445Z 02003KT 10SM BKN026 BKN034 OVC080 24/20 A3010 RMK AO2 T02390200 $
KMIA 060353Z 05004KT 10SM FEW025 OVC070 24/19 A3010 RMK AO2 SLP194 T02440194 $
KMIA 060253Z 06006KT 10SM FEW025 BKN060 OVC080 24/20 A3010 RMK AO2 SLP194 T02440200 51009 $
KMIA 060153Z 04005KT 10SM FEW035 SCT050 BKN075 24/20 A3010 RMK AO2 SLP191 T02440200 $
KMIA 060053Z COR 06003KT 10SM SCT036 BKN050 OVC070 24/20 A3009 RMK AO2 SLP189 T02440200 $
KMIA 052353Z 07008KT 10SM SCT046 OVC055 24/20 A3008 RMK AO2 SLP185 T02440200 10283 20244 51014 $
KMIA 052253Z 06007KT 10SM FEW035 BKN046 BKN065 BKN250 25/19 A3007 RMK AO2 SLP182 T02500194 $
KMIA 052153Z 34006KT 10SM FEW035 SCT046 BKN065 BKN250 27/17 A3005 RMK AO2 SLP176 T02720172 $
KMIA 052053Z VRB06KT 10SM FEW035 SCT042 SCT250 28/18 A3004 RMK AO2 SLP171 T02780178 55004 $
KMIA 051953Z 33006KT 10SM BKN048 BKN250 28/17 A3003 RMK AO2 SLP169 T02780172 $
KMIA 051853Z 35004KT 10SM SCT041 SCT250 27/17 A3003 RMK AO2 SLP169 T02720172 $
KMIA 051753Z VRB03KT 10SM FEW038 FEW250 28/17 A3005 RMK AO2 SLP175 T02780172 10278 20211 58019 $
KMIA 051653Z VRB05KT 10SM FEW036 FEW250 27/18 A3007 RMK AO2 SLP184 T02670178 $
KMIA 051553Z 30005KT 10SM FEW038 FEW250 26/17 A3010 RMK AO2 SLP192 T02610167 $
KMIA 051453Z 35007KT 10SM FEW032 FEW250 26/17 A3010 RMK AO2 SLP194 T02560167 53012 $
KMIA 051353Z 36006KT 10SM FEW025 24/17 A3009 RMK AO2 SLP190 T02390167
KMIA 051253Z 33004KT 10SM FEW026 22/17 A3008 RMK AO2 SLP185 T02220172 $
KMIA 051153Z 35004KT 10SM FEW028 21/17 A3007 RMK AO2 SLP182 T02110172 10217 20206 53006 $
KMIA 051053Z 00000KT 10SM FEW025 21/17 A3006 RMK AO2 SLP178 T02060172 $
KMIA 050953Z 00000KT 10SM FEW025 21/18 A3005 RMK AO2 SLP175 T02110178 $
KMIA 050853Z 00000KT 10SM FEW025 21/18 A3005 RMK AO2 SLP176 T02110178 56008 $
KMIA 050753Z 35003KT 10SM FEW025 21/18 A3005 RMK AO2 SLP177 T02110178 $
KMIA 050653Z 35004KT 10SM CLR 22/17 A3006 RMK AO2 SLP180 T02170172 $
KMIA 050553Z 36003KT 10SM CLR 22/17 A3007 RMK AO2 SLP184 T02170167 10244 20211 58015 $
KMIA 050453Z VRB03KT 10SM FEW025 22/16 A3009 RMK AO2 SLP190 T02220161 402780206 $
KMIA 050353Z 00000KT 10SM FEW025 22/16 A3010 RMK AO2 SLP194 T02220156 $
KMIA 050253Z 00000KT 10SM FEW025 23/16 A3012 RMK AO2 SLP198 T02280156 51003 $
KMIA 050153Z 35003KT 10SM CLR 23/16 A3012 RMK AO2 SLP198 T02330156 $
KMIA 050053Z 03004KT 10SM CLR 24/16 A3011 RMK AO2 SLP197 T02390156 $
KMIA 042353Z 04004KT 10SM FEW030 24/16 A3011 RMK AO2 SLP195 T02440161 10278 20239 53009 $
KMIA 042253Z 05004KT 10SM FEW032 FEW045 FEW250 24/16 A3009 RMK AO2 SLP189 T02440161 $
KMIA 042153Z 05008KT 10SM FEW040 FEW055 FEW250 26/16 A3008 RMK AO2 SLP187 T02560161 $
KMIA 042053Z 05010G15KT 10SM FEW045 FEW055 27/16 A3008 RMK AO2 SLP185 T02670161 56012 $
KMIA 041953Z 05009KT 10SM SCT047 SCT250 27/16 A3008 RMK AO2 SLP186 T02720161 $
KMIA 041853Z 03010KT 10SM SCT043 SCT055 27/17 A3009 RMK AO2 SLP191 T02720167 $
KMIA 041753Z 08007KT 10SM FEW043 BKN050 BKN250 28/16 A3011 RMK AO2 SLP197 T02780161 10278 20206 58022 $
KMIA 041653Z 05007KT 10SM BKN043 BKN050 BKN250 28/17 A3014 RMK AO2 SLP207 T02780172 $
KMIA 041553Z 05008G18KT 10SM SCT043 SCT250 27/16 A3017 RMK AO2 SLP217 T02670161 $
KMIA 041453Z 06008G14KT 10SM FEW044 FEW250 26/16 A3018 RMK AO2 SLP220 T02610156 51012 $
KMIA 041353Z 02004KT 10SM FEW043 FEW250 25/17 A3018 RMK AO2 SLP219 T02500172 $
KMIA 041253Z 36004KT 10SM FEW042 FEW250 23/17 A3016 RMK AO2 SLP214 T02280167 $
KMIA 041153Z 35004KT 10SM FEW040 FEW250 21/17 A3015 RMK AO2 SLP208 T02060167 10222 20206 53003 $
KMIA 041053Z 35004KT 10SM SCT047 21/17 A3014 RMK AO2 SLP205 T02110167 $
KMIA 040953Z 35004KT 10SM FEW045 22/17 A3013 RMK AO2 SLP203 T02170167 $
KMIA 040853Z 34003KT 10SM FEW044 22/17 A3014 RMK AO2 SLP205 T02170167 56015 $
KMIA 040753Z 34004KT 10SM SCT047 22/17 A3014 RMK AO2 SLP207 T02170167 $
KMIA 040653Z 34004KT 10SM FEW045 22/17 A3016 RMK AO2 SLP214 T02170167 $
KMIA 040553Z 35003KT 10SM FEW047 22/17 A3018 RMK AO2 SLP219 T02220167 10250 20222 58017 $
KMIA 040453Z 36003KT 10SM FEW045 23/17 A3020 RMK AO2 SLP227 T02330167 402830228 $
KMIA 040353Z 36003KT 10SM SCT045 23/17 A3022 RMK AO2 SLP233 T02330172 $
KMIA 040253Z 03003KT 10SM SCT040 24/17 A3023 RMK AO2 SLP236 T02390172 50001 $
KMIA 040153Z 03005KT 10SM FEW035 24/17 A3023 RMK AO2 SLP237 T02390172 $
KMIA 040053Z 04006KT 10SM FEW039 24/17 A3023 RMK AO2 SLP238 T02440172 $
KMIA 032353Z 02004KT 10SM SCT041 SCT250 24/16 A3023 RMK AO2 SLP235 T02440161 10283 20244 53010 $
KMIA 032253Z 03007KT 010V080 10SM FEW040 FEW055 SCT250 26/16 A3021 RMK AO2 SLP231 T02560161 $
KMIA 032153Z 07009KT 10SM SCT044 SCT250 26/17 A3020 RMK AO2 SLP226 T02610167 $
KMIA 032053Z 04010G15KT 10SM SCT044 SCT250 27/17 A3019 RMK AO2 SLP225 T02670167 55010 $
KMIA 031953Z 07009KT 10SM BKN044 BKN250 28/17 A3019 RMK AO2 SLP223 T02780172 $
KMIA 031853Z 06010KT 10SM BKN040 BKN055 27/17 A3020 RMK AO2 SLP227 T02670172 $
KMIA 031753Z 06012KT 10SM FEW036 SCT042 BKN050 28/17 A3022 RMK AO2 SLP235 T02780172 10283 20244 58022 $
KMIA 031653Z 07009G17KT 10SM BKN041 27/17 A3025 RMK AO2 SLP245 T02720172 $
KMIA 031553Z 06010KT 10SM SCT044 SCT250 27/16 A3028 RMK AO2 SLP254 T02670156 $
KMIA 031453Z 08013G19KT 10SM BKN040 BKN250 27/17 A3029 RMK AO2 SLP256 T02670172 51015 $
KMIA 031353Z 07013G19KT 10SM SCT036 SCT040 SCT250 27/18 A3028 RMK AO2 SLP252 T02670178 $
KMIA 031253Z 08009G16KT 10SM FEW033 SCT042 SCT250 26/18 A3026 RMK AO2 SLP246 T02560178 $
KMIA 031153Z 07007KT 10SM SCT033 BKN042 24/18 A3024 RMK AO2 SLP241 T02440178 10256 20239 53010 $
KMIA 031053Z 08009KT 10SM SCT035 24/18 A3022 RMK AO2 SLP235 T02390178 $
KMIA 030953Z 07008KT 10SM FEW039 24/18 A3021 RMK AO2 SLP228 T02440178 $
KMIA 030853Z 07012KT 10SM FEW041 24/17 A3021 RMK AO2 SLP230 T02440172 56005 $
KMIA 030753Z 08011KT 10SM FEW036 25/18 A3021 RMK AO2 SLP231 T02500183 $
KMIA 030653Z 08012KT 10SM FEW040 25/18 A3021 RMK AO2 SLP230 T02500183 $
KMIA 030553Z 07013G19KT 10SM FEW040 25/18 A3023 RMK AO2 SLP235 T02500178 10256 20244 58014 $
KMIA 030453Z 06010KT 10SM FEW048 25/17 A3025 RMK AO2 SLP244 T02500172 402780233 $
KMIA 030353Z 08012G18KT 10SM FEW041 25/17 A3025 RMK AO2 SLP243 T02500167 $
KMIA 030253Z 06011KT 10SM SCT037 SCT049 25/16 A3027 RMK AO2 SLP249 T02500161 52013 $
KMIA 030153Z COR 05012G19KT 10SM SCT035 25/18 A3025 RMK AO2 SLP245 T02500178 $
KMIA 030053Z 05011G19KT 10SM BKN037 BKN046 25/17 A3024 RMK AO2 SLP240 T02500172 $
KMIA 022353Z 06012G17KT 10SM SCT037 SCT050 26/17 A3023 RMK AO2 SLP236 T02560172 10278 20250 53008 $
KMIA 022253Z 05010G18KT 10SM BKN037 BKN050 26/17 A3021 RMK AO2 SLP231 T02560167 $
KMIA 022153Z 06013G20KT 10SM SCT039 26/17 A3021 RMK AO2 SLP228 T02560172
KMIA 022053Z 05010G19KT 10SM SCT040 27/17 A3020 RMK AO2 SLP227 T02670172 55003
KMIA 021953Z 07012KT 10SM BKN040 27/17 A3020 RMK AO2 SLP226 T02720172
KMIA 021853Z 06012G21KT 10SM BKN040 BKN250 27/17 A3020 RMK AO2 SLP227 T02720172
KMIA 021753Z 08016G22KT 10SM SCT041 SCT250 27/17 A3021 RMK AO2 SLP230 T02720172 10278 20239 58016
KMIA 021653Z 07013G20KT 10SM SCT040 SCT250 28/17 A3023 RMK AO2 SLP237 T02780172
KMIA 021553Z 07012G23KT 10SM SCT037 SCT250 27/17 A3025 RMK AO2 SLP243 T02670172
KMIA 021453Z 05012G22KT 10SM SCT034 SCT250 27/18 A3026 RMK AO2 SLP246 T02670183 51014
KMIA 021353Z 05009G18KT 10SM FEW034 SCT044 26/19 A3025 RMK AO2 SLP244 T02610189
KMIA 021253Z 05008KT 10SM BKN044 24/19 A3023 RMK AO2 SLP238 T02440189
KMIA 021153Z 05004KT 10SM BKN034 BKN250 24/18 A3022 RMK AO2 SLP232 70007 T02390183 10250 20233 53013
KMIA 021053Z 04005KT 10SM FEW034 FEW045 23/18 A3020 RMK AO2 SLP227 T02330178
KMIA 020953Z 03004KT 10SM FEW035 FEW042 23/17 A3019 RMK AO2 SLP223 T02330172
KMIA 020853Z 03005KT 10SM FEW034 FEW041 24/17 A3018 RMK AO2 SLP219 T02390167 55004
KMIA 020753Z 06007KT 10SM FEW041 24/17 A3017 RMK AO2 SLP216 T02440172
KMIA 020653Z 06007KT 10SM FEW030 FEW040 24/18 A3017 RMK AO2 SLP217 T02440178

KMSP 070553Z 00000KT 10SM FEW120 BKN190 M06/M09 A3012 RMK AO2 SLP213 4/004 T10611089 11028 21061 410111117 51012
KMSP 070453Z 00000KT 10SM BKN150 M06/M09 A3011 RMK AO2 SLP211 T10561089
KMSP 070353Z 00000KT 10SM BKN120 M04/M08 A3010 RMK AO2 SLP207 T10441083
KMSP 070253Z 29004KT 10SM BKN120 M04/M09 A3008 RMK AO2 SLP202 T10441089 53017
KMSP 070153Z 30006KT 10SM SCT150 M05/M09 A3006 RMK AO2 SLP195 T10501089
KMSP 070053Z 26004KT 10SM FEW150 M03/M08 A3003 RMK AO2 SLP185 T10331083
KMSP 062353Z 27005KT 10SM FEW150 M03/M08 A3003 RMK AO2 SLP184 4/004 T10281083 11011 21050 51015
KMSP 062253Z COR 00000KT 10SM FEW115 M03/M09 A3002 RMK AO2 SLP180 T10281089
KMSP 062153Z VRB03KT 10SM FEW110 M02/M08 A3000 RMK AO2 SLP173 T10171083
KMSP 062053Z 18004KT 10SM FEW110 M02/M09 A2999 RMK AO2 SLP168 T10171089 55005
KMSP 061953Z 16006KT 10SM FEW110 M02/M09 A2997 RMK AO2 SLP163 T10221089
KMSP 061853Z 16007KT 10SM FEW110 SCT250 M03/M10 A2998 RMK AO2 SLP166 T10331100
KMSP 061753Z 14008KT 10SM BKN110 BKN250 M05/M11 A3000 RMK AO2 SLP175 VIRGA 4/004 T10501111 11050 21117 58015
KMSP 061653Z 12003KT 10SM BKN110 BKN250 M07/M12 A3003 RMK AO2 SLP186 VIRGA T10721117
KMSP 061553Z 13005KT 10SM FEW110 SCT250 M09/M13 A3005 RMK AO2 SLP192 T10941133
KMSP 061453Z 08006KT 10SM FEW100 SCT250 M10/M14 A3005 RMK AO2 SLP190 T11001139 50000
KMSP 061353Z 10006KT 10SM FEW130 SCT250 M10/M14 A3005 RMK AO2 SLP190 T11001144
KMSP 061253Z 03003KT 10SM FEW065 FEW130 M11/M15 A3007 RMK AO2 SLP196 T11111150
KMSP 061153Z 09005KT 10SM FEW200 M11/M14 A3005 RMK AO2 SLP190 4/004 T11061144 11083 21111 58002 $
KMSP 061053Z 01005KT 10SM CLR M11/M14 A3006 RMK AO2 SLP193 T11061144 $
KMSP 060953Z 34006KT 10SM CLR M11/M15 A3007 RMK AO2 SLP198 T11111150 $
KMSP 060853Z 05004KT 10SM FEW130 M10/M14 A3006 RMK AO2 SLP192 T11001144 58001 $
KMSP 060753Z 36004KT 10SM FEW140 M10/M14 A3008 RMK AO2 SLP200 T11001144
KMSP 060653Z 01004KT 10SM FEW140 M09/M14 A3006 RMK AO2 SLP194 T10891139
KMSP 060553Z 36004KT 10SM FEW140 M09/M14 A3006 RMK AO2 SLP192 T10891139 11044 21089 410111089 53012
KMSP 060453Z 36009KT 10SM FEW140 M08/M13 A3004 RMK AO2 SLP186 T10781133
KMSP 060353Z 36005KT 10SM SCT140 M07/M13 A3002 RMK AO2 SLP180 T10721133
KMSP 060253Z 33009KT 10SM BKN130 M06/M14 A3002 RMK AO2 SLP180 T10561139 51012
KMSP 060153Z 34010KT 10SM FEW080 BKN120 M05/M13 A3002 RMK AO2 SLP179 T10501128
KMSP 060053Z 31008KT 10SM FEW060 BKN080 M04/M09 A3000 RMK AO2 SLP172 T10441089
KMSP 052353Z 32011KT 10SM FEW019 OVC055 M04/M09 A2999 RMK AO2 SNE40 SLP167 4/004 P0000 60000 T10441089 11011 21044 51024
KMSP 052345Z 32011KT 9SM FEW019 BKN045 OVC065 M04/M09 A2999 RMK AO2 SNE40 P0000 T10441089
KMSP 052253Z 32008KT 5SM -SN OVC036 M04/M08 A2997 RMK AO2 SNE2159B09 SLP161 P0000 T10391078
KMSP 052243Z 32010KT 4SM -SN OVC034 M04/M08 A2996 RMK AO2 SNE2159B09 P0000 T10391078
KMSP 052230Z 33009KT 2SM -SN OVC034 M04/M08 A2996 RMK AO2 SNE2159B09 P0000 T10391078
KMSP 052213Z 32013G19KT 7SM -SN OVC037 M03/M08 A2996 RMK AO2 SNE2159B09 P0000 T10331083
KMSP 052202Z 32010KT 6SM HZ OVC037 M03/M08 A2994 RMK AO2 SNE2159 P0000 T10281083
KMSP 052153Z COR 31008KT 5SM -SN OVC037 M03/M09 A2995 RMK AO2 SNB42 SLP153 P0000 T10281089
KMSP 052053Z 31010KT 10SM OVC095 M02/M09 A2992 RMK AO2 SLP141 VIRGA T10171094 53012
KMSP 051953Z 32008KT 10SM FEW110 BKN150 OVC250 M01/M08 A2989 RMK AO2 SLP134 T10111078
KMSP 051853Z 32009KT 10SM SCT100 BKN150 OVC250 M01/M08 A2988 RMK AO2 SLP128 T10111078
KMSP 051753Z 33010KT 10SM FEW140 BKN160 OVC250 M02/M08 A2988 RMK AO2 SLP129 4/004 933005 T10171078 11017 21033 51010
KMSP 051653Z 33006KT 10SM FEW100 BKN150 OVC250 M02/M08 A2988 RMK AO2 SLP129 T10171078
KMSP 051553Z 32011KT 10SM FEW110 FEW140 BKN180 OVC250 M02/M08 A2987 RMK AO2 SLP124 T10221078
KMSP 051453Z 33006KT 10SM BKN100 OVC140 M02/M07 A2985 RMK AO2 SLP118 T10221072 53023
KMSP 051353Z 31005KT 10SM SCT120 BKN140 BKN180 M03/M08 A2982 RMK AO2 SLP108 T10331078
KMSP 051253Z 31004KT 10SM BKN140 M03/M08 A2979 RMK AO2 SLP097 T10331078
KMSP 051153Z 30005KT 10SM OVC170 M03/M07 A2978 RMK AO2 SLP095 4/004 T10281072 11022 21044 51009 $
KMSP 051053Z 32005KT 10SM SCT120 OVC170 M03/M07 A2978 RMK AO2 SLP093 T10281072 $
KMSP 050953Z 27003KT 10SM OVC170 M03/M07 A2976 RMK AO2 SLP088 T10281072 $
KMSP 050853Z 00000KT 10SM OVC140 M03/M07 A2975 RMK AO2 SLP085 T10281072 53003 $
KMSP 050753Z 22005KT 10SM OVC160 M02/M08 A2974 RMK AO2 SLP082 T10221078 $
KMSP 050653Z 24004KT 10SM BKN250 M03/M08 A2974 RMK AO2 SLP083 T10331083 $
KMSP 050553Z 21005KT 10SM BKN250 M02/M08 A2974 RMK AO2 SLP082 4/004 T10221078 10000 21028 400111133 57005 $
KMSP 050453Z 26003KT 10SM FEW250 M03/M08 A2975 RMK AO2 SLP085 T10281083 $
KMSP 050353Z 23008KT 10SM CLR M01/M08 A2975 RMK AO2 SLP086 T10061078 $
KMSP 050253Z 24007KT 10SM CLR M01/M08 A2976 RMK AO2 SLP089 T10061083 56018 $
KMSP 050153Z 23010KT 10SM CLR 00/M09 A2977 RMK AO2 SLP094 T00001089 $
KMSP 050053Z 22010KT 10SM CLR 00/M09 A2978 RMK AO2 SLP098 T00001094 $
KMSP 042353Z 22009KT 10SM CLR 00/M09 A2981 RMK AO2 SLP108 4/004 T00001089 10011 21022 56026 $
KMSP 042253Z 22008G16KT 10SM CLR 01/M09 A2984 RMK AO2 SLP117 T00061089 $
KMSP 042153Z 21010KT 10SM CLR 01/M09 A2986 RMK AO2 SLP126 T00111089 $
KMSP 042053Z 21007KT 10SM CLR 01/M10 A2989 RMK AO2 SLP135 T00061100 56038 $
KMSP 041953Z 24010KT 10SM CLR 00/M10 A2993 RMK AO2 SLP148 T00001100 $
KMSP 041853Z 23009KT 10SM CLR M01/M11 A2997 RMK AO2 SLP163 T10111106 $
KMSP 041753Z 25009KT 10SM CLR M02/M11 A3001 RMK AO2 SLP176 4/004 T10221106 11022 21117 58021 $
KMSP 041653Z 23007KT 10SM CLR M04/M11 A3003 RMK AO2 SLP186 T10441111 $
KMSP 041553Z 24010G19KT 10SM CLR M06/M11 A3006 RMK AO2 SLP196 T10611111 $
KMSP 041453Z 24005KT 10SM CLR M08/M12 A3007 RMK AO2 SLP200 T10831117 55015 $
KMSP 041353Z 22006KT 10SM CLR M11/M13 A3006 RMK AO2 SLP197 T11061133 $
KMSP 041253Z 22004KT 10SM CLR M11/M14 A3008 RMK AO2 SLP206 T11061139 $
KMSP 041153Z 21003KT 10SM CLR M11/M14 A3011 RMK AO2 SLP216 T11061139 11106 21133 58012 $
KMSP 041053Z 00000KT 10SM CLR M12/M14 A3013 RMK AO2 SLP223 T11171144 $
KMSP 040953Z 00000KT 10SM CLR M11/M14 A3015 RMK AO2 SLP226 T11111144 $
KMSP 040853Z 22003KT 10SM CLR M11/M14 A3015 RMK AO2 SLP228 T11111144 56013 $
KMSP 040753Z 00000KT 10SM CLR M12/M15 A3016 RMK AO2 SLP231 T11171150 $
KMSP 040653Z 00000KT 10SM CLR M12/M16 A3018 RMK AO2 SLP237 T11221156 $
KMSP 040553Z 15003KT 10SM CLR M13/M16 A3019 RMK AO2 SLP243 4/005 T11281161 11111 21133 411001156 56019 $
KMSP 040453Z 15004KT 10SM CLR M13/M16 A3021 RMK AO2 SLP248 T11281161 $
KMSP 040353Z 16007KT 10SM CLR M13/M17 A3021 RMK AO2 SLP251 T11281167 $
KMSP 040253Z 14005KT 10SM CLR M13/M17 A3025 RMK AO2 SLP263 T11281172 58013 $
KMSP 040153Z 13005KT 10SM CLR M12/M17 A3027 RMK AO2 SLP272 T11221172 $
KMSP 040053Z 20007KT 10SM FEW250 M11/M17 A3029 RMK AO2 SLP277 T11111167 $
KMSP 032353Z 16005KT 10SM FEW250 M12/M17 A3029 RMK AO2 SLP277 4/005 T11171172 11100 21117 58028 $
KMSP 032253Z 19007KT 10SM FEW250 M11/M18 A3032 RMK AO2 SLP286 T11111178 $
KMSP 032153Z 19008KT 10SM FEW250 M11/M17 A3035 RMK AO2 SLP298 T11061172 $
KMSP 032053Z 25008KT 10SM FEW250 M11/M17 A3037 RMK AO2 SLP304 T11061172 57023 $
KMSP 031953Z 24010KT 10SM CLR M11/M18 A3039 RMK AO2 SLP310 T11111178 $
KMSP 031853Z 26010G16KT 10SM CLR M12/M18 A3043 RMK AO2 SLP322 T11171178 $
KMSP 031753Z 25012KT 10SM FEW200 FEW250 M12/M18 A3044 RMK AO2 SLP328 4/005 T11171178 11117 21156 50008 $
KMSP 031653Z 26007KT 10SM FEW200 FEW250 M13/M18 A3044 RMK AO2 SLP329 T11281183 $
KMSP 031553Z 26012KT 10SM FEW200 SCT250 M13/M18 A3045 RMK AO2 SLP329 T11331183 $
KMSP 031453Z 29010KT 10SM FEW200 SCT250 M14/M19 A3042 RMK AO2 SLP319 T11441189 51029 $
KMSP 031419Z 29008KT 10SM FEW200 SCT250 M15/M19 A3041 RMK AO2 T11501194 $
KMSP 031353Z COR 28009KT 10SM FEW005 FEW220 M15/M19 A3041 RMK AO2 SLP314 FU PLUME NW IN VCNTY RWY 12L APCH FU FEW005 T11501194 $
KMSP 031253Z 31008KT 10SM CLR M16/M20 A3036 RMK AO2 SLP298 T11561200 $
KMSP 031153Z 29011KT 10SM CLR M15/M19 A3033 RMK AO2 SLP285 4/005 60000 70002 T11501194 11100 21150 51036 $
KMSP 031053Z 30012KT 10SM CLR M15/M19 A3030 RMK AO2 SLP276 T11501194 $
KMSP 030953Z 29012G23KT 10SM CLR M14/M19 A3025 RMK AO2 SLP260 T11391189 $
KMSP 030853Z 30014KT 10SM CLR M13/M18 A3022 RMK AO2 PK WND 30026/0803 PRESRR SLP246 60000 T11281178 51061 $
KMSP 030753Z 30012G25KT 10SM FEW200 M12/M17 A3016 RMK AO2 PK WND 30027/0734 PRESRR SLP228 T11171172 $
KMSP 030653Z 30015G33KT 10SM SCT021 M11/M16 A3010 RMK AO2 PK WND 28033/0645 SNE0559 PRESRR SLP206 P0000 T11061156 $
KMSP 030613Z 30015G31KT 6SM HZ BKN021 OVC110 M10/M14 A3005 RMK AO2 PK WND 32031/0605 SNE0559 P0000 T11001144 $
KMSP 030604Z 30017G28KT 2SM BKN021 OVC110 M10/M14 A3005 RMK AO2 PK WND 30028/0602 SFC VIS 7 SNE0559 PRESRR P0000 T11001139 $
KMSP 030553Z 31016G33KT 2SM -SN OVC018 M10/M14 A3003 RMK AO2 PK WND 32036/0514 SFC VIS 7 SLP184 4/005 P0000 60002 T11001139 10006 21100 400391100 51067 $
KMSP 030540Z 30016G33KT 2SM -SN BLSN OVC019 M10/M13 A3002 RMK AO2 PK WND 32036/0514 PRESRR P0000 T11001133 $
KMSP 030453Z 31026G37KT 2SM -SN BLSN OVC022 M09/M13 A2997 RMK AO2 PK WND 31037/0453 SFC VIS 2 1/2 SLP163 P0000 T10941128 $
KMSP 030437Z 31018G37KT 1 1/2SM -SN OVC021 M09/M12 A2996 RMK AO2 PK WND 31037/0432 TWR VIS 4 P0000 T10891122 $
KMSP 030414Z 30019G32KT 1 1/4SM -SN OVC020 M08/M12 A2994 RMK AO2 PK WND 32033/0357 TWR VIS 2 P0000 T10831117
KMSP 030405Z 31024G33KT 1 3/4SM -SN OVC024 M08/M12 A2993 RMK AO2 PK WND 32033/0357 TWR VIS 3 PRESRR P0000 T10831122
KMSP 030353Z 30015G27KT 4SM -SN OVC026 M08/M12 A2992 RMK AO2 PK WND 32034/0315 SNB15 PRESRR SLP142 P0000 T10781117
KMSP 030343Z 31018G28KT 3SM -SN OVC026 M08/M12 A2990 RMK AO2 PK WND 32034/0315 SNB15 P0000 T10781117
KMSP 030331Z 32021G27KT 2SM -SN BKN024 OVC065 M08/M12 A2989 RMK AO2 PK WND 32034/0315 SNB15 P0000 T10781117
KMSP 030323Z 32018G34KT 1 1/4SM -SN BKN024 OVC065 M08/M12 A2988 RMK AO2 PK WND 32034/0315 SNB15 PRESRR P0000 T10781117
KMSP 030316Z 32026G34KT 4SM -SN FEW022 SCT026 OVC065 M07/M12 A2987 RMK AO2 PK WND 32034/0315 SNB15 P0000 T10721117
KMSP 030308Z 30018G26KT 10SM SCT021 BKN055 OVC070 M07/M11 A2986 RMK AO2 PK WND 31026/0258 PRESRR T10721111
KMSP 030253Z 31019G29KT 7SM FEW016 BKN021 OVC055 M07/M11 A2983 RMK AO2 PK WND 32041/0229 SNB11E52 SLP114 P0000 60002 T10671106 53064
KMSP 030238Z 31018G41KT 4SM -SN BKN018 OVC029 M07/M10 A2982 RMK AO2 PK WND 32041/0229 SNB11 P0000 T10671100
KMSP 030234Z 32022G41KT 1 1/4SM -SN BKN019 OVC027 M07/M09 A2983 RMK AO2 PK WND 32041/0229 TWR VIS 2 1/2 SNB11 P0000 T10671094
KMSP 030223Z 29015G26KT 2 1/2SM -SN BKN019 OVC036 M06/M09 A2982 RMK AO2 PK WND 31030/0203 SNB11 P0000 T10561089
KMSP 030212Z 31016G30KT 3SM -SN SCT017 SCT023 OVC036 M06/M09 A2980 RMK AO2 PK WND 31030/0203 SNB11 PRESRR P0000 T10561089
KMSP 030202Z 32019G27KT 7SM SCT016 OVC037 M05/M08 A2977 RMK AO2 PK WND 32027/0155 T10501083
KMSP 030153Z 32021G35KT 7SM BKN016 OVC037 M05/M08 A2975 RMK AO2 PK WND 31035/0146 SNE44B50E53 SLP086 VIS SE 3 P0002 T10501083
KMSP 030146Z 30020G35KT 7SM BKN015 OVC037 M04/M07 A2975 RMK AO2 PK WND 31035/0146 SNE44 VIS SE 3 P0002 T10441072
KMSP 030131Z 30021G31KT 6SM -SN SCT010 OVC015 M04/M07 A2974 RMK AO2 PK WND 29035/0057 P0000 T10391067
KMSP 030121Z 30016G33KT 1SM R30L/P6000FT -SN BR VV010 M04/M06 A2973 RMK AO2 PK WND 29035/0057 P0000 T10391061
KMSP 030105Z 30017G35KT 1/2SM R30L/5500VP6000FT SN FZFG VV009 M03/M05 A2972 RMK AO2 PK WND 29035/0057 TWR VIS 1 P0000 T10331050
KMSP 030053Z 29020G32KT 3/4SM R30L/5500VP6000FT -SN BR VV011 M03/M05 A2970 RMK AO2 PK WND 30032/0051 TWR VIS 1 SNB02 PRESRR SLP069 P0000 T10281050
KMSP 030049Z 29020G30KT 3/4SM R30L/P6000FT -SN BR VV011 M02/M04 A2969 RMK AO2 PK WND 28030/0048 TWR VIS 1 SNB02 P0000
KMSP 030040Z 29018G28KT 1SM R30L/P6000FT -SN BR SCT009 OVC019 M02/M04 A2969 RMK AO2 PK WND 28028/0039 TWR VIS 1 1/4 SNB02 PRESRR P0000 T10221044
KMSP 030033Z 29016G26KT 1SM R30L/P6000FT -SN BR BKN013 BKN020 OVC027 M01/M03 A2968 RMK AO2 PK WND 26027/2354 TWR VIS 1 1/4 SNB02 PRESRR P0000 T10111033
KMSP 030027Z 29015KT 1 3/4SM -SN BR SCT015 BKN022 OVC027 M01/M03 A2967 RMK AO2 PK WND 26027/2354 TWR VIS 2 SNB02 PRESRR P0000 T10111033
KMSP 030007Z 29014G25KT 5SM -SN BKN024 OVC060 00/M03 A2965 RMK AO2 PK WND 26027/2354 SNB02 P0000 T00001033
KMSP 022353Z 29015G26KT 10SM FEW024 BKN065 OVC080 01/M03 A2964 RMK AO2 PK WND 28026/2350 PRESRR SLP045 4/004 T00061028 10039 20006 53036
KMSP 022253Z 27009KT 10SM OVC085 03/M02 A2960 RMK AO2 SLP032 T00281022
KMSP 022153Z 26006KT 10SM FEW065 BKN090 OVC110 03/M03 A2956 RMK AO2 SLP018 T00281028
KMSP 022053Z 26007KT 10SM FEW100 SCT140 BKN200 OVC250 03/M03 A2953 RMK AO2 SLP007 VIRGA T00331028 53004
KMSP 021953Z 24012KT 10SM FEW140 BKN190 OVC250 03/M03 A2952 RMK AO2 SLP004 T00331028
KMSP 021853Z 21007KT 10SM FEW140 BKN190 OVC250 04/M03 A2950 RMK AO2 SLP998 T00391028
KMSP 021753Z 18008KT 10SM FEW150 BKN190 OVC250 02/M04 A2951 RMK AO2 SLP003 4/005 T00221039 10022 21011 58018
KMSP 021653Z 19009KT 10SM FEW160 BKN200 BKN250 02/M04 A2954 RMK AO2 SLP011 T00171044
KMSP 021553Z 20007G16KT 10SM FEW160 BKN220 BKN250 02/M05 A2958 RMK AO2 SLP023 T00171050
KMSP 021453Z 17010KT 10SM FEW150 BKN220 OVC250 00/M06 A2957 RMK AO2 SLP022 T00001056 58020
KMSP 021353Z 16007KT 10SM FEW140 SCT190 BKN250 M01/M06 A2959 RMK AO2 SLP031 T10111061
KMSP 021253Z 16006KT 10SM FEW140 BKN190 BKN250 M01/M07 A2961 RMK AO2 SLP037 T10111067
KMSP 021153Z 16010KT 10SM OVC190 M01/M07 A2963 RMK AO2 SLP044 4/005 T10111067 10000 21017 56026
KMSP 021053Z 16009KT 10SM OVC190 M01/M06 A2965 RMK AO2 SLP051 T10061061
KMSP 020953Z 15010KT 10SM BKN220 00/M06 A2968 RMK AO2 SLP061 T00001061
KMSP 020853Z 16009KT 10SM BKN200 M01/M06 A2971 RMK AO2 SLP070 T10061061 58023
KMSP 020753Z 15008KT 10SM BKN200 M01/M07 A2974 RMK AO2 SLP081 T10111067
KMSP 020653Z 15007KT 10SM BKN200 M01/M07 A2977 RMK AO2 SLP091 T10111072

KORD 070631Z 32004KT 4SM BR FEW007 OVC012 02/00 A3009 RMK AO2 T00220000
KORD 070551Z 34003KT 4SM BR OVC012 03/02 A3009 RMK AO2 SLP194 T00330017 10061 20022 400610022 50009
KORD 070547Z 34004KT 4SM BR OVC012 03/02 A3009 RMK AO2
KORD 070500Z 35004KT 4SM BR OVC015 03/01 A3008 RMK AO2 T00330011
KORD 070451Z 00000KT 5SM BR BKN015 BKN025 03/01 A3008 RMK AO2 SLP191 T00280006
KORD 070435Z 33003KT 5SM BR BKN015 BKN025 02/00 A3008 RMK AO2 T00220000
KORD 070351Z 33003KT 5SM BR FEW010 SCT023 03/01 A3006 RMK AO2 SLP185 T00280006
KORD 070251Z 00000KT 7SM FEW015 SCT021 BKN080 04/01 A3005 RMK AO2 SLP180 T00390011 53010
KORD 070151Z 00000KT 7SM FEW015 SCT021 BKN090 BKN140 BKN170 05/02 A3004 RMK AO2 SLP177 T00500017
KORD 070110Z 13003KT 7SM FEW015 SCT021 BKN075 BKN130 BKN160 06/02 A3003 RMK AO2 T00560022
KORD 070051Z 08004KT 7SM SCT013 BKN020 OVC110 06/03 A3002 RMK AO2 SLP171 T00610028
KORD 070039Z 08004KT 7SM SCT012 BKN021 OVC110 06/03 A3003 RMK AO2 T00610028
KORD 062351Z 06004KT 6SM BR BKN011 BKN025 OVC070 06/03 A3002 RMK AO2 SLP170 T00610028 10061 20056 53005
KORD 062251Z 08007KT 5SM BR OVC010 06/03 A3001 RMK AO2 SLP166 T00560028
KORD 062151Z 03009KT 5SM BR OVC010 06/02 A3000 RMK AO2 SLP163 T00560022
KORD 062051Z 03007KT 6SM BR OVC010 06/02 A3000 RMK AO2 SLP164 T00560022 53000
KORD 061951Z 02008KT 6SM HZ OVC013 06/02 A3000 RMK AO2 SLP163 T00610022
KORD 061851Z 04005KT 5SM HZ OVC012 06/02 A2999 RMK AO2 SLP161 T00610022
KORD 061751Z 05005KT 7SM OVC013 06/02 A3000 RMK AO2 SLP164 T00610022 10061 20028 58006
KORD 061651Z 07008KT 8SM OVC014 06/02 A3001 RMK AO2 SLP166 T00610017
KORD 061551Z 04009KT 8SM OVC015 06/02 A3003 RMK AO2 SLP175 T00560017
KORD 061451Z 36007KT 10SM OVC018 05/01 A3002 RMK AO2 SLP171 T00500011 53018
KORD 061435Z 36005KT 10SM BKN019 OVC026 05/01 A3002 RMK AO2 T00500011
KORD 061417Z 35004KT 10SM BKN026 OVC046 04/01 A3002 RMK AO2 T00440006
KORD 061351Z 02006KT 10SM BKN046 BKN110 04/01 A3000 RMK AO2 SLP164 T00440006
KORD 061251Z 02008KT 10SM BKN045 OVC110 04/01 A2998 RMK AO2 SLP157 T00390006
KORD 061151Z 02004KT 10SM BKN037 OVC110 03/M01 A2997 RMK AO2 SLP152 T00281006 10044 20022 53004
KORD 061051Z 02007KT 10SM BKN036 BKN110 03/M01 A2994 RMK AO2 SLP143 T00281006
KORD 060951Z 35006KT 10SM FEW034 OVC095 03/M01 A2994 RMK AO2 SLP144 T00281006
KORD 060851Z 36005KT 10SM BKN034 OVC095 03/M01 A2996 RMK AO2 SLP148 T00331006 51009
KORD 060751Z 12005KT 10SM FEW024 BKN035 OVC080 04/00 A2993 RMK AO2 SLP139 T00390000
KORD 060651Z 35008KT 10SM BKN021 OVC035 04/00 A2996 RMK AO2 SLP148 T00390000
KORD 060636Z 34008KT 10SM BKN021 OVC035 04/00 A2996 RMK AO2 T00440000
KORD 060551Z 29004KT 10SM OVC035 04/01 A2993 RMK AO2 SLP138 T00440011 10061 20044 400671017 53012
KORD 060451Z 23005KT 10SM OVC030 04/01 A2990 RMK AO2 SLP130 T00440011
KORD 060351Z 20003KT 10SM OVC032 05/01 A2990 RMK AO2 SLP132 T00500006
KORD 060251Z 19003KT 10SM BKN033 OVC040 06/M01 A2989 RMK AO2 SLP127 T00561006 51012
KORD 060151Z 17004KT 10SM SCT034 OVC170 05/M01 A2988 RMK AO2 SLP125 T00501011
KORD 060118Z 20003KT 10SM SCT028 OVC035 06/M01 A2987 RMK AO2 T00561011
KORD 060051Z 20004KT 10SM BKN020 OVC033 06/M01 A2987 RMK AO2 SLP120 T00611011
KORD 052359Z 18005KT 10SM BKN023 OVC032 06/M01 A2986 RMK AO2 T00611011
KORD 052351Z 19006KT 10SM SCT025 OVC032 06/M01 A2985 RMK AO2 SLP115 T00611011 10067 20056 53012
KORD 052339Z 20007KT 10SM OVC031 06/M01 A2985 RMK AO2 T00611011
KORD 052312Z 18007KT 10SM BKN027 OVC120 06/M01 A2983 RMK AO2 T00611011
KORD 052251Z 17005KT 10SM BKN033 OVC120 06/M02 A2983 RMK AO2 SLP109 T00561017
KORD 052151Z 17008KT 10SM BKN130 BKN160 OVC250 06/M02 A2982 RMK AO2 SLP104 T00611017
KORD 052051Z 17006KT 10SM SCT120 BKN140 OVC200 06/M02 A2982 RMK AO2 SLP103 T00611022 56009
KORD 051951Z 20007KT 10SM BKN120 OVC160 06/M03 A2983 RMK AO2 SLP105 VIRGA T00611028
KORD 051851Z 21009KT 10SM SCT110 BKN160 OVC250 06/M03 A2983 RMK AO2 SLP108 T00611033
KORD 051751Z 20004KT 10SM BKN120 OVC250 06/M04 A2985 RMK AO2 SLP112 T00561044 10056 21017 58015
KORD 051651Z 20008KT 10SM BKN130 BKN250 03/M05 A2986 RMK AO2 SLP119 T00331050
KORD 051551Z 20008KT 10SM BKN120 BKN180 02/M06 A2991 RMK AO2 SLP133 T00171056
KORD 051451Z 20007KT 10SM BKN110 BKN140 00/M06 A2989 RMK AO2 SLP128 T00001061 55001
KORD 051351Z 20006KT 10SM BKN110 OVC140 M01/M06 A2989 RMK AO2 SLP128 T10061061
KORD 051251Z 20007KT 10SM BKN150 BKN210 M01/M06 A2988 RMK AO2 SLP124 T10111061 $
KORD 051151Z 21007KT 10SM SCT150 BKN210 M01/M07 A2990 RMK AO2 SLP130 T10111067 10000 21011 55012 $
KORD 051051Z 19008KT 10SM BKN210 M01/M07 A2989 RMK AO2 SLP128 T10111067 $
KORD 050951Z 20007KT 10SM BKN200 M01/M07 A2991 RMK AO2 SLP135 T10061067 $
KORD 050851Z 21011KT 10SM BKN200 M01/M07 A2993 RMK AO2 SLP142 T10111072 56012 $
KORD 050751Z 21008KT 10SM SCT230 M01/M07 A2995 RMK AO2 SLP148 T10111072 $
KORD 050651Z 23008KT 10SM FEW250 M01/M07 A2994 RMK AO2 SLP146 T10061072 $
KORD 050551Z 22012KT 10SM FEW250 00/M07 A2997 RMK AO2 SLP154 T00001072 10022 20000 400441072 58012 $
KORD 050451Z 22011G20KT 10SM FEW250 01/M07 A2998 RMK AO2 SLP159 T00061072 $
KORD 050351Z 21011G19KT 10SM CLR 01/M08 A2999 RMK AO2 SLP163 T00061078 $
KORD 050251Z 21011KT 10SM FEW250 01/M08 A3000 RMK AO2 SLP168 T00111078 58007 $
KORD 050151Z 21010G21KT 10SM FEW250 02/M08 A3001 RMK AO2 SLP170 T00171083 $
KORD 050051Z 21008KT 10SM CLR 02/M09 A3002 RMK AO2 SLP175 T00171094 $
KORD 042351Z 20009KT 10SM CLR 02/M09 A3003 RMK AO2 SLP176 T00221094 10044 20017 56016 $
KORD 042251Z 20010KT 10SM FEW250 03/M09 A3004 RMK AO2 SLP181 T00281094 $
KORD 042151Z 23009G15KT 10SM FEW250 04/M10 A3006 RMK AO2 SLP187 T00391100 $
KORD 042051Z 24009KT 10SM FEW250 04/M10 A3008 RMK AO2 SLP192 T00441100 56021 $
KORD 041951Z 24012G20KT 10SM CLR 04/M11 A3010 RMK AO2 SLP199 T00391106 $
KORD 041851Z 24010G18KT 10SM CLR 03/M11 A3011 RMK AO2 SLP205 T00281106 $
KORD 041751Z 23012KT 10SM CLR 02/M10 A3014 RMK AO2 SLP214 T00171100 10017 21067 58024 $
KORD 041651Z 24013G20KT 10SM CLR 01/M11 A3019 RMK AO2 SLP231 T00061106 $
KORD 041551Z 26011G17KT 10SM CLR M01/M12 A3021 RMK AO2 SLP238 T10061117 $
KORD 041451Z 23014G22KT 10SM CLR M03/M12 A3021 RMK AO2 SLP240 T10331117 58010 $
KORD 041351Z 23011KT 10SM CLR M06/M12 A3024 RMK AO2 SLP251 T10561122 $
KORD 041251Z 22008KT 10SM FEW250 M06/M13 A3024 RMK AO2 SLP250 T10611128 $
KORD 041151Z 22008KT 10SM CLR M07/M13 A3024 RMK AO2 SLP250 T10671128 11061 21072 56021 $
KORD 041051Z 21010KT 10SM CLR M07/M13 A3025 RMK AO2 SLP255 T10671133 $
KORD 040951Z 22007KT 10SM CLR M07/M13 A3028 RMK AO2 SLP264 T10671128 $
KORD 040851Z 21006KT 10SM CLR M07/M13 A3030 RMK AO2 SLP272 T10721133 58023 $
KORD 040751Z 22003KT 10SM CLR M07/M13 A3033 RMK AO2 SLP281 T10671133 $
KORD 040651Z 25006KT 10SM CLR M07/M13 A3035 RMK AO2 SLP289 T10671133 $
KORD 040551Z 26008KT 10SM CLR M06/M13 A3037 RMK AO2 SLP296 T10611133 11028 21061 401061061 56014
KORD 040451Z 27007KT 10SM CLR M06/M13 A3039 RMK AO2 SLP302 T10611133
KORD 040351Z 26009KT 10SM CLR M06/M13 A3039 RMK AO2 SLP303 T10561133
KORD 040251Z 26007KT 10SM CLR M05/M13 A3042 RMK AO2 SLP311 T10501133 50002
KORD 040151Z 26008KT 10SM CLR M04/M13 A3042 RMK AO2 SLP313 T10441133
KORD 040051Z 28006KT 10SM FEW250 M03/M13 A3044 RMK AO2 SLP317 T10331133
KORD 032351Z 27007KT 10SM FEW250 M03/M13 A3041 RMK AO2 PRESRR SLP309 T10281133 10000 21028 53013
KORD 032251Z 27008KT 10SM FEW250 M02/M14 A3040 RMK AO2 SLP303 T10221139
KORD 032151Z 28007KT 10SM SCT250 M01/M14 A3038 RMK AO2 SLP296 T10111139
KORD 032051Z 26011G18KT 10SM FEW250 M01/M13 A3037 RMK AO2 SLP292 T10061133 51004
KORD 031951Z 27011G18KT 10SM CLR 00/M13 A3037 RMK AO2 SLP290 T00001128
KORD 031851Z 27011G19KT 10SM CLR M01/M12 A3037 RMK AO2 SLP289 T10111122
KORD 031751Z 28010G16KT 10SM CLR M02/M12 A3036 RMK AO2 SLP286 T10171122 11017 21050 51023
KORD 031651Z 29011G19KT 10SM CLR M03/M12 A3034 RMK AO2 SLP281 T10281117
KORD 031551Z 28014G22KT 10SM CLR M04/M11 A3032 RMK AO2 SLP275 T10391111
KORD 031451Z 29014G29KT 10SM FEW025 M05/M11 A3029 RMK AO2 PK WND 27029/1443 SLP263 T10501111 51059
KORD 031351Z 27014G24KT 10SM FEW023 M05/M11 A3023 RMK AO2 PRESRR SLP243 T10501106
KORD 031251Z 27012G21KT 10SM FEW023 M05/M11 A3018 RMK AO2 PK WND 26031/1203 SLP225 T10501106
KORD 031151Z 27018G30KT 10SM CLR M04/M09 A3011 RMK AO2 PK WND 26031/1059 PRESRR SLP203 60000 T10391094 10106 21039 51077
KORD 031051Z 28012G32KT 10SM FEW030 FEW130 M03/M08 A3004 RMK AO2 PK WND 25034/1031 SLP175 T10281083
KORD 030951Z 28021G34KT 10SM SCT025 BKN085 BKN130 M01/M06 A2996 RMK AO2 PK WND 27035/0916 RAE0852SNB0852E17 PRESRR SLP151 P0000 T10061061
KORD 030937Z 27016G27KT 10SM SCT025 BKN085 OVC130 01/M04 A2993 RMK AO2 PK WND 27035/0916 RAE0852SNB0852E17 P0000 T00111039
KORD 030925Z 29021G35KT 10SM BKN022 BKN030 OVC085 01/M04 A2992 RMK AO2 PK WND 27035/0916 RAE0852SNB0852E17 P0000 T00111039
KORD 030856Z 27023G31KT 5SM -SN BKN020 OVC060 02/M02 A2988 RMK AO2 PK WND 27031/0856 RAE52SNB52 P0000 T00221017
KORD 030851Z 28019G30KT 10SM -RA SCT020 BKN060 OVC110 03/M02 A2988 RMK AO2 PK WND 29034/0835 RAB45 SLP122 P0000 60000 T00281017 53052
KORD 030801Z 27018G27KT 10SM FEW020 BKN030 OVC055 07/01 A2983 RMK AO2 PK WND 29027/0757 PRESRR T00670011
KORD 030751Z 27018G35KT 10SM SCT020 BKN027 OVC050 08/02 A2981 RMK AO2 PK WND 26041/0732 PRESRR SLP096 T00830017
KORD 030651Z 23014G21KT 10SM SCT015 BKN028 OVC040 11/08 A2972 RMK AO2 RAE01 SLP067 P0000 T01060078
KORD 030639Z 23011G21KT 10SM SCT015 OVC028 11/08 A2972 RMK AO2 RAE01 P0000 T01060078
KORD 030551Z 23014G20KT 7SM -RA BKN032 OVC047 10/07 A2972 RMK AO2 RAB39 SLP068 P0000 60000 T01000072 10117 20100 401170022 53004
KORD 030451Z 21013G23KT 10SM SCT020 BKN040 OVC070 10/07 A2971 RMK AO2 RAE0357 SLP064 P0000 T01000067
KORD 030449Z 21012G23KT 10SM SCT020 BKN040 OVC070 10/07 A2971 RMK AO2 RAE0357 P0000
KORD 030351Z 22012G27KT 10SM -RA BKN017 BKN023 OVC040 10/07 A2971 RMK AO2 PK WND 20030/0254 RAB08E30B48 SLP064 P0000 T01000067
KORD 030251Z 21017G31KT 10SM BKN022 BKN030 OVC042 11/06 A2969 RMK AO2 PK WND 20032/0154 SLP058 T01110061 53002
KORD 030214Z 21019G31KT 10SM BKN023 BKN030 OVC044 11/06 A2968 RMK AO2 PK WND 20032/0154 T01110061
KORD 030151Z 21018G29KT 10SM FEW028 BKN033 OVC044 11/06 A2969 RMK AO2 PK WND 22031/0134 SLP055 T01110056
KORD 030051Z 21012G27KT 10SM OVC036 11/04 A2968 RMK AO2 PK WND 21031/2355 SLP055 T01110039
KORD 022351Z 20016G30KT 10SM OVC034 12/03 A2969 RMK AO2 PK WND 19037/2324 SLP056 T01170028 10117 20083 55001
KORD 022251Z 20020G27KT 10SM BKN036 OVC250 11/02 A2967 RMK AO2 PK WND 19028/2229 SLP051 T01110017
KORD 022151Z 19018G31KT 10SM BKN036 BKN210 OVC250 11/01 A2968 RMK AO2 PK WND 19031/2142 SLP054 T01060006
KORD 022051Z 19019G30KT 10SM FEW037 SCT210 BKN250 11/00 A2969 RMK AO2 PK WND 18030/2051 SLP057 T01060000 58048
KORD 021951Z 19012G23KT 10SM BKN035 OVC250 09/M02 A2975 RMK AO2 PK WND 18027/1920 SLP076 T00891017
KORD 021851Z 20018G26KT 10SM SCT036 OVC250 08/M02 A2979 RMK AO2 PK WND 21026/1851 SLP090 T00831017
KORD 021751Z 19017G25KT 10SM FEW040 BKN250 09/M03 A2983 RMK AO2 PK WND 21031/1717 SLP107 T00891028 10089 20033 58036
KORD 021651Z 20017G25KT 10SM FEW042 BKN250 07/M04 A2987 RMK AO2 PK WND 18026/1636 SLP119 T00721039
KORD 021551Z 19015G22KT 10SM OVC039 06/M04 A2992 RMK AO2 SLP137 T00561039
KORD 021451Z 18011G19KT 10SM OVC030 04/M04 A2994 RMK AO2 SLP145 T00441039 58025
KORD 021411Z 18011G21KT 10SM OVC028 04/M05 A2996 RMK AO2 T00391050
KORD 021403Z 18014G21KT 10SM BKN024 OVC032 04/M05 A2996 RMK AO2 T00391050
KORD 021351Z 18013G21KT 10SM FEW024 BKN033 OVC042 04/M05 A2997 RMK AO2 SLP155 T00391050
KORD 021251Z 19014G21KT 10SM OVC041 04/M06 A3000 RMK AO2 SLP164 T00391056
KORD 021151Z 18013G20KT 10SM FEW031 OVC048 03/M06 A3002 RMK AO2 SLP171 T00331061 10033 20022 56025
KORD 021051Z 19010KT 10SM OVC043 03/M06 A3003 RMK AO2 SLP176 T00331061
KORD 020951Z 19013G20KT 10SM OVC050 03/M07 A3006 RMK AO2 SLP187 T00331067
KORD 020851Z 19013G19KT 10SM OVC045 03/M07 A3009 RMK AO2 PK WND 19026/0811 SLP196 T00331067 58015
KORD 020751Z 19012G26KT 10SM BKN044 OVC050 03/M07 A3011 RMK AO2 PK WND 20026/0746 SLP202 T00281072
KORD 020651Z 20013G20KT 10SM OVC070 02/M07 A3012 RMK AO2 SLP208 T00221072

KPDX 070553Z 00000KT 5SM BR OVC048 05/03 A3021 RMK AO2 SLP231 T00500033 10061 20044 51005
KPDX 070453Z 28004KT 7SM OVC050 05/03 A3021 RMK AO2 SLP230 T00500028
KPDX 070353Z 00000KT 7SM OVC050 06/03 A3020 RMK AO2 SLP227 T00560028
KPDX 070253Z 00000KT 8SM FEW012 OVC050 06/03 A3020 RMK AO2 SLP226 T00560028 53005
KPDX 070153Z 00000KT 7SM FEW012 OVC050 06/02 A3019 RMK AO2 SLP224 T00560022
KPDX 070053Z 00000KT 7SM FEW012 OVC049 06/02 A3018 RMK AO2 SLP221 T00560022
KPDX 062353Z 00000KT 7SM BKN045 OVC055 06/02 A3018 RMK AO2 SLP220 60000 T00610022 10061 20039 50000
KPDX 062253Z 00000KT 7SM FEW012 BKN055 06/02 A3018 RMK AO2 SLP221 T00610022
KPDX 062153Z 00000KT 7SM SCT011 OVC055 06/02 A3018 RMK AO2 DZB28E46 SLP221 P0000 T00560017
KPDX 062053Z 00000KT 7SM BKN011 OVC055 06/02 A3018 RMK AO2 SLP220 60000 T00560017 58001
KPDX 061953Z 00000KT 6SM HZ BKN008 OVC055 05/02 A3019 RMK AO2 RAB00E06 SLP224 P0000 T00500017
KPDX 061853Z 00000KT 6SM HZ BKN007 OVC055 04/02 A3020 RMK AO2 SLP225 T00440017
KPDX 061753Z 00000KT 5SM BR OVC007 04/02 A3019 RMK AO2 SLP222 T00390017 10039 20022 53012
KPDX 061653Z 00000KT 5SM BR BKN007 BKN050 03/01 A3017 RMK AO2 SLP215 T00330011
KPDX 061553Z 10003KT 5SM BR BKN007 BKN040 03/01 A3016 RMK AO2 SLP212 T00280006
KPDX 061453Z 14004KT 9SM OVC006 03/01 A3015 RMK AO2 SLP210 T00280006 53009
KPDX 061353Z 11004KT 10SM OVC007 03/01 A3014 RMK AO2 SLP206 T00280006
KPDX 061253Z 11003KT 10SM OVC007 02/00 A3013 RMK AO2 SLP203 T00220000
KPDX 061153Z 11005KT 10SM OVC006 02/00 A3013 RMK AO2 DZE1058 SLP201 P0000 60000 T00220000 10028 20017 50004
KPDX 061053Z 11006KT 10SM -DZ OVC006 02/00 A3014 RMK AO2 SLP204 P0000 T00220000
KPDX 060953Z 11006KT 10SM -DZ BKN008 OVC048 02/M01 A3012 RMK AO2 DZB40 SLP200 P0000 T00221006
KPDX 060915Z 11007KT 10SM BKN009 OVC046 02/M01 A3012 RMK AO2 T00221011
KPDX 060853Z 13004KT 10SM SCT010 BKN046 OVC055 02/M01 A3011 RMK AO2 SLP197 T00221011 51006
KPDX 060753Z 12004KT 10SM FEW031 FEW038 OVC050 02/M01 A3011 RMK AO2 SLP196 T00221011 400671011
KPDX 060653Z 11008KT 10SM FEW030 BKN045 OVC055 02/M01 A3011 RMK AO2 SLP195 T00221011
KPDX 060610Z 11006KT 10SM SCT025 OVC050 02/M01 A3010 RMK AO2 T00221011
KPDX 060553Z 11005KT 10SM BKN025 OVC048 03/M01 A3010 RMK AO2 SLP191 T00281011 10050 20022 53013
KPDX 060510Z 12006KT 10SM BKN023 OVC048 03/M01 A3009 RMK AO2 T00281011
KPDX 060453Z 11006KT 10SM SCT021 OVC045 03/M02 A3008 RMK AO2 SLP187 T00281017
KPDX 060353Z 12008KT 10SM FEW015 BKN041 OVC050 03/M01 A3007 RMK AO2 SLP182 T00281011
KPDX 060253Z 13006KT 10SM FEW015 OVC040 03/M02 A3006 RMK AO2 SLP178 T00281017 51011
KPDX 060153Z 11006KT 10SM FEW015 OVC039 03/M01 A3005 RMK AO2 SLP175 T00281011
KPDX 060053Z 11008KT 10SM FEW015 FEW040 03/M01 A3004 RMK AO2 SLP171 T00331011
KPDX 052353Z 11006KT 10SM FEW015 05/M01 A3003 RMK AO2 SLP167 T00501006 10067 20028 53003
KPDX 052253Z 07004KT 10SM FEW014 06/01 A3001 RMK AO2 SLP163 T00610006
KPDX 052153Z 36003KT 10SM FEW014 06/01 A3001 RMK AO2 SLP162 T00610011
KPDX 052053Z 34003KT 10SM FEW012 05/01 A3002 RMK AO2 SLP165 T00500011 58010
KPDX 051953Z 05003KT 10SM FEW010 05/01 A3003 RMK AO2 SLP167 T00500006
KPDX 051853Z 00000KT 10SM FEW005 FEW080 04/01 A3005 RMK AO2 SLP175 T00390006
KPDX 051753Z 00000KT 10SM FEW003 FEW075 03/01 A3005 RMK AO2 SLP174 T00280006 10028 21011 53007
KPDX 051653Z 00000KT 10SM R10R/2600VP6000FT BCFG FEW003 FEW038 FEW075 02/00 A3004 RMK AO2 SLP171 T00170000
KPDX 051553Z 00000KT 10SM FEW008 FEW038 SCT075 00/M02 A3003 RMK AO2 SLP167 T00001017
KPDX 051453Z 00000KT 10SM FEW005 FEW035 FEW080 SCT250 01/M02 A3003 RMK AO2 SLP167 T00061017 53002
KPDX 051353Z 00000KT 10SM FEW005 SCT037 SCT250 00/M02 A3002 RMK AO2 SLP165 T00001017
KPDX 051253Z 00000KT 10SM FEW008 SCT025 SCT045 00/M02 A3002 RMK AO2 SLP164 T00001017
KPDX 051153Z 00000KT 10SM FEW008 OVC039 02/M01 A3002 RMK AO2 SLP165 60000 70014 T00171011 10028 20017 56003
KPDX 051053Z 00000KT 10SM SCT009 OVC043 02/M01 A3002 RMK AO2 SLP167 T00221006
KPDX 050953Z 00000KT 9SM FEW008 BKN043 OVC060 02/00 A3002 RMK AO2 RAB21E53 SLP165 P0000 T00170000
KPDX 050853Z 07003KT 10SM SCT008 BKN037 OVC048 02/00 A3003 RMK AO2 SLP168 T00220000 58001
KPDX 050849Z 00000KT 10SM SCT008 BKN037 OVC048 02/00 A3003 RMK AO2
KPDX 050753Z 10004KT 10SM FEW025 BKN037 OVC048 02/M01 A3003 RMK AO2 SLP170 T00221011 400500011
KPDX 050653Z 11005KT 10SM SCT022 BKN039 BKN060 02/M01 A3003 RMK AO2 SLP169 T00171006
KPDX 050553Z 12006KT 10SM BKN022 OVC060 02/M01 A3002 RMK AO2 SLP166 60002 T00171006 10022 20011 51005
KPDX 050453Z 13007KT 10SM FEW008 FEW012 OVC019 02/M01 A3002 RMK AO2 RAE04 SLP164 P0000 T00171006
KPDX 050406Z 12007KT 10SM FEW008 SCT012 OVC019 02/M01 A3002 RMK AO2 RAE04 P0000 T00221006
KPDX 050353Z 12006KT 10SM -RA BKN008 BKN012 OVC020 02/M01 A3002 RMK AO2 SLP164 RAB0257 P0001 T00171006
KPDX 050253Z 12005KT 10SM BKN009 BKN012 OVC019 02/00 A3001 RMK AO2 SLP162 60001 T00170000 53007
KPDX 050200Z 12006KT 10SM BKN008 OVC020 02/00 A3000 RMK AO2 T00170000
KPDX 050153Z 11007KT 8SM SCT008 BKN012 OVC020 02/M01 A3000 RMK AO2 SLP158 T00171006
KPDX 050053Z 13007KT 9SM SCT006 BKN013 OVC022 02/M01 A3000 RMK AO2 SNE49 SLP157 P0001 T00171006
KPDX 050038Z 12006KT 2 1/2SM -SN SCT006 OVC022 02/00 A2999 RMK AO2 SFC VIS 8 P0001 T00170000
KPDX 042353Z 12007KT 2 1/2SM -SN BKN006 OVC020 01/M01 A2999 RMK AO2 SLP154 P0003 60012 T00111006 10022 20011 52004
KPDX 042351Z 12007KT 2 1/2SM -SN BKN006 OVC020 01/M01 A2999 RMK AO2 P0002
KPDX 042253Z 12008KT 1SM R10R/P6000FT -SN BKN008 BKN025 OVC034 02/00 A2998 RMK AO2 SFC VIS 4 SLP150 P0002 T00170000
KPDX 042153Z 12006KT 1SM R10R/P6000FT -SN BKN008 BKN015 OVC025 02/00 A2997 RMK AO2 SFC VIS 3 SLP150 P0002 T00170000
KPDX 042053Z 11007KT 1SM R10R/P6000FT -SN BKN009 BKN017 OVC030 02/00 A2998 RMK AO2 SFC VIS 4 SLP151 P0002 60005 T00170000 50000
KPDX 042014Z 11009KT 1SM R10R/P6000FT -SN BKN009 OVC017 01/M01 A2998 RMK AO2 SFC VIS 1 1/2 P0001 T00111006
KPDX 041953Z 12008KT 1SM R10R/P6000FT -SN FEW005 SCT013 OVC020 02/M01 A2999 RMK AO2 SFC VIS 1 1/2 SLP153 P0001 T00171006
KPDX 041853Z 11012KT 1SM R10R/P6000FT -SN FEW005 SCT020 OVC035 02/M01 A2998 RMK AO2 SFC VIS 3 SLP153 P0002 T00171006
KPDX 041753Z 11017KT 1SM R10R/P6000FT -SN FEW003 SCT010 OVC018 01/M01 A2998 RMK AO2 SNB01 SLP150 P0000 60000 T00111006 10050 20011 53018
KPDX 041749Z 11016KT 1SM R10R/P6000FT -SN FEW003 SCT010 OVC018 01/M01 A2998 RMK AO2 SNB01 P0000
KPDX 041722Z 12015G22KT 1SM R10R/P6000FT -SN FEW010 SCT025 OVC050 02/M02 A2997 RMK AO2 TWR VIS 2 SNB01 P0000 T00221017
KPDX 041708Z 12015G24KT 2SM -SN BKN050 BKN070 OVC080 03/M02 A2996 RMK AO2 SFC VIS 3 SNB01 P0000 T00281022
KPDX 041653Z 12015KT 10SM BKN065 OVC080 04/M04 A2995 RMK AO2 PK WND 11026/1607 SLP141 T00391039
KPDX 041553Z 11017KT 10SM BKN065 OVC110 05/M06 A2992 RMK AO2 SLP132 T00501056
KPDX 041453Z 11010KT 10SM BKN095 OVC120 04/M05 A2992 RMK AO2 SLP133 T00391050 55000
KPDX 041353Z 11014KT 10SM FEW070 BKN110 04/M05 A2991 RMK AO2 PK WND 10029/1317 SLP129 T00391050
KPDX 041253Z 09020G27KT 10SM FEW070 SCT100 BKN180 04/M06 A2993 RMK AO2 PK WND 09033/1222 SLP134 T00441056
KPDX 041153Z 10021G27KT 10SM FEW070 SCT100 BKN180 04/M06 A2992 RMK AO2 PK WND 08035/1102 PRESFR SLP133 T00441061 10056 20044 56015
KPDX 041053Z 09026G34KT 10SM SCT065 OVC090 05/M06 A2993 RMK AO2 PK WND 08034/1053 PRESFR SLP133 T00501056
KPDX 040953Z 09019G30KT 10SM FEW090 SCT200 05/M07 A2996 RMK AO2 PK WND 08030/0949 SLP143 T00501067
KPDX 040853Z 10018G28KT 10SM SCT200 05/M07 A2997 RMK AO2 PK WND 10031/0822 SLP147 T00501067 56015
KPDX 040753Z 09015G29KT 10SM BKN210 05/M07 A2998 RMK AO2 PK WND 09032/0736 SLP150 T00501067 400780033
KPDX 040653Z 09013G25KT 10SM BKN210 05/M07 A2999 RMK AO2 SLP155 T00501067
KPDX 040553Z 11015G25KT 10SM BKN220 05/M06 A3001 RMK AO2 SLP163 T00501061 10061 20044 56009
KPDX 040453Z 09015G22KT 10SM SCT200 05/M06 A3002 RMK AO2 PK WND 08028/0415 SLP166 T00501061
KPDX 040353Z 09018G26KT 10SM FEW060 05/M06 A3003 RMK AO2 PK WND 08030/0319 SLP168 T00501056
KPDX 040253Z 10021G29KT 10SM FEW060 05/M06 A3004 RMK AO2 PK WND 10033/0212 SLP172 T00501056 51004
KPDX 040153Z 09022G31KT 10SM CLR 05/M06 A3004 RMK AO2 PK WND 10035/0115 SLP171 T00501056
KPDX 040053Z 09021G28KT 10SM FEW020 FEW250 05/M05 A3004 RMK AO2 PK WND 08032/2359 SLP171 T00501050
KPDX 032353Z 09018G25KT 10SM FEW020 FEW250 06/M06 A3003 RMK AO2 PK WND 07027/2329 SLP168 T00611056 10078 20050 53002
KPDX 032253Z 09018G24KT 10SM SCT250 07/M06 A3001 RMK AO2 PK WND 10026/2223 SLP163 T00721056
KPDX 032153Z 10014G26KT 10SM SCT250 08/M05 A3002 RMK AO2 PK WND 09026/2147 SLP163 T00781050
KPDX 032053Z 10015G24KT 10SM BKN250 08/M05 A3002 RMK AO2 PK WND 10027/2036 SLP165 T00781050 56015
KPDX 031953Z 09016G23KT 10SM BKN150 BKN250 07/M05 A3003 RMK AO2 SLP168 T00671050
KPDX 031853Z 10015G23KT 10SM BKN150 BKN250 06/M06 A3004 RMK AO2 PK WND 08026/1843 SLP172 T00611056
KPDX 031753Z 11012KT 10SM FEW080 FEW150 SCT250 05/M05 A3007 RMK AO2 SLP181 T00501050 10050 20033 51016
KPDX 031653Z 10012G20KT 10SM FEW080 FEW250 04/M06 A3005 RMK AO2 SLP177 T00441061
KPDX 031553Z 10013G19KT 10SM FEW070 FEW090 SCT250 03/M06 A3004 RMK AO2 SLP170 T00331056
KPDX 031453Z 12012G22KT 10SM FEW070 SCT090 SCT250 04/M06 A3002 RMK AO2 SLP165 T00391061 53016
KPDX 031353Z 10013G20KT 10SM FEW070 04/M05 A3000 RMK AO2 SLP160 T00441050
KPDX 031253Z 11014G19KT 10SM BKN070 OVC095 04/M04 A2999 RMK AO2 SLP155 T00441044
KPDX 031153Z 11019KT 10SM SCT060 BKN075 OVC090 04/M04 A2997 RMK AO2 SLP149 60001 70003 T00441039 10056 20044 51005
KPDX 031053Z 12013KT 10SM SCT055 BKN080 04/M03 A2997 RMK AO2 SLP149 T00441033
KPDX 030953Z 11013KT 10SM OVC055 05/M03 A2997 RMK AO2 SLP147 T00501028
KPDX 030853Z 11015KT 10SM OVC055 05/M02 A2996 RMK AO2 SLP145 60001 T00501022 55010
KPDX 030753Z 11017KT 10SM OVC055 05/M02 A2995 RMK AO2 RAE35 SLP143 P0000 T00501017 400670022
KPDX 030653Z 11009KT 10SM -RA SCT048 OVC060 06/M01 A2997 RMK AO2 SLP149 P0001 T00561006
KPDX 030553Z 10010KT 10SM -RA OVC030 05/00 A2999 RMK AO2 RAB0454E04B21 SLP154 P0002 60002 T00500000 10061 20050 51004
KPDX 030453Z 12015KT 10SM BKN045 OVC065 06/M03 A2999 RMK AO2 SLP154 T00611028
KPDX 030353Z 11010KT 10SM BKN045 OVC065 06/M02 A2998 RMK AO2 SLP151 T00611022
KPDX 030253Z 11016G20KT 10SM BKN060 OVC075 06/M02 A2998 RMK AO2 SLP150 T00611022 56009
KPDX 030153Z 11015KT 10SM SCT055 BKN110 OVC140 06/M02 A2998 RMK AO2 SLP153 T00611017
KPDX 030053Z 11018KT 10SM BKN055 BKN120 OVC200 06/M02 A2999 RMK AO2 SLP156 T00611017
KPDX 022353Z 11016KT 10SM SCT050 BKN150 BKN200 06/M02 A3000 RMK AO2 SLP160 T00611017 10067 20044 56017
KPDX 022253Z 12013G18KT 10SM BKN055 BKN120 OVC200 07/M01 A3002 RMK AO2 SLP167 T00671011
KPDX 022153Z 11013KT 10SM BKN050 BKN065 BKN200 07/M01 A3003 RMK AO2 SLP169 T00671011
KPDX 022053Z 11013KT 10SM BKN055 OVC070 06/M02 A3005 RMK AO2 SLP177 T00611017 58017
KPDX 021953Z 11016KT 10SM BKN050 OVC070 06/M02 A3007 RMK AO2 SLP183 T00611017
KPDX 021853Z 11014KT 10SM SCT044 BKN065 06/M01 A3009 RMK AO2 SLP190 T00561006
KPDX 021753Z 12011KT 10SM SCT042 BKN075 04/M02 A3010 RMK AO2 SLP194 T00441017 10044 20022 53001
KPDX 021653Z 12009KT 10SM BKN070 BKN180 04/M02 A3011 RMK AO2 SLP194 T00391017
KPDX 021553Z 12008KT 10SM BKN075 03/M02 A3010 RMK AO2 SLP191 T00331017
KPDX 021453Z 11006KT 10SM BKN065 02/M01 A3010 RMK AO2 SLP192 T00221011 51006
KPDX 021353Z 11007KT 10SM OVC055 03/M01 A3010 RMK AO2 SLP191 T00281011
KPDX 021253Z 12006KT 10SM OVC046 02/M01 A3009 RMK AO2 SLP188 T00221011
KPDX 021153Z 12006KT 10SM BKN050 OVC060 02/M01 A3008 RMK AO2 SLP186 T00221011 10028 20017 51013
KPDX 021053Z 16005KT 10SM OVC055 02/M01 A3008 RMK AO2 SLP184 T00221006
KPDX 020953Z 19007KT 10SM OVC060 02/M01 A3006 RMK AO2 SLP179 T00221006
KPDX 020853Z 20008KT 10SM FEW014 BKN046 OVC055 03/00 A3004 RMK AO2 SLP173 T00280000 53026
KPDX 020845Z 20006KT 10SM SCT014 BKN044 OVC055 03/M01 A3003 RMK AO2 T00281006
KPDX 020753Z 15005KT 10SM BKN013 OVC033 02/M01 A3002 RMK AO2 SLP166 T00221006 400610017
KPDX 020736Z 13004KT 10SM BKN011 OVC033 02/M01 A3001 RMK AO2 T00221006
KPDX 020653Z 15004KT 10SM CLR 02/M01 A2999 RMK AO2 SLP155 T00171006

KPHL 070637Z 25005KT 3/4SM R09R/4000V6000FT -RA BR OVC003 12/12 A3021 RMK AO2 RAB16 P0001 T01170117
KPHL 070554Z 25004KT 1SM R09R/2800V3500FT BR OVC003 12/12 A3020 RMK AO2 RAE26 SLP226 P0001 60020 T01170117 10139 20117 58006
KPHL 070503Z 25004KT 1SM R09R/P6000FT -RA BR OVC003 12/12 A3021 RMK AO2 P0000 T01220122
KPHL 070454Z 23004KT 1SM R09R/P6000FT -RA BR BKN005 OVC011 12/12 A3021 RMK AO2 SLP230 P0003 T01220117 401390006
KPHL 070414Z 20004KT 1 1/2SM -RA BR OVC005 12/12 A3022 RMK AO2 P0000 T01220122
KPHL 070354Z 22005KT 2SM -RA BR OVC005 13/12 A3022 RMK AO2 SLP232 P0003 T01280122
KPHL 070327Z 23004KT 2SM -RA BR BKN006 OVC011 13/12 A3022 RMK AO2 P0001 T01280122
KPHL 070254Z 20005KT 3SM -RA BR OVC005 13/12 A3022 RMK AO2 SLP233 P0006 60013 T01280122 58001
KPHL 070238Z 21005KT 3SM RA BR OVC006 13/12 A3022 RMK AO2 P0004 T01280122
KPHL 070156Z 23006KT 5SM -RA BR OVC004 12/12 A3022 RMK AO2 P0000 T01220122
KPHL 070154Z 23006KT 3SM RA BR OVC005 12/12 A3022 RMK AO2 SLP234 P0005 T01220122
KPHL 070054Z 24006KT 3SM R09R/5500VP6000FT -RA BR OVC005 13/13 A3023 RMK AO2 SLP235 P0002 T01330128
KPHL 062359Z 19005KT 4SM -RA BR OVC006 14/13 A3022 RMK AO2 P0000 T01390133
KPHL 062354Z 20005KT 5SM -RA BR FEW004 OVC007 14/13 A3022 RMK AO2 RAE16B48 SLP234 P0001 60036 T01390133 10139 20117 55004
KPHL 062346Z 20006KT 5SM BR FEW004 OVC007 14/13 A3022 RMK AO2 RAE16 P0001 T01390128
KPHL 062324Z 19007KT 4SM BR SCT004 OVC007 14/13 A3022 RMK AO2 RAE16 P0001 T01390133
KPHL 062254Z 15005KT 3SM -RA BR BKN004 OVC008 13/13 A3022 RMK AO2 SLP233 P0003 T01330128
KPHL 062250Z 16005KT 3SM -RA BR BKN004 OVC008 13/13 A3022 RMK AO2 P0003
KPHL 062154Z 00000KT 2SM -RA BR BKN004 OVC008 12/11 A3022 RMK AO2 SLP234 P0012 T01170111
KPHL 062148Z 00000KT 2SM -RA BR BKN004 OVC008 12/11 A3023 RMK AO2 P0011
KPHL 062142Z 00000KT 2SM RA BR OVC005 12/11 A3023 RMK AO2 P0011 T01170111
KPHL 062054Z 29006KT 1SM R09R/6000VP6000FT RA BR BKN004 OVC012 12/12 A3024 RMK AO2 SLP238 P0010 60020 T01220117 53003
KPHL 062029Z 27006KT 1SM R09R/4500V5500FT -RA BR BKN004 OVC012 12/12 A3023 RMK AO2 P0001 T01220122
KPHL 061954Z 17007KT 2SM -RA BR BKN004 OVC013 13/13 A3022 RMK AO2 SLP232 P0004 T01330128
KPHL 061940Z 16008KT 1 3/4SM R09R/6000VP6000FT RA BR BKN004 OVC010 13/13 A3022 RMK AO2 P0003 T01330128
KPHL 061854Z 15010KT 4SM -RA BR BKN012 BKN027 OVC032 13/12 A3021 RMK AO2 SLP230 P0006 T01330122
KPHL 061754Z 16010G20KT 3SM -RA BR BKN014 BKN030 OVC035 14/12 A3023 RMK AO2 SLP235 P0001 60006 T01390122 10139 20061 56021
KPHL 061742Z 16010KT 6SM -RA BR BKN014 OVC036 14/12 A3023 RMK AO2 P0001 T01390117
KPHL 061719Z 15005KT 7SM -RA SCT014 BKN030 OVC038 12/11 A3023 RMK AO2 P0001 T01170106
KPHL 061705Z 09003KT 5SM -RA BR SCT020 BKN030 OVC047 11/10 A3023 RMK AO2 P0001 T01060100
KPHL 061654Z 08004KT 3SM -RA BR SCT023 BKN029 OVC040 10/09 A3024 RMK AO2 SLP238 P0002 T01000094
KPHL 061607Z 03004KT 3SM -RA BR BKN029 OVC034 09/08 A3026 RMK AO2 P0001 T00890078
KPHL 061554Z 02003KT 4SM -RA BR FEW016 OVC030 08/08 A3027 RMK AO2 RAE09B33 SLP251 P0001 T00830078
KPHL 061539Z VRB03KT 6SM -RA BR FEW016 BKN030 OVC042 08/07 A3028 RMK AO2 RAE09B33 P0000 T00830072
KPHL 061509Z 04003KT 7SM FEW016 SCT025 OVC042 07/06 A3029 RMK AO2 RAE09 P0000 T00720061
KPHL 061503Z 00000KT 5SM -RA BR SCT016 BKN028 OVC042 07/06 A3029 RMK AO2 P0000 T00670056
KPHL 061454Z 04003KT 3SM -RA BR BKN016 BKN024 OVC044 07/06 A3029 RMK AO2 RAB09 SLP256 P0000 60002 T00670056 51006
KPHL 061442Z 07003KT 1 1/2SM -RA BR SCT018 BKN024 OVC044 07/06 A3029 RMK AO2 RAB09 P0000 T00670056
KPHL 061435Z 00000KT 2SM -RA BR FEW018 BKN025 OVC042 07/05 A3029 RMK AO2 RAB09 P0000 T00670050
KPHL 061431Z 00000KT 5SM -RA BR SCT024 BKN035 OVC042 07/05 A3029 RMK AO2 RAB09 P0000 T00670050
KPHL 061354Z 08005KT 9SM FEW045 OVC060 06/04 A3029 RMK AO2 RAE43 SLP256 VCSH P0002 T00610044
KPHL 061332Z 11005KT 7SM -RA FEW008 FEW042 OVC055 06/04 A3029 RMK AO2 P0002 T00610044
KPHL 061312Z 00000KT 6SM -RA FEW008 FEW042 OVC055 07/04 A3029 RMK AO2 P0000 T00670039
KPHL 061254Z 00000KT 10SM -RA FEW008 SCT047 OVC060 06/04 A3028 RMK AO2 RAB37 SLP253 P0000 T00610039
KPHL 061158Z 05004KT 10SM SCT008 BKN046 OVC060 06/03 A3027 RMK AO2 VCSH T00610028
KPHL 061154Z 04006KT 10SM BKN008 OVC047 06/03 A3027 RMK AO2 SLP251 T00610028 10061 20006 55003
KPHL 061054Z 06003KT 10SM OVC009 06/02 A3027 RMK AO2 SLP250 T00560017
KPHL 061025Z 03007KT 10SM BKN012 OVC048 05/01 A3026 RMK AO2 T00500011
KPHL 060954Z 05005KT 10SM BKN047 OVC060 04/01 A3027 RMK AO2 SLP249 T00440011
KPHL 060854Z 05003KT 10SM SCT060 02/M01 A3028 RMK AO2 SLP254 T00221011 57003
KPHL 060754Z 05003KT 10SM BKN060 02/M01 A3029 RMK AO2 SLP255 T00171011
KPHL 060654Z 03005KT 10SM BKN049 OVC065 02/M02 A3028 RMK AO2 SLP255 T00221017
KPHL 060554Z 05003KT 10SM SCT280 01/M03 A3029 RMK AO2 SLP256 T00111028 10050 20006 58002
KPHL 060454Z 05003KT 10SM SCT280 01/M03 A3030 RMK AO2 SLP258 T00111028 401001028
KPHL 060354Z 00000KT 10SM BKN280 02/M03 A3030 RMK AO2 SLP260 T00221028
KPHL 060254Z 10004KT 10SM SCT220 03/M02 A3030 RMK AO2 SLP259 T00281022 50004
KPHL 060154Z 09004KT 10SM FEW220 03/M03 A3030 RMK AO2 SLP261 T00281028
KPHL 060054Z 11003KT 10SM FEW260 04/M02 A3030 RMK AO2 SLP259 T00391017
KPHL 052354Z 14003KT 10SM FEW260 05/M02 A3028 RMK AO2 SLP254 T00501022 10100 20050 51010
KPHL 052254Z 19005KT 10SM SCT260 06/M03 A3028 RMK AO2 SLP254 T00611033
KPHL 052154Z VRB03KT 10SM FEW150 SCT260 08/M06 A3026 RMK AO2 SLP247 T00781061
KPHL 052054Z 18004KT 10SM FEW150 SCT240 BKN280 09/M04 A3025 RMK AO2 SLP243 T00891044 55004
KPHL 051954Z 17005KT 10SM FEW150 SCT240 BKN280 09/M04 A3025 RMK AO2 SLP243 T00941039
KPHL 051854Z 17006KT 10SM FEW150 SCT240 BKN280 09/M04 A3025 RMK AO2 SLP243 T00941044
KPHL 051754Z 15005KT 10SM SCT240 BKN280 09/M03 A3026 RMK AO2 SLP247 T00891028 10089 21028 58019
KPHL 051654Z 19007KT 10SM BKN280 08/M04 A3028 RMK AO2 SLP254 T00781039
KPHL 051554Z 00000KT 10SM BKN280 06/M02 A3031 RMK AO2 SLP265 T00561017
KPHL 051454Z 00000KT 10SM FEW300 03/M01 A3032 RMK AO2 SLP266 T00331006 53016
KPHL 051354Z 00000KT 10SM FEW300 02/M02 A3030 RMK AO2 SLP261 T00171017 $
KPHL 051254Z 00000KT 10SM FEW300 M01/M03 A3028 RMK AO2 SLP254 T10111033 $
KPHL 051154Z 00000KT 10SM FEW300 M02/M03 A3027 RMK AO2 SLP250 T10171033 10000 21028 53016 $
KPHL 051054Z 22004KT 10SM CLR M02/M04 A3026 RMK AO2 SLP247 T10221039 $
KPHL 050954Z 00000KT 10SM CLR M02/M04 A3023 RMK AO2 SLP237 T10221039 $
KPHL 050854Z 00000KT 10SM CLR M02/M04 A3023 RMK AO2 SLP235 T10221044 51004 $
KPHL 050754Z 00000KT 10SM CLR M01/M04 A3022 RMK AO2 SLP234 T10111039 $
KPHL 050654Z 29003KT 10SM CLR M01/M04 A3022 RMK AO2 SLP233 T10061039 $
KPHL 050554Z 00000KT 10SM CLR M01/M03 A3021 RMK AO2 SLP230 T10111033 10050 21011 56007 $
KPHL 050454Z 00000KT 10SM CLR 00/M03 A3022 RMK AO2 SLP232 T00001033 400721006 $
KPHL 050354Z 00000KT 10SM CLR 01/M06 A3022 RMK AO2 SLP233 T00061056 $
KPHL 050254Z 34003KT 10SM CLR 02/M06 A3023 RMK AO2 SLP238 T00221056 51008 $
KPHL 050154Z 26005KT 10SM CLR 02/M06 A3022 RMK AO2 SLP231 T00221061 $
KPHL 050054Z 29006KT 10SM CLR 04/M07 A3024 RMK AO2 SLP238 T00441067 $
KPHL 042354Z 27008KT 10SM CLR 04/M06 A3021 RMK AO2 SLP230 T00391061 10072 20033 50004 $
KPHL 042254Z 26009KT 10SM FEW200 04/M05 A3022 RMK AO2 SLP232 T00391050 $
KPHL 042154Z 27009KT 10SM FEW200 06/M05 A3021 RMK AO2 SLP231 T00561050 $
KPHL 042054Z 25007KT 10SM SCT200 07/M04 A3020 RMK AO2 SLP226 T00671044 53000 $
KPHL 041954Z 27007KT 10SM BKN200 07/M06 A3020 RMK AO2 SLP225 T00721056 $
KPHL 041854Z 29004KT 10SM BKN200 07/M04 A3019 RMK AO2 SLP222 T00721044 $
KPHL 041754Z 29007KT 10SM BKN200 07/M05 A3020 RMK AO2 SLP226 T00671050 10072 20028 56020 $
KPHL 041654Z 35007KT 10SM SCT200 07/M04 A3020 RMK AO2 SLP227 T00671039 $
KPHL 041554Z 30007KT 10SM SCT200 06/M04 A3024 RMK AO2 SLP240 T00611044 $
KPHL 041454Z 34009KT 10SM SCT200 05/M04 A3026 RMK AO2 SLP246 T00501044 50002 $
KPHL 041354Z 31010KT 10SM FEW200 04/M05 A3027 RMK AO2 SLP249 T00391050 $
KPHL 041254Z 30007KT 10SM FEW180 03/M04 A3026 RMK AO2 SLP246 T00281044 $
KPHL 041154Z 31009KT 10SM CLR 03/M04 A3025 RMK AO2 SLP244 70048 T00281044 10067 20028 51007 $
KPHL 041054Z 30010KT 10SM CLR 04/M04 A3025 RMK AO2 SLP244 T00391044 $
KPHL 040954Z 30008KT 10SM FEW050 04/M04 A3025 RMK AO2 SLP243 T00391044 $
KPHL 040854Z 29006KT 10SM FEW050 04/M04 A3023 RMK AO2 SLP237 T00441044 51009 $
KPHL 040754Z 28006KT 10SM CLR 05/M04 A3023 RMK AO2 SLP236 T00501044 $
KPHL 040654Z 30008KT 10SM CLR 06/M04 A3022 RMK AO2 SLP233 T00561039 $
KPHL 040554Z 29008KT 10SM CLR 06/M03 A3021 RMK AO2 SLP228 T00611033 10144 20061 50005 $
KPHL 040454Z 30009KT 10SM FEW050 07/M03 A3021 RMK AO2 SLP229 T00671028 401500067 $
KPHL 040354Z 30006KT 10SM CLR 07/M02 A3021 RMK AO2 SLP230 T00721017
KPHL 040254Z 31022G30KT 10SM CLR 08/M02 A3019 RMK AO2 PK WND 32032/0230 PRESRR SLP222 T00781022 51042
KPHL 040154Z 32023G29KT 10SM FEW070 09/00 A3015 RMK AO2 PK WND 33034/0102 SLP209 T00940000
KPHL 040054Z 31017G26KT 10SM FEW070 12/03 A3012 RMK AO2 PK WND 30027/0037 SLP199 T01170033
KPHL 032354Z 28011KT 10SM SCT070 14/11 A3007 RMK AO2 WSHFT 2246 RAB06E38 SLP181 P0000 60000 T01440111 10150 20133 53022
KPHL 032302Z 30010KT 10SM SCT012 SCT040 BKN060 14/12 A3005 RMK AO2 WSHFT 2246 T01390117
KPHL 032254Z 26014KT 10SM SCT060 BKN080 14/12 A3005 RMK AO2 PRESRR SLP175 T01390117
KPHL 032154Z 23012G21KT 10SM FEW016 BKN080 14/12 A3001 RMK AO2 RAB27E36 SLP161 P0000 T01440117
KPHL 032126Z 22012KT 10SM SCT016 BKN080 14/12 A3000 RMK AO2 T01440122
KPHL 032054Z 23013KT 10SM BKN017 BKN080 14/12 A3000 RMK AO2 PK WND 24026/2000 SLP159 60000 T01440122 56010
KPHL 031954Z 23022G26KT 10SM OVC016 15/12 A3001 RMK AO2 PK WND 23030/1908 SLP160 T01500122
KPHL 031854Z 23020G29KT 10SM OVC015 15/12 A3001 RMK AO2 PK WND 21029/1802 RAE15 SLP161 P0000 T01500122
KPHL 031847Z 22021G29KT 10SM OVC015 14/12 A3000 RMK AO2 PK WND 21029/1802 RAE15 P0000 T01440122
KPHL 031815Z 23019G27KT 10SM OVC014 14/12 A3002 RMK AO2 PK WND 21029/1802 RAE15 P0000 T01390122
KPHL 031754Z 22023G30KT 7SM -RA OVC011 14/12 A3003 RMK AO2 PK WND 21030/1753 SLP169 P0006 60048 T01390117 10139 20111 56041
KPHL 031745Z 22018KT 9SM -RA OVC011 14/12 A3004 RMK AO2 P0006 T01390122
KPHL 031736Z 22017G25KT 4SM -RA BR BKN010 OVC016 13/12 A3005 RMK AO2 P0005 T01330122
KPHL 031705Z 22018G23KT 2SM R09R/6000VP6000FT RA BR OVC011 13/12 A3006 RMK AO2 P0001 T01330117
KPHL 031654Z 21020KT 5SM RA BR BKN012 OVC018 13/12 A3007 RMK AO2 PK WND 20026/1632 SLP182 P0010 T01330117
KPHL 031629Z 21019G24KT 5SM -RA BR BKN011 OVC017 13/12 A3009 RMK AO2 P0008 T01330117
KPHL 031554Z 21018G24KT 3SM RA BR OVC011 13/12 A3011 RMK AO2 PK WND 20028/1516 SLP194 P0011 T01280117
KPHL 031532Z 20016G23KT 3SM R09R/6000VP6000FT RA BR BKN012 OVC024 13/11 A3013 RMK AO2 PK WND 20028/1516 P0005 T01280111
KPHL 031454Z 21020G27KT 5SM RA BR BKN012 OVC024 13/11 A3015 RMK AO2 PK WND 21027/1453 SLP210 P0010 60021 T01280111 58024
KPHL 031448Z 21016G22KT 5SM RA BR BKN012 OVC024 12/11 A3016 RMK AO2 P0009
KPHL 031354Z 21013KT 4SM RA BR BKN014 BKN024 OVC055 12/10 A3019 RMK AO2 SLP221 P0006 T01170100
KPHL 031341Z 21012KT 4SM -RA BR BKN014 BKN024 OVC055 12/10 A3019 RMK AO2 P0003 T01170100
KPHL 031323Z 20012KT 7SM -RA FEW014 BKN024 OVC055 12/10 A3019 RMK AO2 P0002 T01170100
KPHL 031254Z 20011KT 5SM -RA BR FEW012 BKN024 OVC055 12/10 A3021 RMK AO2 RAE1156B14 SLP230 P0005 T01170100
KPHL 031226Z 20009KT 5SM -RA BR FEW012 BKN025 OVC050 11/09 A3023 RMK AO2 RAE1156B14 P0001 T01110094
KPHL 031154Z 20007KT 10SM -RA FEW012 BKN025 OVC050 11/09 A3022 RMK AO2 RAE19B39 SLP234 P0001 60001 70001 T01110089 10117 20078 56011
KPHL 031149Z 20009KT 10SM -RA FEW012 BKN025 OVC050 11/09 A3022 RMK AO2 RAE19B39 P0001
KPHL 031054Z 20010KT 10SM -RA SCT013 OVC031 11/09 A3023 RMK AO2 RAB44 SLP237 P0000 T01110089
KPHL 030954Z 19013KT 10SM SCT015 OVC036 11/08 A3024 RMK AO2 SLP238 T01110083
KPHL 030854Z 20013KT 10SM BKN031 OVC100 11/07 A3026 RMK AO2 SLP245 T01110072 58034
KPHL 030754Z 20010KT 10SM BKN032 OVC110 11/06 A3030 RMK AO2 SLP259 T01110061
KPHL 030654Z 20007KT 10SM BKN040 BKN120 OVC250 09/05 A3033 RMK AO2 SLP270 T00940050
KPHL 030554Z 20005KT 10SM BKN120 OVC250 08/03 A3036 RMK AO2 RAB22E31 SLP279 P0000 60000 T00780033 10078 20050 58022
KPHL 030454Z 15003KT 10SM BKN120 OVC250 07/02 A3038 RMK AO2 SLP288 T00720017 400831028
KPHL 030354Z 11003KT 10SM BKN120 BKN250 06/01 A3040 RMK AO2 SLP293 T00610011
KPHL 030254Z 18003KT 10SM BKN130 BKN250 07/01 A3042 RMK AO2 SLP301 T00670006 56017
KPHL 030154Z 18005KT 10SM BKN130 OVC250 06/M01 A3043 RMK AO2 SLP305 T00611006
KPHL 030054Z 15005KT 10SM BKN130 BKN250 06/M02 A3045 RMK AO2 SLP309 T00561017
KPHL 022354Z 14003KT 10SM BKN130 BKN250 06/M03 A3047 RMK AO2 SLP318 T00561028 10083 20056 58001
KPHL 022254Z 14004KT 10SM SCT120 SCT250 06/M03 A3048 RMK AO2 SLP320 T00611028
KPHL 022154Z 20006KT 10SM SCT120 SCT260 07/M03 A3048 RMK AO2 SLP322 T00671028
KPHL 022054Z 18007KT 10SM FEW120 SCT260 07/M03 A3047 RMK AO2 SLP319 T00721028 56012 $
KPHL 021954Z 18007KT 10SM FEW120 SCT260 08/M03 A3049 RMK AO2 SLP323 T00781033
KPHL 021854Z 18003KT 10SM FEW120 SCT260 08/M04 A3050 RMK AO2 SLP327 T00781044
KPHL 021754Z 18004KT 10SM FEW120 FEW260 07/M04 A3051 RMK AO2 SLP331 T00671044 10067 21017 58025
KPHL 021654Z 22006KT 10SM FEW120 SCT260 06/M05 A3054 RMK AO2 SLP341 T00561050
KPHL 021554Z 20006KT 10SM FEW120 SCT260 04/M06 A3056 RMK AO2 SLP348 T00441056
KPHL 021454Z 22003KT 10SM FEW100 FEW260 03/M05 A3059 RMK AO2 SLP356 T00281050 52007
KPHL 021354Z 00000KT 10SM FEW100 FEW260 02/M06 A3058 RMK AO2 SLP354 T00171056
KPHL 021254Z 00000KT 10SM FEW100 FEW260 M01/M06 A3057 RMK AO2 SLP353 T10111061 $
KPHL 021154Z 00000KT 10SM CLR M02/M07 A3057 RMK AO2 SLP350 T10171067 10006 21028 51015 $
KPHL 021054Z 35003KT 10SM CLR M02/M07 A3056 RMK AO2 SLP347 T10221072 $
KPHL 020954Z 35003KT 10SM CLR M02/M07 A3054 RMK AO2 SLP342 T10221067 $
KPHL 020854Z 33005KT 10SM CLR M01/M07 A3052 RMK AO2 SLP335 T10111067 56002 $
KPHL 020754Z 31005KT 10SM CLR M01/M07 A3052 RMK AO2 SLP335 T10061067 $
KPHL 020654Z 32004KT 10SM CLR 00/M07 A3053 RMK AO2 SLP336 T00001067

KPHX 070551Z 23003KT 10SM BKN043 BKN050 BKN200 14/11 A3000 RMK AO2 SLP150 T01440111 10189 20139 53015
KPHX 070451Z 25004KT 10SM FEW200 FEW250 15/12 A2998 RMK AO2 SLP145 T01500117
KPHX 070351Z 27005KT 10SM FEW200 FEW250 16/11 A2997 RMK AO2 SLP141 T01610111
KPHX 070251Z 25003KT 10SM SCT200 BKN250 16/12 A2996 RMK AO2 SLP137 T01560117 51013
KPHX 070151Z 24003KT 10SM FEW047 BKN200 BKN250 16/12 A2994 RMK AO2 SLP132 T01610117
KPHX 070051Z 26004KT 10SM FEW035 FEW047 BKN200 BKN250 18/10 A2993 RMK AO2 SLP126 T01830100
KPHX 062351Z 22003KT 10SM FEW035 SCT047 BKN200 BKN250 19/12 A2992 RMK AO2 SLP122 T01890117 10200 20172 55001
KPHX 062251Z 27003KT 10SM SCT047 SCT100 BKN200 BKN250 19/12 A2991 RMK AO2 SLP121 T01890117
KPHX 062151Z 30004KT 10SM SCT047 SCT100 BKN190 BKN250 19/11 A2991 RMK AO2 SLP120 T01890111
KPHX 062051Z 23003KT 10SM BKN047 BKN100 BKN190 BKN250 19/12 A2992 RMK AO2 SLP122 T01890117 56018
KPHX 061951Z 13004KT 10SM FEW060 BKN190 BKN250 18/12 A2993 RMK AO2 SLP125 T01830117
KPHX 061851Z 16006KT 10SM BKN060 BKN190 18/12 A2995 RMK AO2 SLP134 T01830117
KPHX 061751Z 17005KT 10SM BKN070 BKN190 17/12 A2997 RMK AO2 SLP141 T01720117 10172 20128 50013
KPHX 061651Z 14006KT 10SM BKN070 BKN190 16/12 A2998 RMK AO2 SLP142 T01610117
KPHX 061551Z 09005KT 10SM BKN075 BKN180 14/11 A2996 RMK AO2 SLP137 T01440111
KPHX 061451Z 09005KT 10SM BKN070 BKN180 13/11 A2994 RMK AO2 SLP129 T01330111 53011
KPHX 061351Z 10007KT 10SM BKN075 BKN180 13/11 A2992 RMK AO2 SLP123 T01330111
KPHX 061251Z 11006KT 10SM FEW075 BKN180 13/11 A2991 RMK AO2 SLP118 T01330111 $
KPHX 061151Z 07005KT 10SM BKN070 BKN210 13/11 A2990 RMK AO2 SLP117 T01330111 10167 20128 58002 $
KPHX 061051Z 08004KT 10SM SCT050 BKN070 BKN210 13/11 A2991 RMK AO2 SLP119 T01330111 $
KPHX 060951Z 00000KT 10SM BKN070 BKN220 14/11 A2991 RMK AO2 SLP119 T01390111 $
KPHX 060851Z 00000KT 10SM SCT070 SCT160 BKN220 13/11 A2991 RMK AO2 SLP119 T01330111 58003 $
KPHX 060751Z 11003KT 10SM FEW070 FEW160 14/12 A2991 RMK AO2 SLP119 T01390117
KPHX 060651Z 00000KT 10SM FEW070 FEW180 14/11 A2992 RMK AO2 SLP123 T01390111 402110139
KPHX 060551Z 00000KT 10SM FEW050 FEW070 SCT180 SCT250 16/11 A2992 RMK AO2 SLP122 T01610106 10200 20156 51004
KPHX 060451Z 00000KT 10SM FEW050 FEW070 SCT180 SCT250 16/10 A2991 RMK AO2 SLP120 T01610100
KPHX 060351Z 22003KT 10SM FEW050 SCT070 16/11 A2992 RMK AO2 SLP121 T01610106
KPHX 060251Z 22004KT 10SM FEW040 BKN070 17/11 A2991 RMK AO2 SLP118 T01670111 53006
KPHX 060151Z 29009KT 10SM FEW040 SCT065 19/09 A2990 RMK AO2 SLP115 T01890094
KPHX 060051Z 25004KT 10SM FEW040 FEW065 19/11 A2989 RMK AO2 SLP111 T01940111
KPHX 052351Z 22005KT 10SM FEW040 FEW065 SCT090 20/11 A2989 RMK AO2 SLP110 T02000111 10211 20172 56010
KPHX 052251Z 22007KT 10SM SCT037 SCT065 21/12 A2989 RMK AO2 SLP111 T02060117
KPHX 052151Z 16005KT 10SM SCT037 SCT210 21/12 A2990 RMK AO2 SLP114 T02060122
KPHX 052051Z 17009KT 10SM SCT035 SCT210 20/14 A2992 RMK AO2 SLP121 T02000139 58027
KPHX 051951Z 15007KT 10SM FEW016 SCT037 19/14 A2994 RMK AO2 SLP129 T01940139
KPHX 051858Z 18005KT 10SM FEW008 SCT016 BKN033 18/14 A2998 RMK AO2 T01830144 $
KPHX 051851Z 16006KT 10SM FEW008 SCT016 BKN029 18/14 A2998 RMK AO2 SLP144 T01830144 $
KPHX 051751Z 14004KT 10SM FEW008 BKN019 OVC026 18/14 A3000 RMK AO2 SLP151 T01780139 10178 20150 51002 $
KPHX 051747Z 13005KT 10SM FEW008 BKN019 OVC026 17/14 A3000 RMK AO2 $
KPHX 051651Z 00000KT 7SM FEW006 OVC010 17/15 A3001 RMK AO2 SLP152 T01720156 $
KPHX 051551Z 00000KT 5SM BR FEW006 OVC010 17/16 A3000 RMK AO2 SLP149 T01720156
KPHX 051451Z 00000KT 3SM BCFG FEW004 OVC010 16/14 A2998 RMK AO2 SFC VIS 3 SLP145 T01560144 53004
KPHX 051429Z 00000KT 2SM BCFG FEW004 OVC010 16/14 A2998 RMK AO2 SFC VIS 4 T01560144
KPHX 051422Z 00000KT 1 1/2SM BCFG SCT004 OVC010 16/14 A2998 RMK AO2 SFC VIS 3 T01560144
KPHX 051405Z 00000KT 1/2SM R07L/P6000FT BCFG FEW002 BKN006 OVC010 16/14 A2998 RMK AO2 SFC VIS 2 T01560144
KPHX 051351Z 36003KT 2SM BCFG FEW002 SCT006 OVC010 16/14 A2998 RMK AO2 SFC VIS 5 SLP143 T01560144 $
KPHX 051332Z 36004KT 2SM BCFG FEW002 BKN006 OVC010 16/14 A2998 RMK AO2 SFC VIS 5 T01560144 $
KPHX 051310Z 00000KT 1/2SM R07L/P6000FT FG SCT002 BKN006 OVC010 16/14 A2998 RMK AO2 SFC VIS 3 T01560144 $
KPHX 051251Z 00000KT 1/2SM R07L/P6000FT FG BKN002 OVC010 15/14 A2998 RMK AO2 SFC VIS 3 SLP141 T01560139
KPHX 051243Z 00000KT 1/4SM R07L/P6000FT FG BKN002 OVC010 15/14 A2997 RMK AO2 T01560139
KPHX 051200Z 00000KT 3SM BR SCT009 BKN033 BKN049 15/14 A2997 RMK AO2 T01500139
KPHX 051151Z 13003KT 2 1/2SM BR SCT009 BKN033 BKN049 15/14 A2997 RMK AO2 SLP140 70030 T01500139 10167 20150 58006
KPHX 051127Z 00000KT 1 1/2SM BR SCT009 BKN031 BKN060 15/14 A2998 RMK AO2 T01560139
KPHX 051058Z 00000KT 3/4SM R07L/P6000FT BR BKN002 BKN027 BKN060 15/14 A2998 RMK AO2 T01560139
KPHX 051051Z 00000KT 1/4SM R07L/2000VP6000FT FG VV002 15/14 A2998 RMK AO2 SLP144 T01560139
KPHX 051025Z 00000KT 1/4SM R07L/2400VP6000FT FG SCT003 BKN036 BKN050 BKN210 17/14 A2998 RMK AO2 T01670139
KPHX 051014Z 00000KT 3/4SM R07L/P6000FT HZ SCT002 SCT036 BKN050 BKN210 17/14 A2998 RMK AO2 T01670139
KPHX 051012Z 23003KT 1 1/2SM HZ SCT038 BKN050 BKN210 17/14 A2998 RMK AO2 T01670139
KPHX 050951Z 26003KT 4SM BR SCT038 BKN050 BKN210 17/14 A2998 RMK AO2 SLP144 T01670144
KPHX 050902Z 00000KT 3SM BR SCT005 BKN012 BKN040 BKN170 16/15 A2999 RMK AO2 T01560150 $
KPHX 050851Z 15003KT 2 1/2SM BR SCT005 BKN012 BKN040 BKN170 16/15 A2999 RMK AO2 SLP146 T01560150 58009
KPHX 050842Z 00000KT 1 1/2SM BR SCT005 BKN012 BKN040 BKN150 15/14 A2999 RMK AO2 T01500144
KPHX 050835Z 13003KT 2SM BR SCT005 SCT012 BKN040 BKN150 16/15 A2999 RMK AO2 T01560150
KPHX 050751Z 14003KT 4SM BR SCT005 SCT018 BKN055 BKN150 16/14 A3000 RMK AO2 SLP149 T01560144
KPHX 050651Z 09003KT 6SM BR FEW013 SCT018 SCT055 SCT150 16/14 A3001 RMK AO2 SLP154 T01610144 401830139
KPHX 050551Z 00000KT 7SM FEW013 SCT018 BKN055 16/15 A3002 RMK AO2 SLP156 T01610150 10183 20161 58001
KPHX 050451Z 00000KT 8SM FEW013 SCT018 BKN055 17/15 A3002 RMK AO2 SLP158 T01670150
KPHX 050351Z 01003KT 10SM FEW020 BKN055 OVC080 17/15 A3002 RMK AO2 SLP157 T01720150
KPHX 050251Z 00000KT 9SM FEW015 SCT060 OVC250 17/15 A3002 RMK AO2 SLP158 T01670150 53005
KPHX 050151Z 20003KT 10SM SCT014 BKN032 BKN060 17/16 A3001 RMK AO2 SLP153 T01720156
KPHX 050142Z 00000KT 10SM SCT014 BKN028 OVC050 18/16 A3001 RMK AO2 T01780156
KPHX 050051Z 26003KT 10SM SCT040 BKN065 BKN080 18/15 A3001 RMK AO2 SLP153 T01780150 $
KPHX 042351Z 16003KT 10SM SCT026 BKN060 BKN080 18/15 A3000 RMK AO2 SLP151 T01830150 10183 20161 56006 $
KPHX 042251Z 00000KT 10SM SCT018 BKN026 OVC060 18/15 A3000 RMK AO2 SLP151 T01830150 $
KPHX 042151Z 00000KT 10SM SCT018 BKN024 OVC036 18/14 A3002 RMK AO2 SLP156 T01830144 $
KPHX 042051Z 10003KT 10SM SCT014 BKN019 OVC040 18/15 A3002 RMK AO2 SLP158 T01830150 56024 $
KPHX 041951Z 08004KT 10SM BKN016 BKN043 OVC055 18/14 A3004 RMK AO2 SLP163 T01780144 $
KPHX 041851Z 08005KT 10SM BKN019 BKN043 OVC055 17/14 A3008 RMK AO2 SLP177 T01670144 $
KPHX 041751Z 08006KT 10SM SCT018 BKN043 OVC055 16/14 A3010 RMK AO2 SLP184 60030 T01610144 10161 20139 58001 $
KPHX 041651Z 11004KT 10SM SCT025 BKN043 OVC055 15/14 A3010 RMK AO2 RAB1555E13 SLP188 P0001 T01500139 $
KPHX 041551Z 08006KT 7SM SCT031 BKN043 OVC055 15/13 A3010 RMK AO2 RAB01E43 SLP187 P0003 T01500133 $
KPHX 041451Z 00000KT 10SM SCT031 BKN043 OVC055 14/13 A3010 RMK AO2 RAE20 SLP186 P0002 60026 T01440133 53007 $
KPHX 041351Z 11003KT 5SM RA BR FEW011 BKN045 OVC060 14/13 A3008 RMK AO2 SLP181 P0009 T01440133 $
KPHX 041251Z 09004KT 8SM -RA FEW011 BKN045 OVC060 14/13 A3007 RMK AO2 SLP177 P0015 T01440133 $
KPHX 041214Z 10005KT 4SM RA BR SCT011 BKN034 OVC055 14/13 A3007 RMK AO2 P0010 T01390128 $
KPHX 041151Z 09003KT 5SM +RA BR FEW011 BKN027 OVC055 14/13 A3008 RMK AO2 SLP179 P0006 60016 70087 T01440133 10150 20133 56006
KPHX 041051Z 10004KT 5SM RA BR SCT020 BKN050 OVC080 14/13 A3008 RMK AO2 RAB0956 SLP181 P0005 T01440128
KPHX 040951Z 00000KT 10SM BKN018 BKN042 OVC085 15/13 A3010 RMK AO2 RAB40E50 SLP186 P0000 T01500128
KPHX 040923Z 11004KT 10SM BKN018 BKN042 OVC085 14/12 A3009 RMK AO2 T01440122
KPHX 040851Z 00000KT 10SM BKN013 BKN026 OVC085 14/13 A3010 RMK AO2 SLP187 60005 T01390128 58013
KPHX 040751Z 09005KT 10SM BKN013 BKN026 OVC085 14/12 A3012 RMK AO2 SLP194 T01390122
KPHX 040713Z 09006KT 10SM FEW008 BKN026 OVC085 14/12 A3012 RMK AO2 T01390122
KPHX 040651Z 07008KT 9SM SCT011 BKN055 OVC090 13/12 A3013 RMK AO2 RAE33 SLP197 P0005 T01330122 401610094
KPHX 040551Z 11005KT 5SM RA BR FEW011 BKN085 OVC100 13/12 A3014 RMK AO2 RAB08 SLP199 P0008 60018 T01330122 10133 20122 55000
KPHX 040546Z 09008KT 5SM RA BR FEW011 BKN085 OVC100 13/12 A3012 RMK AO2 RAB08 PRESFR P0006
KPHX 040451Z 00000KT 10SM BKN023 BKN030 OVC075 13/12 A3014 RMK AO2 RAE46 SLP199 P0003 T01330122
KPHX 040419Z 13006KT 10SM -RA BKN026 BKN040 OVC100 13/12 A3014 RMK AO2 P0003 T01330117
KPHX 040400Z 00000KT 10SM -RA SCT017 BKN085 OVC100 13/12 A3015 RMK AO2 P0000 T01330117
KPHX 040351Z 10004KT 10SM -RA BKN017 OVC090 13/12 A3014 RMK AO2 RAB0259 SLP201 P0001 T01330117
KPHX 040251Z 09003KT 10SM SCT010 BKN017 OVC100 13/12 A3014 RMK AO2 RAE20B38E49 SLP201 P0001 60006 T01330117 55004
KPHX 040243Z 00000KT 10SM -RA SCT010 BKN014 OVC100 13/12 A3014 RMK AO2 RAE20B38 P0001 T01330117
KPHX 040215Z 00000KT 10SM -RA FEW007 SCT016 OVC110 13/12 A3015 RMK AO2 PRESRR P0001 T01330117
KPHX 040151Z 09007KT 10SM -RA FEW014 SCT040 OVC100 13/11 A3013 RMK AO2 RAE0058B46 SLP200 P0000 T01280111
KPHX 040051Z 09009KT 10SM -RA FEW014 SCT040 OVC075 12/11 A3014 RMK AO2 SLP201 P0005 T01220111
KPHX 032351Z 08008KT 9SM -RA FEW008 SCT037 BKN060 OVC130 13/11 A3015 RMK AO2 SLP206 P0003 60053 T01280111 10161 20111 58001
KPHX 032321Z 09010KT 10SM -RA FEW008 SCT030 BKN050 OVC130 12/11 A3013 RMK AO2 P0001 T01220111
KPHX 032251Z 10008KT 3SM -RA BR FEW018 BKN046 OVC090 12/11 A3015 RMK AO2 SLP204 P0018 T01170106
KPHX 032204Z 08004KT 2 1/2SM +RA BR FEW018 BKN046 OVC100 11/10 A3017 RMK AO2 P0003 T01110100
KPHX 032151Z 08004KT 3SM -RA BR FEW018 BKN050 OVC100 11/09 A3016 RMK AO2 SLP210 P0012 T01110094
KPHX 032051Z 08009KT 4SM -RA BR SCT045 BKN070 BKN110 OVC160 11/09 A3016 RMK AO2 SLP207 P0006 60020 T01110089 58001
KPHX 031951Z 00000KT 6SM -RA SCT045 BKN080 BKN110 OVC160 11/08 A3019 RMK AO2 SLP218 CB DSNT E P0013 T01110083
KPHX 031851Z 13008KT 4SM RA FEW045 BKN100 BKN160 BKN180 OVC230 13/07 A3017 RMK AO2 RAB1752E01B27 SLP212 CB DSNT E P0001 T01280067
KPHX 031751Z 15006KT 10SM FEW046 SCT100 BKN160 BKN180 OVC230 16/03 A3016 RMK AO2 SLP205 CB DSNT SE T01610028 10161 20094 53006
KPHX 031651Z 16003KT 10SM SCT100 BKN160 BKN180 OVC230 14/03 A3014 RMK AO2 SLP201 CB DSNT SE T01390033
KPHX 031551Z 12004KT 10SM SCT080 BKN120 OVC180 12/02 A3013 RMK AO2 SLP197 T01220022
KPHX 031451Z 07004KT 10SM FEW080 BKN120 BKN250 11/02 A3014 RMK AO2 SLP199 T01110017 53008
KPHX 031351Z 08003KT 10SM FEW080 BKN250 10/02 A3012 RMK AO2 SLP193 T01000022
KPHX 031251Z 13003KT 10SM BKN250 11/03 A3012 RMK AO2 SLP192 T01060028
KPHX 031151Z 10004KT 10SM BKN250 11/03 A3011 RMK AO2 SLP190 T01060033 10144 20106 50002
KPHX 031051Z 11004KT 10SM BKN250 12/03 A3012 RMK AO2 SLP192 T01170033
KPHX 030951Z 10003KT 10SM BKN250 12/03 A3011 RMK AO2 SLP188 T01170033
KPHX 030851Z 10003KT 10SM BKN250 12/04 A3011 RMK AO2 SLP187 T01220044 53001
KPHX 030751Z 09003KT 10SM BKN250 13/05 A3010 RMK AO2 SLP184 T01280050
KPHX 030651Z 08003KT 10SM FEW180 BKN250 13/06 A3011 RMK AO2 SLP188 T01330056 402060106
KPHX 030551Z 00000KT 10SM FEW180 SCT250 14/06 A3011 RMK AO2 SLP187 T01390056 10194 20139 53009
KPHX 030451Z 24003KT 10SM SCT180 BKN250 15/06 A3009 RMK AO2 SLP181 T01500056
KPHX 030351Z 25004KT 10SM SCT180 BKN250 17/06 A3008 RMK AO2 SLP179 T01670056
KPHX 030251Z 22003KT 10SM SCT200 BKN250 16/06 A3008 RMK AO2 SLP179 T01610056 53008
KPHX 030151Z 24004KT 10SM SCT200 BKN250 17/06 A3007 RMK AO2 SLP177 T01720056
KPHX 030051Z 25003KT 10SM FEW150 SCT200 BKN250 18/05 A3006 RMK AO2 SLP171 T01830050
KPHX 022351Z 00000KT 10SM FEW140 SCT180 BKN250 19/05 A3006 RMK AO2 SLP170 T01940050 10206 20167 55004
KPHX 022251Z 00000KT 10SM FEW140 FEW180 BKN250 20/05 A3005 RMK AO2 SLP168 T02000050
KPHX 022151Z 35003KT 10SM FEW140 SCT180 BKN250 20/05 A3006 RMK AO2 SLP171 T02000050
KPHX 022051Z 26004KT 10SM FEW140 SCT200 BKN250 19/06 A3007 RMK AO2 SLP173 T01940061 58019
KPHX 021951Z 26005KT 10SM FEW140 SCT180 BKN250 19/07 A3009 RMK AO2 SLP180 T01940067
KPHX 021851Z 24004KT 10SM SCT140 BKN180 BKN250 18/07 A3011 RMK AO2 SLP189 T01780072
KPHX 021751Z 35003KT 10SM BKN170 BKN200 BKN250 17/07 A3012 RMK AO2 SLP192 T01670067 10167 20111 51019
KPHX 021651Z 00000KT 10SM BKN170 BKN200 BKN250 14/03 A3012 RMK AO2 SLP192 T01440033
KPHX 021551Z 12003KT 10SM SCT150 BKN170 BKN250 13/02 A3009 RMK AO2 SLP184 T01330022
KPHX 021451Z 06003KT 10SM SCT150 BKN170 BKN250 12/02 A3007 RMK AO2 SLP175 T01220017 53015
KPHX 021351Z 10005KT 10SM BKN150 BKN170 12/02 A3004 RMK AO2 SLP164 T01170022
KPHX 021251Z 08006KT 10SM BKN170 OVC190 12/02 A3003 RMK AO2 SLP160 T01220017
KPHX 021151Z 10003KT 10SM BKN170 BKN190 12/03 A3002 RMK AO2 SLP157 T01170028 10161 20106 53014
KPHX 021051Z 08004KT 10SM FEW170 BKN200 12/03 A3001 RMK AO2 SLP153 T01170028
KPHX 020951Z 08008KT 10SM BKN200 13/03 A2999 RMK AO2 SLP145 T01280028
KPHX 020851Z 08006KT 10SM BKN170 14/02 A2998 RMK AO2 SLP142 T01390022 51008
KPHX 020751Z 12005KT 10SM BKN170 14/03 A2997 RMK AO2 SLP141 T01440033
KPHX 020651Z 10003KT 10SM BKN170 BKN240 15/03 A2997 RMK AO2 SLP138 T01500028 402280089

KPIT 070551Z 00000KT 1/2SM R28R/2200V2600FT -RA FG VV002 10/10 A3005 RMK AO2 DZE47RAB47 SLP189 P0001 60001 T01000100 10100 20078 51002 $
KPIT 070451Z 14003KT 3/4SM R28R/6000VP6000FT -DZ BR VV003 09/09 A3005 RMK AO2 DZB29 SLP189 P0000 T00940089 400940033 $
KPIT 070351Z 16003KT 3/4SM R28R/P6000FT BR VV002 09/09 A3006 RMK AO2 RAE28 SLP190 P0000 T00940089 $
KPIT 070251Z 00000KT 1/2SM R28R/P6000FT -RA FG VV001 09/08 A3005 RMK AO2 RAE06B50DZB06E50 SLP187 P0000 60000 T00890083 53004
KPIT 070151Z 15004KT 1/2SM R28R/2600V5500FT -RA FG VV001 08/08 A3004 RMK AO2 DZB25E51RAB51 SLP186 P0000 T00830078
KPIT 070129Z 14003KT 3/4SM R28R/5500VP6000FT -DZ BR VV001 08/08 A3004 RMK AO2 DZB25 P0000 T00830078
KPIT 070051Z 13003KT 1SM R28R/P6000FT BR OVC002 08/08 A3004 RMK AO2 RAE23DZB23E48 SLP185 P0000 T00780078
KPIT 062351Z 09003KT 1SM R28R/P6000FT -RA BR OVC003 08/07 A3004 RMK AO2 SLP185 P0004 60018 T00780072 10078 20067 51003
KPIT 062251Z 00000KT 2SM -RA BR BKN002 OVC032 08/07 A3003 RMK AO2 SLP185 P0009 T00780072
KPIT 062216Z 09003KT 1/2SM R28R/5000VP6000FT -RA BR OVC002 08/07 A3003 RMK AO2 SFC VIS 1 P0004 T00780072
KPIT 062151Z 00000KT 1/4SM R28R/P6000FT -RA BR VV001 08/07 A3003 RMK AO2 SFC VIS 1 SLP184 P0004 T00780072
KPIT 062051Z 09004KT 1/4SM R28R/2600V3500FT -RA FG VV001 07/07 A3003 RMK AO2 RAB47 SLP182 P0000 60001 T00720067 58007
KPIT 062020Z 08004KT 1/4SM R28R/2600V3000FT FG VV001 07/07 A3003 RMK AO2 T00720072
KPIT 061951Z 10005KT 1/4SM R28R/5500VP6000FT BR OVC002 07/07 A3003 RMK AO2 SFC VIS 1 RAE21 SLP183 P0001 T00720067
KPIT 061851Z 00000KT 1/4SM R28R/3000V3500FT -RA FG VV001 07/07 A3004 RMK AO2 DZB08E32RAB46 SLP188 P0000 T00670067
KPIT 061832Z 04004KT 1/4SM R28R/2200V3000FT FG VV001 07/07 A3004 RMK AO2 DZB08E32 P0000 T00720067
KPIT 061751Z 11004KT 1/2SM R28R/4000V5000FT BR OVC001 07/07 A3005 RMK AO2 SFC VIS 3/4 DZE25 SLP189 P0000 60001 T00720067 10072 20039 57012
KPIT 061726Z 13005KT 1/2SM R28R/5500VP6000FT BR OVC002 07/07 A3005 RMK AO2 SFC VIS 2 DZE25 P0000 T00720067
KPIT 061651Z 14005KT 1/2SM R28R/2800V3500FT -DZ BR OVC001 07/06 A3005 RMK AO2 SFC VIS 3/4 SLP190 P0000 T00670061
KPIT 061554Z 13005KT 1/2SM R28R/5000V5500FT -DZ BR OVC001 06/05 A3008 RMK AO2 SFC VIS 3/4 P0000 T00560050
KPIT 061551Z 13005KT 1/2SM R28R/5000FT -DZ BR OVC001 06/05 A3008 RMK AO2 SFC VIS 3/4 SLP200 P0000 T00560050
KPIT 061543Z 14005KT 1/2SM R28R/4500V5000FT -DZ FG OVC001 06/05 A3008 RMK AO2 P0000 T00560050
KPIT 061451Z 10004KT 1/2SM R28R/4000V4500FT -DZ FG OVC001 05/04 A3008 RMK AO2 DZB42 SLP202 P0000 60001 T00500044 53009
KPIT 061351Z 10003KT 1SM R28R/P6000FT BR OVC002 04/04 A3008 RMK AO2 DZE49 SLP200 P0000 T00440039
KPIT 061251Z 12005KT 1SM R28R/6000VP6000FT -DZ BR OVC002 04/03 A3006 RMK AO2 SLP194 P0001 T00390033
KPIT 061208Z 12005KT 1SM R28R/P6000FT -DZ BR OVC004 04/03 A3006 RMK AO2 P0000 T00390028
KPIT 061151Z 10004KT 3SM -DZ BR BKN006 OVC010 04/03 A3006 RMK AO2 RAE17DZB17 SLP193 P0000 60003 70003 T00390028 10056 20033 53007
KPIT 061142Z 10004KT 3SM -DZ BR BKN006 OVC010 04/03 A3006 RMK AO2 RAE17DZB17 P0000 T00390028
KPIT 061051Z 13004KT 6SM -RA BR OVC013 04/02 A3004 RMK AO2 SLP189 P0001 T00390022
KPIT 061015Z 14004KT 7SM -RA BKN013 OVC019 04/01 A3004 RMK AO2 P0000 T00440011
KPIT 060951Z 00000KT 10SM -RA SCT018 OVC025 04/02 A3003 RMK AO2 RAB46 SLP184 P0000 T00440017
KPIT 060851Z 13005KT 10SM OVC028 04/02 A3003 RMK AO2 RAE45 SLP184 P0000 60002 T00390017 50003
KPIT 060822Z 13007KT 10SM -RA OVC029 04/02 A3003 RMK AO2 P0000 T00390017
KPIT 060751Z 15005KT 10SM -RA OVC032 04/01 A3004 RMK AO2 SLP186 P0002 T00390011
KPIT 060651Z 14006KT 10SM -RA FEW028 OVC040 05/M03 A3003 RMK AO2 RAE0558B37 SLP182 P0000 T00501028
KPIT 060551Z 13007KT 10SM -RA BKN040 OVC065 05/M03 A3003 RMK AO2 RAB48 SLP182 P0000 60000 T00501033 10061 20039 53003
KPIT 060451Z 13004KT 10SM FEW040 OVC065 05/M06 A3002 RMK AO2 SLP182 T00501056 401001061
KPIT 060351Z 14004KT 10SM OVC075 05/M07 A3002 RMK AO2 SLP180 T00501072
KPIT 060251Z 15003KT 10SM FEW075 BKN160 05/M10 A3002 RMK AO2 SLP181 T00501100 51000
KPIT 060151Z 17005KT 10SM FEW075 BKN160 06/M12 A3001 RMK AO2 SLP182 T00561117
KPIT 060051Z 16006KT 10SM BKN075 06/M10 A3002 RMK AO2 SLP184 T00561100
KPIT 052351Z 16004KT 10SM FEW140 FEW250 06/M11 A3001 RMK AO2 SLP183 T00611106 10100 20050 51005
KPIT 052251Z 14004KT 10SM FEW140 FEW250 06/M11 A3001 RMK AO2 SLP182 T00611106
KPIT 052151Z 15005KT 10SM FEW140 FEW250 08/M11 A3001 RMK AO2 SLP180 T00831111
KPIT 052051Z 16009KT 10SM FEW140 FEW250 09/M12 A3000 RMK AO2 SLP176 T00941122 56016
KPIT 051951Z 15006KT 10SM FEW130 SCT250 09/M12 A3000 RMK AO2 SLP177 T00941122
KPIT 051851Z VRB06KT 10SM FEW130 SCT250 08/M09 A3003 RMK AO2 SLP185 T00831094
KPIT 051751Z 17006KT 10SM FEW130 OVC250 07/M09 A3005 RMK AO2 SLP193 T00721089 10072 21061 58017
KPIT 051651Z 18005KT 10SM SCT130 BKN220 05/M08 A3007 RMK AO2 SLP202 T00501078
KPIT 051551Z 17004KT 10SM SCT130 SCT220 03/M06 A3010 RMK AO2 SLP212 T00281061
KPIT 051451Z 16005KT 10SM FEW130 BKN220 M01/M07 A3010 RMK AO2 SLP215 T10061067 58003
KPIT 051351Z 16004KT 10SM OVC200 M03/M08 A3012 RMK AO2 SLP221 T10331078
KPIT 051251Z 14004KT 10SM OVC250 M04/M09 A3012 RMK AO2 SLP221 T10441089
KPIT 051151Z 14003KT 10SM BKN250 M06/M09 A3011 RMK AO2 SLP220 T10561094 11033 21056 53002
KPIT 051051Z 00000KT 10SM SCT250 M04/M09 A3011 RMK AO2 SLP217 T10441094
KPIT 050951Z 16003KT 10SM CLR M04/M09 A3010 RMK AO2 SLP212 T10441094
KPIT 050851Z 18003KT 10SM CLR M04/M09 A3010 RMK AO2 SLP214 T10391089 50000
KPIT 050751Z 18004KT 10SM CLR M04/M09 A3011 RMK AO2 SLP216 T10391089
KPIT 050651Z 17004KT 10SM FEW250 M03/M09 A3010 RMK AO2 SLP214 T10331089
KPIT 050551Z 17005KT 10SM FEW250 M04/M08 A3010 RMK AO2 SLP215 T10391083 10000 21044 58012
KPIT 050451Z 16004KT 10SM CLR M03/M08 A3012 RMK AO2 SLP221 T10331078 400281050
KPIT 050351Z 17005KT 10SM CLR M02/M08 A3013 RMK AO2 SLP225 T10221078
KPIT 050251Z 17003KT 10SM CLR M03/M08 A3014 RMK AO2 SLP228 T10281078 58009
KPIT 050151Z 19003KT 10SM CLR M01/M08 A3016 RMK AO2 SLP234 T10111078
KPIT 050051Z 20004KT 10SM CLR M01/M07 A3016 RMK AO2 SLP238 T10061072
KPIT 042351Z 23003KT 10SM CLR 00/M08 A3017 RMK AO2 SLP238 T00001078 10028 20000 53002
KPIT 042251Z 20004KT 10SM CLR 01/M08 A3017 RMK AO2 SLP237 T00061083
KPIT 042151Z 23006KT 10SM CLR 02/M09 A3015 RMK AO2 SLP231 T00171094
KPIT 042051Z 21010KT 10SM CLR 03/M09 A3016 RMK AO2 SLP233 T00281094 56022
KPIT 041951Z 20006KT 10SM CLR 03/M09 A3018 RMK AO2 SLP238 T00281094
KPIT 041851Z 23008KT 190V260 10SM FEW250 02/M09 A3019 RMK AO2 SLP243 T00221089
KPIT 041751Z 24004KT 10SM FEW250 02/M08 A3023 RMK AO2 SLP256 T00171083 10017 21050 56009
KPIT 041651Z 23009KT 10SM FEW250 00/M09 A3023 RMK AO2 SLP257 T00001089
KPIT 041551Z 26008KT 10SM FEW030 FEW250 M01/M07 A3025 RMK AO2 SLP266 T10111072
KPIT 041451Z VRB06KT 10SM FEW025 FEW250 M02/M06 A3026 RMK AO2 SLP267 T10221061 56011
KPIT 041351Z 23005KT 10SM FEW250 M04/M07 A3026 RMK AO2 SLP270 T10391067
KPIT 041251Z 23003KT 10SM FEW250 M05/M07 A3028 RMK AO2 SLP275 T10501072
KPIT 041151Z 22005KT 10SM FEW030 M04/M07 A3029 RMK AO2 SLP278 70003 T10441072 11006 21044 56005
KPIT 041051Z 24003KT 10SM FEW035 M04/M07 A3030 RMK AO2 SLP280 T10441072
KPIT 040951Z 22004KT 10SM FEW035 M03/M07 A3029 RMK AO2 SLP278 T10331067
KPIT 040851Z 00000KT 10SM FEW023 M02/M07 A3031 RMK AO2 SLP280 T10221067 58005
KPIT 040751Z 28005KT 10SM SCT025 M02/M07 A3033 RMK AO2 SLP287 T10221067
KPIT 040651Z 29008KT 10SM FEW030 M02/M07 A3032 RMK AO2 SLP283 T10221067
KPIT 040639Z 30009KT 10SM SCT029 M02/M07 A3032 RMK AO2 T10171067
KPIT 040551Z 28011KT 10SM OVC025 M01/M06 A3032 RMK AO2 SLP283 T10061056 10028 21011 50002
KPIT 040451Z 31009KT 10SM BKN029 00/M06 A3032 RMK AO2 SLP283 T00001056 401331011
KPIT 040411Z 29009KT 10SM BKN029 M01/M06 A3033 RMK AO2 T10061056
KPIT 040351Z 28009KT 10SM SCT028 SCT250 M01/M06 A3033 RMK AO2 SLP284 T10111056
KPIT 040251Z 25006KT 10SM BKN032 01/M05 A3032 RMK AO2 SLP281 T00061050 50007
KPIT 040151Z 26006KT 10SM OVC034 02/M04 A3032 RMK AO2 SLP283 T00171044
KPIT 040051Z 29007KT 10SM OVC031 02/M04 A3032 RMK AO2 SLP281 T00221039
KPIT 032351Z 27009KT 10SM OVC036 03/M03 A3029 RMK AO2 SLP273 T00281033 10117 20022 51034
KPIT 032251Z 28012KT 10SM FEW025 BKN033 03/M03 A3027 RMK AO2 SLP264 T00281028
KPIT 032151Z 28013G21KT 10SM FEW028 BKN037 03/M02 A3023 RMK AO2 PK WND 30027/2102 SLP252 T00331022
KPIT 032051Z 30016KT 10SM BKN030 BKN040 07/00 A3019 RMK AO2 SLP236 T00670000 51053
KPIT 031951Z 31016G32KT 10SM BKN040 08/00 A3014 RMK AO2 PK WND 32032/1944 SLP216 T00830000
KPIT 031851Z 31021G28KT 10SM SCT042 09/01 A3008 RMK AO2 PK WND 30032/1821 SLP197 T00940011
KPIT 031751Z 28019G34KT 10SM SCT033 SCT070 11/02 A3003 RMK AO2 PK WND 30037/1738 SLP177 60003 T01110017 10128 20094 53022
KPIT 031651Z 28023G33KT 10SM FEW014 SCT029 BKN048 13/06 A2999 RMK AO2 PK WND 26035/1630 RAE41 SLP162 P0000 T01280061
KPIT 031632Z 25020G35KT 10SM -RA SCT014 BKN025 OVC038 12/08 A2998 RMK AO2 PK WND 26035/1630 PRESRR P0000 T01220083
KPIT 031551Z 23015G24KT 10SM -RA BKN013 OVC022 12/09 A2996 RMK AO2 RAE26B49 SLP154 P0002 T01170094
KPIT 031451Z 23010G26KT 4SM -RA BR OVC010 11/09 A2996 RMK AO2 PK WND 21026/1448 DZE32RAB45 SLP154 P0000 60001 T01110094 56003
KPIT 031351Z 21014G21KT 6SM -DZ BR OVC011 11/09 A2996 RMK AO2 RAE37DZB37 SLP156 P0000 T01060089
KPIT 031251Z 21012KT 5SM -RA BR OVC011 10/08 A2996 RMK AO2 DZE17RAB17 SLP156 P0001 T01000083
KPIT 031151Z 22011KT 5SM -DZ BR FEW007 OVC012 09/08 A2997 RMK AO2 RAE50DZB50 SLP158 P0001 60019 70019 T00940078 10133 20083 56007
KPIT 031134Z 21011G20KT 5SM -RA BR FEW009 OVC014 09/08 A2997 RMK AO2 P0001 T00940078
KPIT 031051Z 20012KT 5SM -RA BR BKN016 OVC028 09/07 A2997 RMK AO2 SLP160 P0000 T00940072
KPIT 030951Z 21013G25KT 9SM -RA BKN028 OVC040 09/06 A2998 RMK AO2 SLP163 P0000 T00940061
KPIT 030938Z 21015G24KT 10SM -RA BKN029 OVC040 09/06 A2999 RMK AO2 P0000 T00940056
KPIT 030851Z 20012G18KT 9SM -RA OVC044 09/05 A2999 RMK AO2 SLP166 P0005 60018 T00890050 58002
KPIT 030751Z 21011G20KT 3SM +RA SCT030 OVC048 09/05 A3001 RMK AO2 SLP172 P0011 T00890050
KPIT 030651Z 21012KT 7SM -RA BKN049 OVC090 11/02 A3001 RMK AO2 RAB22 SLP172 P0002 T01060022
KPIT 030551Z 19012G22KT 10SM BKN060 OVC090 13/M04 A3000 RMK AO2 RAE32 SLP168 P0000 60000 T01281044 10133 20078 58027
KPIT 030451Z 20015G22KT 8SM -RA BKN060 OVC100 13/M06 A3005 RMK AO2 SLP186 P0000 T01281056 401281056
KPIT 030351Z 19008KT 10SM -RA SCT055 OVC090 12/M08 A3006 RMK AO2 RAB34 SLP192 P0000 T01171078
KPIT 030251Z 18006KT 10SM BKN065 OVC090 11/M10 A3008 RMK AO2 SLP201 T01061100 58020
KPIT 030151Z 15007KT 10SM BKN075 OVC100 09/M09 A3010 RMK AO2 SLP209 T00941089
KPIT 030051Z 17005KT 10SM BKN100 OVC200 09/M08 A3013 RMK AO2 SLP218 T00941078
KPIT 022351Z 14007KT 10SM BKN110 BKN230 09/M07 A3014 RMK AO2 SLP224 T00891067 10106 20056 56016
KPIT 022251Z 16005KT 10SM FEW090 BKN120 OVC250 09/M07 A3016 RMK AO2 SLP228 T00941067
KPIT 022151Z 15006KT 10SM BKN095 OVC250 09/M07 A3017 RMK AO2 SLP232 T00941072
KPIT 022051Z 17007KT 10SM SCT085 BKN110 OVC250 10/M07 A3019 RMK AO2 SLP241 T01001072 56023
KPIT 021951Z 18009KT 10SM BKN110 OVC250 10/M06 A3020 RMK AO2 SLP244 T01001061
KPIT 021851Z 16008KT 10SM BKN110 OVC250 08/M06 A3022 RMK AO2 SLP251 T00781061
KPIT 021751Z 17007KT 10SM BKN110 OVC250 06/M07 A3026 RMK AO2 SLP268 T00561067 10056 21039 58025
KPIT 021651Z 16005KT 10SM OVC110 04/M07 A3030 RMK AO2 SLP280 T00441067
KPIT 021551Z 18006KT 10SM FEW060 OVC110 02/M07 A3032 RMK AO2 SLP290 T00221067
KPIT 021451Z 14005KT 10SM FEW060 BKN110 00/M07 A3034 RMK AO2 SLP297 T00001067 56002
KPIT 021351Z 13004KT 10SM BKN100 M02/M06 A3034 RMK AO2 SLP297 T10171061
KPIT 021251Z 00000KT 10SM SCT110 SCT250 M03/M07 A3034 RMK AO2 SLP297 T10331072
KPIT 021151Z 14003KT 10SM SCT110 M03/M07 A3034 RMK AO2 SLP298 T10331067 11028 21056 57011
KPIT 021051Z 13003KT 10SM FEW060 OVC110 M03/M07 A3035 RMK AO2 SLP302 T10281067
KPIT 020951Z 00000KT 10SM FEW060 OVC110 M03/M07 A3037 RMK AO2 SLP307 T10331072
KPIT 020851Z 00000KT 10SM OVC110 M03/M08 A3038 RMK AO2 SLP309 T10331078 56008
KPIT 020751Z 12004KT 10SM SCT110 M05/M08 A3038 RMK AO2 SLP310 T10501083
KPIT 020651Z 18004KT 10SM FEW100 M04/M08 A3039 RMK AO2 SLP313 T10441083

KSAN 070551Z 00000KT 10SM SCT028 BKN140 12/08 A3011 RMK AO2 SLP196 T01220078 10156 20122 53012
KSAN 070451Z 30003KT 10SM FEW025 SCT140 BKN250 13/08 A3009 RMK AO2 SLP190 T01330078
KSAN 070351Z 30003KT 10SM FEW025 BKN140 BKN200 14/08 A3009 RMK AO2 SLP188 T01440083
KSAN 070251Z 30004KT 10SM FEW025 BKN130 BKN200 14/08 A3008 RMK AO2 SLP184 T01440083 51011
KSAN 070151Z 31004KT 10SM FEW025 BKN130 BKN200 14/09 A3007 RMK AO2 SLP181 T01440089
KSAN 070051Z 30003KT 10SM SCT025 BKN110 BKN250 15/09 A3006 RMK AO2 SLP177 T01500089
KSAN 062351Z VRB04KT 10SM SCT025 BKN120 BKN250 16/09 A3004 RMK AO2 SLP173 T01560089 10172 20150 58003
KSAN 062251Z 31006KT 10SM FEW020 SCT040 BKN130 16/08 A3005 RMK AO2 SLP175 T01610083
KSAN 062224Z 30007KT 10SM FEW020 SCT040 BKN130 16/09 A3005 RMK AO2 T01610089
KSAN 062151Z 28007KT 10SM BKN026 BKN040 BKN130 16/09 A3005 RMK AO2 SLP174 T01610089
KSAN 062131Z 29008KT 10SM BKN026 BKN040 BKN140 16/09 A3005 RMK AO2 T01610089
KSAN 062051Z 28009G14KT 10SM SCT026 BKN040 BKN140 BKN250 17/08 A3005 RMK AO2 SLP176 T01720083 58020
KSAN 062021Z 30007KT 10SM SCT026 BKN040 BKN250 17/08 A3006 RMK AO2 T01670083
KSAN 061951Z 27007KT 10SM BKN026 BKN040 BKN250 17/09 A3007 RMK AO2 SLP182 T01670089
KSAN 061851Z 23006KT 10SM BKN021 BKN031 BKN042 17/09 A3010 RMK AO2 SLP191 T01670094
KSAN 061810Z 17004KT 10SM BKN021 BKN040 BKN250 16/09 A3011 RMK AO2 T01560094
KSAN 061751Z VRB03KT 10SM SCT022 BKN043 16/10 A3011 RMK AO2 SLP196 60000 T01560100 10156 20122 51014
KSAN 061651Z 16004KT 10SM SCT021 BKN030 BKN050 14/09 A3010 RMK AO2 SLP194 T01440094
KSAN 061605Z 09005KT 10SM SCT021 BKN036 BKN050 14/09 A3009 RMK AO2 T01390094
KSAN 061551Z 12004KT 10SM BKN021 BKN035 BKN050 14/09 A3009 RMK AO2 SLP187 T01390094
KSAN 061509Z 11004KT 10SM BKN021 BKN035 BKN050 13/09 A3008 RMK AO2 T01330094
KSAN 061451Z VRB04KT 10SM SCT023 BKN037 BKN048 13/09 A3007 RMK AO2 RAB08E25 SLP182 P0000 60000 T01330094 53007
KSAN 061351Z 00000KT 10SM FEW035 BKN055 BKN250 13/10 A3006 RMK AO2 SLP177 T01280100
KSAN 061251Z 07003KT 10SM FEW026 BKN040 12/10 A3004 RMK AO2 RAE17 SLP173 VCSH P0000 T01220100
KSAN 061235Z 06005KT 10SM SCT023 BKN035 12/10 A3005 RMK AO2 RAE17 VCSH P0000 T01220100
KSAN 061151Z 06003KT 9SM -RA BKN022 OVC035 13/09 A3005 RMK AO2 RAB1059 SLP175 P0000 60000 70001 T01280089 10139 20128 50001
KSAN 061058Z 10005KT 10SM FEW020 BKN027 BKN035 13/08 A3006 RMK AO2 T01330083
KSAN 061051Z 09005KT 10SM SCT025 BKN037 13/08 A3006 RMK AO2 SLP177 T01330083
KSAN 061031Z 11005KT 10SM SCT025 BKN040 13/08 A3006 RMK AO2 T01280083
KSAN 060951Z 10004KT 10SM BKN025 BKN035 13/08 A3006 RMK AO2 SLP177 T01280083
KSAN 060851Z 11004KT 10SM BKN025 BKN035 13/08 A3005 RMK AO2 SLP174 T01280083 58006
KSAN 060808Z COR 09005KT 10SM BKN025 BKN036 BKN250 13/08 A3005 RMK AO2 T01330083
KSAN 060751Z 10003KT 10SM FEW025 BKN045 BKN250 13/08 A3005 RMK AO2 SLP176 T01280083 401830128
KSAN 060651Z 11003KT 10SM FEW025 BKN045 BKN250 13/08 A3006 RMK AO2 SLP178 T01330083
KSAN 060638Z 00000KT 10SM SCT025 BKN045 BKN250 13/08 A3006 RMK AO2 T01330083
KSAN 060551Z 00000KT 10SM BKN025 BKN043 BKN250 13/09 A3006 RMK AO2 SLP180 T01330089 10161 20133 51009
KSAN 060451Z 27003KT 10SM BKN028 BKN037 BKN250 14/08 A3006 RMK AO2 SLP178 T01440083
KSAN 060351Z 00000KT 10SM BKN025 BKN040 BKN250 14/08 A3005 RMK AO2 SLP175 T01390083
KSAN 060251Z 30003KT 10SM BKN028 BKN037 BKN250 14/08 A3004 RMK AO2 SLP171 T01440083 53007
KSAN 060151Z 30004KT 10SM BKN025 BKN250 14/08 A3003 RMK AO2 SLP167 T01440083
KSAN 060051Z 31005KT 10SM BKN020 BKN250 15/08 A3002 RMK AO2 SLP165 T01500083
KSAN 060040Z 31006KT 10SM BKN020 BKN250 15/09 A3002 RMK AO2 T01500089
KSAN 052351Z 29011KT 10SM SCT016 BKN250 16/09 A3002 RMK AO2 SLP164 T01610089 10183 20156
KSAN 052251Z COR 30007KT 10SM FEW022 BKN250 15/08 A3001 RMK AO2 T01610083
KSAN 052151Z 30010KT 10SM FEW022 SCT035 BKN250 17/09 A3002 RMK AO2 SLP166 T01720089
KSAN 052051Z 31010G16KT 10SM SCT021 SCT035 BKN250 18/10 A3004 RMK AO2 SLP172 T01780100 58020
KSAN 051951Z 31007KT 10SM SCT016 BKN250 18/11 A3006 RMK AO2 SLP177 T01830111
KSAN 051851Z 31005KT 10SM FEW010 SCT016 SCT250 18/11 A3009 RMK AO2 SLP187 T01780111
KSAN 051751Z 29003KT 10SM SCT016 SCT250 17/12 A3010 RMK AO2 SLP192 60001 T01720117 10172 20144 50002
KSAN 051747Z 30005KT 10SM SCT016 BKN250 17/12 A3010 RMK AO2
KSAN 051651Z 31005KT 10SM SCT009 BKN014 BKN250 17/13 A3010 RMK AO2 SLP193 T01670133
KSAN 051649Z 29003KT 10SM SCT009 BKN014 BKN250 17/13 A3010 RMK AO2
KSAN 051605Z 00000KT 10SM SCT004 BKN016 BKN019 15/14 A3009 RMK AO2 T01500144
KSAN 051551Z 34003KT 10SM SCT006 BKN014 BKN022 15/14 A3009 RMK AO2 SLP190 P0001 T01500139
KSAN 051518Z 30006KT 9SM FEW005 BKN011 BKN019 15/14 A3009 RMK AO2 T01500139
KSAN 051455Z 30003KT 5SM BR SCT005 BKN009 OVC011 15/14 A3008 RMK AO2 T01500139
KSAN 051453Z COR 30003KT 5SM BR SCT005 BKN009 OVC011 15/14 A3008 RMK AO2 T01500139
KSAN 051451Z 30003KT 5SM BR BKN005 OVC011 15/14 A3008 RMK AO2 RAE40 SLP186 P0000 60000 T01500139 53008
KSAN 051432Z 29004KT 4SM -RA BR BKN005 OVC012 15/14 A3007 RMK AO2 P0000 T01500139
KSAN 051351Z 00000KT 4SM RA SCT008 BKN012 OVC018 15/13 A3007 RMK AO2 RAB32 SLP181 P0000 T01500133
KSAN 051341Z 00000KT 3SM -RA BR SCT008 BKN012 OVC018 15/13 A3006 RMK AO2 RAB32 P0000 T01500133
KSAN 051305Z 00000KT 6SM BR BKN008 OVC012 16/13 A3005 RMK AO2 T01560133
KSAN 051251Z 00000KT 10SM BKN010 OVC023 15/13 A3005 RMK AO2 SLP175 T01500128
KSAN 051151Z 00000KT 10SM FEW007 OVC025 15/13 A3006 RMK AO2 SLP177 T01500128 10161 20144 58004
KSAN 051122Z 00000KT 10SM BKN027 BKN034 15/12 A3006 RMK AO2 T01500122
KSAN 051051Z 00000KT 10SM OVC034 16/13 A3006 RMK AO2 SLP179 T01560128
KSAN 051037Z 00000KT 9SM SCT027 OVC033 16/13 A3007 RMK AO2 T01560128
KSAN 051014Z 22003KT 10SM BKN025 OVC032 16/13 A3007 RMK AO2 T01610133
KSAN 050951Z 19003KT 10SM OVC034 16/12 A3006 RMK AO2 SLP180 T01610122
KSAN 050851Z 00000KT 10SM BKN036 16/12 A3007 RMK AO2 SLP181 T01560122 58006
KSAN 050751Z 00000KT 10SM BKN039 16/13 A3009 RMK AO2 SLP187 T01560128 401830100
KSAN 050651Z 00000KT 10SM OVC040 16/13 A3009 RMK AO2 SLP188 T01560128
KSAN 050551Z 32004KT 10SM FEW008 SCT045 16/13 A3009 RMK AO2 SLP188 T01560128 10167 20156 58003
KSAN 050451Z 00000KT 10SM FEW008 BKN044 BKN055 17/13 A3010 RMK AO2 SLP191 T01670128
KSAN 050351Z 00000KT 10SM FEW008 BKN044 16/13 A3010 RMK AO2 SLP192 T01610128
KSAN 050251Z 00000KT 10SM FEW008 BKN050 16/13 A3010 RMK AO2 SLP191 T01560133 53004
KSAN 050151Z 00000KT 10SM FEW008 FEW060 SCT200 16/13 A3008 RMK AO2 SLP187 T01560133
KSAN 050117Z 32005KT 10SM FEW008 FEW060 SCT250 16/13 A3008 RMK AO2 T01560133
KSAN 050051Z 30005KT 10SM FEW010 SCT055 SCT250 16/13 A3008 RMK AO2 SLP186 T01610133
KSAN 042351Z 31006KT 10SM FEW010 BKN050 BKN250 17/13 A3009 RMK AO2 SLP187 T01670133 10183 20161 56006
KSAN 042251Z 31008KT 10SM FEW010 BKN050 BKN250 18/13 A3009 RMK AO2 SLP187 T01780128
KSAN 042151Z 30009KT 10SM FEW008 BKN050 BKN250 17/13 A3009 RMK AO2 SLP190 T01720128
KSAN 042127Z 30011G16KT 10SM FEW008 FEW050 SCT250 18/13 A3010 RMK AO2 T01780128
KSAN 042051Z 30010KT 10SM SCT050 18/13 A3010 RMK AO2 SLP193 T01780128 56021
KSAN 041951Z 30008KT 10SM FEW008 SCT050 17/12 A3012 RMK AO2 SLP199 T01720122
KSAN 041851Z VRB06KT 10SM FEW008 SCT050 SCT250 18/12 A3014 RMK AO2 SLP207 T01780122
KSAN 041751Z 00000KT 10SM FEW008 SCT050 SCT250 17/11 A3016 RMK AO2 SLP214 T01670111 10172 20100 51010
KSAN 041651Z 00000KT 10SM FEW003 BKN250 15/11 A3016 RMK AO2 SLP214 T01500106
KSAN 041551Z 33003KT 10SM FEW003 FEW050 BKN250 12/09 A3015 RMK AO2 SLP209 T01170089
KSAN 041451Z 00000KT 10SM FEW002 FEW050 BKN250 10/08 A3013 RMK AO2 SLP204 T01000083 53011
KSAN 041351Z 00000KT 6SM BR FEW002 11/10 A3012 RMK AO2 SLP198 T01110100
KSAN 041251Z 00000KT 5SM BR FEW002 11/10 A3010 RMK AO2 SLP192 T01110100
KSAN 041231Z 00000KT 3SM R09/5000VP6000FT BR SCT002 12/11 A3010 RMK AO2 T01220111
KSAN 041223Z 00000KT 2SM R09/2200VP6000FT BR SCT002 12/11 A3010 RMK AO2 T01220111
KSAN 041215Z 00000KT 1SM R09/1400V2600FT BR BKN004 12/11 A3010 RMK AO2 T01220111
KSAN 041207Z 33003KT 1 1/2SM R09/1400V2800FT BR BKN004 12/11 A3010 RMK AO2 T01220111
KSAN 041151Z 00000KT 2SM R09/4500VP6000FT BR OVC004 12/11 A3010 RMK AO2 SLP192 T01220111 10139 20122 58003
KSAN 041147Z 00000KT 2SM R09/5500VP6000FT BR OVC004 13/12 A3010 RMK AO2
KSAN 041129Z 00000KT 1 1/4SM R09/5000VP6000FT BR OVC004 13/12 A3010 RMK AO2 T01280117
KSAN 041126Z 03003KT 1 1/2SM R09/5000VP6000FT BR OVC004 13/12 A3010 RMK AO2 T01330117
KSAN 041124Z 05003KT 2SM R09/6000VP6000FT BR OVC004 13/12 A3010 RMK AO2 T01330122
KSAN 041051Z 00000KT 5SM BR OVC007 13/12 A3011 RMK AO2 SLP195 T01330122
KSAN 040951Z 00000KT 7SM OVC007 14/13 A3011 RMK AO2 SLP194 T01390128
KSAN 040938Z 00000KT 6SM BR OVC008 14/13 A3011 RMK AO2 T01390128
KSAN 040858Z 00000KT 3SM BR BKN006 BKN200 14/13 A3011 RMK AO2 VIS SW-W 2 T01390128
KSAN 040851Z 36003KT 4SM BR SCT004 SCT250 14/12 A3011 RMK AO2 SLP196 VIS SW-W 2 T01390122 55003
KSAN 040751Z 00000KT 5SM BR FEW008 FEW250 12/11 A3011 RMK AO2 SLP195 T01220111 401940100
KSAN 040651Z 00000KT 6SM BR FEW008 FEW250 13/11 A3011 RMK AO2 SLP196 T01280111
KSAN 040551Z 00000KT 5SM BR FEW008 SCT250 13/12 A3012 RMK AO2 SLP199 T01330117 10172 20133 53007
KSAN 040541Z 00000KT 6SM BR FEW008 13/12 A3012 RMK AO2 T01330122
KSAN 040451Z 35003KT 7SM FEW250 14/12 A3011 RMK AO2 SLP196 T01390122
KSAN 040351Z 35004KT 8SM FEW008 SCT250 15/13 A3010 RMK AO2 SLP193 T01500133
KSAN 040315Z 35005KT 9SM FEW008 SCT250 16/13 A3010 RMK AO2 T01560133
KSAN 040251Z 00000KT 9SM SCT250 15/12 A3010 RMK AO2 SLP192 T01500122 51010
KSAN 040151Z 31004KT 10SM SCT250 15/13 A3009 RMK AO2 SLP188 T01500128
KSAN 040051Z 32003KT 10SM BKN250 16/13 A3009 RMK AO2 SLP187 T01610133
KSAN 032351Z 30006KT 10SM BKN250 17/13 A3007 RMK AO2 SLP182 T01720133 10194 20167 53002
KSAN 032251Z 31008KT 10SM BKN250 17/13 A3006 RMK AO2 SLP179 T01720128
KSAN 032151Z 30006KT 10SM BKN250 18/12 A3006 RMK AO2 SLP179 T01780117
KSAN 032051Z 28005KT 10SM BKN250 19/09 A3006 RMK AO2 SLP180 T01890089 57024
KSAN 031951Z 28006KT 10SM FEW150 BKN250 19/10 A3009 RMK AO2 SLP187 T01890100
KSAN 031851Z 00000KT 10SM BKN250 18/10 A3011 RMK AO2 SLP197 T01780100
KSAN 031751Z 35003KT 10SM BKN250 17/11 A3014 RMK AO2 SLP204 T01670106 10167 20100 51017
KSAN 031651Z 00000KT 10SM BKN250 14/09 A3013 RMK AO2 SLP203 T01390094
KSAN 031551Z 00000KT 10SM BKN200 BKN250 12/09 A3011 RMK AO2 SLP195 T01170089
KSAN 031451Z 00000KT 10SM BKN250 11/08 A3009 RMK AO2 SLP188 T01110083 53005
KSAN 031353Z 00000KT 10SM BKN250 11/08 A3008 RMK AO2 T01060083
KSAN 031351Z AUTO 00000KT 10SM BKN250 11/08 A3008 RMK AO2 SLP184 T01060083
KSAN 031251Z 33004KT 10SM BKN250 11/09 A3007 RMK AO2 SLP182 T01060089
KSAN 031151Z 34003KT 10SM BKN250 11/09 A3007 RMK AO2 SLP183 T01110089 10144 20111 58004
KSAN 031051Z 00000KT 10SM BKN250 12/09 A3008 RMK AO2 SLP186 T01170094
KSAN 030951Z 00000KT 10SM SCT200 BKN250 12/09 A3009 RMK AO2 SLP187 T01170094
KSAN 030851Z 00000KT 10SM SCT200 BKN250 12/10 A3009 RMK AO2 SLP187 T01220100 56006
KSAN 030751Z 05003KT 10SM SCT200 BKN250 13/10 A3009 RMK AO2 SLP188 T01280100 402060106
KSAN 030651Z 00000KT 10SM SCT200 BKN250 14/11 A3010 RMK AO2 SLP191 T01440111
KSAN 030551Z 36003KT 10SM FEW200 BKN250 14/11 A3010 RMK AO2 SLP193 T01440111 10161 20144 51006
KSAN 030451Z 34004KT 10SM FEW200 OVC250 15/11 A3010 RMK AO2 SLP193 T01500106
KSAN 030351Z 34005KT 10SM FEW200 BKN250 16/11 A3009 RMK AO2 SLP190 T01560106
KSAN 030251Z 35005KT 10SM FEW200 BKN250 16/11 A3008 RMK AO2 SLP187 T01560106 53004
KSAN 030151Z 32007KT 10SM SCT180 BKN250 16/10 A3008 RMK AO2 SLP184 T01560100
KSAN 030051Z 32009KT 10SM BKN180 BKN250 16/10 A3007 RMK AO2 SLP183 T01560100
KSAN 022351Z 31008KT 10SM FEW040 BKN180 BKN250 16/09 A3007 RMK AO2 SLP182 T01610094 10206 20161 56009
KSAN 022251Z 30010KT 10SM FEW040 SCT200 BKN250 17/09 A3008 RMK AO2 SLP184 T01720089
KSAN 022151Z 29010KT 10SM FEW040 FEW180 BKN250 18/08 A3009 RMK AO2 SLP187 T01780083
KSAN 022051Z 29007KT 10SM FEW050 BKN180 BKN250 18/08 A3010 RMK AO2 SLP192 T01830083 58023
KSAN 021951Z VRB06KT 10SM FEW020 BKN170 20/08 A3012 RMK AO2 SLP199 T02000078
KSAN 021851Z 36007KT 10SM FEW020 FEW050 BKN170 19/07 A3015 RMK AO2 SLP210 T01940067
KSAN 021751Z 04005KT 10SM FEW010 SCT050 BKN250 18/06 A3017 RMK AO2 SLP215 T01830061 10183 20106 50009
KSAN 021651Z 00000KT 10SM BKN050 BKN250 16/06 A3017 RMK AO2 SLP217 T01560056
KSAN 021551Z 00000KT 10SM BKN050 13/06 A3015 RMK AO2 SLP210 T01330061
KSAN 021451Z 00000KT 10SM BKN065 11/06 A3014 RMK AO2 SLP206 T01110056 53008
KSAN 021351Z 00000KT 10SM SCT065 11/06 A3013 RMK AO2 SLP203 T01110056
KSAN 021251Z 00000KT 10SM FEW065 12/06 A3011 RMK AO2 SLP197 T01220056
KSAN 021151Z COR 00000KT 10SM SCT041 13/06 A3012 RMK AO2 SLP198 T01280056 10156 20128 53004
KSAN 021051Z 10004KT 10SM BKN041 14/06 A3011 RMK AO2 SLP194 T01390056
KSAN 020951Z 11004KT 10SM BKN041 14/06 A3011 RMK AO2 SLP196 T01440061
KSAN 020851Z 14007KT 10SM BKN040 15/07 A3011 RMK AO2 SLP194 T01500067 58002
KSAN 020751Z VRB03KT 10SM BKN042 16/07 A3012 RMK AO2 SLP197 T01560072 401670133
KSAN 020651Z VRB03KT 10SM BKN045 16/07 A3012 RMK AO2 SLP200 T01560072

KSEA 070553Z 16005KT 6SM -RA BR BKN011 OVC019 05/03 A3017 RMK AO2 RAB28 SLP225 P0000 60000 T00500033 10056 20050 53007
KSEA 070544Z 16005KT 8SM -RA BKN011 OVC019 05/03 A3017 RMK AO2 RAB28 P0000 T00500028
KSEA 070453Z 17008KT 10SM FEW010 OVC018 05/03 A3016 RMK AO2 SLP222 T00500033
KSEA 070353Z 18006KT 10SM OVC017 05/03 A3015 RMK AO2 SLP220 T00500033
KSEA 070339Z 18006KT 10SM FEW012 BKN017 OVC034 05/03 A3015 RMK AO2 T00500033
KSEA 070253Z 19007KT 10SM BKN011 OVC020 05/03 A3015 RMK AO2 SLP218 60000 T00500033 53005
KSEA 070153Z 17008KT 10SM BKN012 OVC017 05/03 A3014 RMK AO2 DZE12 SLP216 P0000 T00500033
KSEA 070118Z 17007KT 10SM OVC010 05/03 A3014 RMK AO2 DZE12 P0000 T00500033
KSEA 070053Z 17008KT 10SM -DZ BKN008 OVC015 05/03 A3013 RMK AO2 DZB50 SLP214 P0000 T00500033
KSEA 070031Z 16005KT 10SM BKN008 OVC015 05/03 A3013 RMK AO2 T00500033
KSEA 062353Z 14005KT 10SM SCT010 OVC018 05/03 A3013 RMK AO2 SLP212 T00500033 10050 20039 55000
KSEA 062320Z 14006KT 10SM BKN013 OVC020 05/03 A3013 RMK AO2 T00500028
KSEA 062253Z 14007KT 10SM FEW010 OVC015 05/03 A3012 RMK AO2 SLP210 T00500028
KSEA 062237Z 14007KT 10SM SCT010 OVC015 05/03 A3013 RMK AO2 T00500028
KSEA 062153Z 16006KT 10SM OVC010 04/02 A3012 RMK AO2 SLP210 T00440022
KSEA 062053Z 15006KT 10SM BKN010 OVC020 04/03 A3013 RMK AO2 SLP213 T00390028 58003
KSEA 062034Z 16006KT 10SM BKN010 OVC020 04/02 A3013 RMK AO2 T00440022
KSEA 061953Z 18006KT 10SM BKN007 OVC015 04/03 A3014 RMK AO2 SLP214 T00440028
KSEA 061853Z 17006KT 10SM BKN007 BKN012 04/03 A3014 RMK AO2 SLP217 T00390028
KSEA 061800Z 15006KT 10SM BKN008 OVC013 04/02 A3014 RMK AO2 T00390022
KSEA 061753Z 15005KT 10SM FEW006 BKN015 OVC019 03/02 A3014 RMK AO2 SLP216 60002 T00330022 10039 20022 53015
KSEA 061653Z 15004KT 7SM FEW005 BKN015 BKN045 03/02 A3013 RMK AO2 SLP212 T00330022
KSEA 061553Z 14004KT 6SM BR SCT003 BKN017 OVC048 03/02 A3011 RMK AO2 RAE39 SLP204 P0000 T00280022
KSEA 061453Z 15005KT 6SM -RA BR FEW001 BKN015 OVC020 03/02 A3010 RMK AO2 SLP202 P0000 60002 T00280017 51006
KSEA 061435Z 14006KT 6SM -RA BCFG FEW001 BKN015 OVC020 03/02 A3010 RMK AO2 P0000 T00280017
KSEA 061353Z 16003KT 7SM -RA OVC011 03/02 A3009 RMK AO2 SLP199 P0002 T00280017
KSEA 061315Z 17003KT 6SM -RA BR FEW007 BKN011 OVC022 03/02 A3009 RMK AO2 P0001 T00280017
KSEA 061306Z 17004KT 5SM -RA BR FEW007 OVC022 03/02 A3009 RMK AO2 P0000 T00280017
KSEA 061253Z 17003KT 6SM -RA BR OVC024 03/02 A3009 RMK AO2 RAE17B48 SLP199 P0000 T00280017
KSEA 061206Z 14004KT 6SM -RA BR BKN028 OVC034 02/02 A3008 RMK AO2 P0000 T00220017
KSEA 061153Z 16004KT 7SM -RA OVC034 03/02 A3008 RMK AO2 RAB50 SLP195 P0000 60000 T00280017 10028 20022 50001
KSEA 061053Z 16005KT 9SM BKN034 OVC049 02/01 A3009 RMK AO2 RAE11 SLP198 P0000 T00220011
KSEA 060953Z 19003KT 10SM -RA FEW030 OVC038 03/01 A3009 RMK AO2 RAE16B43 SLP198 P0000 T00280011
KSEA 060943Z 00000KT 10SM -RA SCT030 OVC038 03/01 A3008 RMK AO2 RAE16B43 P0000 T00280011
KSEA 060853Z 00000KT 7SM -RA BKN025 OVC035 03/01 A3008 RMK AO2 SLP195 P0000 60000 T00280006 51007
KSEA 060845Z 03003KT 10SM -RA BKN025 OVC033 03/01 A3008 RMK AO2 P0000 T00280006
KSEA 060823Z 00000KT 10SM -RA OVC033 03/01 A3007 RMK AO2 P0000 T00280011
KSEA 060753Z 02003KT 9SM -RA BKN023 OVC036 02/01 A3008 RMK AO2 RAE0654B51 SLP194 P0000 T00220011 400500017
KSEA 060653Z 07005KT 8SM -RA BKN020 OVC033 03/01 A3007 RMK AO2 SLP191 RAB27 P0000 T00280011
KSEA 060553Z 01007KT 10SM FEW021 OVC030 03/01 A3006 RMK AO2 SLP187 60000 T00280006 10039 20028 53010
KSEA 060524Z 01006KT 10SM FEW010 SCT019 OVC032 03/01 A3005 RMK AO2 T00280011
KSEA 060509Z 01006KT 10SM SCT009 BKN019 OVC032 03/01 A3005 RMK AO2 T00280011
KSEA 060453Z 36005KT 10SM OVC009 03/01 A3005 RMK AO2 SLP184 T00280011
KSEA 060353Z 03006KT 8SM OVC009 04/02 A3003 RMK AO2 SLP179 T00390017
KSEA 060325Z 36005KT 9SM BKN008 OVC011 03/02 A3003 RMK AO2 T00330022
KSEA 060253Z 36004KT 9SM OVC010 03/02 A3003 RMK AO2 SLP177 60000 T00330022 53003
KSEA 060153Z 00000KT 7SM FEW006 BKN010 OVC030 03/02 A3002 RMK AO2 DZE49 SLP174 P0000 T00330022
KSEA 060053Z 01003KT 5SM -DZ BR FEW006 OVC012 03/02 A3001 RMK AO2 SLP172 P0000 T00330022
KSEA 052353Z 35004KT 4SM -DZ BR FEW007 OVC013 03/02 A3002 RMK AO2 SLP173 P0000 60000 T00330017 10050 20028 53002
KSEA 052316Z 36004KT 6SM -DZ BR OVC010 04/02 A3001 RMK AO2 P0000 T00390017
KSEA 052253Z VRB03KT 6SM -DZ BR BKN009 OVC016 04/02 A3001 RMK AO2 SLP171 P0000 T00390017
KSEA 052238Z 00000KT 5SM -DZ BKN009 OVC018 04/02 A3001 RMK AO2 P0000 T00440017
KSEA 052216Z VRB03KT 7SM -DZ SCT009 OVC017 04/02 A3000 RMK AO2 P0000 T00440017
KSEA 052153Z 00000KT 8SM -DZ BKN019 OVC033 04/01 A3000 RMK AO2 DZB49 SLP169 P0000 T00390011
KSEA 052053Z 01003KT 10SM BKN015 OVC035 04/01 A3001 RMK AO2 SLP171 T00440011 58005
KSEA 052047Z 34003KT 10SM BKN015 OVC035 04/01 A3001 RMK AO2
KSEA 051953Z 31003KT 10SM FEW022 OVC035 04/01 A3001 RMK AO2 SLP173 T00440006
KSEA 051853Z 00000KT 10SM FEW010 SCT028 OVC037 04/01 A3002 RMK AO2 SLP176 T00390011
KSEA 051753Z 02004KT 10SM FEW010 SCT028 BKN037 03/01 A3002 RMK AO2 SLP176 T00330011 10033 20017 53005
KSEA 051653Z 05004KT 10SM FEW010 BKN033 BKN045 03/00 A3001 RMK AO2 SLP172 T00280000
KSEA 051553Z 03005KT 9SM FEW005 OVC033 02/01 A3001 RMK AO2 SLP173 T00220011
KSEA 051453Z 03004KT 5SM BR SCT001 OVC033 02/01 A3001 RMK AO2 SLP172 T00220011 53001
KSEA 051432Z 03004KT 1/2SM R16L/P6000FT BR SCT001 OVC031 02/01 A3001 RMK AO2 SFC VIS 3 T00220006
KSEA 051355Z 03005KT 1/2SM R16L/P6000FT BR BKN001 OVC030 02/01 A3001 RMK AO2 SFC VIS 1 T00170006
KSEA 051353Z 03006KT 1/2SM R16L/P6000FT BKN001 OVC030 02/01 A3001 RMK AO2 SFC VIS 1 SLP171 T00170006
KSEA 051341Z 03005KT 1 1/2SM BKN001 OVC030 02/01 A3000 RMK AO2 TWR VIS 4 T00220006
KSEA 051333Z 03003KT 2SM FEW001 OVC030 02/01 A3000 RMK AO2 TWR VIS 4 T00170006
KSEA 051253Z 00000KT 9SM OVC032 02/01 A3000 RMK AO2 SLP168 T00170011
KSEA 051158Z 15003KT 4SM BR FEW002 OVC032 02/01 A3000 RMK AO2 VIS N-NE 2 T00170011
KSEA 051153Z 00000KT 6SM FEW002 OVC032 02/01 A3000 RMK AO2 SLP170 VIS N-NE 2 70031 T00170011 10028 20017 58001
KSEA 051133Z 04003KT 5SM BR FEW002 OVC032 02/01 A3000 RMK AO2 VIS N-NE 1 T00170006
KSEA 051111Z 09004KT 1/2SM R16L/1800VP6000FT FG SCT002 OVC032 02/01 A3001 RMK AO2 TWR VIS 10 T00170006
KSEA 051053Z 00000KT 7SM SCT002 OVC033 02/01 A3001 RMK AO2 SLP173 VIS E-S 2 T00170006
KSEA 050953Z 00000KT 7SM FEW005 BKN031 OVC045 02/01 A3001 RMK AO2 SLP172 T00170011
KSEA 050853Z 04006KT 5SM BR FEW005 OVC033 02/01 A3001 RMK AO2 SLP171 VIS SE-S 2 T00220006 50002
KSEA 050840Z 03006KT 5SM BR FEW002 OVC033 02/01 A3001 RMK AO2 VIS SE-S 2 T00220006
KSEA 050753Z 03004KT 2SM BR FEW002 OVC034 02/01 A3001 RMK AO2 SLP174 VIS 1 1/2V3 T00220006 400330000
KSEA 050653Z 05005KT 2SM BR FEW002 BKN030 OVC038 02/01 A3000 RMK AO2 SLP170 T00220006
KSEA 050645Z 05005KT 2SM BR FEW002 BKN030 OVC038 02/01 A3000 RMK AO2 T00220006
KSEA 050553Z 04003KT 7SM SCT025 BKN040 OVC095 02/01 A3000 RMK AO2 SLP169 60003 T00220006 10028 20011 51007
KSEA 050532Z 03004KT 8SM FEW027 OVC095 02/01 A3000 RMK AO2 T00220006
KSEA 050453Z 00000KT 9SM FEW009 OVC028 02/01 A2999 RMK AO2 SLP167 T00220011
KSEA 050430Z 00000KT 10SM SCT009 BKN029 OVC095 02/01 A2999 RMK AO2 T00170006
KSEA 050353Z 02004KT 9SM BKN021 OVC090 02/00 A2999 RMK AO2 SLP166 T00170000
KSEA 050253Z 00000KT 7SM FEW004 SCT070 OVC090 02/00 A2998 RMK AO2 RAE25 SLP162 P0000 60003 T00170000 50002
KSEA 050248Z 00000KT 7SM FEW004 SCT070 OVC090 02/00 A2998 RMK AO2 RAE25 P0000
KSEA 050153Z 00000KT 10SM -RA OVC040 02/00 A2997 RMK AO2 SLP160 P0001 T00170000
KSEA 050053Z 11006KT 10SM -RA OVC034 02/00 A2997 RMK AO2 SLP160 P0002 T00220000
KSEA 042353Z 09007KT 8SM -RA OVC031 02/00 A2997 RMK AO2 SLP158 P0001 60028 T00220000 10033 20000 53004
KSEA 042305Z 08006KT 5SM -RA BR FEW025 OVC034 01/00 A2996 RMK AO2 P0000 T00110000
KSEA 042253Z 06004KT 6SM -RA BR BKN025 OVC034 01/00 A2996 RMK AO2 RAB09SNE09 SLP156 P0003 T00110000
KSEA 042201Z 13004KT 3SM R16L/3000VP6000FT -SN BR OVC020 01/M01 A2995 RMK AO2 P0001 T00111006
KSEA 042153Z 00000KT 2 1/2SM -SN BR OVC016 01/00 A2995 RMK AO2 SLP153 P0013 T00060000
KSEA 042150Z 00000KT 2 1/2SM -SN BR FEW004 OVC016 01/00 A2995 RMK AO2 P0013
KSEA 042143Z 00000KT 1SM R16L/4000VP6000FT -SN BR FEW004 OVC016 01/00 A2996 RMK AO2 P0012 T00060000
KSEA 042130Z 00000KT 1SM R16L/2600VP6000FT -SN BR FEW003 OVC012 01/M01 A2996 RMK AO2 P0009 T00061006
KSEA 042057Z 35004KT 1SM R16L/4500VP6000FT -SN BR FEW010 OVC014 01/M01 A2997 RMK AO2 P0001 T00061006
KSEA 042053Z 35003KT 2SM -SN BR FEW010 OVC014 01/M01 A2997 RMK AO2 SLP158 P0007 60011 T00061006 50004
KSEA 042047Z 35003KT 2SM -SN BR FEW010 OVC016 01/M01 A2997 RMK AO2 P0005
KSEA 042029Z 01006KT 3SM -SN BR OVC018 01/M01 A2997 RMK AO2 P0003 T00111006
KSEA 042018Z 02006KT 2SM -SN OVC020 02/M01 A2997 RMK AO2 P0002 T00171011
KSEA 042007Z 04005KT 3SM -SN FEW017 BKN024 OVC043 02/M01 A2997 RMK AO2 P0001 T00171011
KSEA 041953Z 07005KT 8SM -SN SCT034 BKN043 OVC070 02/M01 A2997 RMK AO2 SNB51 SLP158 P0000 T00221006
KSEA 041853Z 36006KT 10SM BKN038 OVC065 02/M01 A2996 RMK AO2 RAB12E42SNE12 SLP154 P0004 T00171006
KSEA 041753Z 02008KT 10SM -SN BKN042 OVC055 02/M02 A2996 RMK AO2 SNB50 SLP154 P0000 60000 T00221017 10028 20000 55000
KSEA 041653Z 02011KT 10SM FEW020 SCT070 OVC100 02/M02 A2996 RMK AO2 SLP155 T00221017
KSEA 041553Z 01011KT 10SM FEW020 SCT090 OVC100 02/M02 A2995 RMK AO2 SLP153 T00171022
KSEA 041453Z 01009KT 10SM SCT070 OVC090 02/M03 A2996 RMK AO2 SLP154 T00171028 55008
KSEA 041353Z 01010KT 10SM BKN110 02/M03 A2995 RMK AO2 SLP152 T00171028
KSEA 041253Z 36011KT 10SM SCT100 SCT200 01/M03 A2996 RMK AO2 SLP155 T00061033
KSEA 041153Z 02013KT 10SM SCT100 BKN210 01/M03 A2998 RMK AO2 SLP161 4/001 T00061033 10022 20006 56024
KSEA 041053Z 02013KT 10SM SCT100 BKN200 01/M03 A3000 RMK AO2 SLP169 T00111028
KSEA 040953Z 02013KT 10SM FEW100 SCT200 01/M03 A3003 RMK AO2 SLP177 T00111028
KSEA 040853Z 03011KT 10SM FEW100 01/M03 A3005 RMK AO2 SLP186 T00111033 58016
KSEA 040753Z 03010KT 10SM CLR 01/M03 A3008 RMK AO2 SLP196 T00111033 400610006
KSEA 040653Z 02014KT 10SM CLR 02/M03 A3010 RMK AO2 SLP201 T00171033
KSEA 040553Z 36012KT 10SM CLR 02/M03 A3010 RMK AO2 SLP202 4/001 T00171028 10050 20017 57004
KSEA 040453Z 02012KT 10SM CLR 02/M02 A3010 RMK AO2 SLP203 T00221017
KSEA 040353Z 02009KT 10SM CLR 02/M01 A3011 RMK AO2 SLP205 T00171011
KSEA 040253Z 03011KT 10SM CLR 03/M01 A3011 RMK AO2 SLP206 T00281006 51006
KSEA 040153Z 02010KT 10SM CLR 03/M01 A3011 RMK AO2 SLP204 T00281006
KSEA 040053Z 03007KT 10SM FEW180 03/M01 A3011 RMK AO2 SLP205 T00281006
KSEA 032353Z COR 02011KT 10SM FEW030 SCT180 05/01 A3009 RMK AO2 SLP200 4/001 T00500006 10061 20039 56005
KSEA 032253Z 01011KT 10SM FEW030 SCT180 06/01 A3009 RMK AO2 SLP200 T00560011
KSEA 032153Z 01012KT 10SM FEW030 SCT180 06/01 A3009 RMK AO2 SLP200 T00610006
KSEA 032053Z 02010KT 10SM FEW030 SCT180 06/01 A3011 RMK AO2 SLP205 T00610006 50001
KSEA 031953Z 01008KT 10SM FEW030 FEW070 06/01 A3011 RMK AO2 SLP206 T00560006
KSEA 031853Z 33005KT 10SM FEW030 FEW070 05/01 A3012 RMK AO2 SLP209 T00500006
KSEA 031753Z 01005KT 10SM FEW070 04/00 A3011 RMK AO2 SLP204 4/002 60000 T00390000 10044 20011 53019
KSEA 031653Z 07009KT 10SM FEW065 04/M03 A3008 RMK AO2 SLP195 T00391028
KSEA 031553Z 09009KT 10SM FEW049 BKN070 03/M03 A3006 RMK AO2 SLP188 T00331028
KSEA 031453Z 09011KT 10SM SCT048 BKN070 OVC090 03/M02 A3005 RMK AO2 SLP185 60000 T00281017 53004
KSEA 031353Z 09013KT 10SM OVC060 02/M01 A3004 RMK AO2 RAE51 SLP183 P0000 T00221011
KSEA 031253Z 07015KT 10SM -RA SCT040 OVC050 02/M01 A3004 RMK AO2 RAB51SNE07 SLP183 P0000 T00171011
KSEA 031211Z 07011G23KT 10SM SCT035 OVC049 02/M01 A3004 RMK AO2 SNE07 P0000 T00171006
KSEA 031153Z 06010KT 9SM -SN SCT034 OVC049 01/M01 A3004 RMK AO2 RAE50 SLP182 4/002 P0000 60047 70052 T00111006 10022 20006 50005
KSEA 031100Z 07011KT 7SM -RASN FEW009 BKN033 OVC047 01/M01 A3003 RMK AO2 P0000 T00111006
KSEA 031053Z 07011KT 6SM -RASN FEW005 BKN028 OVC036 01/M01 A3004 RMK AO2 RAB49 SLP182 P0008 T00111006
KSEA 031040Z 07011KT 3SM -SN FEW005 SCT021 OVC026 01/M01 A3004 RMK AO2 P0008 T00111006
KSEA 031017Z 09009KT 2SM -SN FEW005 OVC019 01/M01 A3004 RMK AO2 P0004 T00061006
KSEA 030953Z 08010KT 1 1/4SM -SN SCT005 OVC017 01/M01 A3003 RMK AO2 SLP179 SNINCR 1/2 P0014 T00061006
KSEA 030943Z 08009KT 1SM R16L/P6000FT -SN SCT005 OVC017 01/M01 A3003 RMK AO2 P0013 T00061006
KSEA 030916Z 09011KT 1SM R16L/5500VP6000FT -SN VV012 01/M01 A3002 RMK AO2 P0006 T00061006
KSEA 030853Z 09009KT 3/4SM R16L/5000VP6000FT -SN VV011 01/M01 A3002 RMK AO2 SLP177 P0011 60025 T00061006 53008
KSEA 030828Z 09012G20KT 1SM R16L/P6000FT -SN SCT005 OVC011 01/M01 A3002 RMK AO2 P0006 T00061006
KSEA 030753Z 07011G20KT 3/4SM R16L/5500VP6000FT -SN VV008 02/M01 A3001 RMK AO2 SLP172 P0009 T00221006 400391028
KSEA 030725Z 07011G19KT 3/4SM R16L/4500VP6000FT -SN VV009 02/M01 A3001 RMK AO2 P0004 T00221006
KSEA 030653Z 09010KT 1SM R16L/P6000FT -SN VV011 01/M01 A3000 RMK AO2 SLP170 P0005 T00061011
KSEA 030647Z 09010KT 1SM R16L/P6000FT -SN VV011 01/M01 A3000 RMK AO2 P0004
KSEA 030628Z 09012KT 1 1/2SM -SN OVC013 01/M01 A3000 RMK AO2 P0002 T00111011
KSEA 030624Z 09011KT 1 1/2SM -SN OVC015 01/M01 A3000 RMK AO2 P0002 T00111011
KSEA 030553Z 09012KT 2SM -SN BR OVC017 01/M02 A2999 RMK AO2 SLP166 P0001 60004 T00111017 10033 20011 58000
KSEA 030546Z 09011KT 2SM -SN OVC018 02/M02 A2999 RMK AO2 P0001 T00171017
KSEA 030528Z 09009KT 3SM -SN OVC018 02/M02 A2999 RMK AO2 P0001 T00221017
KSEA 030453Z 10013KT 2SM -SN BR OVC018 02/M02 A2999 RMK AO2 SLP166 P0002 T00171017
KSEA 030434Z 09012KT 2SM -SN BR OVC018 02/M02 A2999 RMK AO2 P0001 T00221017
KSEA 030353Z 10009KT 2SM -SN OVC014 02/M02 A3000 RMK AO2 SNB06 SLP168 P0001 T00171017
KSEA 030319Z 12007KT 5SM -SN OVC026 02/M03 A3000 RMK AO2 SNB06 P0000 T00221028
KSEA 030253Z 11010KT 10SM OVC038 03/M03 A2999 RMK AO2 SLP167 T00281033 55003
KSEA 030153Z 11014KT 10SM BKN055 OVC100 03/M03 A2999 RMK AO2 SLP165 T00281028
KSEA 030053Z 10010KT 10SM FEW065 BKN110 OVC180 03/M03 A2998 RMK AO2 SLP163 T00281028
KSEA 022353Z 10008KT 10SM FEW048 SCT100 BKN180 03/M02 A3000 RMK AO2 SLP169 60000 T00331022 10039 20011 56012
KSEA 022253Z 11007KT 10SM SCT048 BKN060 OVC180 03/M02 A3001 RMK AO2 SLP173 T00331017
KSEA 022153Z 11011KT 10SM BKN047 BKN140 03/M02 A3002 RMK AO2 SLP177 T00331022
KSEA 022053Z 11008KT 7SM BKN060 OVC200 03/M02 A3003 RMK AO2 SNE32 SLP181 P0000 60000 T00331022 58009
KSEA 022033Z 12008KT 7SM OVC060 03/M02 A3004 RMK AO2 SNE32 P0000 T00331022
KSEA 021953Z VRB06G18KT 9SM -SN BKN055 OVC065 04/M02 A3005 RMK AO2 SNB48 SLP184 P0000 T00391017
KSEA 021853Z VRB03KT 10SM BKN065 OVC100 02/M02 A3007 RMK AO2 SLP192 T00221017
KSEA 021753Z 13005KT 10SM FEW020 BKN075 OVC120 01/M02 A3006 RMK AO2 SLP190 60001 T00111022 10017 21011 53007
KSEA 021653Z 12006KT 7SM FEW025 BKN060 OVC080 01/M02 A3006 RMK AO2 SNE36 SLP188 P0000 T00111022
KSEA 021636Z 12005KT 7SM FEW025 SCT050 BKN065 OVC150 01/M02 A3005 RMK AO2 SNE36 P0000 T00061022
KSEA 021553Z 14007KT 3SM -SN BR SCT025 BKN030 OVC050 01/M02 A3004 RMK AO2 SLP183 P0000 T00061017
KSEA 021514Z 13008KT 3SM -SN BR SCT025 OVC035 01/M02 A3004 RMK AO2 P0000 T00061017
KSEA 021453Z 13007KT 1SM R16L/P6000FT -SN BR BKN019 OVC040 00/M02 A3004 RMK AO2 TWR VIS 1 1/2 SLP183 P0001 60001 T00001022 53006
KSEA 021436Z 12007KT 1SM R16L/5500VP6000FT -SN BR BKN015 OVC031 00/M02 A3004 RMK AO2 TWR VIS 2 P0000 T00001022
KSEA 021353Z 14003KT 7SM -SN OVC037 00/M03 A3003 RMK AO2 SNB07 SLP179 P0000 T00001033
KSEA 021308Z 12006KT 10SM -SN OVC034 M01/M03 A3002 RMK AO2 SNB07 P0000 T10061033
KSEA 021253Z 12006KT 10SM OVC039 M01/M03 A3002 RMK AO2 SLP175 T10061033
KSEA 021203Z 11008KT 10SM SCT017 BKN037 OVC043 M01/M04 A3002 RMK AO2 T10111039
KSEA 021153Z 11008KT 10SM BKN019 OVC043 M01/M04 A3002 RMK AO2 SLP176 70002 T10111039 11011 21028 51013
KSEA 021053Z 12007KT 10SM OVC026 M02/M04 A3002 RMK AO2 SLP175 T10171039
KSEA 021035Z 12006KT 10SM BKN028 OVC033 M01/M04 A3001 RMK AO2 T10111039
KSEA 020953Z 11004KT 10SM BKN035 M02/M04 A3001 RMK AO2 SLP172 T10221044
KSEA 020853Z 00000KT 10SM FEW050 M03/M06 A2998 RMK AO2 SLP163 T10281056 53018
KSEA 020753Z 11005KT 10SM CLR M02/M06 A2996 RMK AO2 SLP155 T10171056 400281022
KSEA 020653Z 12004KT 10SM CLR M02/M06 A2994 RMK AO2 SLP149 T10171061

KSFO 070556Z VRB03KT 10SM FEW050 09/07 A3011 RMK AO2 SLP197 T00890067 10128 20089 51010
KSFO 070456Z 00000KT 10SM FEW050 09/07 A3011 RMK AO2 SLP196 T00940067
KSFO 070356Z 33003KT 10SM FEW050 11/09 A3010 RMK AO2 SLP191 T01110089
KSFO 070256Z 04004KT 10SM FEW050 12/08 A3008 RMK AO2 SLP187 T01170083 51010
KSFO 070156Z 05007KT 10SM FEW033 SCT050 12/08 A3007 RMK AO2 SLP183 T01220083
KSFO 070056Z 06006KT 10SM FEW033 SCT050 12/08 A3007 RMK AO2 SLP181 T01220083
KSFO 062356Z 04007KT 10SM FEW028 SCT050 SCT060 13/08 A3005 RMK AO2 SLP176 T01280083 10133 20106 55000
KSFO 062256Z 01008KT 10SM FEW028 SCT050TCU BKN200 13/08 A3005 RMK AO2 SLP175 TCU E T01280083
KSFO 062156Z 01005KT 10SM SCT050 13/08 A3005 RMK AO2 SLP175 CB ALQDS T01330083
KSFO 062056Z COR 33004KT 10SM SCT050 13/08 A3005 RMK AO2 SLP176 CB ALQDS T01330078 58005
KSFO 061956Z 00000KT 10SM FEW036 BKN065 12/08 A3006 RMK AO2 SLP180 CB ALQDS T01220078
KSFO 061856Z 00000KT 10SM FEW019 SCT040 11/07 A3008 RMK AO2 SLP184 T01110072
KSFO 061844Z 10004KT 10SM FEW018 BKN041 11/07 A3008 RMK AO2 T01110072
KSFO 061756Z 06007KT 10SM BKN025 BKN031 11/07 A3007 RMK AO2 SLP182 T01110072 10111 20083 51018
KSFO 061738Z 09007KT 10SM BKN025 BKN060 11/07 A3006 RMK AO2 T01110072
KSFO 061656Z 11003KT 10SM FEW025 SCT033 BKN048 10/07 A3005 RMK AO2 SLP177 T01000072
KSFO 061619Z 14004KT 10SM BKN023 BKN030 10/07 A3004 RMK AO2 T01000072
KSFO 061556Z 00000KT 10SM SCT024 BKN055 09/07 A3003 RMK AO2 SLP169 T00940072
KSFO 061509Z 17003KT 10SM BKN022 09/07 A3002 RMK AO2 T00890067
KSFO 061456Z 13003KT 10SM FEW023 SCT070 BKN090 09/07 A3002 RMK AO2 CIG 065 RWY L10 SLP164 T00890067 53008
KSFO 061356Z 16003KT 10SM BKN060 OVC095 09/07 A3000 RMK AO2 SLP159 T00890067
KSFO 061256Z 17004KT 10SM FEW065 SCT090 09/07 A2999 RMK AO2 SLP155 T00940072
KSFO 061156Z 16006KT 10SM BKN040 OVC055 09/08 A2999 RMK AO2 SLP156 60006 70012 T00940078 10111 20094 58000
KSFO 061056Z 15006KT 10SM BKN040 10/08 A3000 RMK AO2 RAE51 SLP157 P0000 T01000083
KSFO 060956Z 14006KT 10SM -RA BKN049 OVC060 10/08 A3000 RMK AO2 RAB17E27B49 SLP157 P0000 T01000083
KSFO 060856Z 15005KT 10SM BKN060 BKN070 OVC085 10/08 A2999 RMK AO2 SLP156 60006 T01000083 58006
KSFO 060756Z 19004KT 9SM BKN060 OVC070 11/09 A3000 RMK AO2 RAE23 SLP158 P0001 T01060089 401560100
KSFO 060656Z 15005KT 7SM -RA OVC050 11/08 A3001 RMK AO2 RAB01 SLP161 P0005 T01060083
KSFO 060556Z 14007KT 9SM SCT060 BKN080 OVC110 11/08 A3001 RMK AO2 RAB28E47 SLP162 P0000 60000 T01060078 10139 20100 50003
KSFO 060456Z 18003KT 10SM FEW100 SCT160 11/08 A3001 RMK AO2 SLP163 T01060083
KSFO 060356Z 00000KT 10SM FEW090 11/08 A3000 RMK AO2 SLP160 T01060083
KSFO 060256Z 19004KT 10SM FEW028 11/08 A3000 RMK AO2 SLP159 60000 T01110083 55001
KSFO 060156Z 21005KT 10SM FEW028 SCT041 12/08 A3000 RMK AO2 SLP159 T01170083
KSFO 060056Z 23006KT 10SM FEW028 SCT041 13/08 A3000 RMK AO2 RAB06E15 SLP159 P0000 T01280083
KSFO 052356Z 24006KT 10SM FEW028 BKN050 14/08 A3000 RMK AO2 SLP160 T01390078 10156 20139 55005
KSFO 052256Z 25009KT 10SM FEW033 BKN047 14/07 A3000 RMK AO2 SLP158 T01440072
KSFO 052156Z 27010KT 10SM SCT036 BKN047 15/08 A3001 RMK AO2 SLP161 T01500078
KSFO 052056Z 27012KT 10SM FEW006 SCT028 BKN044 14/08 A3002 RMK AO2 SLP165 T01440083 58012
KSFO 051956Z 24013KT 10SM FEW006 SCT031 BKN042 14/09 A3004 RMK AO2 SLP171 T01440089
KSFO 051943Z 24013KT 10SM SCT028 BKN037 BKN044 14/08 A3004 RMK AO2 T01440083
KSFO 051903Z 25011KT 10SM FEW006 BKN025 BKN031 14/09 A3005 RMK AO2 T01440094
KSFO 051856Z 24010KT 10SM FEW006 SCT024 BKN031 14/10 A3005 RMK AO2 SLP176 T01440100
KSFO 051756Z 23008KT 10SM FEW020 SCT060 14/10 A3005 RMK AO2 SLP177 60006 T01390100 10139 20111 53008
KSFO 051656Z 23008KT 10SM SCT045 BKN075 13/10 A3004 RMK AO2 SLP173 T01330100
KSFO 051556Z 20004KT 10SM FEW012 SCT025 12/09 A3004 RMK AO2 SLP170 T01170094
KSFO 051456Z 16007KT 10SM SCT025 BKN036 BKN049 12/09 A3003 RMK AO2 RAE06 SLP169 P0000 60006 T01170094 53003
KSFO 051409Z 17006KT 8SM FEW009 BKN025 OVC037 12/10 A3002 RMK AO2 RAE06 P0000 T01170100
KSFO 051356Z 15006KT 7SM -RA FEW009 SCT016 BKN045 12/10 A3002 RMK AO2 RAB22 SLP165 P0004 T01170100
KSFO 051256Z 16006KT 10SM FEW009 SCT028 BKN070 11/10 A3002 RMK AO2 RAE08B21E50 SLP164 P0002 T01110100
KSFO 051208Z 17006KT 10SM FEW009 BKN025 OVC070 12/09 A3002 RMK AO2 RAE08 P0000 T01170094
KSFO 051156Z 16006KT 10SM -RA FEW009 SCT027 OVC070 12/09 A3002 RMK AO2 RAB01E26B50 SLP166 P0000 60001 70008 T01170094 10122 20111 58008
KSFO 051056Z 16009KT 10SM FEW025 BKN055 BKN090 12/10 A3003 RMK AO2 SLP169 T01170100
KSFO 050956Z 17008KT 10SM FEW015 SCT090 BKN150 12/09 A3004 RMK AO2 SLP171 T01170094
KSFO 050856Z 18008KT 10SM FEW015 SCT055 BKN150 12/09 A3004 RMK AO2 RAE03 SLP173 P0000 60001 T01170094 58011
KSFO 050756Z 19008KT 10SM -RA FEW015 SCT042 BKN060 12/09 A3006 RMK AO2 RAB10E21B54 SLP178 P0000 T01170094 401560078
KSFO 050656Z 16004KT 10SM FEW015 SCT039 BKN060 11/09 A3007 RMK AO2 RAB19E33 SLP182 P0001 T01110094
KSFO 050556Z 17007KT 10SM FEW015 FEW140 OVC150 11/09 A3008 RMK AO2 SLP185 60007 T01110089 10144 20111 58004
KSFO 050456Z 16006KT 10SM FEW015 SCT040 BKN150 11/09 A3008 RMK AO2 SLP186 T01110094
KSFO 050356Z 17005KT 10SM FEW017 BKN045 OVC055 12/09 A3009 RMK AO2 RAE26 SLP190 P0000 T01170089
KSFO 050321Z 16006KT 9SM -RA FEW023 SCT048 BKN060 12/10 A3009 RMK AO2 P0000 T01170100
KSFO 050256Z 00000KT 9SM -RA SCT013 BKN024 OVC040 11/10 A3009 RMK AO2 SLP189 P0007 60007 T01110100 53004
KSFO 050156Z 32006KT 10SM -RA FEW017 BKN065 OVC100 12/09 A3008 RMK AO2 RAB16 SLP187 P0000 T01220094
KSFO 050056Z 20006KT 10SM FEW017 SCT080 BKN100 13/09 A3008 RMK AO2 SLP185 T01330094
KSFO 042356Z 21006KT 10SM FEW017 SCT050 SCT200 14/08 A3008 RMK AO2 SLP185 T01440083 10156 20128 56001
KSFO 042256Z 23008KT 10SM FEW023 BKN035 BKN200 15/08 A3008 RMK AO2 SLP185 T01500083
KSFO 042156Z 21011KT 10SM FEW028 BKN047 BKN200 15/08 A3007 RMK AO2 SLP183 T01500083
KSFO 042056Z 20011KT 10SM FEW028 BKN045 BKN200 15/09 A3008 RMK AO2 SLP185 T01500089 58005
KSFO 041956Z 25005KT 10SM FEW028 SCT049 BKN065 15/10 A3009 RMK AO2 SLP188 T01500100
KSFO 041856Z 23008KT 10SM FEW030 SCT041 BKN055 14/09 A3010 RMK AO2 SLP193 T01390094
KSFO 041756Z 18007KT 150V210 10SM FEW021 SCT035 13/09 A3010 RMK AO2 SLP191 T01280094 10128 20100 51019
KSFO 041656Z 16007KT 10SM FEW021 BKN035 12/10 A3008 RMK AO2 SLP186 T01220100
KSFO 041556Z 16007KT 10SM FEW021 SCT037 BKN045 11/09 A3006 RMK AO2 SLP178 T01110089
KSFO 041456Z 16006KT 10SM FEW021 BKN036 11/09 A3004 RMK AO2 SLP172 T01060089 53017
KSFO 041356Z 17007KT 10SM FEW009 SCT021 BKN029 11/09 A3002 RMK AO2 SLP164 T01060089
KSFO 041256Z 17009KT 10SM FEW009 BKN025 BKN032 11/09 A3000 RMK AO2 SLP158 T01060089
KSFO 041211Z 14011KT 10SM FEW009 SCT018 BKN028 11/09 A2999 RMK AO2 T01060089
KSFO 041156Z 14011KT 10SM FEW009 SCT030 BKN055 10/09 A2999 RMK AO2 RAE46 SLP155 P0001 60002 70065 T01000089 10100 20078 50007
KSFO 041056Z 13004KT 5SM -RA BR FEW008 BKN018 OVC035 09/09 A2999 RMK AO2 RAB01 SLP156 P0001 T00940089
KSFO 041008Z 16006KT 9SM -RA FEW008 BKN026 OVC043 09/08 A2998 RMK AO2 RAB01 P0000 T00940083
KSFO 040956Z 15005KT 10SM FEW008 BKN034 OVC044 09/08 A2998 RMK AO2 SLP151 T00940083
KSFO 040856Z 00000KT 10SM FEW005 FEW022 SCT041 08/07 A2997 RMK AO2 RAE04 SLP148 P0000 60000 T00780072 50003
KSFO 040756Z 00000KT 10SM -RA FEW005 SCT022 SCT080 08/07 A2997 RMK AO2 RAB55 SLP149 P0000 T00830072 401000072
KSFO 040656Z 00000KT 10SM FEW006 SCT080 09/08 A2996 RMK AO2 SLP146 T00890083
KSFO 040556Z 00000KT 10SM FEW003 FEW016 BKN080 10/09 A2996 RMK AO2 RAE09 SLP145 P0000 60023 T01000089 10100 20094 53008
KSFO 040534Z COR 00000KT 10SM SCT007 BKN016 BKN080 10/09 A2996 RMK AO2 RAE09 P0000 T01000089
KSFO 040456Z 30003KT 9SM -RA FEW003 BKN007 OVC035 10/09 A2995 RMK AO2 SLP142 P0001 T01000089
KSFO 040433Z 10003KT 8SM -RA FEW003 SCT006 OVC039 10/09 A2994 RMK AO2 P0001 T01000089
KSFO 040356Z 30004KT 6SM -RA BR BKN006 BKN015 OVC035 10/09 A2994 RMK AO2 SLP140 P0000 T01000089
KSFO 040333Z 32005KT 8SM -RA BKN006 OVC046 10/09 A2994 RMK AO2 P0000 T01000089
KSFO 040256Z 28006KT 5SM -RA BR FEW004 OVC020 10/09 A2994 RMK AO2 SLP138 P0002 60022 T01000089 53001
KSFO 040228Z 30006KT 4SM -RA BR FEW006 BKN020 OVC033 10/09 A2994 RMK AO2 P0001 T01000089
KSFO 040156Z 31005KT 4SM -RA BR FEW003 SCT006 OVC036 10/09 A2993 RMK AO2 SLP135 P0009 T01000094
KSFO 040056Z 35005KT 2SM RA BR FEW003 BKN005 OVC033 09/09 A2992 RMK AO2 SLP133 P0011 T00940089
KSFO 040018Z 01004KT 3SM -RA BR FEW004 SCT006 OVC025 09/09 A2993 RMK AO2 P0006 T00940089
KSFO 032356Z 33003KT 2SM R28R/6000VP6000FT -RA BR FEW004 BKN006 OVC019 09/08 A2994 RMK AO2 SLP137 P0011 60034 T00940083 10094 20083 55011
KSFO 032315Z 00000KT 2SM R28R/5500VP6000FT -RA BR FEW003 BKN006 OVC016 09/09 A2993 RMK AO2 P0003 T00940089
KSFO 032307Z 00000KT 4SM R28R/5000VP6000FT -RA BR FEW003 BKN006 OVC016 09/08 A2993 RMK AO2 P0002 T00940083
KSFO 032256Z 06003KT 2 1/2SM R28R/5500VP6000FT -RA BR SCT003 BKN007 OVC013 09/08 A2993 RMK AO2 SLP133 P0012 T00940083
KSFO 032241Z 00000KT 3SM -RA BR SCT007 BKN023 OVC035 09/09 A2993 RMK AO2 P0010 T00940089
KSFO 032156Z 00000KT 2SM RA BR FEW006 BKN008 OVC016 09/08 A2995 RMK AO2 SLP140 P0003 T00940083
KSFO 032056Z 04004KT 3SM -RA BR FEW005 BKN009 OVC022 09/08 A2997 RMK AO2 SLP148 P0003 60008 T00940083 58021
KSFO 032037Z 01003KT 3SM -RA BR FEW005 BKN007 OVC011 09/08 A2997 RMK AO2 P0003 T00890083
KSFO 031956Z 07005KT 2SM -RA BR FEW006 BKN029 OVC036 09/08 A2999 RMK AO2 SLP155 P0002 T00940078
KSFO 031917Z 00000KT 3SM -RA BR FEW004 SCT007 OVC020 09/08 A3002 RMK AO2 P0001 T00890078
KSFO 031856Z 00000KT 2SM -RA BR FEW004 BKN006 OVC016 09/08 A3002 RMK AO2 SLP164 P0003 T00890078
KSFO 031826Z 00000KT 2SM -RA BR FEW004 BKN006 OVC011 08/08 A3003 RMK AO2 P0001 T00830078
KSFO 031756Z 08003KT 4SM -RA BR FEW005 BKN007 OVC013 08/08 A3003 RMK AO2 RAE1657B15 SLP169 P0002 60006 T00830078 10083 20072 58001
KSFO 031656Z 08006KT 2SM -RA BR BKN005 OVC007 08/07 A3004 RMK AO2 SLP172 P0000 T00830072
KSFO 031556Z 00000KT 2SM -RA BR BKN004 OVC006 08/07 A3004 RMK AO2 SLP172 P0002 T00780067
KSFO 031456Z 00000KT 4SM -RA BR FEW005 BKN008 OVC015 07/07 A3003 RMK AO2 RAB14E29B47 SLP170 P0001 60002 T00720067 55001
KSFO 031411Z 17005KT 3SM BR FEW005 BKN007 OVC016 07/07 A3003 RMK AO2 T00720067
KSFO 031356Z 18003KT 3SM BR FEW008 OVC016 07/07 A3003 RMK AO2 SLP168 P0001 T00720067
KSFO 031328Z 22003KT 3SM BR FEW008 OVC016 07/07 A3003 RMK AO2 P0001 T00720067
KSFO 031256Z 20003KT 5SM BR OVC016 07/07 A3003 RMK AO2 RAB01E50 SLP168 P0000 T00720067
KSFO 031156Z 17003KT 7SM BKN016 08/06 A3004 RMK AO2 SLP171 T00830056 10083 20072 56004
KSFO 031154Z 15005KT 7SM BKN016 08/06 A3004 RMK AO2
KSFO 031056Z 18003KT 10SM BKN030 08/05 A3004 RMK AO2 SLP171 T00830050
KSFO 030956Z 18005KT 10SM BKN030 08/04 A3005 RMK AO2 SLP175 T00830044
KSFO 030856Z 16005KT 10SM BKN035 08/04 A3007 RMK AO2 SLP180 T00830044 56006
KSFO 030756Z 18003KT 10SM SCT048 08/04 A3007 RMK AO2 SLP182 T00780039 401170033
KSFO 030656Z 18003KT 10SM SCT050 BKN100 BKN180 08/04 A3007 RMK AO2 SLP184 T00780044
KSFO 030556Z 00000KT 10SM SCT048 BKN100 BKN180 08/04 A3008 RMK AO2 SLP187 T00780039 10111 20072 50000
KSFO 030456Z VRB04KT 10SM FEW100 BKN180 09/04 A3009 RMK AO2 SLP188 T00940044
KSFO 030356Z 19004KT 10SM BKN180 08/04 A3008 RMK AO2 SLP187 T00830039
KSFO 030256Z 07011KT 10SM BKN180 10/04 A3008 RMK AO2 SLP187 T01000044 56006
KSFO 030156Z 07013KT 10SM BKN180 11/03 A3008 RMK AO2 SLP187 T01060028
KSFO 030056Z 00000KT 10SM FEW150 BKN180 10/04 A3009 RMK AO2 SLP189 T01000039
KSFO 022356Z 00000KT 10SM BKN180 11/04 A3010 RMK AO2 SLP192 T01110044 10117 20078 56012
KSFO 022256Z 02003KT 10SM FEW017 BKN180 12/03 A3011 RMK AO2 SLP196 T01170033
KSFO 022156Z 00000KT 10SM SCT160 11/04 A3012 RMK AO2 SLP199 T01060039
KSFO 022056Z 11003KT 10SM SCT160 09/03 A3014 RMK AO2 SLP204 T00940033 58022
KSFO 021956Z 10004KT 10SM FEW005 SCT160 09/03 A3016 RMK AO2 SLP214 T00940033
KSFO 021856Z 11005KT 10SM FEW005 SCT140 09/03 A3019 RMK AO2 SLP222 T00890033
KSFO 021756Z 09008KT 10SM FEW005 08/03 A3020 RMK AO2 SLP227 T00830033 10083 20033 53007
KSFO 021656Z 15004KT 10SM FEW005 FEW200 07/04 A3019 RMK AO2 SLP224 T00720039
KSFO 021556Z 20003KT 10SM FEW005 05/04 A3019 RMK AO2 SLP222 T00500044
KSFO 021456Z 00000KT 10SM FEW005 FEW017 04/03 A3018 RMK AO2 SLP219 T00390028 53011
KSFO 021356Z 27003KT 10SM CLR 03/02 A3017 RMK AO2 SLP215 T00330022
KSFO 021256Z 20003KT 10SM CLR 04/02 A3016 RMK AO2 SLP212 T00390022
KSFO 021156Z 00000KT 10SM CLR 03/02 A3015 RMK AO2 SLP208 70071 T00330017 10083 20033 53008
KSFO 021056Z 29004KT 10SM CLR 04/02 A3014 RMK AO2 SLP205 T00440022
KSFO 020956Z 24003KT 10SM CLR 06/03 A3013 RMK AO2 SLP202 T00560028
KSFO 020856Z 26005KT 10SM CLR 07/03 A3013 RMK AO2 SLP201 T00670033 53023
KSFO 020756Z 30007KT 10SM CLR 08/03 A3010 RMK AO2 SLP193 T00780033 401220067
KSFO 020656Z 28005KT 10SM CLR 08/03 A3007 RMK AO2 SLP183 T00780033

KSLC 070554Z 00000KT 6SM BR BCFG OVC011 00/M03 A3018 RMK AO2 SLP235 4/001 T00001028 10000 21006 51009 $
KSLC 070454Z 08003KT 5SM BR BCFG OVC010 00/M03 A3018 RMK AO2 SLP235 T00001028 $
KSLC 070354Z 21003KT 6SM BR BCFG OVC009 00/M03 A3016 RMK AO2 SLP232 T00001028 $
KSLC 070254Z 34004KT 7SM BKN009 00/M03 A3015 RMK AO2 SLP229 T00001028 53013 $
KSLC 070154Z 35006KT 10SM BKN010 00/M03 A3014 RMK AO2 SLP223 T00001028 $
KSLC 070054Z 29003KT 10SM FEW055 M01/M03 A3012 RMK AO2 SLP218 T10061028 $
KSLC 062354Z 29006KT 10SM FEW020 FEW080 00/M03 A3011 RMK AO2 SLP214 4/001 I6001 T00001028 10028 21017 53004
KSLC 062254Z 33005KT 10SM FEW014 FEW030 BKN080 BKN130 02/M02 A3011 RMK AO2 SLP209 T00171022
KSLC 062154Z 31005KT 10SM SCT014 SCT030 BKN065 02/M02 A3010 RMK AO2 SLP204 T00221022
KSLC 062147Z 30006KT 10SM SCT014 SCT030 BKN065 02/M02 A3010 RMK AO2 T00221022
KSLC 062118Z 35006KT 10SM BKN014 BKN035 BKN060 02/M02 A3010 RMK AO2 T00221017 VISNO NW RNWY $
KSLC 062054Z 01006KT 10SM SCT014 BKN065 02/M02 A3010 RMK AO2 SLP205 I3001 T00171017 55003 VISNO NW RNWY $
KSLC 062020Z 34004KT 10SM FEW008 FEW012 BKN060 01/M02 A3010 RMK AO2 T00111022 $
KSLC 061954Z 01004KT 8SM BKN009 BKN025 BKN080 01/M02 A3010 RMK AO2 SLP207 T00111022
KSLC 061854Z 01004KT 3SM BR BKN008 BKN020 M01/M03 A3010 RMK AO2 SFC VIS 6 SLP210 I1001 T10111028 $
KSLC 061815Z 00000KT 3SM BR BKN007 BKN013 M02/M03 A3011 RMK AO2 SFC VIS 6 I1001 T10171028 $
KSLC 061754Z 00000KT 2 1/2SM BR BKN007 BKN015 M02/M03 A3011 RMK AO2 SFC VIS 5 SLP209 4/001 I6008 T10171028 11017 21044 51007 $
KSLC 061738Z 26003KT 2 1/2SM BR BKN006 BKN020 M02/M03 A3011 RMK AO2 SFC VIS 5 T10171028 $
KSLC 061711Z 01003KT 1 1/2SM BR OVC005 M02/M03 A3010 RMK AO2 SFC VIS 4 T10171028 $
KSLC 061654Z 36004KT 1 1/2SM R16L/3500VP6000FT BR OVC004 M02/M03 A3010 RMK AO2 SFC VIS 3 SLP208 I1001 T10221028 $
KSLC 061651Z 01003KT 2SM R16L/3500VP6000FT BR OVC004 M02/M03 A3010 RMK AO2 SFC VIS 3 I1001 $
KSLC 061625Z 35005KT 1 1/2SM R16L/2200VP6000FT BR OVC004 M03/M03 A3010 RMK AO2 TWR VIS 2 I1001 T10281033
KSLC 061616Z 36006KT 3/4SM R16L/1400V2400FT BR VV003 M03/M03 A3010 RMK AO2 TWR VIS 2 I1001 T10281033
KSLC 061554Z 33006KT 1/2SM R16L/1000V1400FT FZFG VV002 M03/M04 A3008 RMK AO2 TWR VIS 2 SLP203 I1002 T10331039
KSLC 061454Z 01005KT 1/2SM R16L/1000FT FZFG VV002 M04/M05 A3006 RMK AO2 TWR VIS 2 SLP195 I1004 I3005 T10391050 51010 $
KSLC 061451Z 01005KT 1/2SM R16L/1000FT FZFG VV002 M04/M05 A3006 RMK AO2 TWR VIS 2 I1003 $
KSLC 061441Z 36007KT 1/2SM R16L/1000V1400FT FZFG VV001 M04/M06 A3005 RMK AO2 TWR VIS 2 I1003 T10441061 $
KSLC 061425Z 00000KT 3/4SM R16L/1000V1600FT BR FEW004 FEW050 M03/M05 A3005 RMK AO2 TWR VIS 2 I1000 T10331050 $
KSLC 061419Z 00000KT 1SM R16L/1000V2000FT BR FEW004 FEW050 M03/M05 A3005 RMK AO2 TWR VIS 2 I1000 T10331050 $
KSLC 061354Z 17003KT 2SM BR FEW003 FEW060 M03/M04 A3004 RMK AO2 SLP185 T10331044 $
KSLC 061340Z 16004KT 2SM R16L/2400VP6000FT BR FEW002 M03/M04 A3003 RMK AO2 T10331044 $
KSLC 061331Z 20003KT 1SM R16L/1800V2400FT BR SCT002 M03/M04 A3003 RMK AO2 T10331044 $
KSLC 061258Z 18004KT 1/2SM R16L/1800V2400FT FZFG VV003 M03/M04 A3002 RMK AO2 T10281039 $
KSLC 061254Z 17004KT 1/4SM R16L/1600V2200FT FZFG VV003 M03/M04 A3002 RMK AO2 SLP180 I1001 T10281039 $
KSLC 061222Z 00000KT 1/4SM R16L/1400V2000FT FZFG VV002 M03/M03 A3002 RMK AO2 I1001 T10281033 $
KSLC 061208Z 02003KT 1/4SM R16L/1200V1400FT FZFG VV009 M03/M04 A3002 RMK AO2 I1000 T10331039 $
KSLC 061154Z 36004KT 1/4SM R16L/1200V1600FT FZFG VV017 M03/M04 A3002 RMK AO2 SLP180 4/001 I1003 I6005 T10331044 10000 21044 51006 $
KSLC 061054Z 36005KT 1/4SM R16L/1400FT FZFG VV014 M03/M04 A3002 RMK AO2 SLP175 I1001 T10331044 $
KSLC 061035Z 36006KT 1/4SM R16L/1000V1400FT FZFG BKN014 M03/M04 A3002 RMK AO2 I1000 T10281044 $
KSLC 061028Z 00000KT M1/4SM R16L/1000V1400FT FZFG VV015 M02/M04 A3002 RMK AO2 I1000 T10221039 $
KSLC 061026Z 00000KT 1/4SM R16L/1000V1200FT FZFG CLR M02/M04 A3002 RMK AO2 I1000 T10221039 $
KSLC 060954Z 00000KT 3SM R16L/4000VP6000FT BR FEW014 M03/M04 A3001 RMK AO2 SLP173 I1000 T10281039 $
KSLC 060944Z 00000KT 2 1/2SM R16L/2000V5000FT BR FEW005 FEW014 M03/M04 A3001 RMK AO2 I1000 T10281039 $
KSLC 060927Z 21003KT 1/2SM R16L/1600V2600FT FZFG SCT005 BKN014 M03/M04 A3001 RMK AO2 I1000 T10281039 $
KSLC 060854Z 00000KT 1/4SM R16L/1600V1800FT FZFG VV013 M03/M04 A3000 RMK AO2 SLP170 I1000 I3001 T10281039 50005 $
KSLC 060850Z 00000KT 1/4SM R16L/1200V1800FT FZFG VV011 M03/M04 A3000 RMK AO2 I1000
KSLC 060816Z 00000KT M1/4SM R16L/1000V1200FT FZFG VV005 M03/M04 A3000 RMK AO2 T10331044
KSLC 060754Z 33004KT M1/4SM R16L/0800V1200FT FZFG FEW170 M04/M05 A3001 RMK AO2 SLP172 I1001 T10391050
KSLC 060654Z 00000KT M1/4SM R16L/1000V1400FT FZFG SCT170 M02/M04 A3000 RMK AO2 SLP168 T10221039 400391022
KSLC 060637Z 00000KT 1/4SM R16L/1000V1400FT FZFG SCT170 M01/M02 A3000 RMK AO2 T10061022
KSLC 060631Z 00000KT 1/2SM R16L/1200V1400FT FZFG SCT170 M01/M02 A3000 RMK AO2 T10061022
KSLC 060554Z 00000KT 4SM BR BCFG FEW028 SCT120 00/M01 A2999 RMK AO2 SLP161 4/001 I1000 I6000 T00001011 10022 20000 52010
KSLC 060523Z 00000KT 4SM BR BCFG SCT027 BKN120 00/M01 A2998 RMK AO2 T00001011
KSLC 060454Z 00000KT 4SM BR BCFG BKN025 01/M01 A2998 RMK AO2 SLP157 I1000 T00061011
KSLC 060420Z 00000KT 4SM BR MIFG BKN026 BKN120 01/M01 A2997 RMK AO2 I1000 T00061006
KSLC 060354Z 00000KT 5SM BR MIFG FEW025 FEW060 SCT120 01/M01 A2997 RMK AO2 VIS 3/4 NW RNWY SLP153 T00061011
KSLC 060254Z 00000KT 5SM BR FEW025 FEW060 SCT120 00/M01 A2995 RMK AO2 SLP150 T00001011 53005
KSLC 060154Z 00000KT 8SM FEW060 SCT120 02/00 A2995 RMK AO2 SLP145 T00170000
KSLC 060054Z 33004KT 10SM FEW050 BKN110 02/00 A2994 RMK AO2 SLP145 T00170000
KSLC 052354Z 31004KT 10SM FEW045 BKN110 02/00 A2994 RMK AO2 SLP132 4/002 T00220000 10039 20022 55004
KSLC 052254Z 18005KT 10SM FEW040 FEW085 BKN100 04/M01 A2993 RMK AO2 SLP137 T00391011
KSLC 052154Z 17006KT 10SM FEW025 FEW040 BKN095 BKN140 04/M01 A2994 RMK AO2 SLP138 SH DSNT SE T00391011
KSLC 052054Z 18007KT 10SM FEW025 FEW045 BKN090 BKN140 04/M01 A2995 RMK AO2 SLP136 SH DSNT SE AND SW T00391011 56018
KSLC 051954Z 15007KT 10SM FEW030 FEW045 BKN100 BKN150 04/00 A2995 RMK AO2 SLP137 SH DSNT SE T00390000
KSLC 051854Z 16006KT 10SM FEW025 FEW040 BKN100 BKN160 03/M01 A2998 RMK AO2 SLP147 VIRGA SH DSNT SE T00331006
KSLC 051754Z 17006KT 10SM FEW045 SCT100 BKN160 03/M01 A3001 RMK AO2 SLP157 VIRGA 4/002 T00331006 10033 20011 50000
KSLC 051654Z 11005KT 10SM FEW045 BKN100 BKN150 02/M01 A3002 RMK AO2 SLP172 VIRGA T00221011
KSLC 051554Z 17007KT 10SM FEW050 BKN100 BKN150 02/M02 A3002 RMK AO2 SLP173 T00221017
KSLC 051454Z 14005KT 10SM FEW055 BKN100 BKN180 02/M01 A3001 RMK AO2 SLP168 T00171011 53003
KSLC 051354Z 14003KT 10SM FEW085 BKN110 OVC130 02/M01 A3000 RMK AO2 SLP163 T00171006
KSLC 051254Z 16003KT 10SM FEW075 OVC095 02/M01 A3000 RMK AO2 SLP163 T00171006 $
KSLC 051154Z 12004KT 10SM BKN070 BKN090 OVC110 02/00 A3000 RMK AO2 SLP164 4/002 60006 70006 T00170000 10022 20006 58004 $
KSLC 051054Z 23007KT 9SM FEW045 BKN080 OVC100 02/00 A3000 RMK AO2 SNB23E29 SLP155 P0000 T00170000 $
KSLC 051030Z 20003KT 7SM OVC075 02/01 A3000 RMK AO2 SNB23E29 P0000 T00170006 $
KSLC 051023Z 15003KT 7SM -SN BKN075 OVC095 01/01 A2999 RMK AO2 SNB23 P0000 T00110006 $
KSLC 050954Z 16007KT 6SM BR SCT046 BKN060 OVC075 01/00 A3001 RMK AO2 SNE27 SLP167 P0000 T00110000 $
KSLC 050927Z 15006KT 4SM BR FEW005 BKN045 OVC060 01/00 A3002 RMK AO2 SNE27 P0000 T00110000 $
KSLC 050854Z 13006KT 3SM -SN SCT003 BKN050 OVC060 01/M01 A3001 RMK AO2 SLP170 P0002 60006 T00061006 50003 $
KSLC 050843Z 15005KT 3SM -SN SCT003 BKN025 OVC060 01/00 A3002 RMK AO2 P0002 T00060000 $
KSLC 050841Z 16006KT 3SM -SN BKN003 BKN024 OVC060 01/00 A3002 RMK AO2 P0002 T00060000 $
KSLC 050834Z 15006KT 2SM -SN SCT003 BKN027 OVC060 01/00 A3003 RMK AO2 P0002 T00060000 $
KSLC 050829Z 15007KT 1 1/2SM SN BR SCT004 BKN014 OVC019 01/00 A3001 RMK AO2 P0002 T00060000 $
KSLC 050820Z 13011KT 3/4SM R16L/5000VP6000FT +SN BR BKN006 OVC011 01/M01 A3001 RMK AO2 P0002 T00061006 $
KSLC 050754Z 13006KT 1SM R16L/5500VP6000FT SN BR BKN005 OVC012 01/00 A3003 RMK AO2 SLP176 P0004 T00060000 $
KSLC 050741Z 24005KT 1 3/4SM -SN BR BKN005 OVC012 01/00 A3004 RMK AO2 P0003 T00110000 $
KSLC 050734Z 24005KT 1 1/4SM -SN BR BKN004 OVC012 01/00 A3004 RMK AO2 P0003 T00060000 $
KSLC 050711Z 31006KT 1 3/4SM SN BR FEW008 BKN014 OVC020 01/00 A3003 RMK AO2 P0001 T00060000 $
KSLC 050707Z 29005KT 1 1/2SM SN BR BKN014 OVC020 01/00 A3003 RMK AO2 P0001 T00060000 $
KSLC 050654Z 29006KT 1 3/4SM SN BR BKN017 OVC024 01/M01 A3002 RMK AO2 SNE0558B08 SLP174 P0000 T00061006 400331022 $
KSLC 050639Z 30009KT 2 1/2SM -SN BR OVC025 01/M01 A3002 RMK AO2 VIS 1 3/4 NW RNWY SNE0558B08 P0000 T00111011 $
KSLC 050608Z 30004KT 10SM -SN FEW016 BKN026 BKN033 01/M01 A3000 RMK AO2 SNE0558B08 P0000 T00111011 $
KSLC 050559Z 32007KT 9SM SCT018 BKN027 OVC033 01/M01 A3001 RMK AO2 SNE58 P0000 T00111011 $
KSLC 050554Z 35005G18KT 7SM -SN BKN023 BKN032 BKN065 01/M01 A3000 RMK AO2 SLP168 RAE09SNB32 4/002 P0000 60000 T00111011 10017 20006 51023 $
KSLC 050551Z 01009G18KT 5SM -SN BR BKN023 BKN032 BKN065 01/M01 A2999 RMK AO2 RAE09SNB32 4/002 P0000 $
KSLC 050542Z 36015KT 2 1/2SM -SN BKN027 BKN047 BKN060 01/M02 A2999 RMK AO2 RAE09SNB32 P0000 T00111017 $
KSLC 050454Z COR 33013KT 10SM -RA BKN065 BKN080 BKN100 01/M02 A2998 RMK AO2 PRESRR SLP162 RAB34 P0000 T00111022 $
KSLC 050354Z 00000KT 10SM BKN080 BKN110 01/M02 A2992 RMK AO2 SLP143 T00111022 $
KSLC 050254Z 01008KT 10SM BKN095 01/M02 A2992 RMK AO2 SLP143 T00111022 55006 $
KSLC 050154Z 00000KT 10SM BKN100 02/M02 A2991 RMK AO2 SLP137 T00171022 $
KSLC 050054Z 00000KT 10SM SCT075 BKN100 01/M02 A2993 RMK AO2 SLP145 T00111017 $
KSLC 042354Z COR 36006KT 10SM BKN075 02/M02 A2994 RMK AO2 SLP148 4/002 T00171017 10033 20000 56015 $
KSLC 042254Z 01003KT 10SM BKN080 BKN200 03/M02 A2995 RMK AO2 SLP148 T00281022 $
KSLC 042154Z 00000KT 10SM BKN070 BKN080 BKN200 02/M03 A2998 RMK AO2 SLP159 T00221028 $
KSLC 042054Z 34004KT 10SM BKN075 BKN200 02/M03 A3000 RMK AO2 SLP166 T00171033 56021 $
KSLC 041954Z 32008KT 10SM FEW060 OVC080 01/M04 A3001 RMK AO2 SLP175 BINOVC T00111039 $
KSLC 041854Z 36004KT 10SM SCT075 BKN080 BKN120 01/M04 A3005 RMK AO2 SLP186 VIRGA S DSNT N AND S T00111039 $
KSLC 041754Z 00000KT 10SM SCT060 BKN090 OVC110 00/M05 A3007 RMK AO2 SLP195 VIRGA 4/002 T00001050 10000 21011 58011 $
KSLC 041654Z 32005KT 10SM SCT070 OVC090 M01/M05 A3009 RMK AO2 SLP203 VIRGA T10061050 $
KSLC 041554Z 27003KT 10SM FEW060 BKN090 OVC110 M01/M05 A3009 RMK AO2 SLP208 VIRGA T10111050 $
KSLC 041454Z 28004KT 8SM FEW060 BKN090 OVC110 M01/M04 A3010 RMK AO2 SLP211 T10111039 56006 $
KSLC 041354Z 33004KT 10SM OVC095 M01/M05 A3011 RMK AO2 SLP216 T10111050 $
KSLC 041254Z 00000KT 10SM OVC090 M01/M05 A3011 RMK AO2 SLP212 T10111050 $
KSLC 041154Z COR 00000KT 10SM OVC095 M01/M05 A3012 RMK AO2 SLP216 4/002 T10111050 11006 21022 58018 $
KSLC 041054Z 29003KT 10SM FEW060 OVC095 M01/M05 A3015 RMK AO2 SLP224 T10111050 $
KSLC 040954Z 00000KT 10SM FEW060 BKN095 M01/M05 A3016 RMK AO2 SLP229 T10111050 $
KSLC 040854Z 00000KT 10SM FEW045 SCT060 OVC090 M01/M06 A3018 RMK AO2 SLP235 T10061056 58017 $
KSLC 040754Z 00000KT 10SM FEW045 BKN065 OVC080 M01/M06 A3020 RMK AO2 SLP243 T10111056 $
KSLC 040654Z 22003KT 10SM FEW047 BKN075 M01/M06 A3023 RMK AO2 SLP256 T10111056 400001067 $
KSLC 040554Z COR 00000KT 10SM SCT045 BKN075 M01/M06 A3024 RMK AO2 SLP259 4/002 T10111056 11011 21039 58005 $
KSLC 040454Z 00000KT 10SM BKN070 OVC080 M02/M06 A3025 RMK AO2 SLP266 T10171061
KSLC 040354Z 00000KT 10SM SCT037 BKN065 OVC130 M02/M06 A3026 RMK AO2 SLP273 T10221061 $
KSLC 040254Z 00000KT 10SM SCT035 BKN041 OVC120 M03/M07 A3026 RMK AO2 SLP274 T10281067 50003
KSLC 040154Z 35004KT 10SM FEW045 SCT100 BKN220 M03/M08 A3027 RMK AO2 SLP277 T10331078
KSLC 040054Z 30004KT 10SM SCT110 BKN230 M02/M07 A3025 RMK AO2 SLP272 T10221067
KSLC 032354Z COR 33005KT 10SM BKN110 BKN240 M01/M06 A3025 RMK AO2 SLP266 4/003 T10111061 10000 21028 55005
KSLC 032254Z 01003KT 10SM FEW060 BKN120 BKN220 M01/M06 A3024 RMK AO2 SLP263 SCSL DSNT E T10061061
KSLC 032154Z 28003KT 10SM FEW050 SCT110 BKN140 BKN200 M01/M07 A3024 RMK AO2 SLP266 SCSL DSNT NE AND SE-SW T10061067
KSLC 032054Z 29004KT 10SM FEW050 BKN150 BKN200 M01/M07 A3027 RMK AO2 SLP270 SCSL DSNT S T10061072 56015
KSLC 031954Z 32005KT 10SM FEW050 SCT150 BKN200 M01/M07 A3028 RMK AO2 SLP275 T10061067
KSLC 031854Z 00000KT 10SM FEW060 SCT140 BKN200 M02/M05 A3029 RMK AO2 SLP284 T10221050
KSLC 031754Z 34005KT 10SM SCT060 BKN140 BKN200 M03/M08 A3031 RMK AO2 SLP293 T10281078 11017 21067 53009
KSLC 031654Z 00000KT 10SM SCT050 BKN150 M03/M08 A3030 RMK AO2 SLP290 T10331078
KSLC 031554Z 01003KT 10SM SCT040 OVC160 M04/M08 A3029 RMK AO2 SLP287 SCSL DSNT S T10441078
KSLC 031454Z 00000KT 10SM FEW030 BKN160 BKN220 M05/M08 A3028 RMK AO2 SLP285 T10501078 53001
KSLC 031354Z 00000KT 10SM BKN250 M05/M08 A3028 RMK AO2 SLP280 T10501083
KSLC 031254Z 22003KT 10SM BKN250 M06/M09 A3028 RMK AO2 SLP284 T10611089
KSLC 031154Z COR 27003KT 10SM BKN250 M05/M08 A3028 RMK AO2 SLP279 4/003 70003 T10501078 11039 21067 58006
KSLC 031054Z 00000KT 10SM BKN250 M05/M08 A3029 RMK AO2 SLP278 T10501083
KSLC 030954Z 02005KT 10SM BKN250 M06/M09 A3030 RMK AO2 SLP281 T10611089
KSLC 030854Z 00000KT 10SM BKN250 M04/M09 A3030 RMK AO2 SLP279 T10441094 58004
KSLC 030754Z 00000KT 10SM BKN250 M05/M09 A3031 RMK AO2 SLP282 T10501089
KSLC 030654Z 16006KT 10SM SCT200 M05/M09 A3031 RMK AO2 SLP283 T10501094 401001061
KSLC 030554Z COR 00000KT 10SM FEW180 BKN220 M05/M09 A3031 RMK AO2 SLP289 4/003 T10501089 11011 21061 51006
KSLC 030454Z 23004KT 10SM FEW190 BKN230 M06/M08 A3031 RMK AO2 SLP293 T10561083
KSLC 030354Z 00000KT 10SM SCT220 M04/M08 A3031 RMK AO2 SLP293 T10441083
KSLC 030254Z 00000KT 10SM SCT230 M04/M07 A3029 RMK AO2 SLP285 T10391072 53005
KSLC 030154Z 00000KT 10SM FEW230 M02/M08 A3029 RMK AO2 SLP277 T10221078
KSLC 030054Z 00000KT 10SM FEW230 M03/M08 A3028 RMK AO2 SLP277 T10281078
KSLC 022354Z 34007KT 10SM FEW055 FEW230 M02/M09 A3028 RMK AO2 SLP272 4/003 T10221089 10022 21022 53005
KSLC 022254Z 32005KT 10SM FEW050 01/M08 A3026 RMK AO2 SLP259 T00061078
KSLC 022154Z 36004KT 10SM FEW045 FEW090 01/M07 A3027 RMK AO2 SLP263 T00111072
KSLC 022054Z 01004KT 10SM SCT036 SCT090 01/M07 A3026 RMK AO2 SLP256 SH DSNT E T00111067 51012
KSLC 021954Z 04003KT 10SM SCT034TCU SCT044 BKN090 01/M07 A3026 RMK AO2 SLP243 TCU NE AND DSNT E VCSH T00111067
KSLC 021854Z 36003KT 10SM FEW030 BKN049 BKN085 01/M07 A3025 RMK AO2 SLP240 VCSH T00111072
KSLC 021754Z 11003KT 10SM FEW015 FEW049 BKN085 M01/M04 A3022 RMK AO2 SLP234 VCSH 4/004 60003 T10111044 11011 21044 53031
KSLC 021654Z 13003KT 10SM FEW015 FEW045 BKN085 M02/M04 A3018 RMK AO2 SLP221 TCU DSNT W SH DSNT NW T10221044
KSLC 021554Z 23005KT 10SM FEW008 FEW040 BKN080 M04/M06 A3012 RMK AO2 SLP204 T10441056
KSLC 021551Z 23005KT 9SM FEW008 FEW040 BKN080 M04/M06 A3012 RMK AO2
KSLC 021454Z 32007KT 9SM FEW010 FEW035 BKN085 M03/M06 A3007 RMK AO2 SNE03 SLP183 SH DSNT SW P0000 60003 T10331056 51034
KSLC 021354Z 35010KT 9SM -SN FEW014 BKN046 OVC065 M03/M04 A3002 RMK AO2 SLP164 P0001 T10281039 $
KSLC 021349Z 35012KT 7SM -SN FEW014 BKN048 OVC065 M03/M04 A3002 RMK AO2 P0001 $
KSLC 021331Z 36014KT 2 1/2SM -SN BR OVC033 M03/M04 A3000 RMK AO2 P0001 T10281039 $
KSLC 021318Z 35011KT 2 1/2SM -SN BR OVC025 M03/M04 A2998 RMK AO2 SFC VIS 3 P0000 T10281039 $
KSLC 021254Z 36015KT 1 1/2SM -SN BR OVC015 M02/M03 A2996 RMK AO2 SLP142 P0002 T10221033 $
KSLC 021237Z 35016KT 1/2SM R16L/4000V6000FT -SN BR VV010 M02/M03 A2994 RMK AO2 SFC VIS 3/4 P0002 T10221033 $
KSLC 021154Z 34012KT 1/2SM R16L/3500V5000FT SN FZFG VV006 M02/M03 A2993 RMK AO2 SLP133 4/003 P0009 60018 70018 T10171028 10100 21017 51044 $
KSLC 021054Z 33009G17KT 1/2SM R16L/6000VP6000FT SN FZFG VV006 M01/M02 A2987 RMK AO2 SLP109 P0006 T10111022 $
KSLC 021049Z 34008KT 1/2SM R16L/3500VP6000FT SN FZFG VV006 M01/M02 A2986 RMK AO2 P0005 $
KSLC 021019Z 34014KT 1SM R16L/P6000FT -SN BR VV009 M01/M02 A2981 RMK AO2 PRESRR P0002 T10111022 $
KSLC 021001Z COR 35017G26KT 1SM R16L/5500VP6000FT -SN FEW006 OVC010 M01/M02 A2979 RMK AO2 P0001 T1011 $
KSLC 020954Z 35019G26KT 1SM R16L/6000VP6000FT -SN BR BKN008 OVC015 M01/M02 A2979 RMK AO2 PK WND 34035/0930 WSHFT 0840 SLP080 P0003 T10111022 $
KSLC 020913Z 33020G31KT 1SM R16L/3500V5000FT -SN BR BKN005 OVC015 01/M01 A2973 RMK AO2 PK WND 35035/0854 WSHFT 0840 P0000 T00061011
KSLC 020857Z 35024G35KT 1 3/4SM -SN BR FEW007 BKN016 OVC090 01/M01 A2968 RMK AO2 PK WND 35035/0854 WSHFT 0840 TWR VIS 2 P0000 T00111006
KSLC 020855Z 35025G35KT 2SM -SN BR BKN015 BKN047 OVC085 02/M01 A2968 RMK AO2 PK WND 35035/0854 WSHFT 0840 P0000 T00171006
KSLC 020853Z 35026G33KT 2SM -SN BR SCT016 BKN047 OVC090 02/M01 A2968 RMK AO2 PK WND 34040/0843 WSHFT 0833 SFC VIS 2 1/2 SNB43 CIG 032 NW RNWY SLP039 P0000 60000 T00171006 53034
KSLC 020852Z 35025G40KT 2 1/2SM -SN SCT015 BKN047 OVC090 02/M01 A2967 RMK AO2 PK WND 34040/0843 WSHFT 0833 SNB43 CIG 036 NW RNWY P0000
KSLC 020843Z 34027G40KT 9SM -SN FEW046 BKN080 OVC100 07/M02 A2965 RMK AO2 PK WND 34040/0843 WSHFT 0829 SNB43 PRESRR P0000 T00671017
KSLC 020754Z 17024G39KT 10SM OVC110 09/M03 A2955 RMK AO2 PK WND 17043/0737 SLP983 T00941028
KSLC 020654Z 17023G38KT 10SM FEW110 OVC140 09/M03 A2956 RMK AO2 PK WND 16038/0555 SLP988 T00941033 401110050

KSTL 070623Z 36003KT 2SM BR OVC003 08/07 A3009 RMK AO2 T00780067
KSTL 070551Z 02004KT 3SM BR OVC003 08/07 A3008 RMK AO2 DZE16 SLP190 P0000 60002 T00780067 10083 20078 400830028 51012
KSTL 070451Z 04005KT 2SM -DZ BR OVC002 08/07 A3007 RMK AO2 SLP186 P0000 T00830067
KSTL 070446Z 05005KT 2SM -DZ BR OVC002 08/07 A3007 RMK AO2 P0000
KSTL 070431Z 02004KT 1 1/2SM -DZ BR OVC002 08/07 A3007 RMK AO2 P0000 T00830067
KSTL 070351Z 36003KT 1SM -DZ BR OVC003 08/07 A3005 RMK AO2 RAB0258E08 SLP180 P0000 T00830072 RVRNO
KSTL 070342Z 01004KT 1SM -DZ BR OVC003 08/07 A3005 RMK AO2 RAB0258E08 P0000 T00830072 RVRNO
KSTL 070251Z 35005KT 3/4SM -DZ BR OVC002 08/07 A3004 RMK AO2 SLP177 P0001 60002 T00830072 53018 RVRNO
KSTL 070212Z 05003KT 3/4SM -DZ BR OVC003 08/07 A3003 RMK AO2 P0000 T00830072 RVRNO
KSTL 070151Z 04003KT 1SM -DZ BR OVC003 08/07 A3001 RMK AO2 SLP168 P0000 T00830072 RVRNO
KSTL 070051Z 10005KT 1SM -DZ BR OVC003 08/07 A2999 RMK AO2 DZE14B23RAB14E23 SLP161 P0001 T00830072 RVRNO
KSTL 070039Z 10005KT 1SM -DZ BR OVC003 08/07 A3000 RMK AO2 DZE14B23RAB14E23 P0001 T00830072 RVRNO
KSTL 070018Z 09005KT 3/4SM -RA BR OVC003 08/07 A2999 RMK AO2 DZE14RAB14 P0000 T00830072 RVRNO
KSTL 070008Z 09005KT 1SM -DZ BR OVC003 08/07 A2999 RMK AO2 P0000 T00830072 RVRNO
KSTL 062351Z 06003KT 1 1/2SM -DZ BR OVC004 08/07 A2999 RMK AO2 RAE01DZB01 SLP159 P0000 60001 T00830072 10083 20072 53013
KSTL 062329Z 04003KT 1 1/2SM -DZ BR OVC004 08/07 A2998 RMK AO2 RAE01DZB01 P0000 T00830072
KSTL 062251Z 07005KT 1SM -RA BR OVC003 08/07 A2996 RMK AO2 RAE13B45DZB13E45 SLP151 P0001 T00830067 RVRNO
KSTL 062151Z 06004KT 1SM -RA BR OVC002 08/07 A2995 RMK AO2 SLP148 P0000 T00830072 RVRNO
KSTL 062113Z 05005KT 1SM -RA BR OVC004 08/07 A2995 RMK AO2 P0000 T00830067 RVRNO
KSTL 062051Z 07005KT 1 1/2SM -RA BR OVC005 08/07 A2995 RMK AO2 SLP147 P0000 60000 T00830067 55003
KSTL 062042Z 07004KT 1 1/2SM -RA BR OVC005 08/07 A2995 RMK AO2 P0000 T00830067
KSTL 061951Z 08005KT 2SM -RA BR OVC005 08/07 A2994 RMK AO2 SFC VIS 5 SLP144 P0000 T00830067
KSTL 061941Z 08005KT 2SM -RA BR OVC005 08/07 A2994 RMK AO2 SFC VIS 4 P0000 T00830067
KSTL 061851Z 08006KT 1SM -RA BR OVC004 08/06 A2994 RMK AO2 SFC VIS 2 RAB30 SLP144 P0000 T00780061
KSTL 061804Z 07004KT 1SM BR OVC003 07/06 A2996 RMK AO2 SFC VIS 3 T00720061
KSTL 061751Z 09005KT 3/4SM BR OVC003 07/06 A2996 RMK AO2 SFC VIS 2 1/2 SLP150 T00720061 10072 20050 58000
KSTL 061651Z 07005KT 3/4SM BR OVC002 07/06 A2998 RMK AO2 SFC VIS 1 1/4 SLP156 T00670061
KSTL 061600Z 08005KT 3/4SM BR OVC002 06/06 A2998 RMK AO2 T00610056 RVRNO
KSTL 061551Z 10006KT 1/2SM FG OVC001 06/06 A2999 RMK AO2 SLP161 T00610056 RVRNO
KSTL 061451Z 09006KT 1/8SM FG VV001 06/05 A2996 RMK AO2 SLP151 T00610050 51013 RVRNO
KSTL 061351Z 10005KT 1/8SM FG VV001 05/04 A2995 RMK AO2 SLP149 T00500044 RVRNO
KSTL 061251Z 10006KT 1/8SM FG VV001 05/04 A2994 RMK AO2 SLP144 T00500039 RVRNO
KSTL 061151Z 07006KT 1/4SM FG VV002 05/04 A2992 RMK AO2 SLP138 T00500039 10050 20028 53004 RVRNO
KSTL 061130Z 05004KT 1/4SM FG VV002 05/03 A2992 RMK AO2 T00500033 RVRNO
KSTL 061051Z 10003KT 1/8SM FG VV001 04/04 A2991 RMK AO2 SLP134 T00440039 RVRNO
KSTL 060951Z 00000KT 1/8SM FG VV001 04/03 A2990 RMK AO2 SLP130 T00440033 RVRNO
KSTL 060923Z 07003KT 1/8SM FG VV001 04/03 A2991 RMK AO2 T00440033 RVRNO
KSTL 060851Z 06003KT 1/4SM FG VV001 04/03 A2991 RMK AO2 SLP133 T00390028 53004 RVRNO
KSTL 060829Z 07003KT 1/2SM FG BKN002 03/02 A2991 RMK AO2 T00330022 RVRNO
KSTL 060823Z 07004KT 1 1/2SM BR OVC002 04/03 A2991 RMK AO2 T00390028
KSTL 060805Z 05004KT 4SM BR BKN004 BKN080 04/02 A2990 RMK AO2 T00390022
KSTL 060751Z 09003KT 3SM BR SCT004 BKN075 03/02 A2990 RMK AO2 SLP129 T00280017
KSTL 060743Z 07003KT 4SM BR FEW004 BKN075 03/02 A2990 RMK AO2 T00330017
KSTL 060651Z 12003KT 4SM BR FEW040 BKN250 03/02 A2990 RMK AO2 SLP128 T00280017
KSTL 060609Z 06004KT 4SM BR FEW040 BKN250 03/02 A2990 RMK AO2 T00330017
KSTL 060551Z 06004KT 3SM BR FEW040 OVC250 04/02 A2990 RMK AO2 SLP129 T00390022 10072 20028 401000017 51003
KSTL 060548Z 07004KT 3SM BR FEW040 OVC250 04/02 A2990 RMK AO2
KSTL 060532Z 10005KT 4SM BR FEW040 OVC250 03/02 A2990 RMK AO2 T00330017
KSTL 060451Z 10004KT 5SM BR OVC250 04/02 A2989 RMK AO2 SLP126 T00390022
KSTL 060351Z 09006KT 7SM OVC250 03/02 A2989 RMK AO2 SLP127 T00330017
KSTL 060251Z 09006KT 10SM FEW050 OVC250 06/03 A2988 RMK AO2 SLP123 T00560028 51016
KSTL 060151Z 11006KT 10SM BKN250 05/02 A2988 RMK AO2 SLP124 T00500022
KSTL 060051Z 09007KT 10SM FEW100 BKN250 07/02 A2985 RMK AO2 SLP113 T00670022
KSTL 052351Z 10006KT 10SM FEW120 BKN250 06/02 A2983 RMK AO2 SLP106 T00610017 10100 20061 53004
KSTL 052251Z 11007KT 10SM FEW150 BKN250 07/02 A2982 RMK AO2 SLP103 T00720017
KSTL 052151Z 12010KT 10SM BKN250 09/02 A2981 RMK AO2 SLP099 T00940017
KSTL 052051Z 14008KT 10SM FEW075 FEW250 10/01 A2982 RMK AO2 SLP102 T01000011 56024
KSTL 051951Z 13007KT 10SM FEW070 SCT250 09/01 A2983 RMK AO2 SLP106 T00940011
KSTL 051911Z 12010KT 10SM SCT025 BKN075 BKN250 09/01 A2983 RMK AO2 PRESFR T00890011
KSTL 051851Z 14007KT 10SM BKN025 BKN080 BKN250 09/01 A2985 RMK AO2 SLP114 T00890011
KSTL 051751Z 17004KT 10SM OVC016 08/00 A2989 RMK AO2 SLP128 T00780000 10078 20044 58012
KSTL 051706Z 16004KT 10SM OVC016 07/M01 A2991 RMK AO2 T00721011
KSTL 051651Z 17004KT 10SM OVC014 07/M01 A2991 RMK AO2 SLP135 T00721011
KSTL 051551Z 16005KT 10SM OVC014 07/M02 A2992 RMK AO2 SLP138 T00671022
KSTL 051532Z 16004KT 10SM OVC014 06/M02 A2993 RMK AO2 T00611022
KSTL 051351Z 15005KT 10SM OVC020 05/M03 A2992 RMK AO2 SLP138 T00501033
KSTL 051251Z 14006KT 10SM OVC021 04/M04 A2993 RMK AO2 SLP142 T00441039
KSTL 051151Z 17006KT 10SM OVC018 05/M04 A2993 RMK AO2 SLP140 T00501044 10050 20017 56021
KSTL 051051Z 17005KT 10SM OVC024 04/M04 A2994 RMK AO2 SLP147 T00441044
KSTL 050951Z 16004KT 10SM OVC026 04/M04 A2995 RMK AO2 SLP148 T00391044
KSTL 050851Z 16004KT 10SM OVC029 04/M05 A2999 RMK AO2 SLP160 T00391050 58015
KSTL 050751Z 17005KT 10SM OVC027 03/M05 A3001 RMK AO2 SLP167 T00331050
KSTL 050740Z 17004KT 10SM BKN027 OVC032 03/M05 A3001 RMK AO2 T00331050
KSTL 050651Z 17004KT 10SM OVC033 03/M06 A3002 RMK AO2 SLP171 T00281056
KSTL 050551Z 17004KT 10SM BKN032 OVC250 02/M06 A3003 RMK AO2 SLP178 T00171056 10033 20000 400611022 56022
KSTL 050451Z 11003KT 10SM FEW030 OVC250 01/M06 A3004 RMK AO2 SLP181 T00111061
KSTL 050351Z 15005KT 10SM OVC250 03/M06 A3007 RMK AO2 SLP191 T00281061
KSTL 050251Z 16007KT 10SM OVC250 03/M06 A3010 RMK AO2 SLP201 T00281061 56017
KSTL 050151Z 14007KT 10SM OVC250 03/M06 A3012 RMK AO2 SLP208 T00281061
KSTL 050051Z 13007KT 10SM OVC250 01/M06 A3013 RMK AO2 SLP214 T00111061
KSTL 042351Z 14007KT 10SM OVC250 02/M06 A3015 RMK AO2 SLP219 T00221061 10061 20011 56004
KSTL 042251Z 12005KT 10SM OVC250 02/M07 A3015 RMK AO2 SLP221 T00221067
KSTL 042151Z 17004KT 10SM BKN250 05/M07 A3015 RMK AO2 SLP220 T00501072
KSTL 042051Z 15007KT 10SM BKN250 06/M08 A3016 RMK AO2 SLP222 T00561078 56032
KSTL 041951Z 19007KT 10SM BKN250 06/M08 A3018 RMK AO2 SLP229 T00611083
KSTL 041851Z 18006KT 10SM BKN250 05/M08 A3021 RMK AO2 SLP241 T00501083
KSTL 041751Z 18007KT 10SM BKN250 04/M09 A3026 RMK AO2 SLP256 T00441089 10044 21011 58031
KSTL 041651Z 18007KT 10SM BKN250 03/M09 A3030 RMK AO2 SLP271 T00331089
KSTL 041551Z 21006KT 10SM BKN250 03/M09 A3035 RMK AO2 SLP288 T00281089
KSTL 041451Z 20006KT 10SM FEW100 BKN250 01/M08 A3035 RMK AO2 SLP289 T00061083 58006
KSTL 041351Z 17005KT 10SM FEW100 BKN250 M01/M09 A3036 RMK AO2 SLP293 T10111089
KSTL 041251Z 00000KT 10SM FEW150 BKN250 M01/M09 A3037 RMK AO2 SLP297 T10111089
KSTL 041151Z 20005KT 10SM BKN150 OVC250 M01/M09 A3037 RMK AO2 SLP297 T10111089 11006 21022 55008
KSTL 041051Z 19003KT 10SM OVC150 M01/M08 A3036 RMK AO2 SLP292 T10061083
KSTL 040951Z 19007KT 10SM OVC150 M01/M09 A3038 RMK AO2 SLP298 T10061089
KSTL 040851Z 19004KT 10SM OVC160 M01/M08 A3040 RMK AO2 SLP303 T10061083 56017
KSTL 040751Z 00000KT 10SM OVC160 M01/M08 A3041 RMK AO2 SLP307 T10061083
KSTL 040651Z 00000KT 10SM BKN160 M01/M09 A3042 RMK AO2 SLP310 T10111089
KSTL 040551Z 06003KT 10SM BKN200 M01/M09 A3045 RMK AO2 SLP320 T10111089 10000 21017 401501017 58016
KSTL 040451Z 34003KT 10SM BKN200 M01/M09 A3048 RMK AO2 SLP332 T10061089
KSTL 040351Z 00000KT 10SM BKN200 M01/M09 A3049 RMK AO2 SLP336 T10111089
KSTL 040251Z 00000KT 10SM BKN200 M01/M09 A3050 RMK AO2 SLP339 T10111094 55007
KSTL 040151Z 34004KT 10SM BKN200 M01/M09 A3049 RMK AO2 SLP336 T10061089
KSTL 040051Z 33003KT 10SM BKN220 00/M09 A3050 RMK AO2 SLP339 T00001094
KSTL 032351Z 29003KT 10SM FEW150 BKN220 00/M09 A3052 RMK AO2 SLP345 T00001094 10033 21006 51003
KSTL 032251Z 28004KT 10SM FEW150 BKN220 01/M09 A3051 RMK AO2 SLP343 T00061094
KSTL 032151Z 29005KT 10SM BKN250 02/M09 A3052 RMK AO2 SLP342 T00171094
KSTL 032051Z 27006KT 10SM SCT250 02/M09 A3051 RMK AO2 SLP338 T00221094 58005
KSTL 031951Z 32006G16KT 10SM SCT250 03/M09 A3051 RMK AO2 SLP337 T00281089
KSTL 031851Z 30010G16KT 10SM SCT250 02/M09 A3052 RMK AO2 SLP338 T00221094
KSTL 031751Z 29010G14KT 10SM FEW250 02/M09 A3052 RMK AO2 SLP340 T00171089 10022 21017 50012
KSTL 031651Z 30008KT 10SM FEW250 01/M09 A3053 RMK AO2 SLP342 T00061089
KSTL 031551Z 31013G20KT 10SM FEW250 00/M09 A3052 RMK AO2 SLP338 T00001094
KSTL 031451Z 31012G21KT 10SM FEW250 M01/M09 A3049 RMK AO2 SLP330 T10061094 51041
KSTL 031351Z 30006KT 10SM FEW250 M01/M09 A3045 RMK AO2 SLP317 T10111089
KSTL 031251Z 30012G19KT 10SM FEW250 M01/M08 A3042 RMK AO2 SLP306 T10111083
KSTL 031151Z 30012KT 10SM CLR 00/M07 A3036 RMK AO2 SLP287 60000 T00001067 10150 20000 51060
KSTL 031051Z 32010KT 10SM CLR 01/M06 A3032 RMK AO2 PK WND 31030/0958 PRESRR SLP273 T00111056
KSTL 030951Z 31016G31KT 10SM SCT026 03/M03 A3027 RMK AO2 PK WND 29038/0856 SLP253 T00331033
KSTL 030851Z 29023G33KT 10SM FEW029 SCT055 05/M02 A3018 RMK AO2 PK WND 31034/0828 SLP222 60000 T00501017 53073
KSTL 030751Z 31018G33KT 10SM SCT023 BKN055 12/04 A3007 RMK AO2 PK WND 31033/0743 RAE0658 PRESRR SLP181 P0000 T01170039
KSTL 030712Z 26016KT 10SM SCT023 BKN041 OVC050 14/10 A3001 RMK AO2 RAE0658 P0000 T01440100
KSTL 030651Z 25016G25KT 10SM -RA FEW018 BKN025 OVC035 14/11 A3000 RMK AO2 RAB42 SLP156 P0000 T01440106
KSTL 030641Z 24014G24KT 10SM FEW019 BKN029 OVC049 15/11 A2999 RMK AO2 T01500106
KSTL 030551Z 24013KT 10SM SCT019 BKN038 OVC048 14/10 A2996 RMK AO2 SLP142 T01390100 10139 20100 401440056 53028
KSTL 030451Z 22008KT 10SM BKN023 13/09 A2993 RMK AO2 SLP133 T01330094
KSTL 030351Z 21012KT 10SM BKN022 OVC027 13/09 A2990 RMK AO2 SLP124 T01280089
KSTL 030251Z 21010G20KT 10SM OVC016 12/08 A2987 RMK AO2 SLP116 T01220083 51017
KSTL 030159Z 19009KT 10SM OVC015 11/07 A2986 RMK AO2 T01110072
KSTL 030151Z 19011KT 10SM OVC014 11/07 A2985 RMK AO2 SLP110 T01110072
KSTL 030051Z 18008KT 10SM OVC014 10/06 A2985 RMK AO2 SLP108 T01000061
KSTL 030044Z 18009G18KT 10SM OVC014 10/06 A2984 RMK AO2 T01000061
KSTL 022351Z 17016KT 10SM BKN019 OVC025 11/06 A2982 RMK AO2 PK WND 16027/2331 SLP100 T01060056 10144 20106 55002
KSTL 022259Z 17017G23KT 10SM BKN022 OVC030 11/06 A2981 RMK AO2 T01110056
KSTL 022251Z 17016G23KT 10SM FEW022 OVC030 11/06 A2980 RMK AO2 PK WND 17026/2214 SLP093 T01110056
KSTL 022151Z 17015G24KT 10SM BKN031 BKN250 13/05 A2981 RMK AO2 PK WND 17032/2118 SLP096 T01280050
KSTL 022051Z 17018G28KT 10SM BKN031 OVC250 14/05 A2983 RMK AO2 PK WND 16028/2050 SLP100 T01390050 56026
KSTL 021951Z 19013G27KT 10SM OVC031 14/04 A2985 RMK AO2 PK WND 18027/1859 SLP109 T01390044
KSTL 021851Z 19018G27KT 10SM BKN030 OVC250 14/03 A2987 RMK AO2 PK WND 18033/1826 SLP118 T01390028
KSTL 021751Z 18017G28KT 10SM OVC030 14/02 A2990 RMK AO2 PK WND 20028/1742 SLP128 T01440022 10144 20078 58028
KSTL 021744Z 19018G28KT 10SM OVC030 14/02 A2991 RMK AO2 PK WND 20028/1742 T01390017
KSTL 021651Z 19014G24KT 10SM BKN028 BKN055 OVC250 13/M01 A2994 RMK AO2 PK WND 17027/1627 SLP141 T01331011
KSTL 021606Z 18012G21KT 10SM BKN028 BKN055 BKN250 12/M03 A2996 RMK AO2 T01221028
KSTL 021551Z 17015G28KT 10SM BKN030 BKN055 OVC250 12/M03 A2997 RMK AO2 PK WND 16028/1543 SLP150 T01171028
KSTL 021451Z 18013G22KT 10SM SCT060 BKN250 10/M04 A2999 RMK AO2 SLP159 T01001039 56023
KSTL 021351Z 17010KT 10SM BKN055 BKN250 09/M06 A3001 RMK AO2 SLP166 T00891056
KSTL 021251Z 17011G18KT 10SM BKN050 08/M07 A3003 RMK AO2 SLP173 T00831067
KSTL 021151Z 16008KT 10SM BKN039 BKN070 08/M07 A3006 RMK AO2 SLP183 T00831067 10083 20056 57016
KSTL 021051Z 17008KT 10SM BKN045 08/M07 A3008 RMK AO2 SLP189 T00781067
KSTL 020951Z 18010KT 10SM FEW046 BKN060 07/M07 A3009 RMK AO2 SLP194 T00721067
KSTL 020851Z 17010KT 10SM BKN065 07/M07 A3011 RMK AO2 SLP200 T00671067 56024
KSTL 020751Z 17009KT 10SM BKN055 06/M07 A3013 RMK AO2 SLP210 T00611067
KSTL 020651Z 17008KT 10SM SCT065 BKN085 06/M07 A3015 RMK AO2 SLP217 T00611067

KTPA 070553Z 05004KT 10SM CLR 21/17 A3024 RMK AO2 SLP239 T02060172 10228 20206 50000
KTPA 070453Z 04003KT 10SM CLR 21/17 A3025 RMK AO2 SLP241 T02110172 402720189
KTPA 070353Z 03004KT 10SM CLR 21/17 A3024 RMK AO2 SLP241 T02110172
KTPA 070253Z 02004KT 10SM CLR 22/18 A3024 RMK AO2 SLP239 T02170178 53012
KTPA 070153Z 03004KT 10SM CLR 22/18 A3023 RMK AO2 SLP235 T02170178
KTPA 070053Z 35004KT 10SM FEW055 22/18 A3021 RMK AO2 SLP231 T02170178
KTPA 062353Z 33005KT 10SM FEW034 FEW060 23/18 A3020 RMK AO2 SLP227 T02280178 10272 20228 53013
KTPA 062253Z 30004KT 10SM SCT036 BKN055 24/18 A3019 RMK AO2 SLP222 T02390178
KTPA 062153Z 29007KT 10SM FEW034 SCT060 25/18 A3017 RMK AO2 SLP217 T02500183
KTPA 062053Z 25004KT 10SM FEW032 BKN060 26/18 A3017 RMK AO2 SLP214 T02560183 55006
KTPA 061953Z 25005KT 10SM FEW025 BKN060 27/18 A3016 RMK AO2 SLP212 T02670178
KTPA 061853Z 24005KT 10SM FEW025 BKN060 26/18 A3017 RMK AO2 SLP214 T02560178
KTPA 061753Z 24006KT 10SM FEW025 26/18 A3018 RMK AO2 SLP220 T02560183 10256 20194 58008
KTPA 061653Z 24006KT 10SM FEW025 25/18 A3020 RMK AO2 SLP226 T02500183
KTPA 061553Z VRB03KT 10SM CLR 25/19 A3021 RMK AO2 SLP231 T02500189
KTPA 061453Z 15004KT 10SM CLR 24/18 A3021 RMK AO2 SLP229 T02390178 53020
KTPA 061353Z 14003KT 10SM FEW055 22/18 A3019 RMK AO2 SLP221 T02220183
KTPA 061253Z 00000KT 9SM FEW055 21/17 A3017 RMK AO2 SLP215 T02060172
KTPA 061153Z 00000KT 10SM FEW055 19/17 A3015 RMK AO2 SLP208 T01940172 10206 20194 53005
KTPA 061053Z 00000KT 10SM SCT055 19/17 A3014 RMK AO2 SLP205 T01940172
KTPA 060953Z 36006KT 10SM BKN055 20/18 A3014 RMK AO2 SLP205 T02000178
KTPA 060853Z VRB04KT 10SM OVC055 21/18 A3013 RMK AO2 SLP204 T02060178 53002
KTPA 060653Z 00000KT 10SM FEW050 20/17 A3013 RMK AO2 SLP202 T02000172
KTPA 060553Z 01003KT 10SM FEW250 19/17 A3013 RMK AO2 SLP201 T01940167 10222 20189 50003
KTPA 060453Z 02003KT 10SM FEW250 19/17 A3013 RMK AO2 SLP202 T01890167 402720172
KTPA 060353Z 35003KT 10SM CLR 20/17 A3012 RMK AO2 SLP200 T02000167
KTPA 060253Z 00000KT 10SM CLR 22/17 A3012 RMK AO2 SLP198 T02220167 50007
KTPA 060153Z 00000KT 10SM FEW240 22/16 A3012 RMK AO2 SLP198 T02170161
KTPA 060053Z 36003KT 10SM CLR 22/16 A3011 RMK AO2 SLP197 T02170161
KTPA 052353Z 34005KT 10SM FEW200 22/16 A3010 RMK AO2 SLP191 T02220156 10261 20222 53013
KTPA 052253Z 32006KT 10SM FEW035 FEW240 23/15 A3008 RMK AO2 SLP185 T02330150
KTPA 052153Z 27005KT 10SM FEW035 SCT240 25/16 A3007 RMK AO2 SLP180 T02500156
KTPA 052053Z 26005KT 10SM FEW035 BKN240 26/17 A3006 RMK AO2 SLP178 T02560167 56010
KTPA 051953Z 24005KT 10SM FEW035 BKN240 26/17 A3006 RMK AO2 SLP179 T02560172
KTPA 051853Z 24006KT 10SM FEW035 BKN240 25/18 A3007 RMK AO2 SLP183 T02500183
KTPA 051753Z 24005KT 10SM FEW035 BKN240 25/18 A3009 RMK AO2 SLP188 T02500183 10272 20189 58015
KTPA 051653Z 35004KT 10SM FEW035 BKN240 26/17 A3011 RMK AO2 SLP196 T02610167
KTPA 051553Z 00000KT 10SM CLR 24/18 A3013 RMK AO2 SLP202 T02390178
KTPA 051453Z VRB03KT 10SM FEW080 23/19 A3013 RMK AO2 SLP203 T02330189 51012
KTPA 051353Z 05004KT 10SM FEW080 21/18 A3012 RMK AO2 SLP199 T02110183
KTPA 051253Z 04003KT 8SM FEW080 19/18 A3011 RMK AO2 SLP197 T01940178
KTPA 051153Z 00000KT 10SM FEW050 SCT150 19/17 A3010 RMK AO2 SLP191 T01890172 10200 20172 53004
KTPA 051053Z 02003KT 10SM CLR 17/16 A3009 RMK AO2 SLP189 T01720161
KTPA 050953Z 00000KT 10SM CLR 18/16 A3008 RMK AO2 SLP184 T01780161
KTPA 050853Z 36003KT 10SM CLR 18/17 A3008 RMK AO2 SLP187 T01780167 56010
KTPA 050753Z 01003KT 10SM CLR 18/17 A3009 RMK AO2 SLP190 T01830167
KTPA 050653Z 00000KT 10SM OVC050 19/17 A3010 RMK AO2 SLP192 T01940167
KTPA 050553Z 04003KT 10SM BKN050 OVC070 19/16 A3011 RMK AO2 SLP197 T01940161 10217 20183 58007
KTPA 050453Z 36004KT 10SM BKN049 19/16 A3013 RMK AO2 SLP203 T01940156 402670161
KTPA 050353Z 00000KT 10SM CLR 19/15 A3013 RMK AO2 SLP204 T01940150
KTPA 050253Z 00000KT 10SM CLR 20/14 A3014 RMK AO2 SLP204 T02000144 50000
KTPA 050153Z 00000KT 10SM CLR 20/14 A3014 RMK AO2 SLP205 T02000139
KTPA 050053Z 32005KT 10SM FEW055 21/14 A3014 RMK AO2 SLP205 T02060144
KTPA 042353Z 32005KT 10SM FEW055 21/15 A3013 RMK AO2 SLP204 T02110150 10267 20211 53004
KTPA 042253Z 30006KT 10SM FEW280 22/15 A3012 RMK AO2 SLP199 T02220150
KTPA 042153Z 33008KT 10SM FEW043 FEW280 24/14 A3012 RMK AO2 SLP198 T02440144
KTPA 042053Z 33008KT 10SM FEW043 FEW280 26/16 A3012 RMK AO2 SLP200 T02560156 55016
KTPA 041953Z 25010KT 10SM SCT046 26/17 A3012 RMK AO2 SLP199 T02560172
KTPA 041853Z 23006KT 10SM SCT040 26/16 A3014 RMK AO2 SLP206 T02560161
KTPA 041753Z 23006KT 10SM SCT037 25/17 A3017 RMK AO2 SLP216 T02500172 10250 20167 58023
KTPA 041653Z 23006KT 10SM FEW025 24/18 A3021 RMK AO2 SLP228 T02390178
KTPA 041553Z 35003KT 10SM CLR 24/17 A3023 RMK AO2 SLP237 T02440172
KTPA 041453Z 35003KT 10SM FEW250 23/17 A3024 RMK AO2 SLP239 T02330172 53008
KTPA 041353Z 00000KT 10SM FEW250 21/16 A3023 RMK AO2 SLP235 T02060161
KTPA 041253Z 01003KT 10SM FEW250 18/16 A3022 RMK AO2 SLP231 T01780156
KTPA 041153Z 02003KT 10SM SCT250 17/15 A3021 RMK AO2 SLP231 T01720150 10189 20161 53005
KTPA 041053Z 00000KT 10SM SCT250 17/15 A3020 RMK AO2 SLP226 T01670150
KTPA 040953Z 02003KT 10SM SCT250 17/16 A3019 RMK AO2 SLP223 T01670156
KTPA 040853Z 00000KT 9SM SCT250 17/15 A3020 RMK AO2 SLP226 T01670150 56013
KTPA 040753Z 00000KT 10SM FEW050 SCT250 18/16 A3021 RMK AO2 SLP228 T01780156
KTPA 040653Z 02004KT 10SM FEW050 SCT250 18/16 A3023 RMK AO2 SLP235 T01780156
KTPA 040553Z 02003KT 10SM FEW050 SCT250 18/16 A3024 RMK AO2 SLP239 T01830156 10222 20183 58017
KTPA 040453Z 01004KT 10SM FEW250 18/16 A3026 RMK AO2 SLP247 T01830156 402780172
KTPA 040353Z 02004KT 10SM SCT049 20/16 A3028 RMK AO2 SLP252 T02000161
KTPA 040253Z 36004KT 10SM SCT048 SCT260 20/16 A3029 RMK AO2 SLP256 T02000161 51008
KTPA 040153Z VRB04KT 10SM SCT048 SCT260 21/16 A3028 RMK AO2 SLP254 T02110156
KTPA 040053Z 36006KT 10SM FEW048 SCT260 22/16 A3028 RMK AO2 SLP251 T02170161
KTPA 032353Z 34007KT 10SM FEW055 SCT260 22/17 A3027 RMK AO2 SLP248 T02220167 10278 20217 53007
KTPA 032253Z 00000KT 10SM FEW055 SCT260 24/15 A3025 RMK AO2 SLP244 T02440150
KTPA 032153Z 04004KT 10SM FEW055 SCT260 27/14 A3024 RMK AO2 SLP239 T02670144
KTPA 032053Z 04007KT 10SM SCT055 BKN260 27/15 A3024 RMK AO2 SLP241 T02720150 56013
KTPA 031953Z VRB03KT 10SM SCT050 SCT220 27/16 A3025 RMK AO2 SLP242 T02720156
KTPA 031853Z 04006KT 10SM SCT048 SCT220 26/15 A3027 RMK AO2 SLP248 T02610150
KTPA 031753Z 06008KT 10SM SCT044 SCT220 26/15 A3028 RMK AO2 SLP254 T02610150 10272 20172 58026
KTPA 031653Z 10005KT 10SM SCT048 SCT220 27/15 A3032 RMK AO2 SLP267 T02670150
KTPA 031553Z VRB03KT 10SM FEW044 26/16 A3035 RMK AO2 SLP276 T02560161
KTPA 031453Z 04003KT 10SM SCT048 SCT250 23/17 A3036 RMK AO2 SLP280 T02330172 50009
KTPA 031353Z 04004KT 10SM FEW041 FEW250 21/17 A3036 RMK AO2 SLP280 T02060167
KTPA 031253Z 03005KT 10SM FEW042 SCT250 18/16 A3035 RMK AO2 SLP276 T01830156
KTPA 031153Z 03004KT 10SM SCT045 BKN250 17/16 A3033 RMK AO2 SLP271 T01720156 10189 20172 53015
KTPA 031053Z 00000KT 10SM BKN040 18/16 A3030 RMK AO2 SLP260 T01780156
KTPA 030953Z 04003KT 10SM SCT043 BKN250 18/16 A3029 RMK AO2 SLP255 T01780156
KTPA 030853Z 03004KT 10SM BKN046 18/16 A3029 RMK AO2 SLP256 T01830156 56004
KTPA 030753Z 02004KT 10SM BKN046 18/16 A3029 RMK AO2 SLP256 T01830156
KTPA 030653Z 05003KT 10SM SCT250 19/16 A3029 RMK AO2 SLP258 T01890161
KTPA 030553Z 02004KT 10SM SCT250 19/16 A3030 RMK AO2 SLP260 T01890161 10239 20183 58005
KTPA 030453Z VRB03KT 10SM SCT250 20/16 A3031 RMK AO2 SLP263 T02000161 402720167
KTPA 030353Z 05003KT 10SM FEW040 SCT250 21/16 A3031 RMK AO2 SLP264 T02060161
KTPA 030253Z COR 07004KT 10SM FEW040 SCT250 21/16 A3032 RMK AO2 SLP265 T02110161 50007
KTPA 030153Z 06004KT 10SM FEW250 22/16 A3033 RMK AO2 SLP269 T02220156
KTPA 030053Z 07005KT 10SM FEW040 23/16 A3031 RMK AO2 SLP265 T02280156
KTPA 022353Z 07007KT 10SM FEW045 24/15 A3030 RMK AO2 SLP258 T02390150 10272 20239 53020
KTPA 022253Z 04004KT 10SM SCT050 25/14 A3027 RMK AO2 SLP249 T02500144
KTPA 022153Z VRB04KT 10SM SCT050 26/15 A3025 RMK AO2 SLP243 T02610150
KTPA 022053Z 06008KT 030V110 10SM BKN055 27/14 A3024 RMK AO2 SLP239 T02670144 55012
KTPA 021953Z 06007KT 020V100 10SM SCT050 27/15 A3024 RMK AO2 SLP238 T02720150
KTPA 021853Z 08009G14KT 040V110 10SM FEW045 27/14 A3025 RMK AO2 SLP242 T02670144
KTPA 021753Z VRB06G18KT 10SM CLR 27/15 A3027 RMK AO2 SLP251 T02670150 10267 20167 58023
KTPA 021653Z 11007G16KT 10SM CLR 26/15 A3031 RMK AO2 SLP262 T02560150
KTPA 021553Z 06007KT 030V110 10SM CLR 24/15 A3033 RMK AO2 SLP270 T02440150
KTPA 021453Z VRB05KT 10SM FEW250 22/14 A3034 RMK AO2 SLP274 T02220144 51012
KTPA 021353Z VRB06KT 10SM FEW250 20/14 A3034 RMK AO2 SLP272 T02000144
KTPA 021253Z 03006KT 10SM FEW250 17/14 A3033 RMK AO2 SLP269 T01720139
KTPA 021153Z 03006KT 10SM FEW250 17/14 A3031 RMK AO2 SLP262 T01670139 10172 20167 53015
KTPA 021053Z 03005KT 10SM FEW250 17/14 A3029 RMK AO2 SLP255 T01670139 $
KTPA 020953Z 03005KT 10SM SCT250 17/13 A3026 RMK AO2 SLP248 T01670133 $
KTPA 020853Z 03005KT 10SM SCT250 17/13 A3026 RMK AO2 SLP248 T01670133 56007 $
KTPA 020753Z 04004KT 10SM SCT250 17/13 A3026 RMK AO2 SLP248 T01720133 $
KTPA 020653Z 03005KT 10SM SCT250 17/13 A3027 RMK AO2 SLP249 T01670133 $